ENHM 260220Z AUTO 22045KT 9999NDV BKN180/// 11/08 Q0995 W12/S6 UUOK 251400Z 03002MPS CAVOK M02/M13 Q1038 NOSIG RMK 30CLRD70 KIWI 260153Z AUTO 00000KT 10SM OVC090 08/07 A2950 RMK AO2 SLP988 T00830072 KJMR 260234Z AUTO 00000KT 10SM CLR 06/M01 A3005 RMK AO2 KIXA 260235Z AUTO 23004KT 10SM CLR 10/07 A2985 RMK AO2 KJMS 260156Z AUTO 15004KT 8SM CLR 06/M02 A3002 RMK AO2 SLP178 T00611022 PPIT 260239Z AUTO 31012KT 5SM -SN BR FEW011 BKN019 OVC060 00/00 A2975 RMK AO2 RAE21SNB04 P0000 FZRANO UUOO 260230Z VRB02MPS CAVOK M12/M14 Q1039 NOSIG RMK 30090070 KIXD 260153Z 09005KT 10SM CLR 20/14 A3001 RMK AO2 SLP157 T02000139 ENHV 251250Z 17020G30KT 9999 SCT020 03/M01 Q1005 KM63 260156Z AUTO 09004KT 10SM CLR 23/05 A3015 RMK AO2 LTG DSNT SW SLP154 T02310054 PPIZ 260156Z AUTO 10SM M11/M13 A2953 RMK AO2 TSNO T11111133 SLP001 $ KIYA 260230Z AUTO 00000KT 10SM CLR 16/14 A3012 RMK AO2 T01610135 ENKB 260220Z AUTO 02004KT 320V080 9999NDV SCT110/// BKN140/// BKN180/// 08/06 Q0992 KJNX 260235Z AUTO 00000KT 10SM CLR 09/09 A2989 RMK AO2 OYMB 251500Z 03006KT CAVOK 29/M06 Q1017 KIZA 260235Z AUTO 25005KT 10SM CLR 17/12 A3007 RMK AO2 ENLA 260220Z AUTO 21041KT 9999NDV BKN240/// 12/09 Q1006 W///S5 KJOT 260235Z AUTO 31004KT 10SM CLR 13/00 A2999 RMK AO2 T01311002 FDST 260200Z AUTO 25004KT //// // ////// 15/15 Q//// KJQF 260155Z 00000KT 10SM CLR 14/05 A2997 LBGO 260200Z 28003MPS 1200 R09/P1500N R27/P1500N SN OVC003 00/00 Q1028 NOSIG R99/599291 KIZG 260154Z AUTO 24005KT 10SM -RA OVC060 13/06 A2949 RMK AO2 RAB49 SLP986 P0000 T01280056 ENKR 260220Z AUTO 14009KT 9999NDV OVC004/// 01/00 Q1005 RMK WIND 731FT 18016KT ENLK 251150Z 16011KT 9999 VCSH SCT015 SCT025 08/06 Q1000 KN03 260235Z AUTO 25003KT 10SM CLR 11/07 A2961 RMK AO2 ENMH 251350Z 16020KT CAVOK 01/M01 Q1006 KLAA 260153Z AUTO 00000KT 10SM CLR 17/04 A2994 RMK AO2 SLP114 T01670039 ENNA 260150Z 18007KT 9999 SCT012 BKN033 02/M00 Q1002 RMK WIND 1800FT 17013KT ENML 251720Z 23015KT 9999 BKN060 12/04 Q0996 ENNE 260220Z AUTO 17039KT 9999NDV FEW018/// 09/06 Q0985 W07/S6 KLAF 260154Z AUTO 30007KT 10SM CLR 15/01 A2995 RMK AO2 SLP141 T01500006 TSNO ENOA 260150Z 20046KT 9999 FEW030 SCT050 11/07 Q0994 W///S6 ENMS 251350Z VRB02KT 9999 SCT040 07/05 Q1001 RMK WIND 412FT 31001KT KLBB 260153Z 16010KT 10SM CLR 20/11 A3009 RMK AO2 SLP157 T02000106 $ ENNK 250950Z 04008KT 9999 FEW045 BKN055 07/02 Q1000 KLAL 260235Z AUTO 36005KT 10SM CLR 16/12 A3001 RMK AO2 KJTC 260235Z AUTO 21007KT 10SM CLR 11/03 A3034 RMK AO2 KLAM 260235Z AUTO 26008KT 10SM CLR 17/M02 A3029 RMK AO2 T01701025 ENNM 250820Z 07008KT CAVOK 05/05 Q1002 KLAN 260153Z 28009KT 10SM CLR 11/01 A2984 RMK AO2 SLP106 T01060006 KLBE 260235Z AUTO 22014G20KT 10SM SCT060 15/12 A2977 RMK A02 P000 KLBF 260153Z AUTO 10007KT 10SM CLR 12/07 A2999 RMK AO2 SLP160 T01220072 KJSO 260235Z AUTO 19005KT 10SM CLR 22/17 A3011 RMK AO2 T02290176 ENNO 251350Z 12008KT 9999 BKN050 12/07 Q1008 LATI 260250Z 21003KT CAVOK 05/03 Q1017 NOSIG KLAR 260153Z AUTO 16011KT 10SM CLR 11/M06 A3013 RMK AO2 SLP153 T01061061 VMMC 260230Z 04007KT 350V060 9999 FEW040 27/22 Q1018 NOSIG KLAS 260156Z 21009KT 10SM FEW180 27/05 A2991 RMK AO2 SLP109 T02670050 KJST 260212Z AUTO 25015G22KT 10SM SCT023 SCT030 BKN040 14/09 A2973 RMK AO2 T01390094 KLBL 260235Z AUTO 17008KT 10SM CLR 19/07 A2999 RMK AO1 ENOL 260150Z 13015KT 9999 FEW050 BKN080 11/03 Q0993 KJSV 260235Z AUTO 00000KT 7SM CLR 18/17 A3004 RMK AO2 KLAW 260153Z AUTO 16008KT 10SM CLR 23/13 A3001 RMK AO2 SLP156 T02330128 KLAX 260153Z 24009KT 10SM FEW090 20/17 A2999 RMK AO2 SLP152 T02000167 $ KLCG 260235Z AUTO 00000KT 10SM CLR 07/03 A3005 RMK AO2 T00670033 KLCH 260153Z 00000KT 10SM CLR 17/14 A3011 RMK AO2 SLP203 T01720144 KLCI 260235Z AUTO 19008KT 10SM FEW060 OVC095 11/07 A2947 RMK AO1 KN38 260235Z AUTO 29004G12KT 10SM CLR 12/06 A2966 RMK AO2 ENQA 260220Z AUTO 19048KT 9999NDV BKN019/// BKN065/// BKN076/// 11/08 Q0994 W///S6 KLBT 260154Z AUTO 00000KT 10SM CLR 11/07 A2993 RMK AO2 SLP133 T01110072 KLCK 260235Z AUTO 26004KT 10SM CLR 12/09 A2986 RMK AO2 T01170092 ENQC 260220Z AUTO 19043G56KT 9999NDV SCT022/// BKN057/// 12/08 Q0993 W///S6 ENOV 251450Z VRB07KT 9999 -SHRA BKN040 10/05 Q0999 RMK WIND 2175FT 17024KT KLBX 260153Z AUTO 00000KT 10SM CLR 17/16 A3012 RMK AO2 SLP197 T01720161 KLCQ 260235Z AUTO 00000KT 10SM CLR 12/11 A3002 RMK AO2 VLVT 260230Z 04002KT 9999 FEW020 SCT200 28/22 Q1015 NOSIG KLDJ 260235Z AUTO 27008KT 10SM CLR 18/09 A2963 RMK AO2 T01820089 KKLS 260235Z AUTO 18007G14KT 10SM FEW050 SCT070 SCT110 12/08 A2973 RMK AO1 P0001 ENRA 251250Z VRB01KT 9999 FEW008 BKN050 06/04 Q1002 KLEB 260153Z 19006KT 10SM FEW050 SCT110 11/08 A2948 RMK AO2 RAE06 SLP984 P0000 T01110078 KJVL 260235Z AUTO 31007KT 10SM CLR 09/M01 A2998 RMK AO2 OYRN 260300Z 01003KT 300V030 CAVOK 22/16 Q1011 KLDM 260234Z AUTO 31008G17KT 10SM CLR 13/05 A2987 RMK AO2 T01250045 KLEE 260153Z AUTO 03003KT 10SM CLR 17/12 A3002 RMK AO2 SLP165 T01670122 OYSH 251500Z 27006KT 9999 FEW025 22/00 Q//// KJWG 260235Z AUTO 18007KT 10SM CLR 23/13 A3001 RMK AO2 T02320131 ENQR 260220Z AUTO 19052G62KT 8000NDV BKN025/// BKN068/// 11/07 Q0987 W///S6 KN60 260152Z AUTO 10006KT 08/00 A2995 RMK AO1 SLP157 T00780000 UUWW 260230Z 22003MPS CAVOK M07/M10 Q1035 24190060 NOSIG ENSB 260150Z 13022KT 9999 FEW030 BKN080 03/M01 Q1002 RMK WIND 1400FT 09029KT OYSN 260200Z VRB01KT CAVOK 08/M07 Q1027 ENSD 251150Z 18009G21KT 130V290 9999 VCSH FEW030 BKN040 11/04 Q1001 RMK WIND 1138FT VRB05KT ENRM 250820Z 08008KT 9999 FEW030 SCT070 07/06 Q1001 UWGG 260230Z 00000MPS 7000 SKC M15/M17 Q1037 NOSIG 36820050 RMK QFE770 KJVW 260235Z AUTO 1/2SM HZ VV005 15/12 A3009 RMK AO2 LCEN 260220Z 00000KT 9999 FEW025 16/14 Q1014 NOSIG ENSE 260220Z AUTO 20051KT 9000NDV FEW026/// SCT040/// BKN066/// 11/08 Q0987 W///S6 OYSQ 260200Z 04005KT 9999 SCT018 24/21 Q1009 ENRO 260220Z AUTO 17009KT 130V210 9999NDV FEW025/// BKN041/// 06/02 Q0999 ENSG 251050Z 23008KT 200V290 9999 -SHRA FEW015 BKN035 07/04 Q1004 RMK WIND 3901FT 20024KT ENSH 251050Z 18007KT 9999 -RA FEW020 BKN032 08/03 Q1001 KLFI 260158Z AUTO 22010KT 10SM CLR 16/08 A2981 RMK AO2 SLP101 T01590079 $ KLGA 260151Z 22015G22KT 10SM FEW250 17/06 A2959 RMK AO2 SLP020 T01720061 ENRS 250550Z 17017KT 9999 SCT017 08/05 Q0999 KLFK 260153Z AUTO 00000KT 8SM CLR 21/18 A3010 RMK AO2 SLP189 T02060178 KLGB 260153Z 30008KT 10SM CLR 21/16 A2999 RMK AO2 SLP153 T02110156 ENSK 251350Z 15010KT 9999 VCSH FEW015 BKN030 08/05 Q1000 KLGC 260235Z AUTO 00000KT 10SM CLR 14/13 A3006 RMK AO2 T01370125 ENTC 260050Z 23006KT CAVOK 03/01 Q0999 RMK WIND 2600FT 18013KT ENSL 260220Z AUTO 22045KT 9999NDV FEW027/// SCT170/// 12/09 Q1000 W10/S6 KLGD 260215Z AUTO 20013G19KT 10SM OVC095 17/M01 A2965 RMK AO1 LBPD 260200Z 29005MPS 9999 -RA SCT018 OVC042 03/03 Q1023 NOSIG KLEW 260235Z AUTO 00000KT 10SM OVC065 09/06 A2947 RMK AO1 KJXN 260156Z 29007KT 10SM CLR 12/00 A2984 RMK AO2 SLP106 T01220000 ENSN 251550Z 18011KT 9999 SET047 10/07 Q1009 KLEX 260154Z 23007KT 9SM CLR 17/13 A2997 RMK AO2 SLP145 T01670133 OYSY 260200Z AUTO 23003KT 190V300 //// ////// 17/M00 Q1015 KJYG 260235Z AUTO 22003KT 10SM CLR 07/M01 A3008 RMK AO2 KJWY 260235Z AUTO 17003KT 10SM CLR 22/16 A3008 RMK AO2 T02200156 ENRY 260220Z AUTO 20018KT 9999NDV SCT012/// BKN019/// OVC066/// 12/10 Q1008 ENSR 251050Z 18013KT 9999 SCT040 05/M00 Q1002 RMK WIND 1119FT 14021KT ENSS 251150Z 17015KT 9999 BKN014 01/M01 Q1012 RMK WIND 500FT 18014KT KLFT 260153Z 00000KT 10SM CLR 17/16 A3010 RMK AO2 SLP194 T01670156 KLHB 260235Z AUTO 10003KT 1 3/4SM HZ VV007 20/17 A3010 RMK AO2 T01960168 ENST 251350Z 16012KT 120V190 CAVOK 11/03 Q1000 RMK WIND 300FT 14016KT KJYL 260235Z AUTO 00000KT 10SM CLR 14/13 A3001 RMK AO2 T01370126 KJYM 260234Z AUTO 29008KT 10SM CLR 12/00 A2986 RMK AO2 T01180004 UUYY 260230Z 00000MPS 9000 SCT026CB OVC066 M08/M10 Q1029 TEMPO 2000 SHSN BR 0182//49 RMK QFE762/1017 EPCE 260230Z 18007KT 160V220 4100 BR OVC005 05/04 Q1023 RMK 045 094 8/8= KJYO 260235Z AUTO 22005KT 10SM CLR 15/08 A2974 RMK AO2 OYTZ 252100Z 36004KT CAVOK 16/10 Q1020 ENTO 260220Z AUTO 20017KT 9999NDV BKN012/// BKN032/// OVC062/// 12/09 Q1008 KJYR 260235Z AUTO 09009KT 10SM CLR 14/07 A3001 RMK AO2 KJZI 260235Z AUTO 00000KT 10SM CLR 13/11 A2999 RMK A02 P000 EPDA 260230Z 19009KT 4000 BR OVC008 06/05 Q1023 RMK 057 096 8/8= ENVA 260220Z 13011KT CAVOK 12/03 Q0996 RMK WIND 670FT 17016KT KLGU 260151Z AUTO 13003KT 10SM CLR 16/03 A2987 RMK AO2 SLP099 T01560028 TSNO KLIC 260155Z AUTO 00000KT 10SM CLR 09/01 A3006 RMK AO2 SLP150 T00940011 $ KLHM 260235Z AUTO 18011KT 10SM CLR 16/12 A3005 RMK AO1 ENVD 251550Z 17016KT 9999 SCT015 BKN030 01/M02 Q1009 EPDE 260230Z 11004KT CAVOK M03/M04 Q1029 RMK M025 088 0/0= EPBY 260230Z 16004KT 3500 BR NSC 03/02 Q1025 KLHQ 260153Z AUTO 29004KT 10SM CLR 17/09 A2987 RMK AO2 SLP112 T01670094 ENVH 260220Z AUTO 22036KT 9999NDV BKN059/// 12/10 Q1011 W///S4 UWKD 260230Z 33005MPS 9999 -SN OVC022 M07/M10 Q1033 R29/8/0060 NOSIG RMK QFE763/1018 UWKE 260230Z 32006MPS 9999 FEW020 M12/M14 Q1030 NOSIG RMK QFE755/1007 03090070 KMAE 260153Z AUTO 35006KT 10SM FEW060 BKN100 18/12 A3006 RMK AO2 SLP178 T01780117 KLHW 260158Z AUTO 00000KT 10SM CLR 13/11 A2999 RMK AO2 SLP159 T01310105 KMAF 260153Z 15008KT 10SM CLR 23/09 A3010 RMK AO2 SLP156 T02330089 KLHX 260153Z AUTO 07006KT 10SM CLR 19/01 A2998 RMK AO2 SLP115 T01890006 KLJF 260233Z AUTO 24003KT 10SM CLR 08/M02 A3007 RMK AO2 LBSF 260230Z 30001MPS 9999 -SN OVC034 02/M01 Q1024 NOSIG DXNG 251800Z 36005KT CAVOK 27/21 Q1013 NOSIG KLHZ 260235Z AUTO 21003KT 10SM CLR 13/07 A2987 RMK AO2 KMAI 260153Z AUTO 00000KT 10SM CLR 16/13 A3004 RMK AO2 SLP171 T01560133 $ VOCB 260230Z 16003KT 3000 HZ FEW015 BKN080 24/22 Q1016 NOSIG VOBL 260230Z VRB03KT 3000 RA BKN008 SCT012 BKN080 24/24 Q1019 NOSIG KLIT 260153Z 24006KT 10SM CLR 22/18 A3003 RMK AO2 SLP170 T02220178 KO22 260235Z AUTO 00000KT 10SM FEW037 SCT045 09/08 A3010 RMK AO1 KMAN 260235Z AUTO 24012G21KT 10SM FEW050 18/M02 A2979 RMK AO1 KMAO 260235Z AUTO 00000KT 10SM CLR 11/08 A2995 RMK AO2 VOCI 260230Z 00000KT 4000 HZ FEW006 SCT015 FEW025CB BKN080 24/23 Q1014 NOSIG KMBG 260152Z AUTO 14013KT 10SM CLR 12/00 A2997 RMK AO2 SLP156 T01170000 UWKS 260230Z 32003MPS 290V360 9999 OVC025CB M06/M10 Q1034 NOSIG RMK QFE760 06820250 VNKT 260150Z 12003KT 7000 FEW020 14/12 Q1023 NOSIG VOCL 260230Z 09003KT 6000 FEW012 SCT018 FEW025TCU BKN080 26/24 Q1014 NOSIG KMCB 260153Z AUTO 00000KT 10SM CLR 19/14 A3010 RMK AO2 SLP189 T01890139 KMBL 260235Z AUTO 33008KT 10SM CLR 12/02 A2986 RMK AO1 KMCD 260239Z AUTO 29012G23KT 10SM CLR 10/01 A2972 RMK AO2 T01040012 EPGD 260230Z 22006KT 170V270 3000 BR OVC006 05/04 Q1023 KMCE 260153Z AUTO 01004KT 10SM CLR 17/13 A3006 RMK AO2 SLP178 T01720128 KMCF 260158Z AUTO 02006KT 10SM CLR 19/14 A3000 RMK AO2 SLP162 T01890142 KMCI 260153Z 08007KT 10SM CLR 20/11 A3001 RMK AO2 SLP158 T02000111 KLKR 260235Z AUTO 00000KT 10SM CLR 13/10 A2996 RMK AO2 KMBS 260153Z 25007KT 10SM CLR 10/01 A2979 RMK AO2 SLP090 T01000011 KLLJ 260155Z AUTO 25005KT 10SM FEW100 13/01 A2978 RMK AO2 PK WND 21034/0103 RAB10E39 SLP070 P0000 T01330006 KMCJ 260235Z AUTO 18003KT 10SM CLR 21/15 A3008 RMK AO1 KMCK 260153Z AUTO 06008KT 10SM CLR 17/11 A2996 RMK AO2 SLP143 T01720111 LCLK 260230Z 34007KT 9999 FEW020TCU 17/15 Q1015 NOSIG UWLW 260200Z 36004MPS 5000 -SHSN OVC029CB M06/M12 Q1035 20CLRD60 NOSIG RMK QFE770 KLKU 260235Z AUTO 23004KT 10SM CLR 16/08 A2976 RMK AO2 KLKV 260235Z AUTO 16013KT 10SM SCT022 BKN031 OVC090 05/03 A2998 RMK AO1 KMDD 260235Z AUTO 16010KT 10SM CLR 25/08 A3011 RMK AO2 T02460077 KMCN 260153Z AUTO 26003KT 10SM CLR 13/11 A3001 RMK AO2 SLP162 T01280106 TSNO KMCO 260153Z 01006KT 10SM CLR 19/16 A3001 RMK AO2 SLP159 T01940156 $ KMDH 260152Z AUTO 00000KT 10SM CLR 14/12 A3002 RMK AO2 SLP163 T01390117 KLLQ 260153Z AUTO 25004KT 10SM CLR 21/18 A3005 RMK AO2 RAE08 SLP174 P0000 T02060178 KMDJ 260235Z AUTO 33005KT 10SM CLR 23/15 A3012 RMK A01 KMEB 260152Z AUTO 28003KT 10SM CLR 12/08 A2994 RMK AO2 SLP139 T01170078 $ KLNC 260235Z AUTO 18003KT 10SM CLR 23/15 A3007 RMK AO2 T02250149 KLND 260153Z AUTO 15006KT 10SM CLR 18/M07 A2987 RMK AO2 SLP077 T01781067 TSNO KMCW 260153Z AUTO 33006KT 10SM CLR 07/01 A3008 RMK AO2 SLP187 T00670011 KLMO 260233Z AUTO 24004KT 10SM CLR 14/M02 A3004 RMK AO2 T01391019 KMCX 260235Z AUTO 31006KT 10SM CLR 14/02 A2995 RMK AO2 T01370021 KO54 260235Z AUTO 15003KT 10SM FEW027 BKN100 09/07 A3001 RMK AO1 KMEH 260156Z AUTO VRB06KT 4SM RA BKN046 OVC060 10/07 A2970 RMK AO2 RAB35 SLP052 P0003 T01000067 KMDQ 260235Z AUTO 00000KT 7SM BKN037 15/12 A3005 RMK AO2 KMEI 260158Z 00000KT 10SM CLR 16/15 A3007 RMK AO2 SLP182 T01610150 KMDS 260235Z AUTO 09005KT 10SM CLR 06/M02 A3006 RMK AO2 KLMT 260209Z 26010KT 10SM -RA FEW023 OVC031 07/05 A2995 RMK AO2 P0003 T00720050 KLNK 260154Z 01003KT 10SM CLR 14/07 A3002 RMK AO2 SLP166 T01440067 KMDT 260156Z 23012KT 10SM FEW060 17/09 A2964 RMK AO2 SLP038 T01670089 $ LDDU 260230Z 03018KT CAVOK 12/01 Q1017 KLNL 260235Z AUTO 32006KT 10SM CLR 09/M04 A2992 RMK AO2 T00891037 UWOO 260230Z 36006MPS P5000 SCT070 M10/M15 Q1028 26410253 NOSIG RMK QFE760/1014 KMFD 260152Z 27008KT 10SM CLR 14/02 A2986 RMK AO2 SLP109 T01390022 KMEM 260154Z 00000KT 10SM CLR 21/17 A3004 RMK AO2 SLP170 T02060172 $ KMFE 260153Z 09006KT 10SM CLR 24/18 A3011 RMK AO2 SLP193 T02440183 KMDW 260153Z 31009KT 10SM CLR 17/M01 A2996 RMK AO2 SLP142 T01671011 ENZV 260150Z 20015KT 9999 SCT019 BKN055 12/10 Q1006 LBWN 260230Z 36011G16MPS 9999 FEW022 SCT033 BKN049 04/02 Q1021 NOSIG UWOR 260200Z 33004MPS 9999 FEW033CB M12/M13 Q1022 25450057 NOSIG RMK QFE743/0990 KLNP 260235Z AUTO 23008KT 10SM CLR 13/08 A3002 RMK AO2 KMDZ 260235Z AUTO 31009KT 10SM CLR 08/M04 A2996 RMK AO2 T00801040 KMFI 260154Z AUTO 30009KT 10SM CLR 09/M03 A2996 RMK AO2 SLP151 T00941028 KLNR 260156Z AUTO 26005KT 10SM CLR 13/M02 A3000 RMK AO2 SLP155 T01331022 KMER 260045Z 04005KT 10SM SKC 18/18 A3006 EPIR 260200Z 14008KT 8000 BKN025 03/02 Q1025 RMK 030 096 7/7= KLNS 260153Z 23006KT 10SM CLR 14/07 A2966 RMK AO2 SLP042 T01440067 KO69 260235Z AUTO 29003KT 8SM OVC017 15/13 A3010 RMK AO1 DXSK 251500Z 04004KT 9999 FEW016 BKN260 34/20 Q//// KLOL 260153Z AUTO 30017G20KT 10SM FEW110 13/M03 A2998 RMK AO2 SLP151 T01331028 KLPC 260235Z AUTO 28007KT 10SM BKN075 17/13 A3008 RMK AO1 KMGC 260235Z AUTO 31011G16KT 10SM CLR 15/M01 A2994 RMK AO2 KLOM 260235Z AUTO 24003KT 10SM CLR 17/07 A2964 RMK AO1 KMEV 260235Z AUTO 03004KT 10SM FEW050 06/00 A3010 RMK AO2 KMGE 260158Z 28007KT 10SM CLR 15/11 A3005 RMK AO2A SLP174 T01540112 $ KMGG 260234Z AUTO 28004KT 10SM CLR 05/00 A3006 RMK AO2 T00471001 PRLI 260200Z 32002KT 9999 FEW019 SCT100 30/24 Q1013 NOSIG RMK A2991 KMEZ 260235Z AUTO 00000KT 5SM CLR 17/17 A3008 RMK AO2 LCPH 260230Z AUTO 03008KT 9999 NCD 18/15 Q1015 KMFR 260153Z 20006KT 10SM FEW043 BKN050 BKN060 13/08 A2993 RMK AO2 SLP134 T01280078 KLOR 260153Z AUTO 00000KT 8SM CLR 13/12 A3005 RMK AO2 SLP174 T01280117 TSNO $ KMGJ 260154Z AUTO 23007KT 10SM FEW070 OVC095 15/07 A2957 RMK AO2 SLP011 T01500067 TSNO KLOT 260235Z AUTO 31006KT 10SM CLR 12/00 A2999 RMK AO2 T01170000 EPKK 260230Z 35002KT 0150 R25/0250 FZFG VV001 M01/M01 Q1028 KLOU 260153Z 22005KT 10SM CLR 18/13 A2997 RMK AO2 SLP148 T01780133 KMGM 260153Z 00000KT 10SM CLR 17/12 A3006 RMK AO2 SLP178 T01720122 KMFV 260235Z AUTO 23008G14KT 10SM CLR 16/07 A2976 RMK AO2 KMHE 260153Z AUTO 13005KT 10SM CLR 10/01 A3005 RMK AO2 SLP183 T01000011 $ KMGN 260234Z AUTO 27010G16KT 10SM CLR 11/00 A2976 RMK AO2 T01120000 FHAW 252350Z 12006KT 9999 SCT020 BKN028 22/19 Q1016 WHT VOHS 260210Z 07010KT 3000 HZ SCT010 BKN015 OVC080 18/14 Q1017 NOSIG KLOZ 260153Z AUTO 00000KT 7SM CLR 13/11 A3001 RMK AO2 SLP162 T01330111 KO86 260235Z AUTO 00000KT 10SM SCT017 OVC026 10/09 A3000 RMK AO1 KLPR 260153Z AUTO 30012KT 10SM -RA CLR 14/01 A2982 RMK AO2 SLP096 P0000 T01440006 TSNO KMGR 260235Z AUTO 00000KT 10SM CLR 13/11 A3005 RMK AO2 LCRA 260150Z 35004KT 9999 FEW030 18/14 Q1014 NOSIG KMIA 260153Z 00000KT 10SM CLR 23/17 A2995 RMK AO2 SLP141 T02330167 EPKS 260230Z 13002KT 3500 BR NSC 02/01 Q1025 RMK 015 097 4/4= KMHK 260152Z 06007KT 10SM CLR 20/14 A2995 RMK AO2 SLP140 T02000144 KLQK 260235Z AUTO 10SM CLR 10/09 A2999 RMK AO2 T00960093 KMIB 260158Z AUTO 15008KT 10SM CLR 05/M01 A2994 RMK AO2 SLP158 T00541010 $ EPMB 260230Z AUTO 19006KT 9000 ///025 05/03 Q1025 RMK 050 085= EPLK 260230Z 13004KT 6000 BKN023 02/01 Q1027 RMK 024 089 7/7= EPKT 260230Z 16003KT 130V200 3000 BR BKN017 03/02 Q1027 KMIC 260153Z 28005KT 10SM CLR 11/M04 A3004 RMK AO2 SLP174 T01061039 EPLL 260230Z 14004KT 9999 BKN023 03/01 Q1027 KLRD 260156Z 13009KT 10SM CLR 26/13 A3010 RMK AO2 T02610133 SLP183 VOHY 260140Z 11003KT 4000 HZ SCT015 OVC080 19/15 Q1018 NOSIG KMIE 260153Z 28009KT 10SM CLR 16/08 A2991 RMK AO2 SLP122 T01610078 KMGW 260153Z 21006KT 10SM FEW029 FEW060 17/09 A2982 RMK AO2 SLP097 T01670094 KLRF 260218Z AUTO 00000KT 4SM BR CLR 18/18 A3003 RMK AO2 KMGY 260153Z AUTO 27004KT 9SM CLR 17/09 A2989 RMK AO2 SLP120 T01720094 KMHR 260046Z 23008G14KT 10SM SCT065 BKN070 BKN085 20/11 A3005 EPMI 260200Z 16003KT 2500 BR BKN004 OVC012 04/03 Q1024 RMK 041 094 8/6= KMHS 260226Z AUTO 00000KT 10SM BKN007 BKN055 OVC070 08/07 A2998 RMK AO2 CIG 006V019 T00830072 KLRJ 260235Z AUTO 00000KT 10SM CLR 06/03 A3008 RMK AO2 LEAB 260200Z 14007KT CAVOK 12/04 Q1024 NOSIG KMHT 260153Z 19005KT 10SM OVC090 13/06 A2951 RMK AO2 SLP007 T01330061 KLSB 260235Z AUTO 17004KT 10SM CLR 17/05 A3014 RMK AO2 KMHV 260235Z AUTO 30017G24KT 10SM CLR 18/03 A3005 RMK AO1 EPMM 260230Z 14004KT CAVOK M02/M05 Q1028 RMK M021 079 0/0= KLSE 260153Z AUTO 33003KT 10SM CLR 12/M01 A3001 RMK AO2 SLP162 T01171011 KLSF 260158Z AUTO 13003KT 10SM CLR 12/12 A3004 RMK AO2 SLP175 T01230116 KLRO 260235Z AUTO 00000KT 9SM CLR 11/11 A2998 RMK AO2 PWINO PNO EPMO 252300Z 15007KT CAVOK 01/M01 Q1027 LEAG 260230Z AUTO 08006KT CAVOK 20/16 Q1020 EPLY 260200Z 19006KT 6000 SCT025 05/04 Q1027 RMK 047 092 4/4= UWSS 260230Z 32003MPS 9999 BKN028 M09/M12 Q1035 300///60 NOSIG RMK QFE763 LEBA 260200Z AUTO 00000KT CAVOK 13/09 Q1020 KMIS 260235Z AUTO 36011KT 10SM BKN036 26/16 A3009 RMK A01 LEBB 252130Z VRB02KT 6000 FEW007 15/13 Q1023 TEMPO 4000 BR BKN008 KNAK 260154Z AUTO VRB03KT 10SM CLR 15/05 A2972 RMK AO2 SLP065 T01500050 LEAL 260230Z 29003KT CAVOK 16/07 Q1021 NOSIG KMKC 260154Z 06004KT 10SM CLR 20/12 A3000 RMK AO2 SLP155 T02000117 KLRU 260235Z AUTO 21006KT 10SM CLR 21/06 A3017 RMK AO2 T02070064 PWINO KNBC 260156Z AUTO 00000KT 10SM CLR 13/10 A2998 RMK AO2 SLP154 T01330100 $ LEAM 252030Z VRB02KT CAVOK 22/03 Q1019 KMIV 260154Z AUTO 24005KT 10SM CLR 14/08 A2970 RMK AO2 SLP056 T01440083 KMIW 260153Z AUTO 00000KT 10SM CLR 12/02 A3006 RMK AO2 SLP182 T01170017 KMKE 260152Z 30010KT 10SM CLR 14/M03 A2994 RMK AO2 SLP138 T01441033 LEAO 251800Z 35003KT CAVOK 20/04 Q1020 LEBG 260200Z AUTO 00000KT CAVOK 08/06 Q1025 KMKG 260155Z 30015G23KT 10SM CLR 14/02 A2987 RMK AO2 PK WND 30026/0132 SLP115 T01440022 $ KNBG 260155Z 00000KT 10SM CLR 16/13 A3008 RMK AO2 SLP186 T01560133 $ KMJQ 260233Z AUTO 00000KT 10SM CLR 05/00 A3008 RMK AO2 LEAS 252130Z VRB01KT 7000 FEW040 14/13 Q1022 NOSIG KLUA 260235Z AUTO 23010G17KT 10SM CLR 20/09 A2976 RMK AO2 KP28 260156Z AUTO 12006KT 23/14 A2995 RMK AO1 SLP135 T02280144 KNCA 260156Z AUTO 25003KT 10SM CLR 12/10 A2991 RMK AO2 SLP130 T01220100 KMKJ 260235Z AUTO 27014G18KT 10SM CLR 13/08 A3000 RMK AO2 T01290084 KMLB 260153Z 34005KT 10SM CLR 21/16 A2998 RMK AO2 SLP150 T02060161 EPOK 260230Z 18006KT 9999 OVC009 05/04 Q1023 RMK 050 091 8/8= LEBL 260230Z 33006KT 9000 FEW013 17/14 Q1021 NOSIG KMLC 260153Z AUTO 21003KT 10SM FEW080 FEW110 22/17 A3004 RMK AO2 SLP164 T02170172 KMKL 260153Z 19003KT 9SM CLR 18/16 A3004 RMK AO2 SLP170 T01780161 KLSV 260158Z AUTO 23018KT 10SM CLR 27/06 A2991 RMK AO2 SLP113 T02730059 $ KLUD 260235Z AUTO 16007KT 10SM CLR 24/14 A3006 RMK AO2 T02430144 KMKN 260235Z AUTO 19006KT 10SM CLR 22/14 A3009 RMK AO2 T02200140 KMLE 260235Z AUTO 00000KT 10SM CLR 17/06 A3003 RMK AO2 T01650060 KMKO 260153Z AUTO 16005KT 10SM CLR 20/17 A3002 RMK AO2 SLP162 T02000172 KMLF 260152Z AUTO 19019G24KT 10SM CLR 18/04 A3001 RMK AO2 SLP131 T01830044 TSNO KMJX 260235Z AUTO 23006KT 10SM FEW065 14/06 A2966 RMK AO1 KLUF 260158Z AUTO 28002KT 10SM CLR M M RMK AO2 SLPNO PNO VISNO RWY21 CHINO RWY21 $ KMLI 260152Z 26004KT 10SM CLR 11/02 A3003 RMK AO2 SLP170 T01110022 $ UWUU 260230Z 29005MPS 180V310 9999 BKN015 M13/M14 Q1027 320///60 NOSIG RMK QFE758/1011 KMKS 260255Z AUTO 00000KT 10SM CLR 11/11 A2998 RMK AO2 KLTS 260158Z AUTO 14004KT 10SM CLR 19/11 A3001 RMK AO2 SLP155 T01930112 $ KMLJ 260235Z AUTO 00000KT 10SM CLR 12/12 A3002 RMK AO2 VOMM 260210Z 00000KT 4000 BR SCT018 FEW025CB 26/25 Q1013 BECMG 5000 BR LEBT 260200Z AUTO VRB02KT CAVOK 15/07 Q1021 KLUK 260153Z 23009KT 10SM CLR 18/11 A2991 RMK AO2 SLP127 T01830111 KMKT 260235Z AUTO 33004KT 10SM CLR 10/M04 A3006 RMK AO1 KNBT 260156Z AUTO 23007KT 7SM CLR 16/11 A2989 RMK AO2 SLP125 T01610106 PNO KLUM 260235Z AUTO 27007KT 10SM CLR 10/M03 A3002 RMK AO2 T00951026 LDLO 251400Z 18003KT CAVOK 18/06 Q1019 LECO 252300Z 20003KT 3000 BR NSC 15/15 Q1020 NOSIG DXXX 260200Z 00000KT 9999 SCT010 24/24 Q1011 NOSIG EPPO 260230Z 16003KT 130V190 3500 BR SCT009 03/02 Q1025 KMLP 260153Z AUTO 18010G21KT 140V200 10SM BKN085 OVC110 09/00 A2968 RMK AO2 SLP993 T00890000 LEBZ 260200Z AUTO 16001KT CAVOK 13/10 Q1020 KMMH 260235Z AUTO 21020G27KT 180V240 10SM CLR 10/M10 A3009 RMK AO1 KMMI 260235Z AUTO 00000KT 10SM CLR 11/10 A3006 RMK EPPR 260230Z AUTO 18002KT ///017 05/03 Q1024 RMK 049 085= KMLS 260153Z AUTO 14010G14KT 10SM CLR 17/02 A2973 RMK AO2 SLP068 T01720022 KLVJ 260153Z AUTO 00000KT 10SM CLR 19/15 A3012 RMK AO2 SLP199 T01940150 KLWA 260235Z AUTO 31009G15KT 10SM CLR 15/05 A2991 RMK AO2 T01500054 EPRA 260230Z 17008KT 1600 BR OVC004 M01/M02 Q1028 RMK M014 098 8/8= KLVK 260153Z 28007KT 10SM FEW039 SCT047 BKN055 17/13 A3007 RMK AO2 RAB10E37 SLP182 P0001 T01670133 $ KMLT 260153Z AUTO 09006KT 10SM CLR 04/03 A2950 RMK AO2 SLP996 T00440033 KMMK 260153Z AUTO 15004KT 9SM CLR 09/07 A2957 RMK AO2 SLP014 T00890067 TSNO KLWB 260235Z AUTO 24008KT 10SM CLR 14/09 A2990 RMK AO2 T01400085 KLWC 260152Z AUTO 08008KT 9SM CLR 21/13 A2999 RMK AO2 SLP151 T02060133 KMLU 260153Z 00000KT 9SM CLR 17/16 A3009 RMK AO2 SLP188 T01720161 KMML 260235Z AUTO 23005KT 10SM CLR 06/M02 A3006 RMK AO1 KLVL 260235Z AUTO 24003KT 10SM CLR 12/08 A2982 RMK AO1 T01210080 LECV 251800Z 02003KT CAVOK 18/06 Q1024 KLWD 260153Z AUTO 04004KT 10SM CLR 14/06 A3005 RMK AO2 SLP175 T01440061 KLVM 260153Z AUTO 22022G33KT 10SM CLR 22/M04 A2973 RMK AO2 PK WND 22036/0106 SLP053 T02171039 KLVN 260228Z AUTO 28004KT 10SM CLR 07/M03 A3005 RMK AO2 KP53 260156Z AUTO 32015G22KT 12/01 A2979 RMK AO1 PK WND 32028/0135 SLP090 T01170011 KMNE 260235Z AUTO 00000KT 7SM CLR 18/17 A3008 RMK AO2 EPPW 260230Z 17004KT 0800 FG NSC 02/02 Q1026 RMK 019 099 3/3= KLUX 250955Z AUTO 00000KT 10SM CLR 05/ A3001 RMK AO2 KMNH 260232Z AUTO 19012KT 10SM CLR 12/M06 A3013 RMK AO2 KMNI 260235Z AUTO 00000KT 10SM CLR 10/10 A2997 RMK AO2 KLVS 260153Z AUTO 22011KT 10SM CLR 15/M05 A3024 RMK AO2 SLP168 T01501050 KP58 260151Z AUTO 30012G18KT 12/03 A2973 RMK AO1 SLP068 T01220033 $ KP59 260151Z AUTO 33015G24KT 11/01 A2980 RMK AO1 SLP093 T01060006 $ KP60 260156Z AUTO 00000KT 07/M03 A3002 RMK AO1 SLP149 T00721028 KMOB 260156Z 00000KT 10SM CLR 15/14 A3008 RMK AO2 SLP185 T01500139 KMMT 260158Z AUTO 34002KT 10SM CLR 11/09 A2997 RMK AO2 SLP151 T01080086 UWWW 260230Z 32004G08MPS 9999 BKN021 OVC100 M07/M13 Q1033 23420545 15//99// NOSIG RMK QFE763/1018 KMMU 260235Z AUTO 22004KT 10SM SCT100 16/07 A2960 RMK AO2 EPSC 260230Z 16004KT 2000 BR BKN003 06/06 Q1023 KMOD 260153Z 08006KT 10SM FEW075 17/13 A3006 RMK AO2 SLP179 T01670128 KMMV 260153Z AUTO 23014G21KT 10SM -RA FEW041 BKN048 BKN070 12/09 A2974 RMK AO2 PK WND 24032/0104 RAE30B49 PRESRR SLP072 P0000 T01220094 KMNM 260235Z AUTO 31007G15KT 270V340 10SM CLR 12/M06 A2986 RMK AO1 KLWM 260154Z 22004KT 10SM FEW070 FEW110 12/07 A2955 RMK AO2 SLP007 T01170072 KMNN 260153Z AUTO 30005KT 10SM CLR 13/02 A2987 RMK AO2 SLP116 T01280022 TSNO KNFE 260156Z AUTO VRB03KT 10SM CLR 15/07 A2983 RMK AO2 SLP103 T01500067 KNFG 260154Z AUTO 23005KT 8SM CLR 20/16 A2999 RMK AO2 SLP153 T02000156 $ KNDZ 260156Z AUTO 00000KT 10SM CLR 16/12 A3006 RMK AO2 SLP166 T01610117 $ LEGA 251200Z 03003KT CAVOK 24/03 Q1021 KP68 260153Z AUTO 19016G26KT 17/M04 A2995 RMK AO1 PK WND 19029/0115 SLP078 T01721044 KLWS 260156Z AUTO 18012KT 10SM CLR 22/02 A2951 RMK AO2 PK WND 20028/0101 SLP988 T02220017 KP69 260152Z AUTO 00000KT 09/09 A2965 RMK AO1 SLP043 T00940089 KLWT 260154Z AUTO 00000KT 10SM CLR 11/07 A2971 RMK AO2 SLP058 T01110067 KLXL 260237Z AUTO 00000KT 10SM CLR 03/M02 A3005 RMK AO2 KNFL 260156Z AUTO 10007KT 10SM CLR 13/M01 A2998 RMK AO2 SLP123 T01281006 FGSL 251600Z 24005KT 190V280 9999 FEW008 FEW018CB 27/24 Q1009 NOSIG KLWV 260229Z AUTO 32004KT 3SM HZ CLR 14/12 A2999 RMK AO2 T01440117 LEGE 260230Z 00000KT CAVOK 11/11 Q1022 KNEW 260153Z 29006KT 10SM CLR 23/19 A3009 RMK AO2 SLP182 T02280194 KLXN 260235Z AUTO 09008KT 10SM CLR 15/08 A2998 RMK AO2 T01500077 EPSN 260230Z 18006KT 1500 BR OVC003 05/05 Q1023 RMK 048 100 8/8= KMOP 260238Z AUTO 28007KT 10SM CLR 11/01 A2981 RMK AO2 T01070013 KLYH 260154Z AUTO 25005KT 10SM CLR 16/08 A2986 RMK AO2 SLP106 T01610078 KMNZ 260235Z AUTO 10SM CLR 21/14 A3011 RMK AO2 T02070140 EPRZ 260230Z 10009KT 1200 R27/P2000 BR OVC001 00/00 Q1029 KMOR 260235Z AUTO 23004KT 10SM CLR 13/10 A3004 RMK LDOS 260230Z 09005KT CAVOK 06/05 Q1027 KLXT 260153Z AUTO 11006KT 10SM CLR 21/13 A3002 RMK AO2 SLP161 T02060133 KMOT 260154Z 14006KT 10SM CLR 06/M02 A2995 RMK AO2 SLP157 T00561017 KMQB 260235Z AUTO 32006KT 10SM CLR 12/04 A3006 RMK AO2 T01190043 LEHC 260200Z AUTO 00000KT CAVOK 12/07 Q1022 LDPL 260230Z 07009KT CAVOK 10/06 Q1022 KLXV 260153Z AUTO 01004KT 10SM CLR 07/M09 A3035 RMK AO2 SLP196 T00721094 EPTM 260200Z 14006KT 6000 SCT027 M01/M01 Q1027 RMK M013 099 3/3= KNFW 260152Z AUTO 18009KT 10SM CLR 26/15 A3009 RMK AO2 SLP171 T02560150 CHINO N VISNO N $ KMQE 260154Z AUTO 21012KT 12/07 A2954 RMK AO1 SLP014 T01170067 KMPO 260153Z AUTO 27010G19KT 10SM BKN090 14/07 A2961 RMK AO2 SLP027 T01390072 KMOX 260225Z AUTO 00000KT 7SM CLR 07/M03 A3005 RMK AO2 KNGP 260156Z AUTO 12008KT 10SM CLR 23/18 A3010 RMK AO2 SLP192 T02280183 KLXY 260235Z AUTO 00000KT 10SM CLR 21/17 A3008 RMK AO2 T02100169 LEGR 260230Z AUTO VRB01KT CAVOK 08/05 Q1022 KMQI 260235Z AUTO 23006KT 10SM CLR 15/11 A2987 RMK AO2 T01530113 KMQJ 260235Z AUTO 30012G17KT 10SM CLR 17/M01 A2995 RMK AO1 LEGT 251800Z 00000KT CAVOK 22/05 Q1021 LEIB 260230Z VRB02KT CAVOK 16/11 Q1021 NOSIG KMRB 260153Z AUTO 26015KT 10SM CLR 18/08 A2973 RMK AO2 SLP064 T01830078 TSNO KNHK 260152Z AUTO 21008KT 10SM CLR 16/06 A2973 RMK AO2 SLP069 T01560056 $ KMRC 260235Z AUTO 00000KT 6SM CLR A3003 RMK KNGU 260159Z 23007KT 10SM CLR 17/07 A2983 RMK AO2 SLP102 T01720072 $ KP92 260153Z AUTO 00000KT 20/17 A3010 RMK AO1 SLP192 T02000172 KMPV 260151Z AUTO 21004KT 10SM FEW031 SCT043 BKN055 09/08 A2950 RMK AO2 RAE34 SLP996 P0005 T00940078 $ KLYV 260235Z AUTO 00000KT 10SM CLR 09/01 A3008 RMK AO2 KNID 260156Z AUTO 17007KT 10SM CLR 22/M03 A2998 RMK AO2 SLP138 T02171028 $ KMRF 260235Z AUTO 00000KT 10SM CLR 15/09 A3025 RMK AO1 KMPZ 260235Z AUTO 32003KT 10SM CLR 13/03 A3005 RMK AO2 T01250029 KMRH 260158Z AUTO 26007KT 10SM CLR 18/13 A2990 RMK AO2 SLP124 T01830133 TSNO $ LDRI 251800Z VRB01KT CAVOK 13/04 Q1021 KMQS 260235Z AUTO 23003KT 10SM CLR 14/07 A2967 RMK AO2 KMRJ 260235Z AUTO 28005KT 10SM CLR 09/M02 A3001 RMK AO2 LDSB 251400Z 02016KT CAVOK 12/01 Q1017 EPWA 260230Z 14005KT CAVOK M02/M03 Q1028 NOSIG KLZU 260045Z 28005KT 10SM CLR 18/07 A3003 RMK JW KMRN 260235Z AUTO 00000KT 10SM CLR 11/09 A3000 RMK AO2 T01070094 KNIP 260153Z 24004KT 10SM CLR 19/11 A3002 RMK AO2 SLP160 T01940111 KMQY 260229Z AUTO 00000KT 1/4SM FG CLR 14/14 A3004 RMK AO2 KLZZ 260235Z AUTO 00000KT 10SM CLR 22/15 A3009 RMK AO2 T02150152 KOAJ 260235Z AUTO 00000KT 10SM CLR 09/07 A2992 RMK AO1 LFBA 260230Z AUTO 00000KT 0550 R29/1200U FG NSC 08/08 Q1023 KOAK 260153Z 23009KT 10SM FEW021 SCT035 BKN050 18/13 A3008 RMK AO2 SLP184 T01780133 KNJK 260156Z AUTO 10006KT 10SM CLR 28/09 A2983 RMK AO2 SLP115 T02830094 KMRT 260233Z AUTO 31003KT 10SM CLR 14/07 A2988 RMK AO2 T01420065 KMSL 260153Z AUTO 00000KT 10SM FEW040 BKN048 19/16 A3006 RMK AO2 SLP175 T01940161 KMTC 260158Z AUTO 28010KT 10SM CLR 14/00 A2976 RMK AO2 SLP081 T01351003 LFBC 260230Z AUTO 00000KT 0100 R24/0400N FG VV/// 12/12 Q1023 LFBD 260230Z AUTO VRB03KT 0150 0100 R23/0500N R05/0500D R29/0700D FG VV/// 13/13 Q1023 KMSN 260153Z 30007KT 10SM CLR 13/M03 A2998 RMK AO2 SLP153 T01281028 KOBE 260235Z AUTO 16/15 RMK AO2 PWINO LFBE 260230Z AUTO 08002KT 0200 R28/1000U FG VV/// 06/06 Q1024 KMSO 260153Z 03005KT 10SM BKN110 09/06 A2970 RMK AO2 SLP064 T00890061 VOTR 260210Z 30003KT 2000 HZ FEW016 SCT100 25/23 Q1013 NOSIG KMSP 260153Z 29005KT 10SM CLR 11/M03 A3005 RMK AO2 SLP178 T01061033 KMRY 260154Z 00000KT 10SM SCT036 18/13 A3010 RMK AO2 SLP204 T01780128 LDSP 260230Z 05010KT 010V110 CAVOK 14/02 Q1020 NOSIG LFBG 260230Z AUTO 00000KT 0150 R23/0700N FG VV/// 13/13 Q1024 KMTH 260153Z AUTO 02006KT 10SM CLR 24/21 A2994 RMK AO2 SLP138 T02440206 $ LFBH 260230Z AUTO 09004KT 0150 R27/0650N FG VV/// 10/10 Q1024 LFAQ 260230Z AUTO 16004KT 9999 OVC037 10/09 Q1024 LEJR 260230Z 00000KT CAVOK 13/10 Q1019 LFBI 260230Z AUTO 00000KT 6000 OVC007 14/13 Q1024 EPWR 260230Z 15003KT CAVOK 00/M01 Q1026 KMSS 260153Z AUTO 22009KT 7SM FEW060 BKN095 11/09 A2947 RMK AO2 SLP983 T01060089 KMTJ 260153Z AUTO 13008KT 10SM CLR 15/01 A3016 RMK AO2 SLP175 T01500006 VOTV 260210Z 00000KT 4000 HZ SCT015 FEW025TCU BKN090 27/23 COR Q1013 NOSIG LFAT 260230Z AUTO 17006KT 140V200 9999 BKN036 OVC042 13/11 Q1023 LELC 252100Z 31003KT CAVOK 16/12 Q1021 NOSIG KNLC 260156Z AUTO 35014KT 10SM OVC070 19/ A3005 RMK AO2 SLP174 T0194 $ LFBL 260230Z AUTO VRB01KT 0250 R21/1000U R03/0900U FG VV/// 10/09 Q1024 KMSV 260235Z AUTO 31014G20KT 10SM BKN039 OVC049 13/07 A2960 RMK AO1 LFBM 260230Z AUTO 10003KT 9999 NSC 09/08 Q1023 KMTN 260239Z AUTO 21003KT 10SM CLR 16/07 A2971 RMK AO2 KMTO 260153Z AUTO 27005KT 10SM CLR 17/08 A2999 RMK AO2 SLP152 T01720078 KOCF 260235Z AUTO 00000KT 10SM CLR 13/10 A3002 RMK AO1 P0001 LFBO 260230Z AUTO 19003KT 9999 NSC 10/09 Q1023 KMSY 260153Z 25003KT 10SM CLR 20/13 A3009 RMK AO2 SLP192 T02000133 KMTP 260154Z AUTO 22007KT 17/11 A2961 RMK AO1 SLP025 T01670106 LFBP 260230Z AUTO 12002KT 9999 NSC 11/09 Q1023 KOCH 260235Z AUTO 00000KT 5SM CLR 18/16 A3010 RMK AO1 KMUI 260158Z AUTO 27002KT 10SM FEW060 15/09 A2965 RMK AO2 SLP042 T01460092 $ KNKT 260154Z 23005KT 10SM CLR 13/11 A2991 RMK AO2 SLP124 T01330106 $ LFBT 260230Z AUTO 15002KT 9999 NSC 11/10 Q1023 LFCK 260230Z AUTO 16002KT 9999 NSC 10/09 Q1024 LELL 251630Z 12006KT 080V150 CAVOK 22/15 Q1019 LFBU 251700Z AUTO 24002KT 9999 FEW030 OVC038 17/14 Q1022 LEMD 260230Z 36002KT CAVOK 11/08 Q1023 NOSIG KMTV 260235Z AUTO 29003KT 10SM CLR 14/09 A2991 RMK AO2 T01380085 LELN 251900Z 31003KT CAVOK 14/08 Q1024 KMVE 260234Z AUTO 00000KT 10SM CLR 08/M02 A3007 RMK AO2 KMTW 260156Z AUTO 28012KT 10SM CLR 12/M01 A2989 RMK AO2 SLP146 T01221006 LELO 260200Z VRB02KT CAVOK 11/10 Q1023 KNKX 260155Z 29005KT 10SM SCT015 19/16 A3001 RMK AO2 SLP156 T01940161 KMUO 260158Z AUTO 26016G22KT 10SM BKN140 BKN170 19/02 A2980 RMK AO2 SLP082 T01890018 LEMG 260230Z 28008KT CAVOK 15/08 Q1020 NOSIG LFBY 260200Z AUTO 05003KT 9999 // NCD 13/12 Q1023 LEMH 252230Z VRB02KT CAVOK 15/12 Q1021 KMVH 260235Z AUTO 22013KT 10SM CLR 14/00 A2972 RMK A01 KOCQ 260235Z AUTO 30006KT 10SM CLR 11/M04 A2989 RMK AO1 T01091041 LFBZ 260230Z AUTO 15003KT 9999 NSC 11/10 Q1022 LFCR 260230Z AUTO 16001KT 9999 NSC 05/04 Q1024 KMWA 260235Z AUTO 00000KT 10SM CLR 15/13 A3002 RMK AO2 KOEB 260234Z AUTO 30007KT 10SM CLR 12/01 A2988 RMK AO2 T01220009 KMUT 260235Z AUTO 00000KT 10SM CLR 12/03 A3005 RMK AO2 KMVL 260154Z AUTO 00000KT 5SM BR FEW027 SCT034 BKN065 09/08 A2948 RMK AO2 RAE50 TSB07E22 SLP985 P0007 T00890083 KMWC 260235Z AUTO 28008KT 10SM CLR 11/M04 A2996 RMK AO2 KNMM 260156Z AUTO 00000KT 10SM CLR 18/16 A3008 RMK AO2 SLP194 T01780161 $ KMVN 260235Z AUTO 00000KT 9SM CLR 11/08 A3002 RMK AO1 KOCW 260235Z AUTO 00000KT 10SM CLR 12/09 A2988 RMK AO2 T01190091 KODO 260153Z AUTO 16008KT 10SM CLR 24/09 A3011 RMK AO2 SLP159 T02440094 LEMO 260200Z 16003KT CAVOK 14/08 Q1019 NOSIG KMWH 260152Z 15010KT 9SM FEW070 BKN110 12/09 A2947 RMK AO2 SLP979 T01170094 KMWK 260235Z AUTO 00000KT 10SM CLR 13/09 A2993 RMK AO2 T01340094 KMWL 260153Z AUTO 17006KT 10SM CLR 23/14 A3004 RMK AO2 SLP163 T02330139 KMWM 260234Z AUTO 00000KT 7SM CLR 05/M01 A3007 RMK AO2 KMWN 260153Z 30033G42KT 0SM SN FZFG DRSN VV000 M00/M00 RMK SHSNE00SNB00 VRY LGT ICG KODX 260153Z AUTO 00000KT 10SM CLR 08/04 A3000 RMK AO2 SLP167 T00830039 KMWO 260235Z AUTO 27004KT 10SM CLR 14/08 A2992 RMK AO2 T01410084 KOEO 260235Z AUTO 26006KT 10SM CLR 08/M02 A3006 RMK AO2 T00751017 KMXF 260158Z AUTO 29001KT 10SM CLR 15/13 A3005 RMK AO2 SLP178 T01530134 KOFF 260158Z AUTO 04005KT 10SM CLR 14/08 A3003 RMK AO2 SLP174 T01410081 KMVY 260153Z 23007KT 10SM SCT080 OVC100 14/11 A2960 RMK AO2 SLP022 T01440106 KNOG 260156Z AUTO 16007KT 10SM CLR 23/17 A3012 RMK AO2 SLP178 T02280167 $ LEPA 260230Z 00000KT CAVOK 13/11 Q1021 NOSIG KMWS 260230Z 23500G00KT MM/05 RMK SNOW DEPTH 2.00 PTKK 260150Z 03010KT 15SM FEW014 SCT120 OVC280 31/27 A2979 RMK SLP089 T03100273 KNPA 260156Z AUTO 00000KT 10SM CLR 14/11 A3006 RMK AO2 SLP180 T01390106 KOGA 260235Z AUTO 09003KT 10SM CLR 13/08 A2998 RMK AO2 T01310084 LFGA 260230Z AUTO 34002KT 9999 OVC042 10/10 Q1025 KMWT 260153Z AUTO 00000KT 8SM CLR 19/18 A3004 RMK AO2 SLP168 T01940178 KOGB 260153Z AUTO 22003KT 10SM CLR 11/09 A2998 RMK AO2 SLP152 T01110094 KOFK 260156Z AUTO 11003KT 10SM CLR 12/03 A3004 RMK AO2 SLP173 T01220028 KOGD 260153Z 19011KT 10SM CLR 20/02 A2988 RMK AO2 SLP082 T02000017 KMYF 260153Z 29004KT 10SM FEW017 20/17 A3001 RMK AO2 SLP158 T02000167 KMXO 260235Z AUTO 18003KT 10SM CLR 07/03 A3004 RMK AO2 KOFP 260154Z AUTO 21006KT 10SM CLR 15/06 A2979 RMK AO2 SLP086 T01500061 PTKR 260150Z 31005KT 15SM SCT018TCU SCT120 BKN300 32/25 A2987 RMK TCU NE-SE-S SLP114 T03220250 KNQA 252350Z 00000KT 10SM SKC 23/19 A3002 LDZA 260230Z 01003KT 6000 FEW013 OVC030 07/06 Q1026 NOSIG LFGJ 260230Z AUTO 34002KT 8000 NSC 08/08 Q1024 KMYL 260151Z AUTO 20009G22KT 10SM CLR 12/02 A2980 RMK AO2 RAB0056E07 SLP087 P0000 T01170017 LDZD 260230Z 06007KT 020V110 CAVOK 12/03 Q1020 LEPP 252200Z 04003KT CAVOK 15/11 Q1024 ESCF 260220Z AUTO 20008KT 9999NDV NCD 08/08 Q1015 KMYP 260234Z AUTO 25016G21KT 10SM CLR 05/M06 A3059 RMK AO2 KMZG 260235Z AUTO 11006KT 10SM CLR 25/16 A3011 RMK A01 KMZH 260233Z AUTO 27003KT 10SM CLR 08/M04 A2999 RMK AO2 KMYR 260145Z 00000KT 10SM CLR 12/08 A2995 KNQI 260156Z AUTO 14006KT 10SM CLR 20/18 A3011 RMK AO2 SLP192 T02000178 $ GABS 260230Z 00000KT CAVOK 25/22 Q1013 NOSIG KNRB 260152Z AUTO 00000KT 10SM CLR 15/13 A3001 RMK AO2 SLP161 T01500133 KMYV 260153Z AUTO 18013KT 10SM FEW045 17/13 A3003 RMK AO2 SLP172 T01720128 $ ESDF 260220Z AUTO 22003KT 190V250 2800NDV BR FEW007/// SCT010/// BKN018/// 11/10 Q1019 FJDG 260155Z 06007KT 9999 FEW020 BKN250 27/26 A2989 RMK SLP119 T02740256 KMYZ 260235Z AUTO 10005KT 10SM CLR 17/11 A2998 RMK AO2 LERI 251800Z 00000KT CAVOK 23/06 Q1020 NOSIG WIBB 260200Z 00000KT 8000 FEW015 28/24 Q1012 NOSIG LESA 260230Z 00000KT CAVOK 07/06 Q1023 KOJA 260235Z AUTO 19006KT 10SM CLR 23/11 A3001 RMK AO2 KOJC 260153Z 11005KT 10SM CLR 21/15 A3000 RMK AO2 SLP154 T02060150 LGAD 252350Z 00000KT 9999 FEW018TCU SCT080 13/10 Q1013 KPAE 260153Z 17019G29KT 10SM FEW041 BKN055 OVC070 14/11 A2928 RMK AO2 PK WND 16034/0132 RAE44 SLP913 P0003 T01390106 KNSE 260156Z AUTO 33003KT 10SM CLR 14/11 A3006 RMK AO2 SLP167 T01440106 $ KNQX 260153Z 01009KT 10SM FEW035 24/18 A2995 RMK AO2 SLP140 T02440183 $ KPAH 260153Z 22004KT 7SM CLR 14/13 A3000 RMK AO2 SLP158 T01390133 FIMP 260200Z 27001KT 9999 VCSH FEW010 BKN014 22/21 Q1017 KMZZ 260235Z AUTO 30008KT 7SM CLR 14/03 A2993 RMK AO2 T01350033 KNSI 260157Z AUTO 28013KT 10SM CLR A3003 RMK AO2 SLPNO $ FIMR 251500Z 07012KT 9999 SCT018 25/20 Q1018 LERS 260230Z AUTO 03004KT CAVOK 14/13 Q1021 KNRS 260156Z AUTO 28005KT 10SM CLR 20/17 A3001 RMK AO2 SLP161 T02000172 $ LERT 260200Z 06003KT CAVOK 17/10 Q1019 NOSIG KOKB 260152Z AUTO 25005KT 10SM CLR 21/17 A2999 RMK AO2 SLP154 T02060167 LFKB 260230Z 23003KT 9999 BKN036 14/11 Q1020 NOSIG KOKC 260152Z 18006KT 10SM CLR 22/13 A3001 RMK AO2 SLP153 T02170128 $ LGAL 252050Z /////KT 9999 -RA FEW012 BKN030 OVC090 09/07 Q1016 LFKC 251700Z VRB04KT CAVOK 17/12 Q1018 NOSIG LFJL 260230Z AUTO 31002KT 7000 FEW007 BKN013 OVC021 12/10 Q1025 KNTD 260156Z 27004KT 10SM FEW012 20/16 A3000 RMK AO2 SLP161 T02000161 $ KPAM 260158Z AUTO 35005KT 10SM CLR 17/12 A3004 RMK AO2 SLP176 P0000 T01680115 $ KPAN 260235Z AUTO 17003KT 10SM CLR 19/07 A3020 RMK AO2 KPAO 260147Z VRB06KT 10SM BKN045 19/13 A3008 LESO 251930Z 19003KT 9999 SCT009 17/14 Q1023 KPBF 260153Z AUTO 20004KT 8SM CLR 20/18 A3005 RMK AO2 SLP172 T02000178 LFKF 260230Z AUTO 00000KT 9999 BKN043/// 06/05 Q1020 KPBG 260207Z AUTO 00000KT 3SM BR BKN070 09/08 A2946 RMK AO2 T00890083 KPBH 260235Z AUTO 29006KT 10SM CLR 08/M04 A2995 RMK AO2 T00811041 KPBI 260153Z 32006KT 10SM SCT045 21/18 A2994 RMK AO2 SLP138 T02110178 LFJR 260230Z AUTO 12002KT 0100 R26/1000N FG VV/// 11/11 Q1024 LFKJ 260230Z AUTO 03005KT 9999 BKN029 13/11 Q1020 WIDD 260230Z 08008KT 9999 SCT014 31/24 Q1013 NOSIG LEST 260230Z 00000KT CAVOK 13/12 Q1021 NOSIG KOKK 260235Z AUTO 31010G17KT 10SM CLR 14/02 A2994 RMK AO1 LFLB 260230Z AUTO 16003KT 3500 BR NSC 07/06 Q1023 LETL 260230Z AUTO VRB01KT CAVOK 10/05 Q1026 LGBL 260150Z 31008KT 9999 BKN030 BKN080 12/05 Q1018 LFLC 260230Z AUTO 07002KT 0200 0150 R26/0700N R08/1000N FG VV/// 09/08 Q1024 LGAV 260220Z 01016KT 9999 SCT025 BKN070 15/09 Q1015 NOSIG PTPN 260151Z 35005KT 15SM BKN017TCU BKN130 OVC300 31/25 A2976 RMK TCU S-NW KOKM 260235Z AUTO 19006KT 10SM CLR 21/18 A3001 RMK AO2 T02070177 KOLE 260235Z AUTO 25005KT 10SM OVC060 10/10 A2963 RMK AO2 LTG DSNT N LETO 260200Z 04002KT CAVOK 12/08 Q1024 NOSIG KOLF 260153Z AUTO 07010KT 10SM CLR 11/00 A2977 RMK AO2 SLP094 T01060000 KOLG 260235Z AUTO 22003KT 10SM CLR 03/M03 A2999 RMK AO1 ESGG 260220Z 20011KT 9999 FEW006 SCT009 OVC053 10/09 Q1015 KNUI 260153Z AUTO 21009KT 10SM CLR 16/07 A2974 RMK AO2 SLP069 T01610067 $ KOMA 260152Z 10003KT 10SM CLR 17/04 A3004 RMK AO2 SLP173 T01670044 LFKS 260230Z AUTO 35006KT 9999 OVC033 18/12 Q1020 ESGJ 260220Z AUTO 20007KT 9999 FEW017/// BKN046/// 08/08 Q1015 LEVC 260230Z 26003KT CAVOK 16/09 Q1020 NOSIG KNTU 260156Z 22007KT 10SM CLR 15/07 A2981 RMK AO2 SLP097 T01500072 KPDC 260235Z AUTO 00000KT 10SM CLR 09/01 A3003 RMK AO2 T00860005 LFMC 260230Z AUTO VRB01KT 9999 ////// 09/08 Q1021 LFLL 260230Z VRB02KT CAVOK 11/09 Q1024 NOSIG LEVD 251930Z 06006KT CAVOK 16/09 Q1023 KOLM 260222Z 23016G28KT 6SM -RA BR SCT019 BKN027 OVC045 12/09 A2949 RMK AO2 PK WND 22028/0218 PRESRR P0003 T01170094 KPCM 260235Z AUTO 01003KT 10SM CLR 18/14 A3002 RMK AO2 KOKV 260235Z AUTO 24004KT 10SM CLR 18/05 A2973 RMK AO2 LFMD 260230Z AUTO 36005KT 320V030 9999 BKN045 OVC052 14/11 Q1020 LFLN 260230Z AUTO 00000KT 0100 R33/0450D FG BKN005 08/08 Q1025 KPBX 260235Z AUTO 22003KT 10SM CLR 15/12 A2997 RMK AO2 T01510115 LFLP 260230Z AUTO 00000KT 2700 BR NSC 07/05 Q1024 ESGP 260220Z 20015KT 9999 OVC042 12/10 Q1014 KOKZ 260235Z AUTO 00000KT 10SM CLR 12/11 A3003 RMK AO2 T01190105 KNUQ 260156Z 27005KT 10SM FEW037 SCT046 BKN055 19/12 A3009 RMK AO2 SLP191 T01890117 KOMH 260235Z AUTO 23003KT 10SM CLR 12/07 A2977 RMK AO2 LFMH 260230Z AUTO 19002KT 0250 R18/1300D FG VV/// 11/10 Q1024 LFMI 260230Z AUTO 01004KT 9999 NSC 14/10 Q1020 ESGR 260220Z AUTO 21011KT 9999 NCD 09/08 Q1014 KONA 260233Z AUTO 32005KT 10SM CLR 09/00 A3003 RMK AO2 KOLS 260154Z AUTO 08004KT 10SM CLR 21/10 A3012 RMK AO2 SLP154 T02110100 KPEA 260235Z AUTO 01003KT 10SM CLR 12/03 A3008 RMK AO2 T01220028 LFLS 260230Z AUTO VRB02KT 9999 SCT052 10/08 Q1024 KOMK 260153Z AUTO 00000KT 10SM -RA OVC070 09/08 A2942 RMK AO2 RAE0059B30 SLP968 P0000 T00940083 KPDK 260153Z 00000KT 10SM CLR 13/09 A3004 RMK AO2 SLP172 T01330094 KNY0 260235Z AUTO 27009G14KT 10SM CLR 10/07 A2955 RMK AO2 T00990074 LFMK 260230Z AUTO VRB02KT 9999 NSC 11/09 Q1023 LFLU 251800Z AUTO 36005KT 9999 NSC 14/09 Q1020 ESIB 260220Z AUTO 20014KT 9999NDV BKN045/// OVC060/// 10/09 Q1013 KOLU 260235Z AUTO 07005KT 10SM CLR 11/03 A3004 RMK AO1 LFML 260230Z AUTO 10003KT 9999 NSC 14/11 Q1020 KOLV 260235Z AUTO 17004KT 5SM CLR 18/18 A3005 RMK A01 P000 KOMN 252250Z 00000KT 10SM SKC 20/14 A2996 RMK LAST. LFLW 260230Z AUTO 06003KT 6000 NSC 05/05 Q1024 KPCW 260233Z AUTO 28010KT 10SM CLR 15/03 A2983 RMK AO2 $ KNUW 260229Z 20010G19KT 10SM -RA SCT007 BKN021 OVC035 13/12 A2926 RMK AO2 PK WND 14031/0204 WSHFT 0209 P0005 T01330117 $ PTRO 260153Z 28004KT 15SM SCT016 BKN120 BKN300 30/25 A2989 LFMN 260200Z 33008KT 9999 FEW033 BKN046 16/09 Q1020 NOSIG LFMO 260230Z AUTO VRB03KT 9999 NSC 14/10 Q1021 LFLX 260230Z AUTO 00000KT 0300 R21/1000D FG VV/// 08/07 Q1024 KOLY 260235Z AUTO 00000KT 10SM CLR 15/10 A3000 RMK AO2 LFMP 260230Z AUTO 31003KT 9999 NSC 18/09 Q1022 LFLY 260230Z AUTO 32003KT 9000 R34/1400U NSC 10/09 Q1024 KPCZ 260235Z AUTO 27007KT 10SM CLR 11/M02 A2995 RMK AO2 T01111022 KOLZ 260235Z AUTO 33007KT 10SM CLR 09/01 A3006 RMK AO2 LEVS 252000Z 36001KT CAVOK 18/06 Q1022 KOOA 260235Z AUTO 36004KT 10SM CLR 11/03 A3007 RMK AO2 T01070029 LFOA 260230Z AUTO 14002KT 1100 R24/P2000 BR SCT031 SCT130 09/08 Q1024 LEVT 260230Z 00000KT CAVOK 08/07 Q1024 KPDT 260153Z 19012KT 10SM BKN110 16/07 A2957 RMK AO2 PK WND 20039/0055 RAE09 SLP007 P0000 T01560072 LFMT 260230Z AUTO 29002KT 9999 NSC 13/11 Q1021 LFOB 260230Z AUTO 00000KT 1200 0450 R30/P2000 R12/1300U BCFG VV/// 09/08 Q1024 LGEL 260220Z 33010KT 9999 FEW025 BKN070 14/09 Q1015 KONL 260235Z AUTO 09007KT 10SM CLR 11/03 A3004 RMK AO2 T01140026 LFOC 260230Z AUTO 00000KT 2900 BR VV/// 13/13 Q1024 LFMU 260230Z AUTO 31005KT 9999 NSC 15/10 Q1022 KONM 260235Z AUTO 17004KT 10SM CLR 18/03 A3016 RMK AO2 T01810031 LFMV 260230Z AUTO 02004KT 9999 NSC 14/11 Q1021 ETAD 260158Z AUTO 00000KT 0400 R23/0200 FG VV001 07/ A3026 RMK AO2 SLP241 $ LFOE 260230Z AUTO 30002KT 0100 R22/1000U FG FEW034 BKN045 07/07 Q1024 LEVX 260230Z 25004KT CAVOK 18/15 Q1020 NOSIG KONO 260153Z AUTO 30003KT 10SM CLR 11/08 A2976 RMK AO2 SLP085 T01060083 KPEO 260153Z AUTO 23009KT 10SM CLR 13/07 A2960 RMK AO2 SLP023 T01280072 KPDX 260153Z 23020G29KT 10SM FEW025 BKN075 OVC100 14/09 A2967 RMK AO2 PK WND 23039/0140 RAE0054 PRESRR SLP047 P0000 T01440089 $ KNXF 260156Z AUTO 28009KT 9SM CLR A2999 RMK AO2 SLPNO $ RCKH 260230Z 26006KT 200V290 4500 HZ FEW016 SCT090 31/22 Q1017 TEMPO 5000 HZ RMK A3004 KONP 260235Z AUTO 22011G15KT 7SM SCT028 BKN034 BKN043 13/11 A2987 RMK AO2 LFMY 260230Z AUTO 00000KT 9999 NSC 11/09 Q1021 KPEQ 260235Z AUTO 10005KT 10SM CLR 21/12 A3007 RMK AO2 T02060120 LFOH 260230Z AUTO 18005KT 9999 SCT034 11/08 Q1023 LEXJ 252100Z 13001KT CAVOK 15/14 Q1022 KPGA 260153Z AUTO 00000KT 10SM CLR 20/03 A3005 RMK AO2 SLP135 T02000033 LFOJ 260230Z AUTO 18001KT 4500 BR OVC019 14/13 Q1024 KONT 260153Z 27012KT 10SM FEW090 23/09 A2999 RMK AO2 SLP142 T02330089 LFOK 260230Z AUTO 04004KT 0100 R10/0600N R28/0400N FG VV/// 09/08 Q1025 LFPB 260230Z AUTO 32002KT 5000 BR FEW022 BKN030 BKN040 11/11 Q1024 KNYC 260151Z AUTO 24011G23KT 190V280 10SM CLR 17/06 A2962 RMK AO2 SLP022 T01720061 $ LFPC 260230Z AUTO 08003KT 3200 BR BKN045 09/09 Q1024 KPGD 260153Z AUTO 36006KT 10SM CLR 20/14 A2999 RMK AO2 SLP156 T02000139 WIHH 260200Z 00000KT 4000 HZ NLC 29/23 Q1014 NOSIG KOPF 260153Z AUTO 36006KT 10SM CLR 23/17 A2995 RMK AO2 SLP142 T02330172 $ PTTP 260150Z 30005KT 15SM SCT018TCU BKN300 31/24 A2979 RMK TCU N-E-S SLP088 T03120241 KPEX 260234Z AUTO 00000KT 10SM CLR 00/M03 A3006 RMK AO2 T00011034 KONX 260235Z AUTO 22006KT 10SM CLR 15/08 A2984 RMK AO2 T01500075 KNYG 260156Z AUTO 31003KT 10SM CLR 16/07 A2975 RMK AO2 SLP075 T01560067 $ KNXP 260156Z AUTO 25010KT 10SM CLR 27/06 A3003 RMK AO2 SLP138 T02670061 VQPR 260220Z 32007KT 6000 SCT015 SCT050 BKN090 09/05 Q1030 NOSIG LFPG 260230Z 10004KT 3500 0700E R27L/P2000 R09R/P2000 R26R/1500D R08L/P2000 R26L/1000N R08R/P2000 R27R/1400U R09L/1900U BCFG FEW002 BKN046 11/10 Q1024 NOSIG LFOP 260230Z AUTO 22002KT 0550 R22/1400D // NSC 09/08 Q1024 KONZ 260234Z AUTO 26005KT 10SM CLR 13/00 A2981 RMK AO2 KPEZ 260240Z AUTO 12005KT 10SM CLR 21/13 A3010 RMK AO2 T02130129 ETAR 260239Z AUTO 00000KT 8000 -DZ BR OVC025 11/10 A3026 RMK AO2 RAB0217 CIG 025V033 $ LFQA 260230Z AUTO 10003KT 0200 FG VV/// 08/08 Q1025 LFOT 260230Z AUTO 32003KT 270V340 0050 R20/0450N FG VV/// 13/13 Q1024 LFQB 260230Z AUTO 00000KT 0150 FG VV/// 08/08 Q1024 KOPL 260235Z AUTO 00000KT 10SM CLR 14/13 A3011 RMK AO2 T01380129 KNYL 260157Z AUTO 19003KT 10SM CLR 32/10 A2984 RMK AO2 SLP102 T03170100 KPHD 260153Z AUTO 29011G17KT 10SM CLR 17/03 A2982 RMK AO2 PK WND 32027/0105 SLP096 T01720033 KOPM 260235Z AUTO 07009KT 6SM HZ CLR 25/17 A3010 RMK A01 LFOV 260230Z AUTO VRB02KT 9999 BKN010 OVC042 11/10 Q1024 LFPM 260230Z AUTO VRB02KT 0600 FG VV/// 11/10 Q1024 KOPN 260235Z AUTO 00000KT 10SM CLR 17/11 A3005 RMK AO2 LFPN 260230Z AUTO VRB02KT 1200 R25/P2000 BR SCT005 BKN028 BKN034 11/11 Q1024 ESKN 260220Z 18007KT 9999 SCT012 08/08 Q1015 KPHF 260154Z AUTO 22008KT 10SM CLR 16/08 A2981 RMK AO2 SLP094 T01560083 TSNO LFPO 260230Z 00000KT 4000 MIFG BR FEW006 BKN026 BKN053 11/11 Q1024 TEMPO 0800 BCFG LFQG 251800Z AUTO 27001KT 9999 NSC 14/10 Q1022 LEZG 260230Z 27008KT CAVOK 17/09 Q1022 WIII 260230Z VRB04KT 8000 FEW023 33/22 Q1012 NOSIG LGHI 251950Z 00000KT 9999 FEW020 SCT035 BKN080 14/13 Q1013 KPIA 260154Z 31004KT 10SM CLR 17/03 A3002 RMK AO2 SLP164 T01670028 KORB 260233Z AUTO 29006KT 10SM CLR 06/M04 A2994 RMK AO2 KPIB 260235Z AUTO 00000KT 8SM CLR 16/13 A3011 RMK AO1 LFRB 260230Z 17007KT 9999 FEW019 BKN033 12/08 Q1023 NOSIG LFPT 260230Z AUTO 00000KT 0900 R05/1500U FG VV/// 09/09 Q1024 GAMB 260000Z 36006KT 9999 FEW030 BKN150 31/16 Q1012 LEZL 260230Z 00000KT CAVOK 15/12 Q1019 NOSIG KPHL 260154Z 23010KT 10SM FEW065 16/07 A2968 RMK AO2 SLP049 T01560072 KORC 260235Z AUTO 08003KT 10SM CLR 12/01 A3008 RMK AO2 LFRC 260230Z AUTO 20004KT 9999 OVC029 12/08 Q1023 KORD 260151Z 30008KT 10SM CLR 14/M01 A2996 RMK AO2 SLP144 T01391011 KPGV 260230Z AUTO 24004KT 10SM CLR 12/09 A2990 RMK AO2 LFRD 260230Z AUTO 19003KT 9999 BKN040 08/06 Q1024 LFPV 260230Z AUTO 36001KT 4100 BR FEW009 BKN023 BKN031 12/11 Q1024 KORE 260152Z AUTO 07003KT 10SM FEW060 SCT080 BKN110 09/08 A2953 RMK AO2 RAB38E47 SLP003 P0000 T00890078 KPIE 260153Z 36009KT 10SM CLR 21/14 A3000 RMK AO2 SLP158 T02060144 KPHN 260236Z AUTO 29007KT 10SM CLR 12/01 A2976 RMK AO2 KORF 260151Z AUTO 24007KT 10SM CLR 17/06 A2982 RMK AO2 SLP096 T01670061 TSNO $ RCMQ 260230Z 35008KT 8000 FEW012 SCT020 28/22 Q1018 NOSIG RMK A3006 KPHP 260155Z AUTO 09008KT 10SM CLR 09/M01 A2996 RMK AO2 SLP154 T00941006 KORG 260235Z AUTO 00000KT 10SM CLR A3013 RMK AO2 LFRG 260230Z AUTO VRB03KT 9999 NSC 06/06 Q1024 GAKY 260000Z 00000KT CAVOK 26/21 Q1011 KPIH 260153Z 17013KT 10SM FEW110 19/01 A2982 RMK AO2 SLP077 T01940011 KORH 260154Z AUTO 22008KT 10SM FEW080 11/06 A2955 RMK AO2 SLP008 T01060056 LFQQ 260230Z AUTO 18005KT 9999 OVC039 12/10 Q1023 LFRH 260230Z AUTO 08003KT 9999 FEW038 08/06 Q1024 LFRI 260230Z AUTO 03002KT 0050 R28/0550D FG VV/// 09/08 Q1024 KOSA 260235Z AUTO 00000KT 10SM CLR 20/19 A3008 RMK AO1 T02030185 LFRJ 260230Z AUTO 17004KT 9999 OVC037 11/08 Q1023 KOQT 260153Z AUTO 00000KT 10SM CLR 13/11 A3004 RMK AO2 SLP173 T01330111 KPHT 260235Z AUTO 00000KT 1/2SM VV005 14/14 A3004 RMK LFRK 260230Z AUTO VRB02KT 9999 NSC 06/05 Q1024 LFSB 260230Z AUTO VRB02KT 0150 R15/0900D R33/0600N FG FEW007 BKN080 09/08 Q1024 KOQU 251950Z 27014KT 15SM FEW100 SCT250 18/04 A2964 ESMK 260050Z AUTO 23006KT 9000NDV BR FEW013/// SCT019/// 11/10 Q1019 KPIL 260153Z AUTO 09006KT 9SM CLR 22/17 A3010 RMK AO2 SLP193 T02220172 KORL 260153Z AUTO 01006KT 10SM CLR 21/16 A3000 RMK AO2 SLP162 T02110156 KOSC 260233Z AUTO 29006KT 10SM CLR 08/00 A2974 RMK AO2 T00880005 ETEB 260158Z AUTO 15001KT 9999 OVC080 07/07 A3028 RMK AO2 SLP275 T00710071 LFRL 260230Z AUTO 14006KT 9999 FEW018 SCT028 OVC041 12/09 Q1023 LFRM 260230Z AUTO VRB01KT 0400 FG VV/// 10/09 Q1024 LFSD 260230Z AUTO 32003KT 1900 BCFG NSC 08/08 Q1024 LFRN 260230Z AUTO 30002KT 7000 BKN028 BKN034 OVC041 10/09 Q1024 KPHX 260151Z 24006KT 10SM CLR 31/11 A2989 RMK AO2 SLP104 T03110106 LGIO 260220Z AUTO 00000KT //// // ////// 09/06 Q1015 RE// LFRO 260230Z AUTO 15004KT 9999 OVC039 10/08 Q1023 KNZY 260152Z 32006KT 10SM FEW014 SCT100 SCT200 21/17 A3000 RMK AO2 SLP157 T02060167 $ LFSG 260230Z AUTO 33002KT 9000 OVC019 11/11 Q1024 KOSH 260153Z 28006KT 10SM CLR 12/M02 A2993 RMK AO2 SLP134 T01171017 ESNG 260220Z AUTO 07004KT 9999 OVC005/// 02/02 Q1001 LFRQ 260230Z AUTO VRB02KT 9999 OVC039 10/08 Q1023 LGIR 260150Z 17009KT 9999 FEW020TCU 17/12 Q1013 NOSIG KPIR 260153Z AUTO 12009KT 10SM CLR 11/01 A2998 RMK AO2 SLP159 T01110006 PTYA 260150Z 09006KT 12SM FEW017 BKN300 31/26 A2986 RMK SLP113 T03070255 ESMQ 260220Z AUTO 19004KT 4500 BR BKN055/// 10/10 Q1018 LFSI 260230Z AUTO 08001KT 0300 R29/0900U FG NSC 09/08 Q1025 KQAJ 260155Z 32004KT 9999 SCT150 22/07 A3000 RMK SLP150 T02230066 KORS 260235Z AUTO 33016G22KT 2SM +RA OVC002 10/09 A2925 RMK AO2 P0018 LFRS 260230Z AUTO 16002KT 0150 0100 R03/0750U R21/0650D FG VV/// 08/08 Q1024 KPIT 260151Z 28013KT 10SM CLR 16/09 A2977 RMK AO2 SLP086 T01560089 ESMS 260220Z 24006KT 3100 BR BKN006 OVC051 11/11 Q1020 KPKB 260153Z AUTO 25008KT 10SM CLR 17/12 A2987 RMK AO2 SLP112 T01670117 LFRT 252000Z AUTO 27002KT 9999 OVC034 12/09 Q1023 LGKC 251350Z /////KT 9999 FEW012 SCT080 17/12 Q1012 ESNK 260220Z AUTO 16012KT 9999 BKN012/// BKN021/// 08/06 Q1005 ESMT 260220Z AUTO 22012KT 9999 OVC053/// 11/09 Q1017 LHBC 251745Z 17005KT CAVOK 07/06 Q1026 LFSL 260230Z AUTO 00000KT 3900 BR VV/// 07/07 Q1024 ESNL 260220Z AUTO 14007KT 9999 FEW014/// BKN018/// OVC022/// 05/04 Q1002 KPKD 260153Z AUTO 27004KT 10SM CLR 05/M05 A3002 RMK AO2 SLP180 T00501050 TSNO $ LFRV 260230Z AUTO 34003KT 1200 BR FEW037 06/05 Q1024 LFSN 260230Z AUTO VRB02KT 5000 BR SCT023 BKN029 OVC042 12/11 Q1024 ESOE 260220Z AUTO 21011KT 9999NDV NCD 08/07 Q1013 ESNN 260220Z AUTO 15011KT 9999 OVC034/// 08/07 Q1006 R16/29//95 LGKF 260220Z AUTO VRB01KT //// -RA ////// 15/12 Q1013 RE// KQBF 260055Z AUTO 04001KT 6000 HZ CLR 27/16 A2992 RMK AO2 SLP112 T02660159 TSNO $ LFSO 260230Z AUTO 00000KT 9999 OVC023 11/11 Q1025 ESNO 260220Z AUTO 20011G28KT 140V220 9999 OVC006/// 08/07 Q1005 ESMX 260220Z AUTO 20009KT 7000 BR FEW005/// SCT008/// BKN010/// 10/09 Q1018 KOTG 260235Z AUTO 00000KT 10SM CLR 07/M01 A3008 RMK AO1 KOTH 260235Z 18006KT 10SM OVC035 13/13 A2994 RMK AO1 LFRZ 260230Z AUTO 00000KT 0250 R26/1100N FG VV/// 07/06 Q1024 LFTH 260230Z AUTO 35003KT 9999 SCT026 SCT031 BKN120 14/12 Q1020 ESNQ 260220Z AUTO 18005KT 9999 OVC003/// 01/01 Q0999 GANR 260000Z 00000KT CAVOK 26/12 Q//// ESPA 260220Z AUTO 19008KT 9999NDV FEW001/// BKN024/// 06/05 Q1004 ESNS 260220Z AUTO 20007KT 170V230 9999 BKN012/// OVC020/// 08/06 Q1004 LFST 260230Z AUTO 00000KT 9000 FEW028 BKN038 BKN046 12/10 Q1025 KOSU 260153Z 29007KT 10SM CLR 15/06 A2986 RMK AO2 SLP111 T01500061 ESOK 260220Z AUTO 19012KT 9999 BKN063/// 10/09 Q1011 LGKL 260150Z 00000KT 9999 FEW020TCU SCT030 BKN080 12/11 Q1014 KQBL 260156Z AUTO 00000KT 10SM FEW240 16/11 A3007 RMK AO2 SLP189 T01550110 KOTM 260153Z AUTO 02003KT 10SM CLR 10/04 A3005 RMK AO2 SLP177 T01000039 ESNU 260220Z 20013KT 9999 OVC008 08/07 Q1006 R14/29//70 ESPE 260220Z AUTO 11005KT 9999 1600// FEW010/// OVC022/// 04/04 Q1001 LGKO 260220Z 00000KT 9999 SCT020 SCT080 16/14 Q1013 LFSX 260230Z AUTO 00000KT 4300 BR NSC 10/10 Q1024 ESNX 260220Z AUTO 17007KT 9999NDV SCT009/// OVC016/// 05/05 Q1000 KQAY 260155Z AUTO 00000KT 9000 CLR 23/08 A2996 RMK AO2 SLP142 T02310080 $ LGKP 260220Z AUTO VRB03KT //// -RA ////// 17/13 Q1013 RE// LHBP 260230Z VRB03KT 3500 BR NSC 01/00 Q1027 NOSIG KQAZ 252315Z AUTO 08001KT //// CLR 25/M02 A2992 RMK CDP03565 CLR ETGG 260220Z 20012KT 9999 SCT045 10/08 Q1019 BLU+ LGKR 260220Z 00000KT 9999 FEW020 BKN035 BKN080 14/13 Q1014 NOSIG ESNZ 260220Z AUTO 21011KT 9999 NCD 07/03 Q1000 ETHA 260220Z AUTO 26001KT //// // ////// 07/07 Q1025 /// VRMM 260200Z 00000KT 9999 FEW018 BKN120 29/25 Q1013 NOSIG WIMM 251730Z 36015KT 3000 TSRA FEW016CB BKN017 25/24 Q1011 TL1900 4000 TSRA KS39 260235Z AUTO 20011KT 10SM BKN039 OVC047 10/05 A2978 RMK AO2 ETHB 260220Z 21006KT 9999 FEW040 10/08 Q1023 BLU+ KQCL 250655Z AUTO VRB03KT 9999 CLR 21/09 A3014 RMK AO2 SLP174 T02130089 $ LHDC 252050Z AUTO 18002KT 03/02 Q1027 ETHC 260220Z 24006KT 8000 OVC035 12/09 Q1023 BLU LGKV 260150Z 00000KT 9999 SCT020 OVC080 10/07 Q1018 KPMD 260153Z 23005KT 10SM CLR 21/06 A3004 RMK AO2 SLP154 T02110056 LGLM 260220Z AUTO 05017KT //// -RA ////// 11/08 Q1016 RE// KPKV 260235Z AUTO 15005KT 10SM CLR 19/16 A3011 RMK AO2 T01910163 KOVE 260153Z AUTO 13011KT 10SM CLR 17/13 A3002 RMK AO2 SLP168 T01720128 KPLN 260154Z AUTO 30018G26KT 10SM CLR 11/01 A2974 RMK AO2 PK WND 28031/0057 SLP071 T01110006 KOUN 260235Z AUTO 18007KT 10SM CLR 22/14 A3003 RMK AO2 LFTW 260230Z AUTO 01005KT 9999 NSC 15/09 Q1021 ESOW 260220Z AUTO 19010KT 9999NDV NCD 09/08 Q1014 ETHE 260220Z AUTO 18002KT //// // ////// 09/07 Q1023 /// ETHF 260220Z 19004KT 9000 BKN008 11/10 Q1024 GRN LGKZ 260220Z AUTO 34012G22KT 310V010 //// // ////// 04/00 Q1019 RE// ETGQ 260220Z AUTO 29001KT //// // ////// 11/10 Q1024 /// LGLR 260150Z 01008KT 9999 FEW020 OVC035 11/04 Q1018 BLU KOWA 260235Z AUTO 00000KT 10SM CLR 05/M01 A3006 RMK AO2 KPNA 260235Z AUTO 00000KT 10SM CLR 07/M03 A3001 RMK AO2 LGMK 252020Z 02008KT 9999 FEW018 15/11 Q1012 KOWB 260156Z 00000KT 10SM CLR 15/13 A3000 RMK AO2 T01500127 SLP158 KQEB 260155Z AUTO 12SM CLR 15/13 Q1022 RMK AO2 SLP161 T01520128 KPNC 260153Z AUTO 15007KT 10SM CLR 24/16 A2997 RMK AO2 SLP140 T02390161 KOVL 260234Z AUTO 00000KT 10SM CLR 07/00 A3006 RMK AO2 ETHL 260220Z AUTO 36001KT 2400 // ////// 08/08 Q1025 /// ETIC 260158Z AUTO 00000KT 8000 HZ OVC005 06/ A3028 RMK AO2 SLP266 $ KOWD 260153Z AUTO 00000KT 10SM BKN100 09/08 A2954 RMK AO2 SLP003 T00940078 KPNE 260154Z 23009KT 10SM FEW070 17/06 A2967 RMK AO2 SLP048 T01720061 ETHN 260220Z 13002KT 9999 OVC014 09/08 Q1025 GRN LFVP 260000Z 04015KT 4000 -DZRA BR BKN007 OVC015 08/08 Q0996 NOSIG KPMP 260153Z AUTO 34007KT 10SM CLR 23/18 A2995 RMK AO2 SLP142 T02280178 KQEI 260240Z AUTO 21004KT 8000 HZ SCT028 17/08 A3011 RMK A02 TSNO ETIH 260158Z AUTO 14003KT 5000 BR OVC005 06/06 A3030 RMK AO2 SLP275 KOVS 260153Z AUTO 25003KT 10SM CLR 08/M01 A3002 RMK AO2 SLP169 T00831011 KQEJ 260240Z AUTO 19003KT 4800 HZ FEW011 14/09 A3007 RMK A02 TSNO PWAK 260158Z AUTO 06011KT 9999 CLR 29/25 A2987 RMK AO2 SLP121 T02940245 ETHS 260220Z 24007KT 4000 BR FEW006 BKN009 BKN030 12/11 Q1022 GRN KOXB 260153Z AUTO 24009KT 10SM CLR 15/07 A2975 RMK AO2 SLP074 T01500072 TSNO ESSA 260220Z 20011KT 9999 SCT012 BKN027 10/09 Q1014 TEMPO BKN008 LGMT 251850Z 00000KT 9999 FEW014 SCT020 BKN080 15/13 Q1013 KPOB 260158Z AUTO 00000KT 10SM CLR 12/08 A2992 RMK AO2 SLP135 T01210082 KPOC 252347Z 24010KT 10SM CLR 26/03 A3003 ESSB 260220Z AUTO 19004KT 150V230 9999 BKN010/// OVC017/// 10/08 Q1015 KQEL 260240Z AUTO 20002KT 6000 HZ FEW010 BKN035 14/10 A3015 RMK A02 TSNO KOXC 260235Z 23006KT 10SM BKN070 BKN080 OVC085 14/06 A2957 RMK AO1 ETIK 260158Z AUTO 00000KT 9999 OVC026 09/09 A3028 RMK AO2 SLP259 T00850085 WIOO 260200Z 00000KT 9999 SCT011 28/24 Q1013 NOSIG KPNM 260234Z AUTO 26003KT 10SM CLR 05/M02 A3005 RMK AO2 KPMV 260235Z AUTO 05006KT 10SM CLR 15/05 A3003 RMK AO2 T01460047 ESSD 260220Z AUTO 18010KT 9999 FEW031/// SCT043/// 08/07 Q1010 KQEN 260240Z AUTO 9999 CLR / / RMK A02 TSNO KPOE 260158Z AUTO 00000KT 10SM CLR 16/13 A3010 RMK AO2 SLP194 T01590132 KPOF 260243Z AUTO 00000KT 1/2SM FG VV007 17/16 A3000 RMK AO2 T01670156 KQEP 260240Z AUTO 19004KT 6000 HZ CLR 18/10 A3005 RMK A02 TSNO KQFG 260155Z AUTO 02001KT 9999 CLR 16/11 A3017 RMK AO2 SLP201 T01580110 KOWP 260235Z AUTO 16006KT 10SM CLR 25/17 A3001 RMK AO2 T02480171 KQEQ 260240Z AUTO 19006KT 9999 BKN018 18/13 A2994 RMK A02 TSNO RCSS 260230Z VRB02KT 9999 FEW025 SCT250 29/20 Q1017 NOSIG RMK A3005 KQER 260240Z AUTO 24004G11KT / /CLR 17/10 A3005 RMK A02 TSNO KOXI 260235Z AUTO 31007KT 10SM CLR 15/M01 A2993 RMK AO1 T01481013 KQGA 260159Z AUTO 04004KT 8000 HZ CLR 29/01 A2987 RMK CDP03659 CLR KQES 260240Z AUTO 9999 BKN022 19/13 A3013 RMK A02 TSNO LGPA 260220Z AUTO 35006KT //// // ////// 15/12 Q1014 RE// KPNS 260153Z 35003KT 10SM CLR 18/11 A3006 RMK AO2 SLP179 T01780111 KPPA 260235Z AUTO 19010KT 10SM CLR 20/09 A3006 RMK AO2 T01970085 PNO ESTA 260220Z AUTO 18007KT 9999 OVC053/// 11/09 Q1018 KPNT 260235Z AUTO 31004KT 10SM CLR 12/04 A3001 RMK AO2 T01200040 ESSL 260220Z AUTO 18006KT 9999NDV NCD 09/08 Q1015 KQEV 260240Z AUTO 23002KT 6000 HZ CLR 16/11 A3012 RMK A02 TSNO WIPP 260230Z 12003KT 7000 BKN013 29/24 Q1013 NOSIG FKKD 260200Z 00000KT 9999 BKN013 FEW016CB 25/24 Q1011 NOSIG KQEW 260240Z AUTO 16002KT 9999 CLR 18/10 A3007 RMK A02 TSNO LGNX 251050Z 20014KT 9999 FEW020 SCT025 21/14 Q1010 RCTP 260230Z 01009KT 9999 SCT020 SCT200 29/21 Q1017 NOSIG RMK A3005 KPPF 260152Z AUTO 00000KT 10SM CLR 21/18 A3001 RMK AO2 SLP155 T02060178 KQEX 260240Z AUTO 02001KT 9999 CLR 17/09 A3012 RMK A02 TSNO KQEY 260240Z AUTO 16002KT 9999 CLR 17/09 A3012 RMK A02 TSNO KQFQ 260155Z AUTO 16008G16KT 4SM BR FEW015 BKN023 17/14 A3006 RMK AO2 SLP181 T01690139 $ ESSP 260220Z AUTO 18007KT 9999 NCD 09/08 Q1015 WIPT 260230Z 22004KT 180V300 9999 FEW020 29/24 Q1013 KOXR 260151Z AUTO 27006KT 10SM CLR 19/17 A2999 RMK AO2 SLP154 T01890167 TSNO KQFS 260156Z AUTO VRB03KT 4400 BR CLR 16/00 A3010 RMK AO2 VIS 0000V4400 SLPNO T01560000 KOZA 260235Z AUTO 00000KT 10SM CLR 17/12 A3016 RMK AO2 KQFT 260240Z AUTO 20003KT 6000 HZ FEW010 16/10 A3009 RMK A02 TSNO KPOU 260153Z AUTO 34009KT 10SM BKN060 OVC080 13/08 A2958 RMK AO2 PRESRR SLP013 T01280078 TSNO KQFU 260240Z AUTO 06005KT 6000 // CLR 18/11 A3010 RMK A02 TSNO KQFV 260240Z AUTO 31005G12KT 9999 CLR 17/08 A3007 RMK A02 TSNO ESTL 260220Z AUTO 21009KT 9999NDV NCD 11/10 Q1019 KPOV 260238Z AUTO 29012G20KT 10SM CLR 14/M01 A2979 RMK AO2 T01421015 KOXV 260235Z AUTO 02004KT 10SM CLR 14/02 A3005 RMK AO2 ESUD 260220Z AUTO 19008KT 9999 OVC015/// 05/03 Q1001 ESSV 260220Z AUTO 21014KT 2800 BR OVC004/// 10/10 Q1018 REDZ FKKN 251700Z 36002KT 9999 SCT016 FEW020CB SCT110 24/19 Q1015 KQFX 260240Z AUTO 13001KT 6000 HZ FEW007 BKN008 15/09 A3013 RMK A02 TSNO KPPO 260235Z AUTO 32010G17KT 10SM SCT110 16/00 A2994 RMK AO2 T01641001 KPOY 260235Z AUTO 23009KT 10SM CLR 14/M06 A2977 RMK AO2 KPPQ 260235Z AUTO 31003KT 10SM CLR 14/09 A3005 RMK AO2 T01380094 KPQI 260235Z AUTO 00000KT 10SM OVC006 06/04 A2948 RMK AO1 LFYR 260230Z AUTO 00000KT 9999 BKN033 OVC054 11/11 Q1024 FKKR 260000Z 00000KT CAVOK 27/22 Q1010 KPRB 260153Z AUTO 10SM SCT080 19/10 A3006 RMK AO2 SLP175 T01890100 TSNO KPQL 260153Z AUTO 00000KT 7SM CLR 13/13 A3008 RMK AO2 SLP185 T01330128 TSNO KPRC 260153Z AUTO 20007KT 10SM CLR 19/07 A3017 RMK AO2 SLP161 T01940067 TSNO KQGV 260155Z 34011G14KT 9999 CLR 23/07 A2997 RMK SLPNO QNH1015 PA +419 KPQN 260234Z AUTO 10003KT 10SM CLR 09/M01 A3007 RMK AO2 KQGX 260158Z 24004KT 9999 CLR 25/18 A2982 RMK AO2A SLPNO RVRNO PWINO PNO FZRANO TSNO VISNO RWY13 CHINO RWY13 $ KPRG 260235Z AUTO 29005KT 10SM CLR 13/09 A2999 RMK AO2 T01320085 LGPZ 260150Z 08012KT 9999 SCT025 BKN080 16/07 Q1015 KOZR 260158Z AUTO 32001KT 10SM CLR 15/11 A3005 RMK AO2 SLP178 T01460114 LGSA 260220Z 28005KT 9999 FEW018TCU SCT025 BKN080 16/12 Q1013 VTBD 260230Z 12007KT 090V150 9999 FEW020 SCT120 BKN300 30/24 Q1014 NOSIG ESUT 260220Z AUTO 15008KT 9999 BKN019/// 02/01 Q0997 KRAC 260153Z AUTO 29008KT 10SM CLR 13/M03 A2996 RMK AO2 SLP145 T01331028 KPSC 260153Z 15010KT 10SM BKN110 12/11 A2952 RMK AO2 RAE03 SLP995 P0000 T01170111 ETML 260220Z AUTO 20007KT //// // ////// 10/08 Q1020 /// KOZW 260235Z AUTO 28011G15KT 10SM CLR 11/00 A2982 RMK AO2 T01111002 KPRN 260156Z AUTO 00000KT 10SM CLR 14/12 A3006 RMK AO2 SLP177 T01440117 ETMN 260220Z 22007KT 9999 SCT210 09/08 Q1021 BLU+ KPSF 260154Z AUTO 29007KT 10SM BKN045 OVC060 11/07 A2955 RMK AO2 RAE16 SLP998 P0000 T01110067 KPRO 260235Z AUTO 00000KT 10SM CLR 08/04 A3007 RMK AO2 T00800044 LGRP 260220Z VRB04KT 9999 SCT018 SCT080 17/11 Q1013 NOSIG KQHY 260156Z AUTO 35003KT 10SM CLR 16/11 A3008 RMK AO2 SLP193 T01600107 KQL5 260155Z 00000KT 9999 FEW095 15/12 A3014 RMK SLP196 T01510119 ETNH 260220Z AUTO 18006KT 3400 // ////// 09/08 Q1020 /// KQIR 260158Z 30003KT 9000 BR CLR 22/18 A2990 RMK AO2A SLP126 T02190182 $ VTCC 260230Z 31003KT 9999 FEW035 27/21 Q1018 A3008 NOSIG KPRS 260235Z AUTO 35007KT 10SM CLR 23/10 A3009 RMK AO2 T02250095 LGSK 250550Z 25004KT 9999 FEW018 SCT025 OVC080 12/10 Q1008 KPTB 260235Z AUTO 22004KT 10SM CLR 12/07 A2980 RMK AO2 T01170070 KT20 260235Z AUTO 15007KT 10SM CLR A3010 RMK AO2 KPSK 260236Z AUTO 27009KT 10SM CLR 16/11 A2993 RMK AO2 LIBC 251650Z 35012KT 9999 FEW040 15/07 Q1015 KRAL 260153Z AUTO 28005KT 10SM CLR 23/12 A2999 RMK AO2 SLP141 T02330117 VTBO 260200Z 00000KT 9999 FEW023 30/25 Q1013 LIBD 260220Z 11004KT 9999 FEW035 13/09 Q1019 ETNL 260220Z 19005KT 3300 BR SCT005 BKN038 BKN058 10/10 Q1022 YLO KRBD 260153Z 17005KT 10SM CLR 26/16 A3005 RMK AO2 SLP170 T02560156 LGSM 251650Z 32004KT 6000 DZ FEW018 BKN025 BKN080 19/14 Q1011 RERA KPSM 260158Z 21002KT 10SM BKN070 OVC085 13/07 A2951 RMK AO2A SLP996 T01300069 LHKE 260215Z 00000KT 5000 BR BKN037 07/07 Q1027 NOSIG RMK WHT KPSN 260235Z AUTO 14003KT 10SM CLR 21/18 A3010 RMK AO2 T02130181 LIBF 251750Z 30007KT 9999 FEW030 12/08 Q1018 ETNN 260220Z AUTO 18002KT 7000 // ////// 10/09 Q1024 /// VTCH 260200Z 00000KT 9999 FEW015 SCT025 25/21 Q1016 A3002 INFO LGRX 260150Z 00000KT 9999 BKN018 BKN090 14/12 Q1014 LGSO 260220Z AUTO 32006KT //// // ////// 16/12 Q1014 RERA KPSO 260235Z AUTO 00000KT 10SM CLR 08/00 A3031 RMK AO2 T00771003 KPRX 260235Z 17004KT 10SM CLR 21/14 A3006 RMK AO1 LIBG 251750Z 33006KT 9999 FEW030 15/09 Q1014 LGTG 260050Z 00000KT 9999 -RA FEW020 BKN035 BKN080 12/09 Q1016 BLU KRAP 260152Z 20006KT 10SM CLR 09/03 A2994 RMK AO2 SLP148 T00890028 KPSP 260153Z 31014G19KT 10SM CLR 31/07 A2989 RMK AO2 SLP118 T03060067 KRBG 260153Z AUTO 18004KT 6SM RA OVC060 12/09 A2991 RMK AO2 SLP129 P0010 T01220094 $ LIBH 260155Z 29007KT CAVOK 13/10 Q1017 RMK SKC QUK / QUL / VIS MAR 20 KM VIS MIN 9999 VTBS 260230Z 06006KT 9999 FEW020 SCT120 BKN300 29/24 Q1015 NOSIG LGSR 260220Z AUTO 03004KT //// -RA ////// 17/15 Q1013 RE// VTCL 260200Z 00000KT 5000 BR FEW015 26/24 Q1017 A3003 INFO VTBU 260230Z 09003KT 9999 VCSH FEW018CB SCT300 31/23 Q1014 A2995 CB S-SW NW LICA 260150Z 09004KT 9999 FEW030 09/07 Q1018 KRCA 260158Z AUTO 18010KT 10SM CLR 12/03 A2993 RMK AO2 SLP145 T01190033 $ KRAS 260235Z AUTO 13006KT 10SM CLR 24/17 A3010 RMK AO2 T02400170 ETNS 260220Z AUTO 20007KT 9000 // ////// 09/08 Q1020 /// LICB 252050Z VRB03KT 9999 FEW040 13/08 Q1018 KPTK 260153Z 29013KT 10SM CLR 13/M01 A2979 RMK AO2 SLP090 T01281006 KPUB 260153Z 11005KT 10SM CLR 18/M03 A3001 RMK AO2 SLP129 T01781028 ETNT 260220Z 20007KT 9999 FEW045 08/07 Q1021 BLU+ VTCN 260200Z 03002KT 9999 FEW008 FEW020TCU SCT100 27/22 Q1016 A3002 LICC 260220Z 26004KT CAVOK 10/08 Q1017 KPUC 260153Z AUTO 09006KT 10SM CLR 16/00 A3009 RMK AO2 SLP163 T01610000 TSNO KRBL 260154Z AUTO 00000KT 10SM SCT065 BKN080 OVC090 17/12 A2997 RMK AO2 LTG DSNT NE SLP147 T01670122 LICD 251950Z 34012KT 9999 FEW030 21/14 Q1019 VTCP 260200Z 36002KT 3000 BR FEW015 BKN300 25/23 Q1015 A3000 RWY01 INFO B LIBN 251755Z 01009KT 9999 FEW040 16/10 Q1014 RMK BKN BKN170 VIS MIN 9999 WIND THR14 36008KT BLU KPTN 260235Z AUTO 00000KT 8SM CLR 16/14 A3013 RMK AO1 KRCE 260235Z AUTO 19009KT CLR 21/13 A3003 RMK AO2 KRBO 252350Z AUTO 12009KT 7SM +RA CLR 26/18 A3009 RMK AO2 T02620180 10301 20262 ETNW 260220Z AUTO 24008KT 9999 // ////// 11/08 Q1023 /// LICF 260155Z 33004KT 9999 SCT033 18/09 Q1016 RMK SCT QUK / QUL / VIS MAR 15 KM MON INVIS NC VIS MIN 9999 KPSX 260153Z AUTO 14005KT 10SM CLR 21/17 A3011 RMK AO2 SLP194 T02060172 LICG 251755Z 36007KT CAVOK 20/18 Q1018 LIBP 260150Z 22007KT 9999 FEW030 SCT070 11/07 Q1021 LGSY 251750Z 26023G33KT 9999 BKN018 BKN080 14/11 Q1009 BLU KT35 260235Z AUTO 17005KT 10SM CLR 22/16 A3009 RMK AO2 T02220164 LIBQ 260155Z 36018KT 0000 FG VV/// 02/02 Q1016 RMK MON INVIS VAL INVIS VIS MIN 0000 VTCT 260200Z VRB02KT 9999 FEW022 25/21 Q1018 A3006 RMK/RWY03 INFO C LIBR 260215Z 04013KT 8000 FEW025 15/07 Q1017 NOSIG LICJ 260220Z 33008KT 9999 FEW030 20/13 Q1019 LGTS 260220Z 34014KT 9999 FEW018 BKN040 OVC060 09/04 Q1019 NOSIG KPTS 260235Z AUTO 20003KT 10SM CLR 19/19 A3000 RMK AO2 T01850186 KPUJ 260235Z AUTO 31004KT 10SM CLR 17/13 A3006 RMK AO2 KPTT 260235Z AUTO 17012KT 10SM CLR 23/12 A2995 RMK AO2 KPVB 260235Z AUTO 27008KT 10SM CLR 10/00 A3003 RMK AO1 T00961004 LICL 251755Z 35005KT CAVOK 22/11 Q1015 RMK SKC QUK / QUL / VIS MAR 18 KM VIS MIN 9999 KPVC 260235Z 22011KT 10SM FEW095 BKN120 12/M17 A2956 RMK AO1 KRCM 260215Z AUTO 00000KT 10SM CLR 17/14 A3002 RMK AO2 LIBV 260155Z 32006KT 9999 BKN027 12/10 Q1015 RMK BKN VIS MIN 9999 WIND THR32 33004KT WIND THR14 31005KT BLU KPVD 260151Z 22004KT 10SM BKN090 14/08 A2958 RMK AO2 SLP018 T01390078 ETOU 260236Z AUTO 00000KT 9999 FEW014 BKN028 BKN060 11/11 A3026 RMK AO2 CIG 027V060 BKN028 V SCT KRDD 260153Z 35003KT 10SM OVC065 15/15 A2995 RMK AO2 LTG DSNT E SLP138 T01500150 KPTV 260235Z 34013KT 10SM SCT011 BKN019 19/11 A3005 RMK AO1 GCGM 251700Z VRB01KT CAVOK 25/17 Q1016 RMK CAB09 VRB02KT GCFV 252200Z 36006KT 9999 FEW010 22/20 Q1017 KPVE 260235Z AUTO 00000KT 1/2SM BKN001 17/17 A3004 RMK KPTW 260154Z AUTO 00000KT 10SM CLR 14/07 A2966 RMK AO2 SLP041 T01440067 KRBW 260235Z AUTO 00000KT 10SM CLR 11/ A2999 RMK AO2 KPVF 260235Z AUTO 13007KT 10SM BKN031 BKN037 OVC060 10/09 A3012 RMK AO1 P0001 LIBY 260155Z ///08KT CAVOK 13/10 Q1014 RMK SCT SCT080 QUK / QUL / VIS MAR 20 KM VIS MIN 9999 KPVG 260235Z AUTO 24006KT 10SM CLR 12/07 A2984 RMK AO1 KRDG 260154Z AUTO 22005KT 10SM CLR 16/07 A2963 RMK AO2 SLP038 T01560067 KQLP 260155Z AUTO RMK AO2 SLPNO PWINO PNO TSNO $ LICR 252150Z 03005KT 320V060 9999 SCT025 16/09 Q1017 KRCR 260235Z AUTO 30010KT 10SM CLR 15/00 A2993 RMK AO2 GCHI 251700Z VRB01KT CAVOK 26/21 Q1015 LIEA 260220Z 36002KT CAVOK 11/11 Q1020 KPWA 260153Z 19008KT 10SM CLR 22/13 A3001 RMK AO2 SLP152 T02170128 $ KPVJ 260235Z AUTO 00000KT 10SM CLR 21/15 A3002 RMK AO2 T02090145 LIEB 260055Z 31008KT CAVOK 17/14 Q1018 RMK SKC QUK / QUL / VIS MAR 20 KM MON INVIS VIS MIN 9999 LICT 260155Z 12004KT 9999 FEW025 13/13 Q1019 KRDK 260235Z AUTO 03005KT 10SM CLR 12/07 A3004 RMK AO2 LIEC 260155Z 05006KT 9999 FEW020 18/16 Q1018 RMK FEW QUK / QUL / VIS MAR 25 KM VIS MIN 9999 KPWC 260233Z AUTO 00000KT 10SM CLR 02/M02 A3005 RMK AO2 LIED 260155Z 36003KT 9999 FEW010 13/10 Q1018 RMK FEW VIS MIN 9999 WIND THR35 35003KT WIND THR17 02003KT BLU KRDM 260224Z AUTO 24016G23KT 10SM FEW049 OVC060 12/02 A2974 RMK AO2 WSHFT 0204 RAB03E15 P0000 T01170017 KRCV 260230Z AUTO 19005KT 10SM CLR 12/M03 A3029 RMK AO2 T01151035 LIEE 260220Z 32004KT CAVOK 13/12 Q1019 KPUW 260153Z AUTO 20009KT 10SM OVC100 16/04 A2958 RMK AO2 SLP014 T01610044 FLHN 251500Z 32006KT CAVOK 37/03 Q1011 KRCX 260235Z AUTO 31011KT 10SM CLR 10/M04 A3000 RMK AO2 T00981044 KPWG 260235Z AUTO 18006KT 10SM CLR 22/13 A3009 RMK AO1 LICZ 260155Z 31005KT CAVOK 16/16 Q1018 RMK SKC VIS MIN 9999 WIND THR28 30008KT A3006 BLU KRCZ 260235Z AUTO 23004KT 10SM CLR 13/07 A2993 RMK AO2 T01310065 KRDR 260158Z AUTO 29005KT 10SM CLR 04/M03 A3001 RMK AO2 SLP175 T00411032 ETSA 260220Z 19002KT 9999 FEW050 BKN070 07/07 Q1025 BLU KPWK 260152Z 29006KT 10SM CLR 14/M02 A2997 RMK AO2 SLP150 T01441022 ETSB 260220Z AUTO 28003KT 0150 // ////// 07/07 Q1024 /// KRDU 260151Z 24005KT 10SM FEW250 11/07 A2990 RMK AO2 SLP123 T01110072 $ KPVU 260159Z 14003KT 15SM BKN080 17/04 A2996 KPWM 260151Z 23005KT 10SM SCT080 OVC100 12/07 A2950 RMK AO2 SLP988 T01170072 KRFD 260154Z 32009KT 10SM CLR 13/M01 A3001 RMK AO2 SLP164 T01281011 KPXE 260235Z AUTO 00000KT 10SM CLR 13/09 A3004 RMK AO2 T01320088 KPVW 260235Z AUTO 18007KT 10SM CLR 17/11 A3009 RMK AO2 T01740112 ETSE 260220Z AUTO 13002KT 2000 // ////// 07/07 Q1026 /// LIEO 260220Z 20004KT CAVOK 10/09 Q1020 KREO 260152Z AUTO 18018G23KT 14/M04 A2985 RMK AO1 PK WND 20026/0054 SLP105 T01391044 KT65 260235Z AUTO 11003KT 10SM CLR 23/18 A3010 RMK AO2 T02270175 ETSH 260220Z 13003KT 6000 BKN070 08/07 Q1024 WHT KRFI 260235Z AUTO 00000KT 7SM CLR 18/18 A3010 RMK AO2 T01840178 ETSI 260220Z AUTO 07002KT //// // ////// 07/06 Q1026 /// LHPA 260225Z 00000MPS 0500 R16/0450V0750D FG NSC 02/01 Q1028 RMK RED KPWT 260235Z AUTO 19021G29KT 10SM BKN008 OVC015 12/11 A2937 RMK AO1 ETSL 260120Z 17002KT 9999 BKN060 07/07 Q1025 BLU ETSN 260220Z AUTO 06003KT //// // ////// 07/06 Q1026 /// LGZA 260220Z AUTO 00000KT //// // ////// 12/12 Q1013 RE// GCLA 252000Z VRB02KT CAVOK 24/19 Q1016 KRGK 260231Z AUTO 00000KT 10SM CLR 06/M02 A3003 RMK AO2 FLKK 251200Z 07010KT 9999 -HZ FEW045 35/11 Q1015 KPYM 260152Z AUTO 20005KT 10SM OVC110 12/08 A2958 RMK AO2 SLP016 T01170083 KT82 260235Z AUTO 00000KT 10SM CLR 17/13 A3013 RMK AO2 T01650134 LHPP 260145Z 00000KT 0400 FG OVC003 06/06 Q1027 FMCH 251500Z 18012KT 9999 FEW022 28/23 Q1012 NOSIG KRHI 260153Z AUTO 29009KT 10SM CLR 09/M06 A2992 RMK AO2 SLP140 T00941056 LHPR 260145Z 26001KT 2000 BR NSC 02/02 Q1028 FLLI 251100Z 03010KT CAVOK 38/03 Q1013 AGGH 260200Z 34006KT 9999 HZ FEW020 FEW021CB BKN300 30/24 Q1008 KQRB 260155Z AUTO 28002KT 6000 BR FEW019 BKN022 25/24 A2989 RMK AO2 SLP120 T02460239 $ KRIC 260154Z 21007KT 10SM CLR 15/07 A2978 RMK AO2 SLP089 T01500067 KPYX 260235Z AUTO 17010KT 10SM CLR 20/09 A3000 RMK AO2 T02020090 KRHP 260235Z AUTO 00000KT 10SM CLR 10/09 A3008 RMK AO2 T00960092 GCLP 260230Z 35004KT 9999 FEW045 22/13 Q1016 NOSIG KQRH 260155Z AUTO 24004KT 7SM CLR 25/12 A2987 RMK AO2 SLP111 T02500119 KPZQ 251325Z AUTO 25012G16KT 10SM CLR 13/11 A2967 RMK AO2 KQSA 260158Z VRB03KT 9999 FEW120 SCT150 08/06 A3022 RMK AO2A SLP170 T00800058 KSAA 260235Z AUTO 20027G35KT 10SM CLR 18/M05 A3010 RMK AO2 KSAC 260153Z AUTO 23003KT 10SM FEW065 17/13 A3006 RMK AO2 SLP178 T01720133 TSNO KRIL 260153Z AUTO 21003KT 10SM CLR 16/01 A3009 RMK AO2 SLP167 T01560011 $ KSAD 260151Z AUTO 00000KT 10SM CLR 23/09 A3004 RMK AO2 SLP137 T02330094 KRHV 260147Z 25006KT 10SM SCT060 21/12 A3010 FMEE 260230Z 18006KT 9999 RA FEW023 SCT150 23/19 Q1016 TEMPO 4000 SHRA KSAF 260153Z 24006KT 10SM CLR 17/M03 A3022 RMK AO2 SLP169 T01671028 KQQY 251955Z AUTO VRB02KT 9999 +SHRA VCTS FEW022 SCT030 BKN035 BKN041 22/22 A2987 RMK AO2 SHRAB1947 SLP096 P0024 T02240220 $ KU16 260158Z AUTO 18020KT 10SM CLR 23/02 A2982 RMK AO2 PK WND 18031/0138 SLP728 T02280017 $ FMCZ 260230Z 34003KT 9999 FEW022 24/22 Q1014 NOSIG KSBA 260153Z 10003KT 10SM CLR 20/14 A2997 RMK AO2 SLP150 T02000144 KQTC 260155Z AUTO 17004KT 5SM FEW150 27/M01 A2994 RMK AO2 SLP097 T02731007 KSBD 260152Z 20003KT 10SM SKC 23/09 A3001 KRKD 260235Z AUTO 18006KT 10SM FEW060 SCT100 BKN120 12/09 A2947 RMK AO1 KRIV 260158Z AUTO 34004KT 10SM FEW080 22/07 A3001 RMK AO2 SLP154 T02210074 LHSM 252145Z 00000KT 0600 FG NSC 02/01 Q1027 ETWM 260220Z AUTO 20004KT 9999 // ////// 09/07 Q1022 /// LHSN 260215Z 35001MPS 9999 OVC040 07/06 Q1027 NOSIG RMK BLU KSAN 260151Z COR 29005KT 10SM FEW017 SCT100 SCT200 21/17 A3001 RMK AO2 SLP163 T02110167 $ KRIW 260153Z AUTO 14009KT 10SM CLR 17/M07 A2988 RMK AO2 SLP092 T01671067 FMEP 260230Z AUTO 36006KT 9999 NCD 23/18 Q1016 KQTH 260155Z VRB02KT 9999 CLR 20/06 A3000 RMK AO2A SLP137 T01980062 KSAR 260235Z AUTO 00000KT 10SM CLR 15/13 A3003 RMK AO2 T01520125 KSAT 260151Z 14006KT 10SM CLR 23/13 A3010 RMK AO2 SLP177 T02330133 $ KQTM 260159Z AUTO 05006KT //// CLR 26/00 A2966 RMK CDP03569 CLR KSBM 260153Z AUTO 28008KT 10SM CLR 12/M01 A2991 RMK AO2 SLP130 T01171011 KSAV 260153Z 00000KT 10SM CLR 14/11 A2999 RMK AO2 SLP156 T01440106 KSCD 260235Z AUTO 00000KT 10SM CLR 14/14 A3007 RMK AO2 T01420142 KQUD 260155Z AUTO 29002KT 7SM CLR 18/17 A3016 RMK AO2 SLP166 T01830171 $ LHUD 260145Z 13004KT 4000 BR BKN020 07/07 Q1028 KSBN 260154Z 31012KT 10SM CLR 14/02 A2992 RMK AO2 SLP133 T01390022 GBYD 260100Z 00000KT 9999 FEW010 26/23 Q1011 KSAW 260237Z AUTO 30015G25KT 10SM CLR 09/M02 A2982 RMK AO2 T00931016 LJCE 260230Z AUTO VRB02KT 8000 OVC029/// 07/06 Q1027 KSBO 260235Z AUTO 10SM CLR 13/11 A3001 RMK AO2 KSCF 260235Z AUTO 30007KT 10SM 23/16 A3011 RMK A01 KRKP 260153Z AUTO 15006KT 10SM CLR 24/18 A3010 RMK AO2 SLP194 T02390178 KSBP 260156Z 32010KT 10SM FEW090 17/14 A3007 RMK AO2 SLP181 T01720144 KSCH 251751Z 00000KT 10SM SCT040 SCT065 16/06 A2967 KSAZ 260233Z AUTO 25003KT 10SM CLR 04/M03 A3004 RMK AO2 KRKR 260235Z AUTO 00000KT 10SM CLR 20/17 A3003 RMK AO2 T02000174 LIMA 251650Z 00000KT 9999 FEW035 14/09 Q1021 KRKS 260154Z AUTO 16007KT 10SM CLR 13/M02 A3004 RMK AO2 SLP133 T01281017 KSBS 260235Z AUTO 12003KT 10SM CLR 11/M04 A3014 RMK AO1 T01131039 KSDA 260235Z AUTO 04007KT 10SM 12/08 A3004 RMK AO2 KSDB 260148Z AUTO 33012KT 10SM CLR 14/00 A3013 RMK AO2 SLP165 T01440000 KSCK 260155Z 12005KT 10SM FEW070 18/13 A3006 RMK AO2 SLP179 T01780128 LIMC 260220Z 36003KT 9999 BKN060 08/08 Q1023 NOSIG LIME 260220Z 07002KT 8000 BKN030 11/08 Q1023 KRME 260153Z AUTO 31004KT 5SM BR CLR 09/08 A2958 RMK AO2 SLP016 T00940083 LIMF 260220Z 00000KT 6000 SCT120 10/10 Q1023 KSDF 260156Z 19005KT 10SM CLR 18/13 A2996 RMK AO2 SLP145 T01830133 KQVF 260155Z AUTO 19001KT 9999 FEW018 24/22 A2995 RMK AO2 SLP140 T02390218 LIMG 251750Z 00000KT CAVOK 13/10 Q1019 KRMG 260153Z AUTO 00000KT 10SM CLR 14/12 A3003 RMK AO2 SLP166 T01440122 KSBY 260154Z 21009KT 10SM CLR 14/09 A2974 RMK AO2 SLP073 T01440089 LIMH 260155Z /////KT 0800 FZFG VV/// M05/M08 Q1027 RMK MON INVIS VAL INVIS VIS MIN 0800 KQTZ 260155Z VRB03KT 9999 CLR 17/08 A3000 RMK SLP158 WND DATA ESTMD ALSTG/SLP ESTMD LIMJ 260220Z 06011KT CAVOK 15/09 Q1021 KSEA 260235Z 21022G34KT 7SM -RA FEW007 BKN012 OVC028 13/12 A2938 RMK AO2 PK WND 20034/0233 PRESRR P0005 LIMK 252155Z 15003KT 9999 SCT025 11/08 Q1022 RMK SCT VAL FOSCHIA VIS MIN 9999 FKYS 260200Z 00000KT 8000 -TSRA FEW003 BKN006 FEW016CB 20/19 Q1015 NOSIG LIML 260220Z VRB02KT 9999 SCT040 11/09 Q1023 NOSIG KSDL 260153Z 00000KT 10SM CLR 31/10 A2993 RMK AO2 SLP113 T03060100 KRNC 260235Z AUTO 00000KT 10SM FEW001 13/13 A3005 RMK KSDM 260153Z 28005KT 10SM CLR 19/17 A3001 RMK AO2 SLP158 T01890167 $ KRND 260158Z AUTO 18005KT 10SM CLR 23/13 A3010 RMK AO2 SLP187 T02280126 KRMN 260235Z AUTO 00000KT 10SM CLR 14/06 A2979 RMK AO2 T01350058 KSEE 260235Z AUTO 29005KT 10SM CLR 19/16 A3003 RMK AO2 LIMP 252150Z VRB03KT CAVOK 10/08 Q1023 KSEG 260153Z AUTO 00000KT 10SM FEW060 FEW085 15/09 A2964 RMK AO2 SLP038 T01500089 KRNH 260235Z AUTO 27006KT 10SM CLR 07/M03 A3004 RMK AO2 T00671027 LIMS 251755Z 22002KT 9999 FEW080 11/11 Q1020 KROA 260154Z 26011KT 10SM CLR 18/08 A2988 RMK AO2 SLP113 T01780083 KSFB 260053Z 01006KT 10SM CLR 20/16 A2999 RMK AO2 SLP154 T02000156 LIMU 260155Z 35005KT CAVOK 15/06 Q1022 RMK SKC QUK / QUL / VIS MAR 15 KM VIS MIN 9999 KROC 260235Z 30012G24KT 5SM -TSRA BKN020CB BKN050 BKN100 12/07 A2960 RMK AO2 PK WND 28027/0224 RAB21GSB30E35 TSB13 OCNL LTGICCC VC N TS VC N MOV SE P0010 T01170072 LIMV 251655Z /////KT 6000 NSC 11/08 Q1020 RMK SCT SCT070 MON LIB NC VAL FOSCHIA VIS MIN 6000 KRNM 260153Z 00000KT 10SM CLR 18/13 A3003 RMK AO2 SLP161 T01830128 $ KSEM 260235Z AUTO 14003KT 10SM CLR 14/12 A3007 RMK AO2 KQWM 260155Z 33009KT 9999 CLR 21/06 A2999 RMK SLP148 QNH1015 VTPH 260200Z 34003KT 260V030 9999 FEW030 BKN300 28/24 Q1013 NOSIG KSFF 260153Z 22018KT 10SM FEW060 FEW075 FEW100 17/05 A2951 RMK AO2 RAB00E09 SLP990 P0000 T01720050 KRNO 260155Z 16020G27KT 10SM FEW055 SCT070 11/M01 A3003 RMK AO2 PK WND 17031/0101 SLP138 T01111011 LIMY 251755Z 17003KT 9000 NSC 11/08 Q1021 RMK SCT SCT070 VAL FOSCHIA VIS MIN 9000 KRMY 260233Z AUTO 28008G14KT 10SM CLR 10/01 A2986 RMK AO2 T01020006 KRNP 260234Z AUTO 26008KT 10SM CLR 11/00 A2981 RMK AO2 T01050000 KSDY 260235Z AUTO 00000KT 10SM CLR 10/M01 A2983 RMK AO1 KSEP 260235Z AUTO 00000KT 10SM CLR 22/15 A3011 RMK AO2 T02160146 KROG 260157Z AUTO 15003KT 10SM CLR 19/16 A3007 RMK AO2 SLP172 T01940161 LIMZ 252150Z 25003KT 9999 SCT035 SCT090 12/10 Q1023 LIPA 251955Z 08006KT 9999 BKN050 12/08 Q1022 RMK BKN VIS MIN 9999 A3021 BLU GCRR 260000Z 05003KT 9999 FEW020 22/11 Q1017 KU68 260235Z AUTO 04003KT 10SM CLR 15/M06 A2973 RMK AO2 PWINO LIPB 252050Z VRB03KT CAVOK 07/05 Q1023 KRNT 260153Z 14004KT 4SM RA BR BKN043 OVC050 14/12 A2931 RMK AO2 PK WND 17027/0057 RAB0058 PRESRR SLP931 P0008 T01440122 KSET 260154Z AUTO 00000KT 10SM CLR 15/11 A3001 RMK AO2 SLP159 T01500111 FLSK 260200Z 00000KT CAVOK 18/11 Q1017 LIPC 260155Z 27004KT CAVOK 10/08 Q1022 VTPO 260200Z 02002KT 9999 FEW022 SCT300 27/24 Q1014 FNBC 251600Z 18006KT 9999 FEW017CB FEW018 30/24 Q1009 KSFM 260235Z AUTO 25004KT 10SM FEW046 SCT060 OVC070 11/07 A2951 RMK AO1 KRPD 260235Z AUTO 29004KT 10SM CLR 08/M04 A3002 RMK AO2 T00811043 KRNV 260235Z AUTO 21003KT 10SM CLR 19/18 A3005 RMK AO2 T01900175 VTPP 260200Z 00000KT 9999 FEW024 30/24 Q1015 LIPE 260220Z 23003KT 160V320 9999 SCT040 08/07 Q1023 LIPF 251755Z 00000KT CAVOK 12/08 Q1021 KSGF 260152Z 16003KT 10SM CLR 17/15 A3003 RMK AO2 SLP163 T01720150 KSFO 260156Z 24009KT 10SM FEW025 SCT038 SCT065 19/14 A3008 RMK AO2 SLP184 T01890144 $ FNBG 251700Z 27008KT 9999 FEW020 25/20 Q1011 LIPH 252115Z /////KT 9999 SCT080 11/09 Q1023 KSGH 260156Z AUTO 23005KT 10SM CLR 14/07 A2990 RMK AO2 T01380066 SLP125 KSFQ 260235Z AUTO 22003KT 10SM 12/08 A2983 RMK AO2 T01210080 KSEZ 260235Z AUTO 24008KT 10SM CLR 22/06 A3016 RMK AO2 KRPH 260230Z AUTO 14004KT 10SM CLR 24/14 A3003 RMK AO2 T02400141 LIPI 251655Z 12005KT CAVOK 12/06 Q1021 RMK FEW FEW200 VIS MIN 9999 WIND THR06 08004KT BLU KROS 260234Z AUTO 27004KT 10SM CLR 06/M02 A3003 RMK AO2 T00561016 KRPJ 260235Z AUTO 00000KT 10SM CLR 08/01 A3001 RMK AO2 T00840009 KSGJ 260158Z AUTO 00000KT 10SM CLR 15/12 A3002 RMK AO2 SLP166 T01500122 FNCA 251600Z 23007KT 9999 SCT010 BKN023 26/22 Q1009 KRQB 260235Z AUTO 29011G15KT 10SM CLR 12/03 A2982 RMK AO2 T01170027 KQXT 260155Z 01004KT 9999 CLR 13/M02 A3003 RMK SLP151 WND DATA ESTMD ALSTG/SLP ESTMD Q1016 LIQC 260155Z ///03KT CAVOK 15/09 Q1019 RMK SKC QUK / QUL / VIS MAR 35 KM VIS MIN 9999 KSHD 260235Z AUTO 00000KT 10SM CLR 16/07 A2981 RMK AO2 T01600068 KROW 260151Z 16007KT 10SM CLR 19/12 A3009 RMK AO2 SLP148 T01940122 KRQE 260153Z AUTO 19004KT 10SM FEW080 13/02 A3027 RMK AO2 SLP201 T01330017 TSNO LIPO 260150Z 09003KT 9999 BKN040 11/08 Q1023 KROX 260234Z AUTO 26005KT 10SM CLR 09/M03 A2997 RMK AO2 KSFY 260235Z AUTO 00000KT 10SM CLR 14/01 A3003 RMK AO2 T01350014 LIPQ 260150Z 00000KT CAVOK 06/01 Q1023 KSFZ 260235Z 21006KT 10SM CLR 12/04 A2955 RMK AO1 VTSB 260200Z 31004KT 7000 BKN018 BKN120 OVC300 27/27 Q1013 A2993 LIPR 260215Z /////KT 9999 SCT040 14/11 Q1022 KSGR 260153Z 16006KT 10SM CLR 20/16 A3011 RMK AO2 SLP196 T02000156 VTSC 260200Z 18004KT 120V230 9999 FEW018 SCT100 BKN300 29/25 Q1013 A2991 RWY20 INFO A LIPS 260155Z 03003KT 9999 SCT035 09/07 Q1023 RMK SCT VIS MIN 9999 WIND THR26 03003KT WIND THR08 03002KT BLU LIRA 260215Z 05005KT CAVOK 09/07 Q1019 KSGS 260230Z AUTO 00000KT 10SM CLR 10/M03 A3004 RMK AO2 T00961034 GCTS 260230Z VRB01KT 9999 FEW020 21/18 Q1016 NOSIG KSGT 260235Z AUTO 21006KT 10SM CLR 20/17 A3005 RMK AO1 LIPU 251650Z VRB02KT 9999 FEW060 15/08 Q1020 KSGU 260235Z AUTO 17007KT 10SM CLR 23/04 A2999 RMK AO1 KSHL 260235Z AUTO 00000KT 10SM CLR 04/02 A3007 RMK AO2 VTSF 260200Z 27004KT 9999 FEW020 BKN300 28/26 Q1013 A2991 INFO C / RWY 19 KSHM 260156Z AUTO 09002KT 10SM CLR 15/M05 A3013 RMK AO2 SLP151 T01541051 LIQN 251650Z 00000KT CAVOK 13/05 Q1017 LIRE 260155Z 03011KT CAVOK 12/09 Q1019 RMK SKC VIS MIN 9999 WIND THR31 /////KT BLU VTSG 260200Z VRB02KT 9999 SCT009 SCT150 28/24 Q1013 A2994 INFO C RWY32 KSHN 260243Z AUTO 23024G37KT 6SM -RA BR SCT013 BKN050 OVC060 11/09 A2944 RMK AO2 PK WND 22037/0235 PRESRR P0002 T01060089 TSNO VTSH 260200Z 00000KT 8000 FEW020CB BKN300 27/24 Q1012 A2991 LIPX 260215Z 20002KT 9999 BKN040 10/09 Q1024 LIRF 260220Z 06005KT CAVOK 10/06 Q1019 NOSIG KSIF 260235Z AUTO 23003KT 10SM CLR 12/07 A2988 RMK AO2 T01190074 LIPY 260150Z VRB02KT 9999 FEW030 12/09 Q1021 WMBA 260200Z 08004KT 9999 FEW020 BKN280 29/26 Q1012 LIRH 251755Z 11006KT 9999 SCT040 15/07 Q1016 LIPZ 260220Z 35006KT CAVOK 10/06 Q1023 LIRI 251650Z 07007KT 9999 SCT030 15/06 Q1017 KSHR 260153Z AUTO 27004KT 10SM CLR 12/03 A2976 RMK AO2 SLP090 T01170028 TSNO FMMI 260230Z VRB01KT 5000 BR FEW020 14/14 Q1020 NOSIG VTSM 260200Z 00000KT 9999 FEW020 BKN300 29/25 Q1014 A2995 LIRL 251755Z 05005KT 9999 FEW025 16/14 Q1017 KSJC 260153Z 24005KT 10SM FEW018 SCT033 18/11 A3008 RMK AO2 SLP184 T01780106 KRRL 260235Z AUTO 00000KT 10SM CLR 09/M05 A2995 RMK AO2 T00901050 LIRM 260155Z 05004KT CAVOK 08/08 Q1018 KTAD 260154Z AUTO 24003KT 10SM CLR 17/M02 A3010 RMK AO2 SLP139 T01671022 KSHV 260156Z 00000KT 9SM CLR 22/18 A3007 RMK AO2 SLP180 T02170183 VTSP 260230Z 10004KT 9999 FEW017 BKN300 29/24 Q1014 A2994 NOSIG LIRN 260220Z VRB02KT CAVOK 11/06 Q1019 VTSR 260200Z 04003KT 9999 BKN025 BKN150 27/25 Q1013 A2992 VOR DME RWY02 INFO A LIRP 260215Z /////KT CAVOK 09/08 Q1021 NOSIG VTSS 260230Z 01003KT 8000 FEW005 SCT018 BKN120 27/25 Q1013 A2992 NOSIG LIRQ 260220Z 21004KT 180V280 CAVOK 11/06 Q1021 VTST 260200Z 00000KT 9999 FEW020 BKN300 29/25 Q1011 RWY08 INFO C WMAU 260200Z 11002KT 8000 FEW020 BKN270 31/26 Q//// QFF1013 LIRS 260055Z /////KT CAVOK 11/08 Q1021 KSKA 260218Z AUTO 21007KT 10SM FEW055 SCT070 BKN100 13/07 A2952 RMK AO2 VTUD 260200Z 23003KT 190V290 9999 FEW015 28/23 Q1016 A3001 INFO D RWY30 LIRT 252355Z 30007KT 9999 BKN015 06/04 Q1018 RMK BKN MON INVIS VAL INVIS VIS MIN 9999 KRRT 260234Z AUTO 24006KT 10SM CLR 06/M02 A2997 RMK AO2 LIRU 251950Z 36005KT CAVOK 13/05 Q1018 FMMT 260200Z 34002KT 9999 FEW017 23/23 Q1012 KRSL 260153Z AUTO 16011KT 10SM CLR 22/12 A2992 RMK AO2 SLP125 T02170122 LIRV 251755Z 06008KT CAVOK 12/06 Q1018 FMNM 260200Z 24002KT 9999 FEW020 23/18 Q1013 KTAN 260152Z AUTO 18003KT 10SM BKN110 13/08 A2957 RMK AO2 SLP013 T01280078 KSJN 260154Z AUTO 22006KT 10SM CLR 18/06 A3022 RMK AO2 SLP181 T01830061 KRSN 260235Z AUTO 00000KT 10SM CLR 18/17 A3011 RMK AO2 T01770170 FMNN 251500Z 22004KT 9999 SCT020 SCT100 28/20 Q1012 LIRX 251755Z 33003KT CAVOK 14/09 Q1018 RMK SKC VIS MIN 9999 VIS MAR 20 KM KSKF 260158Z AUTO 15004KT 10SM CLR 23/13 A3008 RMK AO2 SLP181 T02330134 $ VTUI 260200Z 14003KT CAVOK 29/22 Q1016 A3001 RWY05 INFO D KSIY 260153Z AUTO 00000KT 10SM FEW038 BKN060 OVC075 11/07 A2997 RMK AO2 SLP153 T01060072 $ LIRZ 251950Z 01008KT CAVOK 11/07 Q1020 VTUK 260200Z 09004KT 9999 SCT030 SCT100 27/22 Q1016 A3001 RWY03 INFO D VTUL 260200Z 32002KT 8000 SCT025 SCT120 26/23 Q1017 A3003 KSJS 260235Z AUTO 23004KT 10SM CLR 16/12 A2996 RMK AO2 T01600123 KSJT 260151Z AUTO 19006KT 10SM CLR 22/09 A3009 RMK AO2 SLP177 T02220094 KRST 260154Z 29006KT 10SM CLR 08/M02 A3006 RMK AO2 SLP185 T00781022 KSLB 260235Z AUTO 05005KT 10SM CLR 11/01 A3009 RMK AO2 KSLC 260153Z 17018G33KT 10SM SCT120 BKN200 22/01 A2988 RMK AO2 PK WND 18033/0145 SLP075 T02220011 KTCC 260153Z AUTO 21008KT 10SM CLR 21/04 A3005 RMK AO2 SLP139 T02060044 VTUO 250800Z 25008KT 9000 -RA SCT020 27/26 Q1009 A2981 INFO I RWY 04 KRSV 260235Z AUTO 28003KT 10SM CLR 15/11 A3000 RMK AO2 T01530111 KRTN 260153Z AUTO 23008KT 10SM CLR 17/M07 A3014 RMK AO2 SLP156 T01721067 KRUE 260153Z AUTO 00000KT 7SM CLR 18/17 A3003 RMK AO2 SLP162 T01780167 KRSW 260153Z 36003KT 10SM CLR 20/14 A2997 RMK AO2 SLP145 T02000144 KSLE 260156Z 19012KT 10SM BKN043 BKN060 BKN120 13/09 A2977 RMK AO2 PRESRR SLP081 T01280089 KTBN 260158Z AUTO 16002KT 10SM CLR 17/16 A3003 RMK AO2 SLP166 T01740159 KSJX 260235Z AUTO 28007G18KT 10SM CLR 11/01 A2978 RMK AO2 T01130014 VVCR 260230Z 06004KT CAVOK 31/25 Q1014 NOSIG GCXO 252200Z 00000KT CAVOK 21/07 Q1020 WS R30 NOSIG KSLG 260235Z AUTO 15003KT 10SM CLR 19/15 A3006 RMK AO1 KRUG 260235Z AUTO 13007KT 10SM CLR 05/M01 A2997 RMK AO2 KSLH 260236Z AUTO 29012G20KT 10SM CLR 10/01 A2972 RMK AO2 T01020017 KTAZ 260235Z AUTO 00000KT 10SM CLR 13/08 A3002 RMK AO2 VVCT 260230Z 08003KT 9999 BKN015 30/23 Q1013 NOSIG KSLI 260158Z AUTO 29007KT 10SM CLR 21/14 A2999 RMK AO2 SLP159 T02110136 FNGI 251600Z 19006KT 9999 FEW016 35/M02 Q1010 VTUU 260200Z 05003KT 9999 BKN020 27/24 Q1015 A2997 NOSIG KRTS 260235Z AUTO 29014G18KT 10SM CLR 08/M01 A3005 RMK AO2 LJLJ 260230Z 00000KT 0600 R30/P2000N FG VV001 02/02 Q1026 NOSIG VTUV 260000Z 00000KT 9999 SCT025 BKN300 24/23 Q1014 A2996 INFO A RWY 36 KSLK 260242Z AUTO 24008G17KT 9SM FEW012 BKN019 OVC065 08/07 A2948 RMK AO2 T00830072 LJMB 260230Z AUTO 30003KT 4700 BR OVC005/// 05/04 Q1027 LIVC 251855Z 02025KT CAVOK 04/M03 Q1021 RMK SKC MON LIB VAL CLD SCT VIS MIN 9999 VTUW 260200Z 16002KT 8000 FEW025 BKN120 28/21 Q1015 A2998 RWY15 INFO C VVDN 260230Z VRB02KT 9999 FEW013 SCT060 28/23 Q1015 NOSIG KTCL 260153Z AUTO 00000KT 10SM CLR 17/16 A3006 RMK AO2 SLP176 T01670156 LIVD 251755Z 00000KT CAVOK 05/03 Q1023 RMK SCT SCT066 VIS MIN 9999 KTCM 260229Z AUTO 22022G30KT 10SM -RA OVC012 13/13 A2945 RMK AO2 RAE0229 OVC V BKN $ LIVE 260055Z 02006KT 9999 SCT020 05/03 Q1021 RMK BKN BKN180 VIS MIN 9999 KSLN 260153Z 16006KT 10SM CLR 20/14 A2994 RMK AO2 SLP132 T02000139 KSME 260235Z AUTO 00000KT 5SM BR CLR 12/12 A3003 RMK AO2 KSMF 260153Z 20013KT 10SM FEW070 17/13 A3004 RMK AO2 SLP172 T01720128 $ KSKX 260235Z AUTO 12006KT 10SM CLR 11/M08 A3028 RMK AO1 KSLO 260235Z AUTO 00000KT 10SM CLR 15/13 A3002 RMK AO2 T01510127 KTBX 260235Z AUTO 13018KT 10SM CLR 14/M07 A3004 RMK AO2 KTDF 260235Z AUTO 22003KT 10SM CLR 11/06 A2989 RMK AO2 KRUQ 260235Z AUTO 23003KT 10SM CLR 11/06 A2992 RMK AO2 T01130060 KSLR 260235Z AUTO 19006KT 10SM CLR 24/17 A3008 RMK AO2 T02350166 KTCS 260153Z AUTO 27006KT 10SM CLR 22/07 A3014 RMK AO2 SLP149 T02170072 TSNO KSNA 260153Z 00000KT 10SM CLR 22/15 A2999 RMK AO2 SLP153 T02220150 EVRA 260220Z 17011KT 9999 OVC023 02/M06 Q1026 R18/090095 NOSIG KTEB 260151Z 22012KT 10SM CLR 16/06 A2959 RMK AO2 SLP020 T01610061 KRUT 260235Z 26004KT 10SM FEW040 SCT060 BKN070 11/08 A2952 RMK AO1 KSNC 260215Z AUTO 22005KT 10SM CLR 14/09 A2958 RMK AO2 LKCV 260200Z 00000KT 9999 OVC025 07/07 Q1026 NOSIG KSMN 260235Z AUTO 12004KT 10SM FEW070 BKN090 08/06 A2977 RMK AO1 LIVO 251755Z 00000KT 9999 SCT035 06/05 Q1022 RMK SCT VIS MIN 9999 KSMO 260151Z 00000KT 10SM CLR 21/16 A2998 RMK AO2 SLP149 T02060161 $ KRWF 260153Z AUTO 00000KT 10SM CLR 11/M02 A3007 RMK AO2 SLP185 T01111017 KSMP 251256Z AUTO 11008G19KT 360V180 04/03 A2964 RMK AO2 SLP044 T00440033 $ LIVP 251755Z 36006KT CAVOK 03/M12 Q1022 RMK SCT SCT070 MON LIB VAL S FOSCHIA SKC SUP VIS MIN 9999 KSMQ 260153Z AUTO VRB03KT 10SM CLR 14/07 A2960 RMK AO2 SLP025 T01390067 KSNH 260235Z AUTO 00000KT 4SM CLR 16/16 A3005 RMK LIVR 252355Z 35005KT CAVOK 01/M03 Q1022 RMK SKC MON LIB VIS MIN 9999 KRWI 260153Z AUTO 20005KT 10SM CLR 12/08 A2988 RMK AO2 SLP118 T01170083 KTDR 260156Z AUTO M 10SM CLR 16/11 A3003 RMK AO2 SLP173 T01560107 $ KRVS 260153Z 00000KT 10SM CLR 19/17 A3000 RMK AO2 SLP163 T01890172 KSMS 260235Z AUTO 23003KT 10SM CLR 09/08 A2997 RMK AO2 KSOA 260235Z AUTO 00000KT 10SM CLR 20/12 A3017 RMK AO2 LIVT 260155Z 06010G20KT CAVOK 11/04 Q1023 RMK SKC QUK / QUL / VIS MAR 10 KM VIS MIN 9999 KSNK 260235Z AUTO 15009KT 10SM CLR 21/11 A3009 RMK AO2 T02100107 KRWL 260153Z AUTO 19007KT 10SM CLR 14/M03 A3005 RMK AO2 SLP124 T01441028 KSNL 260235Z AUTO 19005KT 25/18 A3003 RMK AO2 PWINO FNHU 251500Z 00000KT 9999 FEW015 26/10 Q1019 FMSD 260200Z 30004KT CAVOK 20/18 Q1014 KRXE 260153Z AUTO 19008KT 10SM CLR 17/01 A2985 RMK AO2 SLP095 T01670006 KSMX 260151Z COR 31010KT 10SM SCT075 18/14 A3006 RMK AO2 SLP181 T01830144 KTDZ 260153Z AUTO 27007KT 10SM CLR 11/00 A2985 RMK AO2 SLP107 T01110000 TSNO KSPA 260255Z AUTO 28005KT 10SM CLR 16/08 A2997 RMK AO2 KSNS 260153Z 27005KT 10SM CLR 18/13 A3009 RMK AO2 SLP199 T01830128 KSNT 260151Z AUTO 28012G19KT 250V320 12/M01 A2992 RMK AO1 PRESRR SLP090 T01171006 KSPB 260153Z AUTO 25010KT 10SM -RA SCT060 BKN075 OVC100 13/09 A2965 RMK AO2 PRESRR SLP040 P0002 T01330089 KSPD 260156Z AUTO 22006KT 13/01 A3002 RMK AO1 SLP130 T01330011 KRWV 260230Z AUTO 00000KT 10SM CLR 20/17 A3013 RMK AO2 KTEW 260233Z AUTO 27005KT 10SM CLR 11/01 A2984 RMK AO2 T01050012 KTEX 260235Z AUTO 00000KT 10SM CLR 12/M03 A3037 RMK AO2 T01231027 KSPF 260235Z AUTO 08008KT 10SM CLR 14/00 A2986 RMK AO2 KSNY 260153Z AUTO 17007KT 10SM CLR 10/02 A3001 RMK AO2 SLP158 T01000022 KSPG 260153Z AUTO 01006KT 10SM CLR 21/14 A2998 RMK AO2 SLP152 T02110144 KSOP 260235Z AUTO 25006KT 10SM CLR 15/03 A2991 RMK AO1 KTFP 260235Z AUTO 14005KT 10SM CLR 21/18 A3010 RMK AO2 T02130176 KSPI 260152Z 34005KT 10SM CLR 14/06 A3002 RMK AO2 SLP164 T01390061 KTHA 260235Z AUTO 00000KT 10SM CLR 13/12 A3006 RMK KSPL 260235Z AUTO 10008KT 8SM CLR A3010 RMK AO1 KRYN 260245Z 21005KT 10SM CLR 27/12 A3003 KSOW 260235Z AUTO 18008KT 10SM CLR 14/05 A3030 RMK AO2 KSQE 260235Z AUTO 02009KT 10SM CLR 24/15 A3011 RMK A01 KSQI 260235Z AUTO 31007KT 10SM CLR 09/01 A3003 RMK AO1 KSPR 260235Z AUTO 33007KT 10SM CLR 23/15 A3010 RMK A01 KSPS 260152Z AUTO 16008KT 10SM CLR 22/13 A3001 RMK AO2 SLP155 T02220133 TSNO FNMA 251500Z 30004KT 9999 SCT007 FEW009CB 28/24 Q1013 MBGT 252300Z 26008KT 9000 SCT018 28/21 Q1013 EVVA 260220Z AUTO 18008KT 9999 OVC018 05/02 Q1022 KSRB 260235Z AUTO 00000KT 1/2SM VV005 09/09 A3004 RMK KSQL 260148Z 28006KT 10SM FEW022 BKN050 18/14 A3008 KSRC 260156Z AUTO 19003KT 6SM BR CLR 18/17 A3004 RMK AO2 SLP178 T01780167 TSNO KRZL 260235Z AUTO 28006KT 10SM CLR 14/01 A2996 RMK AO2 FNKU 251500Z 09006KT 9999 SCT014 28/17 Q1017 KRYV 260235Z AUTO 27005KT 10SM CLR 10/M01 A2996 RMK AO2 T01011012 KSPW 260153Z AUTO 04003KT 10SM CLR 08/01 A3008 RMK AO2 SLP191 T00830011 TSNO LIYW 260158Z AUTO 32003KT 9999 BKN110 10/07 A3023 RMK AO2 SLP240 T01040066 KRYW 260235Z AUTO 15004KT 10SM CLR 24/14 A3012 RMK AO2 T02410140 KRZN 260235Z AUTO 28003KT 10SM CLR 06/M04 A3002 RMK AO2 T00551036 KTIF 260235Z AUTO 12005KT 10SM CLR 12/05 A3001 RMK AO2 T01210052 KRYY 260247Z 28003KT 10SM SKC 14/09 A3007 WMKA 260200Z 31002KT 9999 FEW020 BKN280 28/26 Q1012 LJPZ 260230Z AUTO 12004KT 9999 NCD 06/04 Q1023 WMKB 260200Z 09003KT 9000 FEW018 BKN280 29/25 Q1012 NOSIG KRZR 260235Z AUTO 00000KT 7SM CLR 12/10 A3005 RMK WMKC 260200Z 21004KT 140V260 9999 FEW018 BKN280 28/25 Q1012 WMKD 260200Z 33001KT 9999 FEW020 SCT160 BKN280 29/26 Q1013 NOSIG KRZT 260234Z AUTO 30006KT 10SM CLR 15/10 A2988 RMK AO2 KTIK 260158Z AUTO 14005KT 10SM CLR 27/15 A3001 RMK AO2 SLP160 WMKE 260200Z 24001KT 9999 FEW018 BKN270 30/25 Q1013 KSSC 260158Z AUTO 22002KT 10SM CLR 13/10 A2995 RMK AO2 SLP143 T01270095 $ GEML 251830Z 11003KT 070V140 9999 SCT011 SCT013 21/18 Q1019 FNLU 260200Z 23006KT 9999 FEW020 BKN090 25/21 Q1012 NOSIG KTHV 260153Z AUTO 24007KT 10SM CLR 17/08 A2968 RMK AO2 SLP050 T01720083 KW13 260235Z AUTO 26009G15KT 10SM CLR 16/08 A2979 RMK AO1 T01600082 KSSF 260153Z 14004KT 10SM CLR 22/13 A3008 RMK AO2 SLP179 T02220133 FNMO 251500Z 26012KT 9999 BKN012 23/17 Q1011 WMKI 260200Z 36001KT 9000 FEW018 SCT290 29/25 Q1013 KTIP 260230Z AUTO 31006KT 10SM CLR 13/06 A3000 RMK AO2 T01300056 WMKJ 260200Z 06005KT 9999 SCT018 BKN300 30/26 Q1013 KSRQ 260153Z AUTO 36004KT 10SM CLR 19/13 A2998 RMK AO2 SLP150 T01890133 WMKK 260230Z 16002KT 9999 FEW017CB BKN280 31/24 Q1013 NOSIG KSSI 260153Z AUTO 00000KT 10SM CLR 14/12 A3001 RMK AO2 SLP161 T01440117 KSRR 260235Z AUTO 00000KT 10SM CLR 13/M01 A3032 RMK AO2 WMKL 260200Z 03001KT 9999 FEW017CB SCT140 BKN270 30/26 Q1013 WMKM 260200Z 07005KT 010V130 8000 FEW017CB BKN280 30/25 Q1013 LKKB 260200Z 19003KT 9999 OVC024 06/05 Q1026 WMKN 260200Z 19004KT 9999 FEW018 BKN270 29/25 Q1013 KSTC 260153Z 23004KT 10SM CLR 08/M03 A3005 RMK AO2 SLP188 T00831028 KTKC 260233Z AUTO 00000KT 10SM CLR 07/01 A3008 RMK AO2 T00730010 KW22 260235Z AUTO 20009KT 10SM BKN020 14/10 A2986 RMK AO2 WMKP 260230Z 05002KT 8000 FEW020 SCT140 BKN280 30/25 Q1012 NOSIG KTIW 260153Z 19021G29KT 7SM -RA SCT023 BKN036 OVC044 13/12 A2934 RMK AO2 PK WND 21032/0121 PRESRR SLP936 P0013 T01330117 KUBE 260235Z AUTO 31006KT 10SM CLR 07/M04 A3001 RMK AO2 KSTE 260235Z AUTO 30006KT 10SM CLR 10/M04 A2996 RMK AO2 T00961040 KTIX 260050Z 01008KT 7SM SKC 19/16 A2998 RMK LAST KSTF 260235Z AUTO 00000KT 7SM CLR 15/15 A3007 RMK AO2 KUAO 260153Z AUTO 22011G20KT 10SM SCT041 BKN050 OVC100 12/09 A2975 RMK AO2 PK WND 22030/0105 SLP074 T01220089 $ LLBG 260220Z VRB01KT CAVOK 17/08 Q1014 NOSIG KTKI 260153Z 16004KT 10SM CLR 22/16 A3005 RMK AO2 SLP177 T02170161 KSTJ 260153Z AUTO 03003KT 10SM R35/5500VP6000FT CLR 14/09 A3001 RMK AO2 SLP162 T01390089 KSUA 260235Z AUTO 35007KT 10SM CLR 22/17 A2997 RMK AO2 KSTK 260235Z AUTO 12003KT 5SM HZ CLR 17/03 A2998 RMK AO2 KW29 260241Z AUTO 23007KT 10SM 16/06 A2972 RMK AO1 KSTL 260151Z 24003KT 9SM CLR 18/12 A3002 RMK AO2 SLP160 T01830122 KW31 260235Z AUTO 25003KT 10SM CLR 14/07 A2982 RMK AO1 T01440072 KSUE 260235Z AUTO 30011KT 10SM CLR 12/M02 A2988 RMK AO1 KSTP 260153Z 30004KT 10SM CLR 09/M03 A3005 RMK AO2 SLP176 T00941028 KTLH 260153Z 00000KT 10SM CLR 14/08 A3003 RMK AO2 SLP169 T01390083 $ VVNB 260230Z 26004KT 9999 BKN046 27/21 Q1018 NOSIG KSTS 260153Z 20005KT 10SM CLR 16/13 A3004 RMK AO2 SLP165 T01560128 KTMA 260230Z AUTO 00000KT 10SM CLR 15/09 A3003 RMK AO2 T01500085 KTMB 260153Z 31004KT 10SM CLR 21/17 A2995 RMK AO2 SLP140 T02060167 LKKU 250800Z 00000KT 6000 FEW015 BKN021 06/04 Q1024 RMK REG QNH 1018 KSVC 260235Z AUTO 35007KT 10SM CLR 14/05 A3025 RMK AO2 KTKV 260235Z AUTO 00000KT 10SM CLR 07/M06 A2995 RMK AO2 T00731057 LKKV 260200Z 09002KT 7000 BKN005 05/04 Q1025 LKLN 260200Z AUTO 00000KT //// HZ NSC 04/// Q1026 KSUN 260150Z 00000KT 10SM BKN110 12/02 A2985 KW43 260235Z AUTO 24003KT 10SM CLR 15/M02 A2985 RMK AO2 KTME 260235Z AUTO 18005KT 10SM BKN032 18/ A3012 RMK AO2 KUDG 260235Z AUTO 22005KT 10SM CLR 10/06 A2996 RMK AO1 KUCP 260156Z AUTO 25011G18KT 10SM 16/04 A2976 RMK AO2 TSNO T01610044 SLP091 $ KSVH 260235Z AUTO 23003KT 10SM CLR 12/06 A2992 RMK AO2 T01230055 LKNA 260200Z 11001KT 2500 -DZ BR SCT001 OVC011 05/05 Q1026 KSUS 260154Z 00000KT 10SM CLR 14/12 A3001 RMK AO2 SLP161 T01390122 KTNB 260240Z AUTO 30009KT 10SM CLR 13/07 A3003 RMK AO2 T01250067 KSUT 260235Z AUTO 29005KT 10SM CLR 15/07 A2994 RMK AO2 T01500067 KTMK 260235Z AUTO 22011G18KT 10SM -RA SCT038 BKN050 OVC070 13/10 A2978 RMK AO2 KSUU 260238Z AUTO 23007KT 10SM SCT026 OVC034 17/15 A3006 RMK AO2 $ KSVN 260158Z AUTO 00000KT 10SM CLR 13/11 A2997 RMK AO2 SLP152 T01300111 KSUW 260235Z AUTO 29006KT 10SM CLR 09/M03 A2999 RMK AO2 T00851027 KSUX 260152Z AUTO 09006KT 10SM CLR 13/03 A3006 RMK AO2 SLP182 T01280033 KSWF 260245Z 32006KT 10SM SCT040 BKN060 14/08 A2959 KUCY 260235Z AUTO 00000KT 9SM CLR 15/15 A3002 RMK VVPB 260230Z 24004KT 9999 SCT013 BKN040 28/24 Q1015 NOSIG KTOA 260147Z 25010KT 20SM SKC 21/18 A2999 FNSA 251500Z 00000KT CAVOK 30/18 Q1018 KTOB 260234Z AUTO 28007KT 10SM SCT085 08/M02 A3005 RMK AO2 LKMT 260230Z 19004KT 9999 OVC021 06/04 Q1027 NOSIG KTOC 260235Z AUTO 30004KT 10SM CLR 18/10 A3001 RMK AO2 T01770096 KW63 260235Z AUTO 23004KT 10SM CLR 11/07 A2984 RMK AO1 KSWO 260153Z AUTO 16005KT 10SM CLR 22/16 A2998 RMK AO2 SLP145 T02220156 KTOI 260153Z AUTO 00000KT 10SM CLR 12/11 A3007 RMK AO2 SLP179 T01220106 KTPA 260153Z 36005KT 10SM CLR 19/13 A3000 RMK AO2 SLP159 T01890133 KUES 260235Z AUTO 29005KT 10SM CLR 10/M01 A2997 RMK AO2 LLET 251850Z 07004KT CAVOK 25/09 Q1015 KTOL 260152Z 26008KT 10SM CLR 12/00 A2984 RMK AO2 SLP106 T01170000 KTNU 260235Z AUTO 36005KT 10SM CLR 14/02 A3007 RMK AO2 LKPD 260200Z 09001KT 8000 OVC027 06/05 Q1026 RMK BLU KSWW 260235Z AUTO 17006KT 10SM CLR 21/10 A3012 RMK AO2 T02100095 VVPQ 260230Z 10007KT 060V130 9999 FEW017 29/24 Q1014 NOSIG KSYF 260235Z AUTO 00000KT 10SM CLR 15/05 A2995 RMK AO2 T01450046 FNSO 251600Z 23008KT 9999 SCT017 ///// Q1009 KTOP 260153Z AUTO 08004KT 10SM CLR 19/15 A2998 RMK AO2 SLP149 T01890150 KW75 260235Z AUTO 21008KT 10SM CLR 15/07 A2976 RMK AO1 T01520072 KTPH 260156Z AUTO 19012KT 10SM CLR 16/M02 A3000 RMK AO2 SLP114 T01611017 KSYI 260235Z AUTO 00000KT 2 1/2SM CLR 15/15 A3005 RMK KTOR 260153Z AUTO 12010KT 10SM CLR 15/02 A2996 RMK AO2 SLP136 T01500017 LLHA 251850Z VRB01KT CAVOK 22/16 Q1015 KSXS 260156Z AUTO 28003KT 10SM CLR 13/12 A3008 RMK AO2 SLP187 T01340115 KW78 260235Z AUTO 22004KT 10SM CLR 13/05 A2984 RMK AO1 T01310053 KSXT 260241Z AUTO 25008G15KT 220V290 1 3/4SM BR BKN004 BKN016 OVC025 05/05 A2995 RMK AO2 VIS 3/4V5 RAB00E09 P0000 T00500050 FNUB 251800Z 27006KT 9999 FEW030 23/12 Q1022 KTPL 260235Z AUTO 15007KT 10SM CLR 21/13 A3008 RMK AO1 KW81 260235Z AUTO 24006KT 10SM CLR 15/06 A2980 RMK AO1 T01460059 FNSU 251600Z 21009KT 9999 BKN012 27/21 Q1013 KSYM 260230Z AUTO 23008KT 10SM CLR 16/14 A2996 RMK AO2 KSYN 260233Z AUTO 00000KT 10SM CLR 07/M02 A3004 RMK AO2 T00681024 KTQE 260154Z AUTO 35006KT 10SM CLR 11/06 A3005 RMK AO2 SLP173 T01060056 KUGN 260155Z AUTO 30004KT 10SM CLR 13/M03 A2995 RMK AO2 SLP139 T01331033 FNUE 251600Z 09007KT 9999 SCT033 31/12 Q1019 FNUG 251500Z 21008KT 9999 SCT020 FEW020CB BKN090 29/16 Q1012 WMSA 260200Z 23002KT 7000 FEW017CB BKN280 30/24 Q1013 KTQH 260235Z AUTO 00000KT 10SM CLR 16/16 A3004 RMK AO2 LKPR 260230Z 18003KT 9999 OVC017 06/05 Q1026 NOSIG KSYR 260154Z 20006KT 10SM BKN070 BKN250 12/08 A2957 RMK AO2 SLP010 T01220083 LLIB 251550Z 35009KT CAVOK 24/13 Q1016 KSZL 260158Z 10001KT 10SM CLR 17/14 A3001 RMK AO2A SLP163 T01690140 $ MBPV 252300Z 20013KT 9999 SCT012 29/24 Q1008 GFLL 251700Z 27010KT 9999 SCT014 FEW027CB 28/25 Q1009 RMK CB-NE KW96 260235Z AUTO 23003KT 10SM CLR 15/08 A2977 RMK AO1 T01480075 KTRI 260153Z 24004KT 10SM FEW032 14/09 A3001 RMK AO2 SLP152 T01390089 MDAB 252200Z 12010KT 9999 FEW020 BKN300 30/26 Q1009 KSZT 260235Z AUTO 14011KT 10SM -DZ BKN055 OVC075 10/08 A2956 RMK AO2 KW99 260235Z AUTO 27013G23KT 7SM SCT049 19/08 A2977 RMK AO2 T01900078 KTRK 260235Z AUTO 11007KT 10SM CLR 03/M01 A3011 RMK AO2 KTRL 260153Z AUTO 16005KT 10SM CLR 23/17 A3007 RMK AO2 SLP177 T02330167 KUIL 260153Z AUTO 30014G21KT 4SM -RA BR FEW011 BKN027 OVC040 10/09 A2939 RMK AO2 PK WND 32031/0139 PRESRR SLP952 P0008 T01000094 KTRM 260152Z AUTO 35006KT 10SM CLR 30/09 A2983 RMK AO2 SLP103 T03000089 TSNO KVAD 260158Z AUTO 00000KT 10SM CLR 14/08 A3003 RMK AO2 SLP171 T01430080 $ KUIN 260154Z AUTO 02006KT 9SM CLR 16/06 A3004 RMK AO2 SLP169 T01610061 KVAF 260235Z AUTO 04006KT 10SM CLR 24/15 A3011 RMK A01 KTTA 260235Z AUTO 00000KT 10SM CLR 09/09 A2990 RMK AO2 T00900085 LKTB 260230Z 07003KT 3500 -DZ BR BKN009 OVC012 06/06 Q1027 NOSIG KTTD 260153Z 23022G31KT 10SM FEW030 BKN075 OVC090 14/08 A2967 RMK AO2 PK WND 22034/0135 PRESRR SLP046 T01440083 KTTF 260233Z AUTO 28004KT 10SM CLR 10/01 A2982 RMK AO2 KUKF 260235Z AUTO 00000KT 10SM CLR 13/08 A2999 RMK AO2 KVBG 260155Z AUTO 33009KT 10SM CLR 17/15 A3007 RMK AO2 SLP174 T01670150 TSNO $ KTSP 260235Z AUTO 30005KT 10SM CLR 12/03 A3014 RMK AO2 MDBH 252300Z 11010KT 9999 -TS FEW014CB FEW016 28/24 Q1010 CB/S/W/N FOOG 252300Z /////KT 8000 SCT008 BKN030 26/23 Q1013 VVTS 260230Z 11005KT 030V150 9999 SCT017 31/24 Q1013 NOSIG KUKI 260156Z AUTO 28003KT 10SM SCT047 BKN120 14/11 A3006 RMK AO2 RAE26 SLP174 P0001 T01390106 KVCB 260153Z AUTO 23009KT 10SM FEW037 17/13 A3006 RMK AO2 SLP179 T01670133 TSNO FOOL 252308Z 18006KT 130V240 8000 -RA SCT008 FEW020CB OVC030 25/24 Q1013 NOSIG KTTN 260153Z AUTO 23007KT 10SM CLR 16/06 A2964 RMK AO2 SLP032 T01610061 FOON 251800Z /////KT 9999 TS SCT016 FEW030CB 28/22 Q1009 KVAY 260154Z AUTO 22006KT 10SM BKN065 16/06 A2967 RMK AO2 SLP045 T01560061 KTTS 260158Z AUTO 36004KT 10SM CLR 19/15 A2998 RMK AO2 SLP155 T01860151 VISNO RWY33 CHINO RWY33 KUKT 260235Z AUTO 22005KT 10SM CLR 14/07 A2964 RMK AO1 KVBT 260235Z AUTO 18004KT 10SM CLR 19/16 A3005 RMK AO1 KTUL 260153Z 16007KT 10SM CLR 24/18 A2999 RMK AO2 SLP150 T02390183 KTVC 260153Z 33011G18KT 10SM CLR 12/00 A2981 RMK AO2 SLP093 LAST AUGMENTED OBS OF DAY UNTIL 11Z T01220000 KULM 260234Z AUTO 28003KT 10SM CLR 06/M01 A3007 RMK AO2 KVBW 260235Z AUTO 24006KT 10SM CLR 16/08 A2980 RMK AO2 T01600080 KTVF 260235Z AUTO 00000KT 10SM CLR 05/M04 A3001 RMK AO1 KTUP 260153Z 00000KT 9SM CLR 18/17 A3005 RMK AO2 SLP173 T01830167 $ RJAA 260230Z 16006KT 9999 FEW015 SCT025 BKN040 22/17 Q1020 NOSIG KVDI 260235Z AUTO 00000KT 10SM CLR 15/10 A3001 RMK AO2 KTVI 260235Z AUTO 00000KT 10SM CLR 13/11 A3005 RMK AO2 KTUS 260153Z 25005KT 10SM FEW120 29/11 A3003 RMK AO2 SLP128 T02890106 KVCT 260151Z 16007KT 10SM CLR 21/15 A3011 RMK AO2 SLP193 T02110150 KTVK 260235Z AUTO 00000KT 10SM CLR 08/07 A3007 RMK AO2 KTVL 260153Z AUTO VRB05KT 10SM FEW033 04/00 A3012 RMK AO2 SLP171 T00440000 KVCV 260235Z AUTO 21003KT 10SM CLR 20/04 A3006 RMK AO2 RJAF 260200Z 02003KT 320V060 9999 SCT050 BKN080 16/08 Q1020 KTWF 260241Z AUTO 25016G27KT 10SM FEW075 BKN095 OVC110 19/M04 A2985 RMK AO2 PK WND 25027/0232 WSHFT 0221 T01891039 MDCY 252300Z 20012KT 9999 FEW020CB FEW020 28/25 Q1008 CB/NW RJAH 260200Z 18004KT 120V240 7000 FEW015 BKN025 21/16 Q1020 RJAI 260222Z 11001KT 9999 FEW015 BKN120 19/10 Q1021 RMK 1CU015 5AC120 A3015 KTVR 260153Z AUTO 00000KT 10SM CLR 16/14 A3008 RMK AO2 SLP193 T01610144 KUNI 260235Z AUTO 25004KT 10SM CLR 15/12 A2988 RMK AO2 T01460119 RJAK 252130Z 30002KT 7000 FEW015 BKN020 14/13 Q1022 RMK 1CU015 7SC020 A3018 RJBB 260230Z 33004KT 280V010 9999 FEW030 BKN/// 22/14 Q1019 BECMG 30005KT RJBD 260200Z VRB04KT 9999 FEW025 SCT/// 24/17 Q1019 KVEL 260153Z AUTO 31003KT 10SM CLR 11/03 A3005 RMK AO2 SLP158 T01110033 RJBE 260200Z 16003KT 9999 FEW030 SCT/// 21/14 Q1020 KTWM 260234Z AUTO 26004KT 10SM CLR 08/M10 A2994 RMK AO2 SABE 260200Z 05008KT CAVOK 25/21 Q1011 KUNO 260153Z AUTO 00000KT 8SM CLR 16/14 A3005 RMK AO2 SLP170 T01610139 SAAR 260200Z 05006KT CAVOK 25/18 Q1009 KVER 260235Z AUTO 00000KT 10SM CLR 17/11 A3003 RMK AO2 T01680108 RJCB 260200Z 02003KT 320V070 CAVOK 18/11 Q1015 KVES 260235Z AUTO 28006KT 10SM CLR 11/08 A2990 RMK AO2 RJCC 260230Z 18020KT 9999 FEW020 19/10 Q1015 EYKA 260220Z 16011KT 130V190 9999 OVC020 M00/M11 Q1028 KTXK 260153Z 18003KT 10SM CLR 22/18 A3006 RMK AO2 SLP177 T02170178 KUNU 260235Z AUTO 26005KT 10SM CLR 10/M01 A2997 RMK AO2 T00981015 RJAW 260200Z 08012KT 9999 SCT015 27/21 Q1018 RMK 4CU015 A3007 KUNV 260235Z AUTO 31007G18KT 10SM CLR 16/06 A2968 RMK AO2 T01580055 RJCH 260200Z 21009KT 9999 FEW025 19/12 Q1017 RJCK 260200Z 21013KT CAVOK 17/09 Q1016 RJBT 260200Z VRB03KT 9999 FEW030 22/14 Q1018 RJDC 260200Z 09010KT 9999 FEW010 SCT015 BKN060 21/18 Q1019 RJCM 260200Z 20008KT CAVOK 22/08 Q1014 RJCN 260200Z 23009KT CAVOK 21/08 Q1015 SADF 260200Z 02005KT CAVOK 24/21 Q1011 SACO 260200Z 36008KT CAVOK 23/12 Q1013 KUOX 260235Z AUTO 00000KT 6SM BR CLR 16/15 A3008 RMK AO2 PWINO PNO KTYQ 260235Z AUTO 30007KT 10SM CLR 16/03 A2996 RMK AO2 T01560030 FQCH 260200Z 16003KT 9999 BKN015 19/18 Q1022 KTYR 260153Z 19006KT 10SM CLR 22/18 A3008 RMK AO2 SLP179 T02170178 RJCT 252228Z 14001KT 5000 BR FEW200 05/05 Q1018 RMK 1CI200 A3006 W/E FQBR 260200Z 11006KT 9999 FEW020 22/21 Q1017 RJEB 260200Z 06004KT 010V100 CAVOK 16/07 Q1013 KTYS 260153Z 22003KT 10SM SCT037 16/10 A3003 RMK AO2 SLP164 T01560100 RJEC 260200Z 18016KT 9999 FEW040 19/08 Q1014 KVGT 260153Z 19007KT 10SM CLR 26/03 A2993 RMK AO2 SLP135 T02610033 RJCW 260200Z 22011KT 9999 FEW005 SCT018 BKN040 17/13 Q1012 KVIH 260153Z AUTO 00000KT 10SM CLR 16/13 A3002 RMK AO2 SLP161 T01560128 KTZR 260235Z AUTO 29005KT 10SM CLR 14/08 A2987 RMK AO2 T01420075 RJDT 260200Z 27003KT 180V320 9999 SCT035 21/14 Q1019 MDJB 252300Z 21007KT 9999 FEW018 28/25 Q1010 NOSIG RJFE 260023Z 07009KT 030V090 9999 FEW008 SCT020 BKN030 20/19 Q1018 RMK 1ST008 3CU020 5CU030 A3008 LLSD 251950Z 09004KT CAVOK 22/17 Q1014 RJFF 260230Z 30004KT 9999 -RA FEW030 SCT040 BKN070 22/15 Q1018 KUSE 260235Z AUTO 28006KT 10SM CLR 10/01 A2986 RMK AO2 RJFG 260200Z 13012KT 9999 FEW010 SCT015 24/21 Q1019 KVJI 260235Z AUTO 31004KT 10SM CLR 13/09 A3001 RMK AO2 T01290091 RJFK 260200Z 03003KT 350V060 9999 FEW020 BKN030 BKN120 21/17 Q1020 KVIS 260235Z 34010KT 10SM CLR 18/11 A3005 RMK AO1 KUTA 260235Z AUTO 00000KT 10SM CLR 19/16 A3005 RMK AO2 KY19 260235Z AUTO 12008KT 10SM CLR 08/00 A2997 RMK AO2 RJFM 260200Z 03004KT 360V070 9999 FEW020 SCT030 BKN040 23/18 Q1019 KWAL 260154Z 25006KT 10SM CLR 15/08 A2978 RMK AO2 SLP080 T01500083 RJFO 260200Z 12003KT 060V170 9999 FEW020 SCT060 BKN090 21/18 Q1019 KY23 260235Z AUTO 00000KT 10SM CLR 08/M03 A3000 RMK AO2 T00811030 RJGG 260230Z 32005KT 9999 FEW025 BKN030 BKN080 20/14 Q1019 NOSIG SAEZ 260200Z 06005KT CAVOK 25/19 Q1011 RJFR 260200Z VRB03KT 8000 FEW010 BKN050 BKN100 20/17 Q1019 RJFS 260200Z 32004KT 300V030 8000 -SHRA SCT030 BKN035 BKN070 19/14 Q1019 RJFT 260200Z 30005KT 9999 FEW040 SCT170 BKN/// 22/16 Q1019 RJFU 260200Z 08003KT 010V110 6000 PRFG FEW005 SCT070 BKN100 19/18 Q1018 EYPA 260220Z AUTO 16009KT 9999 BKN016/// 05/01 Q1024 KVLD 260153Z AUTO 00000KT 10SM CLR 12/07 A3003 RMK AO2 SLP177 T01170067 TSNO KUTS 260153Z AUTO 17004KT 10SM CLR 22/16 A3010 RMK AO2 SLP189 T02220161 KVKS 260235Z AUTO 00000KT 7SM CLR 16/16 A3009 RMK A01 KUVA 260235Z AUTO 12004KT 10SM CLR 23/12 A3010 RMK AO2 T02270122 KVLL 260234Z AUTO 27009G19KT 10SM CLR 15/M02 A2982 RMK AO2 T01451020 GGOV 260200Z 25005KT 9999 SCT014 FEW020CB BKN100 27/25 Q1011 TEMPO 3000 BR KWDG 260235Z AUTO 00000KT 10SM 18/15 A2997 RMK AO2 MDLR 260200Z 00000KT 9999 FEW017 26/23 Q1012 KY50 260156Z AUTO 00000KT 10SM OVC001 10/M01 A2997 RMK AO2 TSNO T01001011 SLP147 KY49 260235Z AUTO 28003KT 10SM CLR 06/M03 A3001 RMK AO2 T00581033 KVNC 260235Z AUTO 01008KT 10SM 20/13 A3001 RMK AO2 TSNO LMML 260215Z AUTO 31007KT CAVOK 17/11 Q1018 KUUU 260153Z AUTO 20004KT 10SM OVC100 16/09 A2958 RMK AO2 SLP016 T01560094 KY51 260235Z AUTO 28004KT 10SM CLR 10/M02 A3002 RMK AO1 T00961025 SBAF 260200Z 24002KT 9999 SCT030 BKN090 22/18 Q1015 RJKA 260229Z 21003KT 190V250 9999 -SHRA BR FEW003 SCT010 BKN020 23/21 Q1018 RMK 1ST003 3CU010 5CU020 A3007 4000SE-SW BR SE-SW KWDR 260235Z AUTO 32008KT 10SM CLR 19/12 A3005 RMK AO2 T01910124 PWINO KVOA 260235Z AUTO 01009G15KT 10SM CLR 24/14 A3006 RMK A01 EYSA 260150Z AUTO 17011KT 9999NDV BKN021 00/M06 Q1026 SBAN 260200Z 16006KT 9999 FEW020 BKN100 20/17 Q1018 SBBE 260200Z 08007KT CAVOK 25/22 Q1010 KY63 260236Z AUTO 00000KT 10SM CLR 06/02 A3005 RMK AO2 T00630021 FQIN 252000Z 00000KT CAVOK 22/17 Q1020 SBAQ 252200Z 35003KT 9999 -RA FEW004 OVC070 22/20 Q1017 SBBH 260200Z 07003KT 9999 -RA FEW040 BKN090 19/17 Q1018 SBBI 260000Z 07005KT 4000 BR BKN002 BKN010 18/17 Q1017 SBAR 260200Z 10012KT 9999 SCT017 26/19 Q1014 SBCA 252000Z 02020KT 9999 SCT023 FEW040TCU 27/20 Q1013 SBAT 260200Z 00000KT CAVOK 23/22 Q1013 SBCB 252000Z 07010KT 9999 SCT018 BKN060 25/24 Q1012 KVOK 251955Z 28014G21KT 10SM CLR 18/M01 A2994 RMK AO2A SLP140 SBCC 252200Z 24003KT 0900 FG BKN002 OVC100 21/20 Q1012 SBAU 252155Z 14005KT 7000 -DZ SCT010 BKN020 OVC090 22/19 Q1014 RETS KY70 260234Z AUTO 29010G15KT 10SM CLR 13/M01 A2984 RMK AO2 T01271008 KVPC 260153Z AUTO 00000KT 10SM OVC044 14/12 A3006 RMK AO2 SLP171 T01440117 KUXL 260235Z AUTO 00000KT 10SM CLR 17/15 A3012 RMK AO2 T01650151 MDPC 260200Z 21005KT 9999 FEW018 SCT300 28/24 Q1012 SBAX 251400Z 27003KT 9000 SCT012 BKN025 22/18 Q1019 SBCF 260200Z 12006KT 5000 -RA BR SCT025 BKN040 BKN070 19/17 Q10 19 RETS SBCG 260200Z 06004KT 9999 SCT030 FEW040TCU BKN100 21/19 Q1014 KUYF 260235Z AUTO 27006KT 10SM CLR 12/07 A2987 RMK AO2 SBBQ 260150Z 29004KT 9999 -RA FEW040 OVC080 17/15 Q1021 SBCH 260200Z 01011KT 9999 FEW025 22/17 Q1014 KVNY 260151Z AUTO 27004KT 10SM CLR 22/11 A2999 RMK AO2 SLP149 T02220106 TSNO SBBR 260200Z 00000KT 9999 FEW030 BKN080 22/16 Q1018 SBCJ 252130Z 07003KT 9999 FEW023TCU 25/21 Q1012 KUZA 260154Z AUTO 24006KT 10SM CLR 13/06 A2996 RMK AO2 SLP143 T01330061 $ SBBU 260200Z 00000KT CAVOK 21/21 Q1015 SBCM 251835Z 12006KT 9999 OVC015 24/20 Q1012 FPST 260000Z 22004KT 9999 FEW020 SCT040 24/23 Q1012 NOSIG SBBV 260200Z 21005KT 9999 VCTS FEW030 FEW035CB SCT080 26/22 Q10 10 CB N FQLC 252200Z 06005KT CAVOK 21/12 Q1020 SBBW 260200Z 01002KT 9999 -TSRA SCT020 FEW025CB BKN100 22/22 Q1014 SAME 260200Z 18002KT 9999 BKN040 29/15 Q1007 SBCO 260200Z 14012KT 9999 BKN009 21/20 Q1014 SBCP 260100Z 07008KT 9999 SCT010 BKN090 24/22 Q1014 MDPP 260000Z 00000KT 9999 SCT018 BKN300 29/26 Q1009 SBCR 252300Z 18003KT 9999 FEW020 FEW025TCU SCT100 26/23 Q1008 KVPS 260155Z 33004KT 10SM CLR 16/10 A3005 RMK AO2A SLP182 T01550099 $ SBCT 260200Z 11007KT 6000 OVC004 18/16 Q1017 FQMA 260200Z 24007KT 9999 SCT025 19/16 Q1022 NOSIG KVRB 260153Z AUTO 31004KT 10SM FEW041 SCT050 19/17 A2997 RMK AO2 SLP147 T01940167 $ SBDN 260200Z 07006KT CAVOK 21/19 Q1014 SBCX 251300Z 04006KT 9999 FEW020 21/18 Q1017 RJNG 252226Z 18001KT 9999 FEW030 BKN050 15/13 Q1021 RMK 1CU030 5SC050 A3016 SBEG 260200Z 21003KT 9999 FEW015 23/22 Q1011 SBCY 260200Z 34002KT 9999 FEW020 BKN100 27/21 Q1011 KWHP 260147Z 00000KT 20SM SKC 23/06 A3003 SBCZ 252330Z 00000KT 9999 FEW020 SCT100 26/26 Q1008 KVPZ 260156Z AUTO 30009KT 10SM CLR 17/M02 A2994 RMK AO2 SLP139 T01671022 TSNO KVQQ 260235Z AUTO 00000KT 10SM CLR 10/10 A3002 RMK AO2 RJOA 260200Z VRB01KT 9999 FEW007 BKN012 19/15 Q1020 RJNK 260200Z 27012KT 9999 FEW030 SCT260 24/15 Q1018 RJOB 260200Z 12003KT 050V160 9000 FEW005 SCT010 BKN015 18/15 Q1020 EYVI 260220Z 18010KT CAVOK M03/M10 Q1029 NOSIG SAOC 260200Z 34015G28KT CAVOK 26/10 Q1009 RJOC 260200Z VRB02KT 9999 FEW035 22/18 Q1018 KVQT 260235Z AUTO VRB04KT 10SM CLR 24/14 A3012 RMK A01 MDSD 260210Z 20006KT 8000 -RA BKN018 27/24 Q1011 KVSF 260154Z AUTO 28004KT 6SM BR FEW065 SCT080 BKN110 09/08 A2951 RMK AO2 RAE36 SLP996 P0001 T00890083 KWJF 260156Z AUTO 27010KT 10SM CLR 19/03 A3003 RMK AO2 SLP164 T01890028 TSNO RJOH 260200Z 21004KT 170V260 9999 FEW035 24/12 Q1018 SBFI 260200Z 08003KT CAVOK 24/19 Q1011 KVSH 260235Z AUTO 00000KT 10SM CLR 23/12 A3010 RMK AO1 RJOI 260155Z 09003KT 9999 FEW015 BKN025 BKN040 21/15 A3012 RMK SLP199 T02110150 SBES 252100Z 06012KT 9999 SCT040 BKN090 23/19 Q1013 RJNS 260200Z 06004KT 360V110 9999 FEW020 BKN120 22/14 Q1020 RJOK 260200Z 18005KT 150V220 9999 FEW035 SCT110 24/16 Q1019 RJNT 260200Z 32003KT 240V030 9999 FEW040 SCT/// 24/13 Q1018 SANT 260200Z 36008KT CAVOK 31/13 Q1008 KVTA 260154Z AUTO 30011KT 10SM CLR 17/04 A2985 RMK AO2 SLP106 T01720039 SBFL 260200Z 00000KT 9999 FEW018 BKN045 22/19 Q1015 RJOM 260200Z 35006KT 9999 FEW020 SCT060 BKN/// 23/17 Q1019 SBFN 252200Z 12014KT 9999 FEW023 25/21 Q1014 RJNW 260200Z 24012KT 9999 FEW040 SCT/// 22/15 Q1019 LOAN 251600Z 12012KT 15KM SCT040SC RMK SCT RJOO 260200Z 15003KT 070V230 9999 FEW030 SCT/// 23/14 Q1019 RJNY 251545Z 32002KT 9999 FEW020 SCT045 17/15 Q1022 RMK 1CU020 4SC045 A3018 FQNP 260200Z 15004KT 9999 SCT020 20/19 Q1016 RJOR 260200Z 15006KT 9999 FEW035 24/12 Q1018 SBFS 252000Z 09013KT CAVOK 24/19 Q1011 KVTI 260235Z AUTO 00000KT 10SM CLR 10/03 A3005 RMK AO2 T01010034 RJOT 260200Z 03003KT 360V090 9999 FEW020 SCT/// 21/16 Q1020 VYMD 260230Z 00000KT 8000 FEW030 28/23 Q1015 NOSIG SBGL 260200Z 29002KT 9999 BKN030 BKN100 24/18 Q1014 MDST 260200Z 00000KT 9999 FEW018CB SCT020 SCT300 27/23 Q1011 CB/SW/W SBGM 252300Z 04004KT 9999 FEW025 25/23 Q1008 FQPB 260100Z 08004KT 9999 FEW020 23/22 Q1015 LOAV 251600Z 15006KT 8000 FEW005ST SCT020CU BKN100AC 08/05 Q1024 RMK OVC RJOW 260200Z 16005KT 130V210 9999 FEW035 SCT050 24/16 Q1018 KWLD 260154Z AUTO 14005KT 10SM CLR 22/16 A2999 RMK AO2 SLP146 T02220161 KVTN 260152Z AUTO 11010KT 10SM CLR 13/01 A3000 RMK AO2 SLP167 T01280006 SBGO 260200Z 14006KT 9999 FEW020 BKN080 22/18 Q1016 RJOY 260200Z 26004KT 180V330 9999 FEW025 23/13 Q1019 RJOZ 260120Z 21004KT 9000 FEW005 SCT009 BKN015 20/18 Q1019 RMK 1ST005 4ST009 7CU015 A3011 KVTP 260225Z AUTO 21007KT 170V270 10SM CLR 09/M06 A3039 RMK AO2 SBFZ 260200Z 10013KT 9999 SCT023 26/20 Q1012 KXBP 260235Z AUTO 18009KT 10SM CLR 26/16 A3006 RMK AO2 T02550156 SBGR 260200Z 11002KT 5000 BR SCT011 BKN083 20/18 Q1017 KVUJ 260235Z AUTO 00000KT 10SM CLR 09/06 A2997 RMK AO2 T00900061 SARC 260200Z 11006KT CAVOK 24/18 Q1009 KWMC 260156Z AUTO 24018G24KT 10SM FEW075 SCT110 14/M05 A2995 RMK AO2 PK WND 25030/0114 SLP123 T01441050 SBGW 252200Z 26003KT 3000 RA SCT025 FEW030TCU BKN100 23/18 Q1015 SARE 260200Z 14005KT CAVOK 26/18 Q1009 SARF 260200Z 14005KT CAVOK 26/18 Q1009 KVUO 260153Z AUTO 25010G22KT 10SM FEW060 SCT075 OVC095 14/08 A2967 RMK AO2 RAE05 PRESRR SLP047 P0000 T01440083 SBIH 260200Z 25002KT 7000 NSC 25/24 Q1010 KVVG 260235Z AUTO 00000KT 10SM 17/12 A2993 RMK A01 SARI 260200Z 05007KT CAVOK 24/21 Q1012 SASA 260200Z 00000KT CAVOK 22/14 Q1016 RJSA 260200Z 21017KT 9999 FEW040 20/07 Q1017 SBHT 260200Z 00000KT CAVOK 24/24 Q1010 RKJB 260200Z 09003KT 9999 SCT025 BKN120 19/15 Q1020 NOSIG SBIL 260200Z 04009KT 9999 SCT025 SCT070 25/22 Q1014 RJSC 260200Z 34003KT 280V060 9999 FEW006 12/08 Q1020 SARL 260200Z 09005KT CAVOK 22/19 Q1011 FQQL 260100Z 00000KT CAVOK 21/18 Q1016 SBJF 252100Z 28005KT 8000 FEW030 OVC060 19/18 Q1017 RJSF 260200Z 21009KT 9999 FEW030 20/15 Q1021 SBIP 251940Z 06002KT CAVOK 30/15 Q1011 SARP 260200Z 14004KT CAVOK 26/18 Q1011 RJSI 260200Z 18004KT 100V220 CAVOK 17/10 Q1019 SASJ 260200Z 27005KT CAVOK 26/14 Q1013 SCBA 260200Z AUTO 31010KT CAVOK 07/00 Q1007 RJSK 260200Z 15004KT 110V200 CAVOK 18/08 Q1019 RKJK 260158Z AUTO 13004KT 4SM BR SCT003 15/15 A3012 RMK AO2 SLP204 T01540154 $ HAAB 260200Z 28004KT C A V O K 12/01 Q1027 RJTE 251709Z 27004KT 170V310 9999 FEW008 SCT012 BKN060 20/19 Q1021 RMK 1ST008 4CU012 5SC060 A3017 RJSN 260200Z 18006KT 150V210 9999 FEW030 23/09 Q1018 KVVV 260234Z AUTO 00000KT 10SM CLR 07/01 A3005 RMK AO2 RJTF 260200Z 15005KT 110V210 9999 FEW030 SCT060 SCT120 21/13 Q1021 SBKG 260200Z 11005KT 9999 BKN010 21/19 Q1017 SBJP 260200Z 11007KT 9999 FEW020 SCT070 24/20 Q1014 SCAP 260200Z AUTO 21009KT 180V250 //// // NSC 13/01 Q1016 SBIZ 260200Z 06002KT CAVOK 26/22 Q1009 SBJR 260000Z 00000KT CAVOK 22/21 Q1014 RJTI 260200Z VRB02KT 8000 FEW015 BKN020 20/12 Q1021 RJSR 260200Z VRB01KT 9999 FEW030 13/08 Q1018 SCAR 260200Z 17003KT 9999 OVC036 19/12 Q1018 RJSS 260200Z 11007KT 9999 FEW030 17/13 Q1020 SBLB 252030Z 09012KT 9999 BKN020 OVC070 24/21 Q1013 W///S3 SCAT 260215Z AUTO 34008KT 9999 // ///011 14/13 Q1018 RJTL 252205Z VRB02KT 5000 BR FEW010 BKN020 15/13 Q1022 RMK 1ST010 6CU020 A3019 SBJU 260200Z 12006KT 9999 FEW022 31/14 Q1014 SBJV 260100Z 02002KT 9999 FEW020 BKN040 23/20 Q1014 KVWU 260234Z AUTO 00000KT 10SM CLR 08/03 A2998 RMK AO2 KXFL 260235Z AUTO 00000KT 14/12 A3002 RMK AO2 T01350115 PWINO RJTO 260200Z 03008KT 350V060 9999 FEW008 BKN025 20/18 Q1020 SCCF 260200Z 20004KT CAVOK 14/M07 Q1027 RJSY 260200Z 07003KT 030V110 9999 FEW050 21/08 Q1018 SBKP 260200Z 05002KT 9999 FEW030 SCT100 21/18 Q1016 SCCH 252300Z 20002KT CAVOK 26/09 Q1011 SCCI 260200Z 28010KT 9999 SCT030 BKN080 07/03 Q0994 NOSIG SCDA 260200Z 01004KT 9999 OVC025 18/13 Q1019 SBMA 260200Z 07003KT CAVOK 27/23 Q1010 RJTT 260230Z 07005KT 9999 FEW030 BKN120 21/15 Q1020 NOSIG RMK 1SC030 6AC120 A3012 SAVC 260200Z 27021G31KT CAVOK 19/M07 Q1002 SBMD 260200Z 00000KT CAVOK ///// Q1012 SAVE 260200Z 29009KT CAVOK 13/M01 Q1010 SBME 260200Z 08003KT CAVOK 23/21 Q1013 SBLO 260200Z 05003KT CAVOK 21/19 Q1015 SBMG 260100Z 01007KT CAVOK 22/19 Q1014 RJTY 260158Z AUTO VRB04KT 10SM BKN120 20/15 A3019 RMK AO2 SLP225 T02040150 SBLS 260000Z 23013KT 8000 -TSRA SCT016 FEW018CB BKN070 18/17 Q1018 SBMK 260200Z 08005KT CAVOK 25/11 Q1014 KVYS 260235Z AUTO 30009KT 10SM CLR 12/02 A3002 RMK AO2 T01170021 SBML 252125Z 09003KT 6000 BKN004 BKN009 22/19 Q1015 KWRB 260158Z AUTO 11001KT 10SM CLR 13/12 A3001 RMK AO2 SLP165 T01290116 FQTT 252200Z 17012KT CAVOK 37/18 Q1015 SAWE 260200Z 29017KT 9999 FEW033 08/03 Q0991 SBMN 260200Z 24004KT 9999 BKN005 BKN080 24/23 Q1011 SBNF 260200Z 04008KT 9999 SCT012 BKN045 23/19 Q1014 SBMO 260200Z 06003KT CAVOK 20/20 Q1015 SCCY 260000Z 22005KT 9999 FEW033 12/00 Q1009 SAWG 260200Z 25013KT 9999 SCT035 SCT100 10/M00 Q0997 SAWH 260200Z 25020G32KT 9999 VCSH SCT030 BKN040 BKN080 05/04 Q0989 REDZ SBMQ 260200Z 06008KT 9999 FEW023 28/23 Q1010 LOIH 251300Z 00000KT 35KM BKN060 12/07 Q1020 RMK BKN KXIH 260235Z AUTO 19004KT 10SM SCT031 SCT041 23/11 A3011 RMK A01 SBMS 252200Z 03009KT 9999 FEW030 29/20 Q1010 KWRI 260158Z AUTO 23010KT 10SM SCT070 14/07 A2964 RMK AO2 SLP040 T01440068 $ SCFA 260200Z 36011KT 9999 OVC020 18/11 Q1018 NOSIG SBMT 260100Z 12003KT 5000 BR BKN016 BKN035 20/17 Q1017 SCEL 260200Z 15010KT CAVOK 19/07 Q1013 NOSIG KWRL 260153Z AUTO 15009KT 10SM CLR 17/M07 A2977 RMK AO2 SLP078 T01721067 FQVL 251500Z 12011KT 9999 FEW020 23/16 Q1015 SBMY 252200Z 00000KT CAVOK 29/24 Q1008 SBOI 252000Z 14013KT 9999 FEW030 32/21 Q1008 SBPA 260200Z 11011KT CAVOK 21/19 Q1014 SBPB 260200Z 13011KT CAVOK 26/20 Q1010 SBNT 260200Z 12009KT 9999 -SHRA BKN020 SCT080 26/20 Q1013 SBPC 252100Z 00000KT 9999 FEW015 OVC100 18/18 Q1018 RKPC 260200Z 04005KT 9999 SCT025 21/14 Q1020 NOSIG SCGE 252100Z 18003KT CAVOK 30/03 Q1012 SBPF 251700Z 26007KT CAVOK 28/17 Q1014 RKNY 260200Z 25017KT CAVOK 22/03 Q1014 NOSIG LPAR 252000Z 00000KT CAVOK 20/15 Q1017 SBPJ 260200Z 04003KT CAVOK 26/21 Q1010 LPBJ 260200Z 13003KT CAVOK 15/10 Q1019 RKPK 260200Z 30001KT 9000 NSC 21/13 Q1018 NOSIG SBPK 251800Z 11010KT 9999 BKN025 25/20 Q1014 SCFT 260200Z AUTO VRB01KT CAVOK 09/03 Q1011 MGCB 260000Z 00000KT 2000 BR -DZ SCT006 OVC014 17/16 QFE871.8 APCH CLSD KWST 260153Z AUTO 24008KT 10SM CLR 16/10 A2959 RMK AO2 SLP019 T01560100 SBPL 260200Z 14008KT CAVOK 30/16 Q1013 SBPP 252100Z 00000KT 9999 BKN020 25/19 Q1012 SBPR 252100Z 24010KT 9999 BKN025 BKN080 25/16 Q1015 LPAZ 260230Z 06002KT 9999 FEW011 15/13 Q1015 SBPS 260200Z 05006KT 9999 SCT015 24/22 Q1014 SBRB 260200Z 36002KT 9999 FEW015 SCT100 22/21 Q1010 SCIC 260200Z AUTO 04005KT 9999 NCD 16/09 Q1011 SAZM 260200Z 05005KT 7000 TS FEW025 FEW050CB 18/17 Q1011 SBPV 260200Z 00000KT CAVOK 22/21 Q1010 KXLL 260235Z AUTO 21005KT 10SM CLR 15/07 A2963 RMK AO2 SAZN 260200Z 25003KT CAVOK 19/14 Q1009 SCIE 260200Z 17001KT CAVOK 14/12 Q1013 SBRF 260200Z 10008KT 9999 SCT023 26/21 Q1014 SAZS 260200Z 32007KT CAVOK 13/01 Q1012 SBRJ 260100Z 16003KT 9999 FEW030 SCT040 OVC090 22/19 Q1014 KWVI 260226Z AUTO 00000KT 10SM SCT018 18/15 A3010 RMK AO2 T01780150 SAZT 251215Z 09003KT 4000 REFG SCT006 17/16 Q1016 KXNA 260153Z 00000KT 10SM CLR 18/16 A3005 RMK AO2 SLP166 T01780161 SBSC 260200Z 03002KT 9999 SCT030 BKN100 22/19 Q1014 FSIA 260200Z 00000KT 9999 FEW018 25/23 Q1011 NOSIG SBQV 260200Z 09009KT 9999 FEW012 19/18 Q1018 KWVL 260235Z 00000KT 10SM OVC090 09/04 A2944 RMK AO1 KWWD 260235Z AUTO 24009KT 10SM CLR 15/07 A2972 RMK AO1 RKSG 260158Z 00000KT 4SM BR SCT027 SCT220 17/13 A3012 RMK AO2A SLP201 $ SBRP 260200Z 06004KT 8000 -RA FEW048 OVC100 20/18 Q1016 SCIP 260200Z 00000KT 9999 SCT020 BKN030 17/10 Q1024 NOSIG SCIR 251900Z 17007KT 9999 SCT025 SCT200 16/10 Q1017 RKSI 260230Z 18010KT 5000 BR SCT010 BKN025 18/14 Q1018 NOSIG SBTA 260200Z /////KT 9000 BKN015 ///// Q1015 SBSJ 260200Z 19003KT CAVOK 21/18 Q1017 KXMR 260158Z AUTO 36004KT 10SM CLR 20/16 A2997 RMK AO2 SLP152 T02020155 $ SBTC 252020Z 07004KT 9999 FEW020 SCT060 27/22 Q1013 SBSL 260200Z 06010KT CAVOK 27/21 Q1010 RKSM 260200Z 16005KT 8000 BR BKN030 18/14 A3011 SBSM 260200Z 10008KT CAVOK 21/18 Q1013 SBTE 260200Z 34003KT CAVOK 29/18 Q1009 SBSN 260200Z 00000KT CAVOK 25/24 Q1009 SBTF 252300Z 36003KT 9999 FEW020 27/25 Q1008 SCJO 252200Z VRB02KT CAVOK 22/09 Q1011 RKSO 260158Z AUTO 21005KT 6SM BR FEW190 17/17 A3012 RMK AO2 SLP203 T01700170 $ SBSP 260200Z 11005KT 7000 BKN022 20/16 Q1018 SBSR 260200Z 09004KT 6000 -RA BKN007 OVC100 21/19 Q1017 SBUA 252100Z 15004KT 9999 SCT020 FEW025TCU FEW100 35/23 Q1005 RKSS 260200Z 19008KT 6000 SCT030 18/12 Q1019 NOSIG KWWR 260235Z AUTO 16009KT 10SM CLR 24/10 A3002 RMK AO2 SBTK 252300Z 03002KT 9999 FEW015 BKN100 22/22 Q1009 MGES 260000Z 03008KT 9999 OVC014 20/17 QFE911.1 MTN W CUB/CL SBST 252200Z 00000KT 8000 BKN022 BKN050 22/20 Q1013 LPFL 251800Z 02003KT 320V080 9999 FEW022 18/08 Q1018 SBSV 260200Z 06010KT 9999 SCT017 25/21 Q1014 RKTN 260200Z 31002KT 4800 BR NSC 17/12 Q1018 NOSIG SBUF 252200Z 10012KT CAVOK 29/16 Q1013 SBUG 252100Z 11005KT CAVOK 29/14 Q1010 LPFR 260230Z 07006KT 9999 FEW012 BKN018 19/17 Q1018 SBTT 252300Z 23005KT 3000 -TSRA SCT020 FEW025CB BKN100 25/25 Q1 008 RETS SBUL 260200Z 13008KT 9999 FEW005 OVC070 18/17 Q1018 RKTU 260235Z 32003KT 1600 BR FEW000 SCT010 12/12 Q1020 NOSIG VYYY 260230Z 06004KT 6000 FEW020 29/26 Q1014 NOSIG SBVH 252200Z 21010KT 6000 -RA SCT009 BKN015 FEW023TCU BKN070 22/21 Q1012 SBUR 260200Z 07006KT 6000 -RA FEW015 OVC070 19/19 Q1017 SCMK 251600Z VRB03KT 9999 BKN025 13/06 Q1015 KWYS 260235Z AUTO 23008KT 10SM CLR 12/M02 A2992 RMK AO2 MGGT 260200Z 36010KT 9999 FEW018 SCT080 18/13 Q1026 A3030 SBUY 252300Z 00000KT 9999 FEW010 24/23 Q1007 KXPY 260235Z AUTO 00000KT 10SM CLR 22/17 A3013 RMK A01 YABA 260230Z 21013KT 9999 SCT030 BKN050 17/10 Q1020 LPHR 252100Z 32004KT 9999 FEW010 SCT030 18/15 Q1017 SBVT 260200Z 36004KT 9999 FEW030 BKN070 23/20 Q1014 KXSA 260235Z AUTO 21005KT 10SM CLR 16/04 A2976 RMK AO2 T01560042 MGHT 260200Z 00000KT 9999 SCT018 15/14 QFE819.6 WSAP 260200Z 03006KT 9999 FEW018TCU BKN300 30/24 Q1012 KYIP 260153Z AUTO 29008KT 10SM CLR 14/00 A2982 RMK AO2 SLP096 T01390000 TSNO $ MHAM 260000Z 36012KT 9999 FEW025 BKN250 29/24 SCON 260200Z AUTO 00000KT 9999 ///021 09/07 Q1014 LPLA 260200Z /////KT 9999 SCT020 SCT028 16/15 Q1016 MHCA 250500Z 00000KT 9999 BKN025CB SCT070 22/22 LTNG TCU TDS LQBK 260230Z 06002KT 8000 SCT017 07/06 Q1026 NOSIG KYKM 260153Z 11003KT 10SM FEW050 SCT075 11/09 A2946 RMK AO2 RAE41 SLP977 P0001 T01110094 KYKN 260235Z AUTO 07006KT 10SM CLR 11/01 A3005 RMK AO1 SCPQ 260200Z AUTO 16003KT 6000 NCD 07/06 Q1013 MHCH 260200Z 00000KT 9999 SCT028 BKN080 24/23 REDZ HZ SBYS 260100Z 05003KT 9999 SCT020 BKN100 20/18 Q1016 LPMA 260230Z 23005KT 9999 SCT016 21/19 Q1016 RS23006KT 0526004KT 2324005KT SCRD 252300Z 31006KT 0400 FG VV000 13/12 Q1014 SCQP 260200Z 34003KT 300V360 CAVOK 13/11 Q1013 KXVG 260236Z AUTO 00000KT 10SM CLR 01/M02 A3001 RMK AO2 SCSE 260200Z AUTO VRB02KT //// // ////// 14/12 Q1016 LOWG 260220Z AUTO 36003KT 340V050 8000 OVC006 06/05 Q1026 KYNG 260151Z 28011KT 10SM CLR 16/05 A2975 RMK AO2 SLP073 T01560050 $ LPMR 260200Z 16002KT CAVOK 14/13 Q1019 LOWI 260220Z AUTO VRB01KT 9000 -RA FEW006 BKN008 07/07 Q1026 SCTB 252300Z 23004KT CAVOK 26/11 Q1013 MGMT 260000Z 00000KT 8000 SCT016 BKN070 28/25 QFE1005.6 HZ LPMT 260200Z 08003KT 8000 NSC 15/15 Q1018 LOWK 260220Z AUTO VRB02KT 9999 FEW036 BKN038 06/04 Q1026 LOWL 260220Z AUTO VRB01KT 5000 BR BKN009 05/04 Q1027 SCTE 260200Z 19005KT CAVOK 10/09 Q1013 NOSIG SCSN 260000Z 33008KT 300V360 9999 OVC016 14/13 Q1014 LOWS 260220Z AUTO 14005KT 7000 DZ FEW005 SCT020 BKN210 07/07 Q1026 MGPB 260200Z 00000KT 9999 FEW016 23/23 Q1016 A3000 LPPD 260230Z 35003KT 300V040 9999 FEW020 17/14 Q1015 LOWW 260220Z 17003KT 6000 FEW006 BKN027 06/05 Q1027 NOSIG LOWZ 251600Z 27004KT 50KM BKN140AC 07/04 Q1021 RMK BKN LOXT 252050Z 05003KT 8000 FEW012SC BKN021SC 08/06 Q1025 RMK OVC SCVD 260200Z AUTO VRB01KT CAVOK 11/07 Q1012 LPOV 260200Z 00000KT CAVOK 16/15 Q1018 LOXZ 252050Z VRB01KT 20KM OVC030SC 07/05 Q1024 RMK OVC LPPR 260230Z 12008KT CAVOK 19/15 Q1019 LPPS 260230Z 17006KT 9999 FEW015 SCT033 22/21 Q1016 LPPT 260230Z 08003KT CAVOK 15/13 Q1019 SCVM 260200Z 33004KT 7000 BKN010 14/13 Q1015 YBAF 260230Z AUTO 02013KT 9999 // NCD 30/18 Q1013 MGQZ 260000Z 36010KT 9999 OVC018 14/14 QFE766.5 YBAS 260230Z 01009KT 310V020 9999 PO NSC 37/M01 Q1016 MGSJ 260200Z 00000KT 9999 FEW018 27/25 Q1013 A2991 FEW090 FEW200 MGRT 260000Z 00000KT 9999 SCT018 BKN090 25/23 Q1014 A2994 PCPN NE/E VOL. STA. MARIA Y SANTIAGUITO EN ACTIVIDAD YBBN 260230Z 02019KT CAVOK 25/19 Q1014 RMK SMOKE LRBC 260230Z AUTO 35006KT 9999 NCD M02/M04 Q1033 YBCG 260230Z AUTO 36020KT 9999 // NCD 25/19 Q1013 YBCK 260230Z AUTO 19005KT //// // ////// 37/04 Q1014 LRAR 260200Z AUTO 14002KT 8000 R09////// R27/P2000 BKN058 05/05 Q1028 YAMB 260230Z AUTO 05008KT 9999 // NCD 34/14 Q1012 MHLC 260200Z 18006KT 9999 FEW024TCU BKN070 24/22 Q1015 A2999 NOSIG LRBM 260230Z AUTO 09006KT 9999 FEW085 SCT240 M00/M02 Q1029 YBDG 260230Z AUTO 29008KT 9999 // NCD 25/04 Q1012 MHLE 260000Z 05010KT 9999 BKN020 BKN070 15/14 PCPN TDS YBCS 260230Z 07014KT 9999 FEW040 30/13 Q1015 LRBS 260200Z 02012KT 350V050 6000 -SN SCT008 BKN026 01/M00 Q1028 R07/690294 NOSIG SEGU 260200Z 23009KT 9999 FEW030 SCT100 23/19 Q1013 NOSIG RMK A2991 YBCV 260230Z AUTO 34007KT 9999 // NCD 38/01 Q1013 LRCK 260230Z 01017KT 9999 FEW020 BKN026 03/02 Q1024 R36/290295 NOSIG MGTU 260000Z 05004KT 9999 FEW018 BKN090 25/23 LRCL 260230Z AUTO 09002KT 9999 NCD M00/M02 Q1028 MHLM 260200Z 00000KT 9999 FEW025 BKN250 23/23 Q1016 A3000 NOSIG YBDV 260230Z AUTO 28012KT //// // ////// 42/03 Q1012 LRCT 260200Z VRB01KT 8000 SCT120 00/M01 Q1029 BLU BLU LRCV 260200Z 25004KT 3000 -RA BR BKN002 BKN004 02/01 Q1028 R27/29//95 LQMO 260200Z 17004KT 100V250 CAVOK 09/03 Q1019 BGBW 260150Z 06004KT 9999 SKC M05/M19 Q0995 ROAH 260230Z 21009KT 9999 FEW015 BKN/// 28/23 Q1017 SFAL 251700Z 30020KT CAVOK XX/XX Q0997 GMAD 260230Z 11004KT CAVOK 18/14 Q1016 NOSIG MHNO 260000Z 35010KT 9999 BKN035 22/17 Q1017 HZ GMAG 251800Z 28006KT CAVOK 25/14 Q1014 NOSIG FTTA 251900Z 00000KT CAVOK 27/23 Q1011 FTTC 251500Z 10010KT 9999 FEW040 SCT250 38/07 Q1009 FTTD 251500Z 00000KT 9999 FEW040TCU 34/20 Q1009 HDAM 251200Z 09007KT CAVOK 33/24 Q1009 YBHI 260230Z AUTO 20017KT 9999 // NCD 29/05 Q1015 KZPH 260235Z AUTO 36004KT 10SM CLR 15/12 A3002 RMK AO2 MGZA 260000Z 05004KT 9999 SCT022 BKN200 27/21 QFE987.9 FEW070 FTTJ 251900Z 19005KT CAVOK 31/21 Q1008 NOSIG YBHM 260230Z AUTO 10011KT 9999 // NCD 25/17 Q1016 MHPL 260000Z 36008KT 9999 SCT018 OVC080 26/25 Q1012 PCPN TDS HZ GMAT 251800Z 02011KT CAVOK 22/20 Q1015 NOSIG YARG 260230Z AUTO 08006KT 9999 // NCD 37/14 Q1013 BGGH 260150Z AUTO 06010KT 9999NDV NCD M06/M11 Q1009 SELT 260200Z 36006KT 9999 BKN040 SCT100 11/10 Q1030 LRIA 260230Z AUTO 25002KT 6000 NCD M05/M05 Q1034 YARM 260230Z AUTO 29018KT 9999 // NCD 30/05 Q1016 FVBU 251800Z 09014KT 9999 FEW050CB BKN090 22/10 Q1019 TEMPO TS RODN 260230Z AUTO 25007KT 10SM SCT025 BKN030 27/24 A3006 RMK AO2 $ YCBA 260230Z AUTO 22013KT //// // ////// 37/00 Q1011 YCBB 260230Z AUTO 29017KT //// // ////// 34/05 Q1013 LQSA 260200Z VRB01KT 9999 BKN030 05/04 Q1024 WSSL 260200Z 04008KT 9999 FEW018 FEW020TCU BKN300 31/24 Q1013 RMK 0130Z Q1013 SEMT 260200Z 20009KT 9999 BKN023 23/20 Q1014 YBKE 260230Z AUTO 24011G22KT //// // ////// 40/03 Q1010 MHSC 260158Z AUTO 35013KT 9999 OVC055 21/21 A3006 RMK AO2 RAB0104E0114DZB0056E0146 SLP147 P0000 T02080206 $ MHRO 260000Z 31010KT 9999 SCT020 SCT080 27/22 Q1013 A2992 NOSIG YCAR 260230Z 17018KT 9999 FEW030 25/12 Q1019 YCAS 260230Z AUTO 03007KT 360V070 //// // ////// 36/13 Q1010 WSSS 260230Z 09006KT 9999 SCT018 BKN300 30/24 Q1013 NOSIG FVFA 251200Z VRB04G16KT CAVOK 39/04 Q1012 NOSIG MHTE 260000Z 00000KT 9999 BKN028TCU BKN080 23/22 Q1012 TCU TDS HZ YCBP 260230Z AUTO 32020KT //// // NCD 38/M04 Q1010 MHTG 260200Z 36010KT 9999 BKN024 BKN080 19/17 Q1020 A3012 NOSIG GMFF 260000Z 360//KT //// NSC ///// Q//// NOSIG YBMA 260230Z AUTO 02010KT 9999 // NCD 37/01 Q1015 YBKT 260230Z AUTO 01011KT //// // ////// 33/18 Q1014 MHSR 260200Z 36003KT 5000 -DZ SCT006 BKN020 BKN090 18/17 5 KMS TDS PCPN CL YBLN 260230Z AUTO 23013KT //// // ////// 20/07 Q1022 GMFK 260200Z 00000KT 9999 SCT026 19/02 Q1023 NOSIG GMFM 260200Z 14004KT CAVOK 15/08 Q1021 NOSIG BGJN 260150Z AUTO 14005KT 9999NDV FEW055/// OVC075/// M08/M13 Q1010 GMFO 260200Z 00000KT 9999 FEW002 SCT230 13/11 Q1020 NOSIG YBNA 260230Z AUTO 01015KT 9999 // NCD 28/20 Q1012 YBLT 260230Z AUTO 24005KT 190V310 9999 // NCD 21/08 Q1013 MHTR 260000Z 17010KT 1000 RA BKN017 OVC070 23/23 Q1013 1 KMS TDS PCPN HZ YBMK 260230Z AUTO 08011KT 9999 // NCD 26/18 Q1016 FVHA 260100Z 14007KT CAVOK 18/14 Q1022 SEQM 260200Z 04003KT 8000 BCFG SCT004 BKN017 13/12 Q1028 BECMG AT0240 6000 RMK A3035 YCDO 260230Z AUTO 25013KT //// // ////// 35/01 Q1011 BGKK 260150Z AUTO 32007KT 270V350 9999NDV NCD M05/M13 Q0990 YCCY 260230Z AUTO 01010KT //// // ////// 37/04 Q1014 ROIG 260200Z 08006KT 040V110 9999 FEW015 SCT/// 28/23 Q1017 LQTZ 251900Z VRB01KT 9999 SCT014 BKN025 07/07 Q1025 YCDU 260200Z 01018G28KT CAVOK 37/06 Q1006 YCEM 260230Z AUTO 02003KT //// // ////// 19/11 Q1012 GLRB 251730Z 20009KT 9999 BKN017 FEW025 CB 28/25 Q1009 RMK CB-NE/E SESG 260200Z 00000KT CAVOK 13/05 Q1016 YBNS 260230Z AUTO 12007KT 090V160 9999 // SCT015 SCT020 BKN032 17/13 Q1012 YBOK 260230Z AUTO 28013KT 9999 // NCD 35/06 Q1014 YCFL 260230Z AUTO 12015KT //// // ////// 29/16 Q1015 YAYE 260230Z AUTO 30014KT 290V350 9999 // NCD 38/M00 Q1015 LROD 260230Z AUTO 21004KT 9999 FEW028 SCT036 BKN050 06/03 Q1028 YCFS 260230Z 04023KT 9999 FEW050 26/19 Q1010 RMK HAZE SGAS 260200Z 00000KT 7000 NSC 25/17 Q1009 HEBA 260200Z 00000KT CAVOK 19/15 Q1014 NOSIG FVKB 251500Z 23001KT CAVOK 36/15 Q1007 YBPN 260230Z AUTO 09009KT 9999 // NCD 29/14 Q1015 LSGC 260220Z AUTO 00000KT CAVOK 04/04 Q1024 LSGG 260220Z VRB01KT 9000 MIFG FEW015 09/08 Q1024 NOSIG LROP 260230Z 03008KT 6000 -SN SCT007 OVC026 00/00 Q1028 WS ALL RWY R08R/590294 R08L/590693 NOSIG YCHK 260230Z AUTO 14013KT 9999 // NCD 34/01 Q1016 YAYT 260150Z 07006KT CAVOK 16/M05 Q1014 HEAR 260100Z 15006KT CAVOK 17/13 Q1014 NOSIG HECA 260230Z 00000KT 4000 HZ NSC 20/10 Q1014 NOSIG HEAT 251800Z 11001KT CAVOK 26/10 Q1015 NOSIG HEBL 260200Z 34008KT CAVOK 22/04 Q1014 NOSIG HEAX 260200Z 34004KT CAVOK 19/16 Q1014 NOSIG MHYR 260000Z 18004KT 9999 SCT023 BKN080 20/19 HZ YBRK 260230Z 35004KT CAVOK 31/13 Q1015 YBRL 260230Z AUTO 01008KT 350V050 //// // ////// 36/12 Q1013 LSGS 251650Z VRB01KT 9999 BKN080 BKN100 12/09 Q1021 YBRM 260230Z 28012KT 9999 FEW018 31/24 Q1012 YCIN 260230Z AUTO 33005KT //// // NCD 35/19 Q1011 GMMB 260200Z AUTO 00000KT //// NCD 15/15 Q1020 GMMC 260000Z 26002KT 6000 NSC 19/18 Q1017 FWCL 251400Z 23007KT 8000 HZ FEW046 32/15 Q1014 NOSIG YBSG 260230Z AUTO 07009KT 050V190 //// // ////// 33/14 Q1012 GMME 260230Z 14003KT 1200 R21/0400V0650D BR SCT006 SCT016 15/14 Q1018 NOSIG GMMH 252100Z 36011KT CAVOK 23/19 Q1014 NOSIG GMMI 252000Z AUTO VRB02KT 9000NDV ////// 21/07 Q1017 NOSIG LTAB 252015Z 06003KT 020V090 9999 SCT035 BKN100 13/08 Q1016 RESHRA NOSIG RMK RWY06 VRB02KT LRSB 260230Z AUTO 00000KT 9999 OVC058 02/M05 Q1028 LTAC 260220Z 02006KT 340V040 9999 SCT035 BKN090 11/09 Q1017 RESHRA NOSIG LTAD 250915Z VRB03KT 9999 -SHRA BKN035 BKN100 15/12 Q1016 NOSIG RMK RWY29 12007KT 090V160 SGEN 252100Z 18008KT 9999 FEW033 33/15 Q1008 GMML 260100Z 06009KT 8000 NSC 21/17 Q1016 NOSIG KZZV 260153Z AUTO 29007KT 10SM CLR 16/09 A2984 RMK AO2 SLP103 T01610089 YBRY 260230Z AUTO 20011KT 9999 // NCD 33/M01 Q1017 LTAE 250412Z 32005KT 9999 SCT035 BKN100 09/09 Q1015 RESHRA NOSIG RMK RWY21 35004KT 300V010 YBTH 260230Z AUTO 24014KT 9999 // NCD 28/08 Q1014 ROMY 260200Z 05006KT 9999 SCT025 26/22 Q1017 LTAF 260220Z 06007KT 9999 FEW035 16/14 Q1016 NOSIG GMMN 260230Z 13001KT 3300 0550 R35R/0700VP2000U FG FG OVC003 15/15 Q1019 NOSIG LTAG 260220Z 04008KT 9999 FEW030 SCT100 16/14 Q1015 NOSIG SGES 260200Z 06006KT CAVOK 25/22 Q1011 LTAI 260220Z 34005KT 9999 FEW020CB SCT030 15/14 Q1014 NOSIG YBSU 260230Z AUTO 02019KT 9999 // NCD 26/19 Q1014 YBTL 260230Z 05013KT 9999 FEW037 27/16 Q1016 LTBA 260220Z 33009KT 9999 SCT030 BKN090 12/11 Q1016 NOSIG LTAJ 260220Z 00000KT CAVOK 11/09 Q1018 NOSIG YBUD 260230Z AUTO 36014KT 9999 // NCD 28/17 Q1015 YCKN 260230Z AUTO 12014KT 9999 // BKN047 29/15 Q1015 LTAL 251141Z 07002KT 1500 R18/1500U BR SCT010 BKN025 OVC080 10/10 Q1016 RERA LRTC 260230Z AUTO 35017KT 9999 SCT019 BKN022 02/M02 Q1028 LRSM 260200Z AUTO 09004KT 9999 BKN180 00/M02 Q1028 LTAN 260150Z 00000KT 9999 SCT040 07/06 Q1017 BECMG 2500 BR LTBF 260150Z VRB02KT 9999 -SHRA SCT035 BKN100 13/11 Q1015 NOSIG GMMW 260200Z VRB01KT 8000 SCT010 SCT200 14/13 Q1020 NOSIG LTBG 252013Z 02010KT 9999 -SHRA SCT035 BKN100 13/12 Q1014 RESHRA NOSIG RMK RWY18 01010KT LTAP 260220Z 35001KT 9999 SCT040 BKN100 12/11 Q1016 NOSIG GMMX 260230Z 24004KT 9999 SCT100 17/04 Q1019 LTBH 251236Z 04016KT 7000 -SHRA SCT035 BKN100 14/10 Q1011 BGSF 260150Z AUTO 05002KT 9999NDV BKN140/// M08/M11 Q1010 LTAR 260150Z 08006KT 9999 -SHRA BKN040 08/06 Q1019 GMMZ 260200Z 00000KT 9999 FEW040 SCT200 17/01 Q1023 NOSIG LTBJ 260220Z VRB02KT 9999 SCT030 BKN100 14/13 Q1014 NOSIG LTCA 260150Z 25005KT CAVOK 07/06 Q1019 NOSIG LTAT 260220Z 21003KT 9999 SCT040 BKN100 10/08 Q1018 NOSIG LTBL 260102Z 00000KT 9999 SCT035 BKN100 15/14 Q1014 RESHRA NOSIG RMK RWY17 VRB01KT LTAU 260220Z 00000KT 9999 FEW040 SCT100 06/05 Q1018 NOSIG LTCC 260220Z 00000KT CAVOK 08/07 Q1018 NOSIG LTCD 260150Z 00000KT 9999 SCT090 06/05 Q1019 NOSIG LRTM 260200Z 00000KT CAVOK M01/M02 Q1029 LRSV 260230Z AUTO 00000KT 7000 NCD ///// Q1032 LTAW 250737Z 00000KT 6000 FEW008 SCT030 BKN100 12/11 Q1017 RMK RWY22 00000KT YDBY 260230Z AUTO 32015KT //// // ////// 32/23 Q1012 LTCE 260220Z 00000KT 9999 SCT030 05/04 Q1021 NOSIG LTCF 260150Z 18002KT 9999 SCT035 04/01 Q1022 LTAY 260033Z 00000KT 0800 R24/0800VP1500D R06/0650U BCFG SCT005 05/05 Q1016 RMK RWY06 VRB01KT LTCG 260220Z 00000KT 9999 SCT010 BKN028 17/16 Q1018 RESHRA NOSIG LTAZ 252050Z 08007KT 050V120 9999 SCT040 BKN100 10/08 Q1018 LTBQ 260150Z 32001KT 7000 SCT016 BKN025 10/10 Q1016 BECMG TL0300 4000 BR LTBR 260220Z 22001KT 9999 SCT030 BKN100 11/11 Q1015 NOSIG LTCI 260150Z 09002KT 9999 SCT040 06/04 Q1021 NOSIG LRTR 260230Z AUTO 00000KT BKN029 06/03 Q1028 LSMA 260224Z AUTO 00000KT 3600NDV -RA BR FEW003 SCT009 BKN069 09/09 Q1025 RMK GRN LTCJ 260220Z 00000KT CAVOK 09/09 Q1018 LTBS 260220Z 04007KT 9999 FEW020 SCT080 14/12 Q1014 NOSIG YCMM 260230Z AUTO 35016KT //// // ////// 32/11 Q1006 LTCK 251450Z 18004KT 9999 SCT040 13/06 Q1018 BIAR 260200Z 33006KT 4100 -SN OVC020 00/M00 Q0980 LTBU 260220Z 32009KT 8000 -SHRA FEW004 BKN035 08/08 Q1016 LTCM 251312Z 08015G25KT 2200 -RA BR BKN005 BKN025 15/13 Q1016 RMK RWY05 07009KT 040V110 LSMD 260150Z AUTO 00000KT 9999NDV OVC080 09/08 Q1025 RMK WHT LSME 260209Z AUTO 00000KT 5000NDV BR BKN011 BKN077 09/09 Q1025 RMK GRN BGTL 260231Z AUTO 10007KT 9999 OVC030 M11/M15 A2992 RMK AO2 HEGN 260200Z 30007KT CAVOK 24/04 Q1013 NOSIG LTBY 252330Z 22004KT 0600 R09/0500D R27/0650D FG VV002 08/07 Q1016 RMK RWY27 22006KT LTBZ 251238Z 13005KT 9999 BKN035 BKN090 12/09 Q1014 RESHRA RMK RWY13 /////KT YCMT 260230Z AUTO 14003KT //// // ////// 33/09 Q1016 YCNK 260230Z AUTO 32006KT 230V360 //// // ////// 37/08 Q1006 YCNM 260230Z AUTO 27016G27KT 240V310 //// // ////// 39/M02 Q1010 YCOE 260230Z AUTO 07009G24KT //// // ////// 31/13 Q1014 YBWP 260230Z AUTO 10008KT 9999 // SCT061 32/13 Q1012 LSMP 260150Z AUTO 00000KT 3600NDV BR FEW076 OVC087 09/09 Q1024 RMK GRN RORS 260200Z 29004KT 250V320 9999 FEW020 SCT/// 28/22 Q1017 LSMS 260150Z AUTO 10003KT 070V130 9000NDV BKN076 09/09 Q1024 RMK WHT YCOM 260230Z AUTO 18006KT 160V220 9999 // NCD 24/12 Q1012 LTFC 260220Z 31007KT 9999 SCT035 09/08 Q1016 LTFD 251225Z 09004KT 070V130 8000 -SHRA SCT030 BKN080 16/13 Q1011 RMK RWY23 09003KT 060V140 YBWX 260230Z AUTO 21016KT //// // ////// 26/17 Q1015 YCNY 260230Z AUTO 03008KT 350V050 //// // ////// 38/06 Q1014 LTFE 260220Z 03004KT 360V060 8000 -TSRA FEW018CB BKN030 14/14 Q1014 BECMG TL0300 NSW LTFG 251405Z 01015KT 1000 0350W R08/0350N TSRA SCT020CB BKN025 15/14 Q1015 RETSRA LTFH 260150Z 00000KT 7000 -SHRA SCT016 BKN030 BKN090 15/15 Q1017 NOSIG BIEG 260200Z 02021KT 9000 -RA BKN015 OVC025 01/M00 Q0975 R04/290095 RMK RWY SANDED LTFJ 260220Z 06002KT 9999 BKN030 BKN090 13/12 Q1015 NOSIG RPLB 260200Z 08010KT 9999 FEW020 BKN300 31/24 Q1013 NOSIG GMTA 260200Z 19003KT 5000 HZ HZ HZ NSC 20/18 Q1020 REHZ NOSIG ROTM 260158Z 13006KT 9999 SCT025MODCU BKN060 28/23 A3008 RMK SLP173 MODCU T02830228 RPLI 260200Z 32002KT 9999 FEW019 SCT100 30/24 Q1013 NOSIG RMK A2991 FWKI 251500Z 08010KT CAVOK 30/08 Q1016 NOSIG RPLL 260200Z VRB05KT 9999 FEW025 SCT100 32/23 Q1013 NOSIG RMK A2991 RPMD 260200Z VRB03KT 6000 SCT016 SCT290 31/24 Q1012 RMK A2988 GMTN 260200Z AUTO 08001KT 3200NDV /// 19/17 Q1019 HEMA 260200Z 31011KT CAVOK 24/03 Q1013 NOSIG GMTT 260230Z AUTO 11006KT 2900NDV /// 18/15 Q1018 HEMM 260200Z 13004KT CAVOK 18/16 Q1015 NOSIG BIHN 252332Z 02020G40KT 9999 FEW015 SCT030 BKN060 05/// Q0971 HELX 260200Z 00000KT CAVOK 19/08 Q1013 NOSIG RPMZ 260200Z160044KT 9999 SCT017CB 34/27 Q1014 RMK A2994 CB NW-NE E NCAI 260200Z AUTO 06006KT //// ///// 26/23 Q1011 MKJP 260200Z 12004KT 9999 VCTS FEW022 FEW024CB 28/24 Q1011 MKJS 260200Z VRB02KT 9999 BKN022 27/24 Q1010 YCUN 260230Z AUTO 26010KT //// // ////// 21/09 Q1022 BIIS 251800Z 02024G40KT 9999 BKN030 OVC040 06/M00 Q0977 LUBL 260230Z AUTO VRB08KT 9999 NCD M06/M09 Q1034 YDLQ 260230Z AUTO 26011KT //// // ////// 28/07 Q1012 YCWA 260230Z AUTO 20014KT 190V250 9999 // NCD 33/M03 Q1018 GOGG 260000Z VRB02KT 8000 VCTS FEW030CB SCT130 BKN230 25/25 Q1013 BIKF 260230Z 07006KT 9999 BKN035 02/M01 Q0977 GOGK 251800Z VRB02KT 9999 FEW016 SCT130 BKN230 33/24 Q1009 GOGS 252100Z 34004KT 9999 FEW015 SCT230 28/25 Q1012 HEPS 260200Z 36008KT CAVOK 25/19 Q1014 NOSIG YCWR 260230Z AUTO 26013KT //// // ////// 33/06 Q1011 HESC 260200Z 28008KT CAVOK 11/01 Q1023 NOSIG HESH 260200Z 34008KT CAVOK 25/06 Q1012 NOSIG YDPO 260230Z AUTO 35006KT 9999 // SCT012 16/13 Q1012 HESN 260200Z 36005KT CAVOK 22/03 Q1014 NOSIG LSZA 260220Z AUTO 02002KT 9999 OVC038 11/10 Q1023 LSZB 260220Z AUTO VRB02KT 5000 FEW001 OVC080 08/08 Q1024 LSZC 260220Z AUTO 28002KT 7000 BKN009 10/10 Q1025 LSZG 260220Z AUTO 06001KT 7000 NSC 09/09 Q1024 LSZH 260220Z VRB02KT CAVOK 09/09 Q1025 NOSIG LSZL 260150Z AUTO 00000KT 9999NDV OVC038 11/09 Q1024 RMK WHT RPVM 260300Z 05005KT 9999 SCT020TCU SCT300 31/26 Q1013 RMK A2991 TCU NW LSZR 260220Z AUTO 10001KT 0800 R10/1000D FG NCD 08/08 Q1025 LSZS 251650Z 20001KT 9999 BKN048 04/04 Q1022 MMAA 260145Z 26004KT 8SM SCT010 BKN300 28/26 A2989 RMK 8/102 TCU NE FXMM 251400Z 23012KT 9999 BKN035 FEW040CB 27/04 Q1020 NOSIG YELD 260230Z AUTO 07014KT //// // ////// 31/26 Q//// CAHR 260200Z AUTO 26005KT 08/07 RMK AO1 SLP975 T00790069 56008 BIRK 260200Z 18004KT CAVOK M00/M04 Q0977 MMAN 260140Z 11006KT 10SM SKC 22/18 A3015 GOOD 251800Z 00000KT CAVOK 36/19 Q1009 YFBS 260230Z AUTO 27012KT //// // ////// 33/03 Q1011 GOOG 252100Z 34002KT 8000 NSC 30/25 Q//// MMAS 260140Z 06007KT 10SM SKC 16/01 A3030 MMCB 260200Z 00000KT 12SM SCT080 20/15 A3017 RMK 8/070 LUKK 260230Z 02010KT CAVOK M03/M07 Q1033 R08/CLRD65 NOSIG GOOK 260000Z 28006KT CAVOK 29/25 Q1012 FYGB 260200Z AUTO 08002KT //// // ////// 17/00 Q1019 YFDF 260230Z AUTO 17010KT //// // NCD 35/01 Q1016 MMCE 260141Z 35012KT 7SM SCT020 27/19 A3003 RMK 8/100 CBBC 260200Z AUTO 00000KT 9SM CLR 05/04 A2946 RMK SLP978 FYGF 260200Z AUTO /////KT //// // ////// ///// Q//// YEML 260230Z AUTO 04005KT 9999 // NCD 33/12 Q1015 MMBT 252340Z 00000KT 10SM FEW035CB OVC290 27/23 A2992 RMK 8/307 MMCL 260141Z 27006KT 10SM SKC 31/27 A2986 RMK HZY MMCM 260142Z 00000KT 7SM BKN200 25/23 A2998 RMK 8/002 RTS MMCN 260045Z 27008KT 10SM SKC 31/15 A2984 RMK HZY DSNT SC N-NNE MMCP 260141Z 36010KT 7SM FEW100 25/20 A3000 RMK 8/030 GOOY 260230Z 27001KT CAVOK 25/23 Q1011 NOSIG MMCS 260148Z 28005KT 10SM SKC 23/08 A3010 MMCT 252047Z 01006KT 8SM SCT020 BKN200 27/19 A2997 RMK 8/108 MSGTX MMMD MMCU 260140Z 23003KT 10SM SKC 19/07 A3021 MMCV 260140Z 09005KT 8SM FEW020 22/18 A3012 RMK 8/500 HZ MMDO 260244Z 32003KT 10SM SKC 16/08 A3032 RMK SLP072 52018 906 RTS MMCZ 260244Z 34010KT 7SM FEW015 22/20 A2999 RMK SLP164 52026 930 8/500 CI RTS BIVM 251650Z 07012KT 9999 SCT050 06/00 Q0970 MMEP 252348Z 36006KT 12SM SCT015CB SCT060 28/22 A3003 RMK SLP130 56008 912 8/330 GOSM 252100Z 00000KT CAVOK 30/21 Q1010 GOSP 251800Z 36004KT CAVOK 37/07 Q1009 GOSS 260200Z 00000KT CAVOK 26/23 Q1011 GOTK 251500Z 18006KT 9999 SCT020 BKN230 34/26 Q1010 MMGL 260154Z 00000KT 10SM FEW300 18/12 A3019 RMK 8/002 MMGM 260140Z 00000KT 6SM SKC 31/21 A2982 FYKM 251100Z 00000KT 9999 FEW050 39/16 Q1013 MMIA 260054Z 00000KT 4SM BCFG BKN020CB 24/23 A3002 RMK 8/300 BCFG ALQDS GOTT 260000Z 18004KT CAVOK 28/23 Q1011 FYKT 260200Z AUTO 25002KT //// // ////// 20/07 Q1015 MMHO 260142Z 19004KT 10SM SKC 30/16 A2993 RMK ISOL CI HZY NCPY 252300Z AUTO 06008KT //// ///// 33/24 Q1009 NCRG 260200Z 05005KT 9999 SCT016 25/23 Q1011 FYML 260200Z AUTO 29001KT //// // ////// 24/01 Q1017 YESP 260230Z AUTO 24016KT 9999 // BKN033 OVC039 18/12 Q1019 MMIO 260140Z 01006KT 10SM SKC 20/12 A3029 YGBI 260230Z AUTO 08009KT //// // ////// 30/20 Q1014 FYLZ 260200Z AUTO 30006KT //// // ////// 13/12 Q1012 MMIT 252140Z 35013KT 7SM SCT020 SCT070 29/17 A2990 RMK 8/540 HZY FYOA 260200Z AUTO 19004KT //// // ////// 21/M07 Q1012 YGAY 260230Z AUTO 16003KT //// // ////// 34/13 Q1013 YFLI 260230Z AUTO 23009KT 9999 // SCT036 17/11 Q1012 MNBL 251400Z 25004KT 9999 SCT019 BKN080 28/27 Q1011 YGDH 260230Z AUTO 31014KT 250V310 //// // ////// 38/04 Q1009 FYOO 260200Z AUTO 19003KT //// // ////// 20/01 Q1014 MNCH 251400Z 36004KT CAVOK 28/26 Q1011 MMMA 260145Z 00000KT 8SM SKC 23/21 A3013 MMLM 260140Z 29008KT 10SM SKC 28/20 A2988 RMK HZY MMMD 260146Z 00000KT 7SM SKC 22/20 A3002 FYOW 260200Z AUTO 00000KT //// // ////// 19/07 Q1016 MMLO 260141Z 02010KT 8SM SKC 18/05 A3031 MMLP 260145Z 00000KT 10SM SKC 29/16 A2991 YGEL 260230Z 19012KT 9999 BKN038 22/10 Q1022 MMLT 260145Z 00000KT 8SM SKC 28/24 A2987 MMML 260143Z 34003KT 10SM SKC 31/08 A2984 MMMM 260146Z 33004KT 6SM SKC 16/08 A3025 MMMT 252251Z 30018KT 10SM SCT200 27/20 A3001 RMK 8/001 MMNL 260141Z 13007KT 10SM SKC 27/18 A3008 YGFN 260230Z AUTO 04010KT 9999 // ////// 35/13 Q1010 MMMV 252340Z 04010KT 10SM 29/// A3008 RMK HZY FYRN 251800Z 00000KT 9999 FEW035CB BKN100 32/// Q1013 MMMX 260231Z 36008KT 12SM SKC 15/05 A3038 NOSIG RMK CI SKBG 260200Z 28003KT 9999 2000N BCFG FEW004 SCT200 20/19 A3003 MMMY 260143Z 09004KT 15SM SKC 21/16 A3011 SKAR 260200Z 00000KT 9999 SCT023 SCT120 20/19 A3008 MMMZ 260142Z 32006KT 10SM SKC 25/22 A2985 RMK HZY MMPA 260140Z 00000KT 6SM SKC 25/23 A3010 RMK HZY MMPB 260141Z 16004KT 9SM SCT020 BKN080 15/09 A3036 RMK 8/570 HZY SKCC 260200Z 00000KT 9999 SCT018 BKN090 24/22 A2995 SKBO 260200Z VRB02KT 9999 -DZ SCT017 BKN080 13/12 A3031 SKCG 260200Z 21003KT 9999 SCT015 29/25 A2984 MMPG 252340Z 13006KT 8SM SKC 29/17 A3008 RMK HZY SKBQ 260200Z 17003KT 9999 SCT015 26/26 A2987 SKCL 260200Z 35009KT 9999 FEW020 BKN200 23/18 A2999 MMPN 252346Z 00000KT 7SM FEW030 SCT100 BKN250 20/18 A3016 RMK 8/472 HZY MMOX 260150Z 33006KT 12SM SCT240 17/04 A3028 RMK 8/001 ISOL SC MMPQ 252345Z 00000KT 5SM SCT025 OVC080 24/22 A2990 RMK 8/52/ MSGTX MMMD MMPR 260145Z 22002KT 8SM BKN020 30/27 A2987 RMK 8/400 HZY MMPS 252341Z RTD 18010KT 7SM FEW010 SCT240 28/22 A3007 RMK SLP148 32023 973 /101 YHBA 260230Z AUTO 35014KT 9999 // NCD 26/18 Q1015 SKEJ 260000Z 06006KT 9999 SCT010 28/25 A2983 YFRT 260230Z AUTO 20016KT //// // ////// 27/11 Q1014 MMQT 260145Z 06010KT 10SM SKC 16/06 A3036 BKPR 260230Z 04008KT 9999 FEW030 BKN080 02/M02 Q1023 NOSIG FYWB 260200Z AUTO 01006KT //// // ////// 14/11 Q1014 MMSD 260150Z 00000KT 15SM SKC 31/22 A2993 FYWE 251800Z 23005KT CAVOK 25/M07 Q1020 MNJG 251400Z 00000KT 9999 BKN018 22/20 Q1012 YGLA 260230Z AUTO 06010KT 9999 // NCD 28/18 Q1015 YGLB 260230Z AUTO 28022KT //// // NCD 26/06 Q1012 FYWH 260200Z AUTO 24003KT //// // ////// 13/M05 Q1020 TAPA 260200Z 10006KT 9999 VCSH BKN017 28/23 Q1013 NOSIG GQNI 251800Z 14006KT CAVOK 36/05 Q1012 MMTB 252145Z 34005KT 7SM SCT020 BKN070 23/18 A2994 RMK 8/550 MMSL 260140Z 35008KT 10SM SKC 27/23 A2997 RMK MSGTX MMSD MMTC 260145Z 00000KT 10SM SKC 23/09 A3016 RMK HZY YHAY 260230Z AUTO 29017KT 240V300 //// // ////// 31/04 Q1013 MMRX 260148Z 09006KT 8SM SKC 22/17 A3010 RMK HZY FU GQNN 260230Z 36004KT 8000 NSC 25/16 Q1010 NOSIG YGLI 260230Z AUTO 27013KT //// // ////// 30/07 Q1017 MMTG 260148Z 31016KT 8SM BKN080 BKN090 OVC300 22/16 A3006 RMK 8/077 MMSP 260143Z 10004KT 12SM SKC 15/07 A3032 MMTJ 260143Z 28007KT 7SM SKC 19/15 A3003 RMK HZY ST W GQPA 260000Z 00000KT 8000 NSC 30/09 Q1017 MNJU 251400Z 07004KT 9999 FEW020 BKN300 27/24 Q1012 MMTM 260149Z 07005KT 8SM SKC 24/19 A3009 YFTZ 260230Z AUTO 33004KT 280V060 //// // ////// 36/17 Q1012 MMTO 260142Z 00000KT 8SM SCT015 12/03 A3040 RMK 8/500 FYWW 260200Z AUTO 10005KT //// // ////// 18/M02 Q1020 MMTP 260141Z 00000KT 10SM BKN100 BKN200 25/24 A2991 8/056 YGLS 260230Z AUTO 29008KT //// // ////// 38/M02 Q1015 MMVA 260140Z 00000KT 4SM SCT010 SCT080 22/21 A3007 RMK 8/620 BR SKIB 260100Z 00000KT 9999 SCT017 BKN080 22/21 A3005 MMUN 260145Z 32003KT 7SM FEW020 SCT250 22/19 A2998 RMK 8/508 AC K04V 260233Z AUTO 33010KT 10SM CLR 13/M06 A3026 RMK AO2 K06D 260235Z AUTO 20004KT 10SM CLR 02/M05 A2998 RMK AO2 K04W 260244Z AUTO 00000KT 10SM CLR 06/M01 A3002 RMK AO2 MNMG 260200Z 17004KT 9000 TSRA FEW015CB SCT070 25/22 Q1011 A2987 CB/4/C/ TS TEMPO 9000 TSRA/VCRA GQPP 260100Z 35010KT 8000 NSC 23/14 Q1012 NOSIG SKIP 252300Z 00000KT 9999 BKN018 12/09 A3038//// MMVR 260143Z 05005KT 7SM FEW015 25/18 A3008 RMK 8/100 HZY GQPZ 251800Z 10006KT CAVOK 35/M02 Q1013 K08D 260235Z AUTO 12007KT 10SM 05/00 A2989 RMK AO2 LWOH 252000Z 02008KT 9999 SCT033 SCT110 BKN200 05/00 Q1018 SLAS 252300Z 00000KT 9999 NSC 28/23 Q1009 SLCA 252300Z 00000KT 9999 SCT036 30/14 Q1013 SLCB 260200Z 12009KT 9999 FEW027 FEW030CB 19/02 Q1025 SKLC 252300Z 15006KT 9999 FEW020TCU OVC250 30/23 A2980 RMK TCU/NW LXGB 260150Z AUTO 09009KT 9999 // SCT018/// 20/17 Q1020 MNPC 251400Z 00000KT 6000 VCRA BKN016TCU SCT300 28/26 Q1011 TCURA/NE NFFN 260200Z 10008KT 9999 SCT026TCU BKN047 BKN110 27/20 Q1011 NOSIG YHID 260230Z AUTO 09016KT 9999 // ////// 29/20 Q1012 SKMD 252300Z 36005KT 9999 -TSRA SCT030CB OVC070 21/17 A3007 RMK CB N/S MMZC 260150Z 00000KT 10SM SKC 16/04 A3033 SLCO 252200Z VRB02KT 9999 FEW015 FEW017CB SCT080 BKN200 28/25 Q1008 SLCP 252200Z 00000KT 9999 NSC 24/22 Q1011 MMZH 260145Z 00000KT 6SM SCT020TCU BKN100 28/24 A2989 RMK 8/230 SKLT 260200Z 00000KT 8000 -DZ BKN009 BKN070 24/24 A2986 RMK AD OPR IMC MMZO 260145Z 09005KT 10SM FEW020 28/25 A2983 RMK 8/100 HZY SKMR 260100Z 00000KT 9999 TS FEW018CB BKN090 26/25 A2982 RMK CB/S K11R 260235Z AUTO 00000KT 10SM CLR 22/17 A3011 RMK AO2 T02240170 YGTE 260230Z AUTO 09012KT 050V110 9999 // NCD 35/12 Q1012 YGTH 260230Z AUTO 24013KT 9999 // NCD 31/02 Q1011 K12N 260154Z AUTO 18003KT 14/06 A2960 RMK AO1 SLP024 T01440061 SKMZ 252200Z 00000KT 9000 FEW010 SCT120 19/XX A3024 RMK HZ YHLC 260230Z 11009KT CAVOK 37/05 Q1014 MNRS 251440Z 00000KT 9999 FEW018 BKN250 29/24 Q1011 SLET 252300Z 34006KT 9999 FEW022 FEW027CB BKN200 26/22 Q1008 TBPB 260200Z 06011KT 9999 SCT018 BKN280 27/23 Q1011 NOSIG  SKPC 252300Z 00000KT 9999 FEW020 BKN080 29/24 A2973 LWSK 260230Z 32004KT 9999 BKN050 04/03 Q1024 NOSIG YGTN 260230Z AUTO 11011KT //// // ////// 34/05 Q1014 SKNV 260200Z 00000KT 9999 BKN120 25/22 A2987 SKPE 260200Z VRB02KT 9999 SCT017 SCT080 21/18 A3007 LYBE 260230Z 15003KT 9999 BKN040 06/01 Q1028 NOSIG MPBO 260100Z 00000KT 9999 FEW018 SCT090 Q1012 SKPS 252300Z 00000KT 9999 BKN020 18/16 A3013 YHML 260230Z AUTO 35009KT 9999 // SCT115 22/10 Q1011 MPDA 260200Z 00000KT 7000 -TSRA FEW006 SCT013CB OVC070 ///// Q1012 RWY WATER PATCHES LYBT 260230Z 10006KT 9999 BKN040 06/01 Q1028 NOSIG SKPV 260000Z 00000KT 9999 FEW017 BKNM200 26/25 A//// SKRG 260200Z 30004KT 7000 DZ BKN007 OVC120 15/14 A3030 RMK AD OPER IMC SKRH 260000Z 00000KT 9999 FEW020 BKN200 29/24 A2981 LTNGH/SE K14Y 260243Z AUTO 23005KT 10SM CLR 06/M02 A3006 RMK AO2 NFNA 260200Z 13008KT 9999 SCT020 BKN048 BKN110 24/19 Q1013 K0A9 260235Z AUTO 30003KT 10SM OVC033 14/09 A3001 RMK SLJE 252200Z 00000KT 9999 SCT017 BKN200 27/24 Q1013 SKSM 260100Z 03006KT 9999 FEW020 28/23 A2980 YHOO 260230Z AUTO 03011KT //// // ////// 37/01 Q1014 SLJO 252100Z 00000KT 9999 FEW017 32/22 Q1006 SKSP 260200Z 00000KT 9999 FEW016 BKN200 28/25 A2983 YHOT 260230Z AUTO 29012G22KT 9999 // ////// 21/02 Q1014 SKUC 260200Z 00000KT 9999 SCT010 25/24 A2985 K19A 260235Z AUTO 30006KT 10SM CLR 17/11 A3002 RMK AO2 TDCF 260000Z 08003KT 9999 FEW022 25/22 Q1011 SKUI 260000Z 00000KT 9999 SCT020 28/23 A2984 NGFU 260200Z VRB03KT 9999 FEW020 SCT310 32/26 Q1008 K0E0 260235Z AUTO 00000KT 10SM CLR 11/M01 A3024 RMK AO2 T01101015 K21D 260230Z AUTO 31004KT 10SM CLR 08/M02 A3005 RMK AO2 SLMG 252100Z 00000KT 9999 FEW017 33/22 Q1007 SLLP 260200Z 08008KT 9999 FEW012 FEW017CB SCT200 06/03 Q1037 YJAB 260230Z AUTO 14008KT 110V170 //// // ////// 35/09 Q1012 K20U 260235Z AUTO 14018G22KT 10SM 11/00 A2981 RMK AO2 K20V 260235Z AUTO 01003KT 10SM CLR 06/M05 RMK AO2 K0F2 260235Z AUTO 14003KT 10SM CLR 21/16 A3005 RMK AO2 T02120155 SKVP 260100Z 36005KT 9999 DZ FEW015 SCT090 25/22 A2991 K0CO 260229Z AUTO 32006KT 10SM CLR 03/02 A3052 RMK AO2 YHSM 260230Z AUTO 34004KT //// // NCD 23/07 Q1011 SKVV 252300Z 00000KT 9999 SCT020 BKN090 25/22 A2986 HKEL 260200Z 12003KT 9999 FEW017CB BKN080 14/13 Q1024 HKEM 252300Z 00000KT 9999 BKN017 17-13 YHUG 260230Z AUTO 11014KT //// // ////// 37/03 Q1014 NFTF 260200Z 16010KT 9999 FEW018TCU SCT280 26/17 Q1014 SLOR 252100Z 09018G35KT 9999 FEW017 14/M03 Q1032 HKGA 252300Z 18007KT CAVOK 26/21 Q1010 K24J 260235Z AUTO 00000KT 2SM CLR 12/12 A3005 RMK AO1 NFTL 260000Z 08006KT 9999 FEW009 BKN018 OVC100 24/21 Q1013 SLPO 251700Z 07008KT 9999 NSC 15/01 Q1038 SLPS 252300Z 00000KT 9999 BKN070 25/22 Q1009 SLRB 252100Z 00000KT 9999 FEW025CB 29/24 Q1010 NFTV 260200Z 15006KT 9999 SCT017 BKN120 24/20 Q1012 LYKV 260230Z VRB02KT 9999 SCT033 02/02 Q1027 NOSIG MPMG 260200Z 00000KT 9999 SCT018 SCT090 27/-- Q1012 NOSIG K0J4 260158Z AUTO 00000KT 10SM CLR 13/11 A3008 RMK AO2 SLP184 T01280106 $ SLRI 252300Z 00000KT 5000 FU FEW015 FEW020CB BKN200 28/23 Q1008 K1A5 260235Z AUTO 00000KT 10SM 11/09 A3008 RMK AO2 T01080090 SLSA 252300Z 00000KT 9999 SCT020 31/21 Q1006 K1A6 260235Z AUTO 00000KT 5SM BR CLR 10/10 A3003 RMK AO2 T01020098 K1A9 260235Z AUTO 00000KT 10SM CLR 13/13 A3006 RMK AO2 T01340126 SLRQ 252200Z 36010KT 9999 FEW017 BKN200 30/26 Q1006 SLSI 252300Z 00000KT 9999 NSC 25/23 Q1010 LYNI 260230Z VRB01KT 9999 SCT033 02/M02 Q1025 K1B7 252048Z 02007KT 10SM SKC 23/14 A3007 SLRY 252200Z 00000KT 9999 FEW017 BKN200 31/24 Q1008 SMJP 260200Z 05003KT CAVOK 26/24 Q1009 NOSIG SLTJ 252300Z 13005KT 9999 FEW033 23/14 Q1019 MPPA 260200Z 00000KT 9999 FEW020 Q1012 SLSU 252300Z 06007KT 9999 FEW020 17/08 Q1028 HKJK 260200Z 06006KT CAVOK 16/13 Q1021 NOSIG LYPG 260230Z VRB02KT CAVOK 11/01 Q1019 NOSIG HKKG 252200Z 00000KT CAVOK 16/16 SLTR 252200Z 22003KT 9999 FEW020 FEW023CB 33/21 Q1006 HKKI 260100Z 00000KT CAVOK 19/18 Q1017 ZBAA 260230Z 03007MPS CAVOK 15/M09 Q1027 NOSIG HKKR 251600Z 07004KT 9999 FEW018CB BKN019 BKN080 16/14 HKMA 252200Z 20003KT CAVOK 27/22 HKKS 252300Z 00000KT CAVOK?? 16/15 LZIB 260230Z 13001KT 9000 OVC007 07/05 Q1027 SLVM 252100Z 16002KT 9999 FEW023 37/15 Q1006 HKKT 260100Z 00000KT 9999 BKN016 14/14 K1F0 260235Z AUTO 00000KT 10SM CLR 22/15 A3004 RMK AO2 HKME 251900Z 00000KT 9999 BKN018 20/14 HKLO 251300Z 09005KT 9999 FEW030CB 32/20 SLVR 260200Z 30003KT 9999 NSC 23/22 Q1010 HKLU 251300Z 16007KT 99 FEW027 31/23 HKNC 260100Z 00000KT CAVOK 15/13 Q1022 HKML 260200Z 00000KT 9999 FEW019 25/23 Q1011 HKMO 260030Z 00000KT 9999 FEW018 24/23 Q1012 NOSIG GUCY 251300Z 21008KT 9999 FEW015 SCT110 30/25 Q1012 NOSIG SLYA 252300Z 00000KT 9999 NSC 27/22 Q1010 YJLC 260230Z AUTO 35003KT //// // ////// 38/02 Q1013 HKNI 252200Z 18002KT CAVOK 17/13 TDPD 260200Z 21002KT 9999 -SHRA BKN016 26/24 Q1013 HKNK 260200Z 00000KT CAVOK 12/11 HKMU 260200Z 00000KT CAVOK 18/16 K1H2 260235Z AUTO 00000KT 10SM CLR 13/09 A3001 RMK AO2 T01320090 CERM 260200Z AUTO 13002KT 06/04 RMK AO1 2PAST HR 7016 SLP991 P0001 T00560041 50002 HKNO 252200Z 35004KT SKC 14/11 HKMY 260100Z 07002KT 9999 BKN018 BKN080 21/18 K0R0 260235Z AUTO 15/15 RMK AO2 PWINO TSNO K33V 260235Z AUTO 14007KT 10SM CLR 05/M07 A3021 RMK AO2 HKNW 252200Z 06006KT 9999 SCT020 19/13 Q1021 MPTO 260200Z 00000KT(E) 9999 SCT017 27/25 Q1011 NOSIG NGTT 260200Z VRB02KT 9999 FEW018TCU 31/23 Q1007 K1J0 260158Z AUTO 00000KT 10SM CLR 13/13 A3006 RMK AO2 SLP135 T01330128 $ YIVO 260230Z AUTO 23015KT //// // ////// 34/03 Q1012 LYTV 260230Z 02007KT 290V080 CAVOK 13/01 Q1017 LZKZ 260230Z VRB02KT CAVOK 02/01 Q1027 K1K1 260235Z AUTO 17005KT 10SM CLR 22/15 A2997 RMK AO2 T02170153 LYUZ 251700Z 11004KT 060V180 0100 FG VV001 02/02 Q1022 LYVR 260230Z VRB01KT 9999 SCT013 BKN026 06/05 Q1028 NOSIG K1II 260235Z AUTO 26006KT 10SM CLR 16/08 A2995 RMK AO2 K1L0 260235Z AUTO 00000KT 10SM CLR 17/15 A3010 RMK AO2 T01720151 GVAC 260200Z 02005KT 9000 SCT014 BKN200 24/23 Q1013 NOSIG K36U 260235Z AUTO 16005KT 10SM CLR 15/00 A3000 RMK AO2 SOCA 260230Z AUTO 13002KT 9999 NCD 25/23 Q1011 GVBA 251900Z 01006KT CAVOK 27/23 Q1012 NOSIG K2C8 260235Z AUTO 26005KT 10SM CLR 04/M05 A2998 RMK AO2 K40B 260216Z AUTO 00000KT 06/03 A2944 RMK AO1 SLP974 T00600032 58017 P0001 ZBHH 260200Z 10005MPS CAVOK 09/M06 Q1028 NOSIG K1M4 260156Z AUTO 00000KT 9SM FEW048 16/16 A3009 RMK AO2 T01610161 SLP201 K0V4 260235Z AUTO 23007KT 10SM CLR 16/09 A2983 RMK AO1 T01590092 K2D5 260235Z AUTO 11007KT 10SM 05/00 A3003 RMK AO2 K40J 260235Z AUTO 00000KT 10SM CLR 12/11 A3004 RMK AO2 YKII 260230Z AUTO 20005KT 170V250 //// // SCT019 15/10 Q1013 LZPP 260230Z AUTO 02003KT 350V050 5000 BR OVC016/// 05/04 Q1028 HLLM 252350Z 21004KT 7000 SCT030 19/13 Q1020 AYGN 260000Z VRB02KT 9999 BKN018 BKN050 28/22 Q1014 RMK K0VG 260235Z AUTO 00000KT 10SM CLR 09/09 A3005 RMK AO2 YLBD 260230Z AUTO 32011KT 9999 // SCT021 30/23 Q1012 K42J 260235Z AUTO 00000KT 10SM 12/11 A3002 RMK AO1 TSNO MSAC 252050Z 26006KT 9999 SCT037 31/26 Q1009 A2982 K1P1 260235Z AUTO 00000KT 7SM OVC050 09/09 A2948 RMK AO2 T00930093 TFFF 260230Z AUTO 01003KT 9999 FEW030 26/24 Q1012 HKVO 260200Z 00000KT SKC 21/20 K2G4 260240Z AUTO 26014G24KT 232V302 10SM OVC013 12/ A2981 RMK AO1 K2DP 260156Z AUTO 23007KT 10SM CLR 11/10 A2988 RMK AO2 SLPNO T01130097 HKWJ 251900Z 12008KT SKC 31/18 Q1009 LZSL 260230Z 09002KT 0200 R36/0600N FG OVC001 02/02 Q1027 TFFR 260230Z AUTO 11003KT 9999 FEW026 25/23 Q1012 MRLB 260200Z 01003KT 9999 FEW030 SCT120 26/24 A2988 K2I0 260235Z AUTO 00000KT 10SM CLR 15/15 A3001 RMK AO2 T01480145 YLEC 260230Z AUTO 33011KT //// // ////// 34/02 Q1013 K1R7 260235Z AUTO 00000KT 10SM CLR 16/15 A3012 RMK AO2 LZTT 260230Z 02003KT 0200 R27/0500N FZFG NSC M02/M03 Q1026 MRLM 260000Z 20003KT 9999 FEW015 BKN280 27/24 A2983 YKMP 260230Z AUTO 09012KT //// // ////// 32/18 Q1008 SMZO 260000Z 03006KT 9999 FEW015 28/24 Q1009 NOSIG K46D 260235Z AUTO 17008KT 1/2SM HZ VV005 04/M02 A3001 RMK AO2 K2J9 260215Z AUTO 10SM CLR 11/09 A3006 RMK AO1 YLEO 260230Z AUTO 17008KT 9999 // NCD 25/07 Q1019 YKNT 260230Z AUTO 36010KT //// // ////// 38/01 Q1015 MROC 260200Z 32002KT CAVOK 22/20 A3005 NOSIG AYMO 250900Z 32006KT 9999 SCT018 BKN140 27/23 Q1011= YKOW 260230Z AUTO 07009KT //// // NCD 32/12 Q1013 K3D2 260235Z AUTO 31009G16KT 10SM CLR 12/M03 A2985 RMK AO2 T01191031 YLHI 260230Z 02009KT 9999 FEW022 23/16 Q1018 K1V4 260154Z AUTO 09/09 A2946 RMK AO1 SLP980 P0016 T00890089 K1V6 260235Z AUTO 28005KT 10SM CLR 16/M03 A3006 RMK AO2 SPCL 260200Z VRB02KT 9999 SCT015 BKN080 24/23 Q1011 RMK PP000 YLHR 260230Z AUTO 09014KT //// // ////// 28/16 Q1013 LZZI 260230Z 12004KT 8000 OVC014 05/04 Q1027 YKSC 260230Z AUTO 01010KT 9999 // SCT115 20/15 Q1009 AYNZ 260200Z 00000KT 9999 SCT020 BKN280 30/23 Q1010= MRPV 260000Z 17001KT 280V160 9999 -DZ BCFG BKN015 21/20 A3000 TEMPO 5000 BR YMBA 260230Z AUTO 11009KT //// // ////// 29/10 Q1016 YLIS 260230Z AUTO 05010KT 9999 // NCD 34/18 Q1010 ZBSJ 260200Z 04006MPS 4000 R33/0900U BR NSC 17/09 Q1024 NOSIG OAHR 260155Z 17003KT CAVOK 12/M05 Q1018 RMK SKC VIS MIN 9999 BLU YMBD 260230Z AUTO 03011KT //// // ////// 22/12 Q1011 YKRY 260230Z AUTO 30009KT 280V350 //// // ////// 33/09 Q1015 ZBTJ 260230Z 09003MPS 020V140 1600 HZ SCT020 17/09 Q1025 NOSIG AYPY 260200Z 16010KT 9999 SCT020 SCT300 30/22 Q1010 RMKS OAKB 260250Z 14502KT 8000 4000E FEW080 10/07 Q1026 NOSIG RMK BLU WHT YMAV 260230Z AUTO 03005KT 330V060 9999 // NCD 19/11 Q1013 YLLE 260200Z AUTO 31013KT //// // ////// 41/02 Q1012 YMAY 260230Z AUTO 30011KT 250V310 9999 // NCD 28/09 Q1010 GVNP 260200Z 27002KT 9999 FEW016 SCT200 25/19 Q1013 NOSIG OBBI 260200Z 31005KT 8000 SKC 27/21 Q1012 NOSIG K54J 260235Z AUTO 33005KT 10SM CLR 15/11 A3007 RMK AO2 T01510111 SPGM 252100Z 00000KT 9999 SCT020 OVC090 23/20 Q1014 RMK BIRD HAZARD RWY 19 TMX./// PP000 YMCO 260230Z AUTO 21010KT //// // ////// 15/14 Q1012 NIUE 252000Z 14014KT 9999 SCT018 BKN030 BKN100 25/23 Q1013 K3I2 260235Z AUTO 24008KT 10SM CLR 17/13 A2989 RMK AO2 YMDG 260230Z AUTO 26017KT //// // NCD 33/07 Q1012 OAKN 260155Z 09005KT 9999 FEW120 11/M09 Q1019 RMK A3009 DA3488 BLU MTBO 260230Z AUTO 27014G26KT 9999 // NCD 26/06 Q//// SPHI 260200Z 17012KT CAVOK 19/16 Q1014 RMK PP000 SPHO 252300Z 30005KT 270V360 9999 BKN070 20/10 Q1025 RMK PP000 MSLP 260150Z 30004KT 270V330 CAVOK 27/27 Q1012 A2989 K4A6 260235Z AUTO 00000KT 10SM BKN041 17/15 A3005 RMK AO2 YMEK 260230Z AUTO 13013KT 9999 // NCD 25/06 Q1021 K3J7 260235Z AUTO 00000KT 10SM CLR 17/11 A2998 RMK AO2 MSLU 252250Z 00000KT 9999 SCT033 28/24 Q1008 A2979 SPIM 260200Z 16012KT CAVOK 18/14 Q1016 NOSIG RMK PP000 K1YT 260157Z AUTO 17009G15KT 10SM SCT050 BKN070 12/09 A2946 RMK AO2 K4A9 260235Z AUTO 00000KT 7SM CLR 13/11 A3006 RMK AO2 YMEN 260230Z AUTO 16003KT 9999 // NCD 19/10 Q1012 SPHY 251900Z 33010KT 9999 BKN040 15/02 Q1035 RMK PP000 K3K3 260235Z AUTO 14008KT 10SM CLR 17/06 A2995 RMK AO2 YMER 260230Z AUTO 13009KT 9999 // BKN027 BKN033 18/15 Q1011 YMES 260230Z AUTO 09004KT //// // SCT026 OVC034 19/12 Q1012 SPJI 252100Z 00000KT CAVOK 23/22 Q1017 RMK T.MAX 25.6 PP018 YMGB 260230Z AUTO 07009KT //// // ////// 30/19 Q1013 OAMS 260150Z 22001KT 9999 FEW100 15/04 Q1015 BLU+BLU+ YMGD 260230Z AUTO 04012KT 9999 // NCD 30/18 Q1013 SPJL 260200Z 00000KT CAVOK 09/03 Q1038 RMK PP000 SPJR 252300Z 13005KT 9999 SCT026 OVC040 15/09 Q1028 RMK PP000 YMHB 260230Z 10006KT 9999 -RA SCT010 OVC020 13/10 Q1013 ZBYN 260230Z 06006MPS 6000 NSC 18/02 Q1024 NOSIG AYWK 250600Z 09006KT 9999 FEW018CB SCT018 SCT140 BKN300 29/25 Q 1009 RMKS K2V5 260235Z AUTO 04004KT 10SM CLR 16/02 A2997 RMK AO2 T01570019 YMIA 260230Z AUTO 31007KT 9999 // SCT044 SCT074 BKN098 23/10 Q1013 YLRE 260230Z AUTO 36005KT 9999 // NCD 38/05 Q1014 SPME 260200Z 27003KT 9999 SCT023 22/19 Q1014 RMK BIRD HAZARD RWY 32/14 PP000 SPLO 252100Z 35008KT 9999 OVC030 20/14 Q1014 RMK TMAX 23.0 PP000 GVSV 260200Z VRB01KT 9000 FEW017 BKN200 25/18 Q1014 NOSIG K3LF 260235Z AUTO 00000KT 10SM CLR 13/09 A3003 RMK AO2 T01290090 K2W6 260239Z AUTO 23006KT 10SM CLR 15/06 A2976 RMK AO1 YMHU 260230Z AUTO 10006KT 9999 // NCD 36/08 Q1013 K3N8 260235Z AUTO 21006KT 10SM CLR 02/M05 A3002 RMK AO2 T00181050 YMIN 260230Z AUTO 35019KT //// // ////// 25/13 Q1009 SPMS 252300Z 05004KT 9999 BKN015 SCT100 22/22 Q1011 RMK BIRD HAZARD 09/27 PP000 MSSA 260050Z 32003KT 9999 SCT037 24/20 Q1017 A3005 YNAR 260230Z AUTO 27010KT //// // ////// 31/04 Q1011 YLST 260230Z AUTO 20009KT 9999 // NCD 25/06 Q1019 YLTN 260230Z AUTO 19010KT //// // ////// 25/07 Q1019 MSSM 260050Z 00000KT CAVOK 26/24 Q1009 A2991 DAAD 251800Z 00000KT CAVOK 24/04 Q1018 YNBR 260230Z AUTO 29012KT 260V320 //// // ////// 39/01 Q1010 DAAE 260100Z 26008KT CAVOK 16/12 Q1021 YMMB 260230Z AUTO 21007KT 190V250 9999 // NCD 17/11 Q1012 DAAG 260230Z 00000KT CAVOK 12/08 Q1021 MSSS 260150Z 34004KT CAVOK 22/19 Q1016 A3001 YLTV 260230Z AUTO 25006KT 200V310 9999 // SCT026 19/13 Q1012 MUCC 251531Z 01008KT 340V040 2000 SHRA BKN010CB 25/24 Q1011 R MK CB AT I AND IV QUAD DAAJ 260200Z 00000KT CAVOK 18/05 Q1019 DABB 260230Z 22007KT CAVOK 17/15 Q1019 DABC 260230Z 00000KT CAVOK 09/04 Q1023 K4I3 260236Z AUTO 29009KT 10SM CLR 15/01 A2987 RMK AO2 MUCF 260158Z AUTO 05007KT 22/21 Q1013 K2WX 260156Z AUTO 13013KT 13/M01 A2982 RMK AO1 SLP104 T01281006 $ DAAP 260000Z 00000KT CAVOK 18/02 Q1020 YMLT 260230Z AUTO 22008KT 9999 // SCT017 BKN023 BKN027 16/11 Q1012 K4I7 260235Z AUTO 28004KT 10SM CLR 17/07 A2997 RMK AO2 K3R7 260235Z AUTO 00000KT 10SM CLR 16/13 A3011 RMK AO2 T01590126 YMML 260230Z 14005KT 100V180 CAVOK 19/08 Q1013 NOSIG YMNE 260230Z AUTO 18010KT 9999 // NCD 25/07 Q1020 MUCL 260151Z 01016KT 9000 FEW018 26/21 Q1012 DAAS 260200Z 00000KT CAVOK 10/00 Q1025 DAAT 260230Z 03009KT CAVOK 15/M03 Q1021 MUCM 260154Z 03004KT 9000 SCT020 BKN150 23/22 Q1012 YMNG 260230Z AUTO 25012KT 9999 // NCD 22/10 Q1012 DAAV 260200Z 00000KT CAVOK 15/11 Q1021 TGPY 260200Z 08003KT 9999 FEW020 26/25 Q1010 NOSIG DAAY 251800Z 01008KT 8000 NSC 21/04 Q1022 AZUH 260150Z 00000KT 9999 SCT040 08/05 Q1017 SPQT 260200Z 18010KT 140V210 8000 -RA BKN010 BKN100 23/22 Q1012 NOSIG RMK PP010 K65S 260235Z AUTO 04003KT 4SM RA FEW004 SCT039 BKN044 08/07 A2957 RMK AO2 P0005 SPQU 260200Z VRB02KT CAVOK 14/01 Q1028 RMK PP000 YNEN 260230Z AUTO 05006KT 9999 // OVC245 28/20 Q1014 DABS 260230Z 00000KT CAVOK 11/05 Q1023 MUCU 260152Z 17006KT 110V260 6000 -RA BKN020CB 23/22 Q1012 DABT 260200Z 00000KT CAVOK 07/M00 Q1023 YMOG 260230Z AUTO 14007KT //// // ////// 22/10 Q1021 K3T5 260235Z AUTO 15006KT 10SM CLR 23/17 A3008 RMK AO2 T02310168 K66R 260235Z AUTO 18005KT 10SM CLR 21/16 A3010 RMK AO2 T02050155 SPRU 260200Z 14007KT 8000 KN160 18/15 Q1014 RMK PP000 K5C1 260235Z AUTO 00000KT 10SM CLR 17/11 A3014 RMK AO1 SPSO 260200Z 19008KT CAVOK 18/13 Q1016 RMK BKN230 PP000 YMOR 260230Z AUTO 30019KT 9999 // NCD 39/M01 Q1010 DAEF 251800Z 36012KT CAVOK 25/01 Q1018 SPST 260200Z 00000KT 9999 FEW025 SCT080 21/20 Q1012 RMK BIRD HAZARD RWY 17/35 PP000 SPTN 260200Z 21004KT 7000 SCT010 OVC015 15/13 Q1016 RMK PP000 DAEN 251800Z 04008KT CAVOK 25/03 Q1019 YMRB 260230Z AUTO 14010KT 9999 // NCD 33/08 Q1015 YNHL 260230Z AUTO 36006KT //// // ////// 23/08 Q1012 DAFH 251800Z 00000KT CAVOK 22/00 Q1021 MUHA 260155Z 35007KT 9999 SCT030 23/15 Q1014 SPTU 252300Z 00000KT 9999 BKN030 30/25 Q1007 RMK BIRD HAZARD RWY 01/19 PP000 K4M9 260235Z AUTO 15005KT 8SM CLR 19/19 A3002 RMK AO2 MUGM 260156Z 20011KT 9999 FEW020 SCT100 BKN280 29/26 A2985 RMK SLP109 T02890256 MTPP 251800Z VRB03KT 9999 SCT028 SCT200 Q1010.6 A2984 MUHG 260150Z 27006KT 240V300 7000 -RA BKN018 OVC070 23/21 Q101 K4O4 260235Z AUTO 18003KT 10SM CLR 20/16 A3006 RMK AO2 YMRY 260230Z AUTO 16013KT 9999 // BKN029 20/18 Q1010 YMTG 260230Z AUTO 04011KT 9999 // NCD 22/09 Q1009 YMTI 260230Z AUTO 35014KT //// // ////// 30/18 Q1014 K4MR 260156Z AUTO M 10SM CLR 20/05 A3013 RMK AO2 SLP161 T02020053 $ K5H4 260235Z AUTO 14005KT 10SM UP CLR 05/M03 A2998 RMK AO2 SPZA 252230Z 24006KT CAVOK 23/13 Q1016 SPYL 252100Z 20013KT CAVOK 27/19 Q1011 RMK TMAX 29.3 PP000 DBBB 260000Z 22004KT 8000 FEW010 BKN080 25/25 Q1011 NOSIG SPZO 260200Z VRB01KT 9999 FEW050 09/04 Q1032 RMK PP000 K6A2 260235Z AUTO 31005KT 10SM CLR 16/10 A3005 RMK AO2 UAAA 260230Z 22002MPS 170V240 9999 SCT100 BKN200 06/04 Q1012 R88/CLRD65 NOSIG K6B0 260235Z AUTO 00000KT 10SM BKN033 BKN039 OVC049 11/09 A2950 RMK AO2 T01100092 UAAH 251030Z 24004MPS 9999 SCT016CB BKN066 08/06 Q1014 R23/290045 NOSIG RMK QFE722/0962 YMYB 260230Z AUTO 01012KT 9999 // NCD 29/19 Q1014 DAMH 251800Z 03006KT CAVOK 25/08 Q1019 UACC 260230Z 23003MPS 9999 SCT033 BKN150 M09/M11 Q1014 R22/3/0060 NOSIG RMK QFE729/0972 DAOB 260200Z 04008KT CAVOK 11/05 Q1024 TJBQ 260050Z 00000KT 10SM SKC 27/24 A2991 RMK TOWER CLOSED 0100-1100Z DAOF 260200Z 24008KT CAVOK 22/01 Q1019 YNRC 260230Z AUTO 02010KT //// // ////// 23/10 Q1010 UACK 260230Z 29002MPS 9999 -SHSN BKN008CB M14/M16 Q1014 NOSIG RMK QFE737/0983 DAOI 260200Z 06006KT CAVOK 20/07 Q1020 K79J 260156Z AUTO 00000KT 10SM CLR 16/11 A3006 RMK AO2 SLP176 T01610111 UADD 260230Z 16002MPS 080V180 3300 BR NSC 09/07 Q1011 NOSIG RMK QFE701/0935 K5M9 260235Z AUTO 26003KT 10SM CLR 17/15 A3002 RMK AO2 T01680152 UACP 260230Z 23003MPS CAVOK M21/M22 Q1014 R23/4/3037 NOSIG RMK QFE748/0997 DAON 260230Z 00000KT CAVOK 13/11 Q1020 DAOO 260230Z 18002KT 9999 FEW010 14/12 Q1019 YPAD 260230Z 36010KT CAVOK 27/12 Q1010 RMK 5AC120 FM0500 32014KT 9999 -SHRA BKN120 INTER 0400/0530 VRB30G40KT 5000 TSRA SCT100CB BKN120 DAOR 260200Z 00000KT CAVOK 17/01 Q1022 DAOV 260200Z 00000KT CAVOK 16/07 Q1022 YNSM 260230Z AUTO 24012KT //// // ////// 21/09 Q1019 OEAB 252200Z 00000KT CAVOK 14/M04 Q1025 NOSIG MUSC 251627Z 10006KT 060V140 7000 VCSH BKN012 25/24 Q1012 RMK SH AT QUAD I OEAH 260200Z 30004KT CAVOK 21/15 Q1012 NOSIG OEBA 260200Z 16003KT CAVOK 17/01 Q1021 NOSIG YPCC 260230Z 11017KT 9999 SCT024 SCT400 28/22 Q1016 YOLD 260230Z AUTO 06005KT 010V070 9999 // NCD 33/01 Q1012 YNTN 260230Z AUTO 29007KT //// // ////// 34/10 Q1013 YPBO 260230Z AUTO 17008KT 130V190 9999 // NCD 32/M02 Q1017 K82V 260235Z AUTO 00000KT 10SM CLR 08/M01 A3004 RMK AO2 OEAO 251900Z 31002KT CAVOK 28/05 Q1016 OEBH 260000Z 00000KT CAVOK 18/M03 Q1018 NOSIG MWCB 260000Z 30006KT 9999 SCT014CB 27/25 Q1009 YPEA 260200Z AUTO 25011KT 9999 // BKN050 21/10 Q1022 YPED 260230Z AUTO 36013KT 9999 // NCD 27/12 Q1010 K5R8 260235Z AUTO 00000KT 10SM CLR 15/14 A3012 RMK AO2 T01490140 YOLW 260230Z AUTO 18010KT //// // ////// 33/10 Q1015 YPDN 260230Z 31012KT 9999 FEW040 31/19 Q1013 DAUA 260100Z 08010KT CAVOK 18/M01 Q1019 DAUB 260200Z /////KT CAVOK 15/06 Q1019 TJIG 252249Z 16012KT 10SM SCT030 SCT100 29/23 A2987 RMK RY09 IN USE ATIS M DATM 251200Z 03010KT CAVOK 34/M01 Q1015 OEDF 260200Z 29004KT CAVOK 21/15 Q1012 NOSIG DAUE 260000Z /////KT CAVOK 15/08 Q1021 UAII 260230Z 20006G11MPS 9999 SCT050CB OVC100 16/07 Q1013 R10/0///70 NOSIG RMK QFE724/0966 MWCR 260200Z 08006KT 9999 FEW016 28/25 Q1010 NOSIG DAUG 260200Z 34003KT CAVOK 16/01 Q1022 DAUH 260230Z 00000KT CAVOK 16/08 Q1020 DAUI 260200Z 34010KT CAVOK 20/01 Q1019 YNWN 260230Z AUTO 18009KT //// // NCD 33/M02 Q1017 OEDM 251800Z 09010KT CAVOK 25/02 Q1016 DAUK 260200Z 00000KT CAVOK 14/09 Q1021 DAUL 260200Z 00000KT CAVOK 12/05 Q1023 DAUO 260200Z /////KT CAVOK 14/08 Q1020 OEDR 260200Z 30004KT CAVOK 22/17 Q1010 NOSIG MUVR 260151Z 01006KT 8000 FEW025 23/17 Q1014 UBBB 260230Z 36014KT 9999 -RA BKN030 OVC100 07/05 Q1030 88290060 NOSIG YOOM 260230Z AUTO 32013KT //// // ////// 41/02 Q1011 UAKD 260200Z 01003MPS 1200 SN BR OVC003 M06/M07 Q1014 R04/592050 NOSIG RMK QFE727/0969 QBB100 K5T9 260235Z AUTO 17005KT 10SM FEW060 23/14 A3007 RMK A01 DAUT 260200Z 00000KT CAVOK 17/02 Q1020 DAUU 260200Z 33004KT CAVOK 15/02 Q1020 ZGGG 260230Z 04002MPS 010V080 2400 BR NSC 25/22 Q1018 BECMG TL0340 3200 BR UBBG 260230Z 08007KT 9999 OVC066 08/05 Q1023 R12/290060 NOSIG K6L4 260235Z AUTO 25007G14KT 10SM CLR 15/11 A2995 RMK AO2 ZGHA 260200Z VRB01MPS 7000 NSC 25/15 Q1019 NOSIG TIST 260153Z 14008KT 10SM SCT024 28/24 A2990 RMK AO2 SLP126 T02780239 DAUZ 260200Z ///09KT CAVOK 16/03 Q1019 UAKK 260230Z 35001MPS 6000 -SN OVC043 M08/M09 Q1013 R23/490250 NOSIG RMK QFE713/0950 UBBL 260200Z VRB03KT 4100 -RA OVC015 09/08 Q1030 R33/290065 NOSIG RMK MT OBSC UBBN 260200Z 14010KT 9999 SCT050 OVC100 12/07 Q1017 R14R/CLRD60 NOSIG RMK MT OP QFE687 TISX 260053Z 11007KT 10SM FEW022 28/24 A2991 K5SM 260238Z AUTO 00000KT 10SM CLR 07/M02 A3039 RMK AO2 UBBQ 260200Z 27009KT 9999 -RA BKN005 OVC015 05/04 Q1027 R16/29//60 NOSIG RMK MT OBSC YPGV 260230Z 08009KT 9999 FEW036 30/17 Q1013 RMK FU TO SE YORG 260230Z AUTO 23011KT 9999 // NCD 26/10 Q1015 OEGN 260200Z 00000KT CAVOK 28/23 Q1011 NOSIG K7BM 260234Z AUTO 30006KT 10SM CLR 13/M09 A3036 RMK AO2 UBBY 260200Z 14009KT -RA 9999 OVC040 06/05 Q1029 R33/////// NOSIG RMK MT OP OEGS 260200Z 25004KT CAVOK 22/08 Q1014 OEGT 260200Z 28008KT CAVOK 13/02 Q1016 NOSIG K5W8 260235Z AUTO 00000KT 10SM CLR 08/07 A2990 RMK AO2 T00760067 OEHL 260200Z 02002KT CAVOK 20/06 Q1017 NOSIG UBEE 251400Z 18009KT 9999 BKN033 17/12 Q1017 R30/CLRD70 NOSIG YPKA 260230Z AUTO 29009KT 9999 // NCD 34/17 Q1013 YPKG 260230Z 23009KT 9999 FEW028 22/05 Q1020 TJMZ 252150Z 17007KT 10SM SCT040 30/22 A2986 TJNR 260153Z AUTO 18003KT 10SM SCT024 28/24 A2993 RMK AO2 SLP135 T02780239 $ YPJT 260230Z AUTO 23010KT 210V270 9999 // SCT029 SCT034 BKN039 20/12 Q1023 YPLC 260230Z AUTO 03007KT 9999 // BKN110 31/15 Q1006 ZHCC 260200Z 36006MPS 340V040 3000 HZ NSC 21/12 Q1019 NOSIG ZGKL 260200Z VRB01MPS 3000 HZ NSC 24/19 Q1020 NOSIG UAOO 260230Z 35004MPS 3300 SN OVC008 M03/M03 Q1017 R06/501/40 NOSIG RMK QFE751/1002 OEJN 260200Z 35005KT CAVOK 27/21 Q1010 NOSIG YPKS 260230Z AUTO 23011KT //// // ////// 33/06 Q1011 YPKT 260230Z AUTO 32009KT 280V350 //// // ////// 33/20 Q1013 YPKU 260230Z AUTO 02010KT 9999 // NCD 35/17 Q1012 OEKJ 260200Z 00000KT CAVOK 22/09 Q1016 OEKK 251800Z 07008KT CAVOK 27/09 Q1015 NOSIG YPLM 260230Z AUTO 17014KT 9999 // NCD 29/09 Q1017 OEKM 260200Z 00000KT CAVOK 15/M01 Q1025 NOSIG K6R6 260153Z AUTO 10005KT 23/14 A3010 RMK AO1 SLP163 T02330139 TJPS 251750Z 14010KT 10SM FEW030 33/26 A2986 OEMA 260200Z 36004KT CAVOK 25/04 Q1016 NOSIG K8A0 260235Z AUTO 24003KT 10SM CLR 16/16 A3006 RMK AO2 K96D 260235Z AUTO 00000KT 10SM CLR 08/M05 A2998 RMK AO2 YPMQ 260230Z AUTO 07012KT 9999 // NCD 28/19 Q1008 SUAA 252000Z 08009KT CAVOK 26/18 Q1013 YPOD 260230Z AUTO 03008KT 9999 // OVC115 17/13 Q1011 OEMK 260200Z 00000KT CAVOK 27/23 Q1011 ZGNN 260200Z 04002MPS 360V120 8000 NSC 27/21 Q1019 NOSIG OENG 260200Z 00000KT CAVOK 15/M04 Q1019 NOSIG UARR 260230Z 34005MPS 9999 OVC023CB M05/M10 Q1032 R88/////// NOSIG RMK QFE771/1028 TJSJ 260156Z 18005KT 10SM FEW028 28/24 A2990 RMK AO2 SLP124 T02830244 UASK 260230Z 30003MPS 7000 OVC009 01/00 Q1015 R30/290350 TEMPO BKN008 RMK QFE736/0981 YPPD 260230Z 15011KT CAVOK 41/M02 Q1012 YPPF 260230Z AUTO 35009KT 9999 // NCD 28/13 Q1010 UATE 260230Z 02005MPS 9999 OVC038 M01/M05 Q1033 R12/0///70 NOSIG RMK QFE772/1030 K7L2 260235Z AUTO 14008KT 10SM CLR 08/00 A2998 RMK AO2 PWINO PNO YPPH 260230Z 25012KT 9000 -SHRA FEW020 SCT027 16/14 Q1023 UATG 260230Z 32005MPS 9999 BKN033CB M07/M09 Q1033 R32/CLRD70 NOSIG RMK QFE777/1036 UASP 260200Z 17002MPS 9999 SCT030CB BKN100 M11/M14 Q1017 R21/750145 NOSIG RMK QFE751/1002 SUCA 252200Z XXXXXKT CAVOK 23/19 Q1010 UASS 260230Z 06004MPS 9999 BKN012 M03/M07 Q1016 R26/2///58 NOSIG RMK QFE744/0992 OEPA 260200Z 01004KT CAVOK 20/12 Q1015 NOSIG ZGOW 260200Z VRB01MPS 5000 BR NSC 25/21 Q1019 NOSIG ZHHH 260200Z 13003MPS 100V170 3000 HZ NSC 24/17 Q1018 NOSIG K8D3 260156Z AUTO 28003KT 03/M02 A3005 RMK AO1 SLP183 T00331017 UATT 260230Z 32007MPS 9999 FEW017CB BKN040 M08/M10 Q1024 R31/450250 NOSIG RMK QFE748/0997 CMGB 260230Z AUTO 22003KT 10/09 RMK AO1 SLP963 T00990089 56017 TLCP 251800Z 11010KT 9999 FEW021CB 31/23 Q1011 NOSIG CMFM 260200Z AUTO 15003KT 05/05 RMK AO1 3PAST HR 8022 SLP957 P0005 T00460046 50013 UAUU 260230Z 31003MPS CAVOK M16/M19 Q1019 R33/09//65 NOSIG RMK QFE748/0998 OERF 260100Z 07010KT CAVOK 21/09 Q1014 SUDU 252000Z 08005KT 9999 FEW030 28/15 Q1011 OERK 260200Z 00000KT CAVOK 21/07 Q1016 NOSIG OESH 260200Z 00000KT CAVOK 18/04 Q1015 NOSIG OERR 260200Z 02006KT CAVOK 16/11 Q1017 NOSIG OETB 260200Z 27006KT CAVOK 17/03 Q1016 NOSIG OESK 260200Z 09008KT CAVOK 20/05 Q1017 NOSIG YPTN 260230Z AUTO 05004KT 9999 // NCD 35/10 Q1013 UCFM 260230Z 00000MPS 5000 BR FU NSC 09/06 Q1011 R08/CLRD70 TEMPO 2000 BR FU UCFO 260230Z 20002MPS CAVOK 11/06 Q1016 R12/CLRD70 NOSIG OETF 260200Z 20004KT CAVOK 16/13 Q1021 NOSIG ZGSZ 260200Z 04003MPS 360V100 7000 NSC 26/21 Q1018 NOSIG TKPK 260100Z 10005KT 9999 FEW019 27/24 Q1013 TKPN 260000Z 00000KT 9999 FEW018 28/22 Q1012 K7R3 251732Z VRB04KT 10SM SKC 24/09 A3014 K7R4 252238Z 33004KT 7SM SKC 25/18 A3011 OETR 260200Z 09009KT CAVOK 13/07 Q1017 NOSIG SVAC 260100Z 00000KT 9999 FEW020 BKN100 26/26 Q1008 YREN 260230Z AUTO 06005KT 030V090 //// // ////// 19/13 Q1012 OEWD 260200Z 18006KT CAVOK 19/10 Q1015 NOSIG YPWR 260230Z AUTO 13009KT 9999 // SCT092 SCT115 29/04 Q1012 OEWJ 260200Z 01006KT CAVOK 22/13 Q1011 NOSIG SVBC 260200Z 00000KT 9999 SCT010 25/25 Q1011 YPXM 260200Z AUTO ///13KT 9999 // BKN008 OVC013 25/22 Q1017 SVBI 260200Z 36009KT 9999 FEW020 SCT070 25/21 Q1011 SVBM 260200Z 00000KT 9999 FEW016 22/21 Q1015 SVBS 260100Z 00000KT 9999 OVC013 25/23 Q1014 K9D7 260235Z AUTO 13005KT 8SM CLR 02/M04 A2999 RMK AO2 SVCN 251900Z 09008KT 9999 SCT080 ///// A3000 OEYN 260200Z 00000KT CAVOK 22/16 Q1009 NOSIG K7W4 260235Z AUTO 23006KT 10SM CLR 14/07 A2976 RMK AO1 T01350070 SVCR 260200Z /////KT 9999 BKN016 25/25 Q1010 SULS 260200Z 06009KT CAVOK 19/17 Q1013 SVCU 260200Z 18003KT CAVOK 24/22 Q1010 K9F2 252125Z 08005KT 7SM SKC 22/16 A3008 RMK LAST SUMU 260200Z 05006KT CAVOK 21/18 Q1012 NOSIG YSBK 260230Z AUTO 19004KT 160V220 9999 // NCD 33/11 Q1007 YSCB 260230Z 29016KT CAVOK 29/04 Q1011 TLPC 260000Z 09005KT 9999 FEW022 27/25 Q1012 NOSIG SVFM 251400Z /////KT 9999 SCT040 ///// Q1017 SVGD 260200Z 25002KT CAVOK 25/23 Q//// YRMD 260230Z AUTO 06008KT 030V110 //// // ////// 38/05 Q1013 TLPL 260200Z 09010KT 9999 FEW024 28/23 Q1012 NOSIG YSCN 260230Z AUTO 32005KT 280V360 9999 // NCD 34/10 Q1007 YSCO 260230Z AUTO 33011KT //// // ////// 37/04 Q1008 YSCR 260230Z AUTO 24010KT 190V270 //// // ////// 19/06 Q1021 SVGU 260200Z /////KT 9999 FEW017 FEW300 27/23 Q1009 MZBZ 260000Z 02004KT 9999 FEW020 SCT040 26/22 A2995 Q1014 NOSIG YSDU 260240Z AUTO 27015KT 9999 // NCD 36/06 Q1010 HRYR 260230Z 00000KT 9999 FEW026 17/17 Q1019 NOSIG SVJC 252300Z 14010KT 9999 SCT013 000000Q1008 YROM 260230Z AUTO 32009KT 280V360 9999 // SCT125 38/03 Q1013 YSGE 260230Z AUTO 26015KT //// // ////// 41/02 Q1011 SVJM 260200Z /////KT 9999 SCT020 26/20 Q1013 SUSO 252300Z 10004KT CAVOK 25/17 Q1010 MYNN 260200Z 02006KT 9999 FEW020 26/10 A2989 K9L2 260155Z AUTO 24007KT 10SM CLR 22/05 A3001 RMK AO2 SLP157 T02170050 $ TNCA 260200Z 09011KT 9999 FEW018 28/25 Q1010 A2985 NOSIG TNCB 260200Z AUTO 07009KT 040V110 //// ////// 28/24 Q1011 NOSIG TNCC 260200Z 11009KT 9999 FEW017 28/25 Q1011 NOSIG TNCE 260200Z AUTO 09003KT //// ////// ///// Q1013 SVLF 251900Z 00000KT 9999 FEW030 XX/XX Q1009 DFFD 260200Z 00000KT CAVOK 25/19 Q1011 NOSIG ZJHK 260200Z 11005MPS 080V180 3000 SHRA SCT010 FEW023CB BKN023 23/22 Q1016 BECMG TL0240 -SHRA HSSS 260230Z 36010KT CAVOK Q1011 SVMD 260200Z 20001KT 9999 BKN017 19/18 Q1021 TNCM 260200Z 11006KT 080V140 9999 FEW018 28/24 Q1013 A2992 K8W2 260235Z AUTO 00000KT 10SM CLR 14/07 A2978 RMK AO1 T01360074 SVMG 260300Z /////KT 9999 FEW010 28/26 Q1012 NOSIG SVMI 260200Z 07003KT 9999 FEW016 27/21 Q1011 NOSIG YSHT 260230Z AUTO 24010KT 190V280 //// // ////// 25/08 Q1012 YSHW 260230Z AUTO 01005KT 310V050 9999 // NCD 33/12 Q1007 SVMN 260200Z 02003KT 9999 OVC017 27/// Q1010 UEEE 260230Z 24001MPS CAVOK M14/M16 Q1033 NOSIG RMK QFE766 23490150 OIAA 260200Z 32008KT CAVOK 21/08 Q1014 K9MN 260233Z AUTO 27008KT 10SM CLR 11/M05 A3005 RMK AO1 T01101047 YTAR 260230Z AUTO 05017KT //// // ////// 37/03 Q1008 YRTI 260230Z AUTO 19021KT //// // ////// 17/14 Q1023 OIAG 260200Z 33006KT CAVOK 17/04 Q1013 OIAH 260200Z 00000KT CAVOK 14/06 Q1016 SVPA 250600Z /////KT 9999 BKN013 23/23 Q1010 OIAI 260200Z 00000KT CAVOK 17/09 Q1013 OIBA 251500Z 28006KT CAVOK 30/22 Q1009 SVPC 252000Z 10008KT 9999 SCT030 XX/XX Q1008 OIBB 260200Z 00000KT CAVOK 22/11 Q1010 A2984 DGAA 260200Z 30004KT CAVOK 23/22 Q1011 NOSIG OIAM 260200Z 00000KT CAVOK 17/04 Q1012 HUEN 260000Z 36004KT 9999 FEW018 FEW020CB SCT120 20/18 Q1016 OIBJ 251500Z 22006KT CAVOK 27/06 Q1014 OIBK 260200Z 00000KT CAVOK 25/21 Q1011 SVPM 252000Z 00000KT 9999 OVC030 XX/XX Q1012 OIBL 260000Z 00000KT CAVOK 25/17 Q1010 OICC 260230Z 00000KT CAVOK 04/02 Q1020 A3013 OIAW 260200Z 29002KT CAVOK 19/09 Q1012 YSMH 260230Z AUTO 35008KT 310V010 9999 // NCD 30/17 Q1015 YSMI 260230Z AUTO 01009KT //// // ////// 17/10 Q1011 OIBP 262350Z 13006KT CAVOK 21/16 Q1011 A2985 SVPR 252000Z 05015KT 9999 BKN030 ///// Q1010 OIBQ 260200Z 34012KT CAVOK 28/18 Q1012 OICI 260200Z 10006KT CAVOK 08/M01 Q1019 A3012 OICJ 260150Z 00000KT CAVOK 09/01 Q1021 OIBS 251500Z 00000KT CAVOK 31/21 Q1010 OICK 260150Z 00000KT CAVOK 06/04 Q1020 YTEE 260230Z AUTO 03011KT 9999 // NCD 38/02 Q1014 KMG 260230Z AUTO 18006KT 9999 // NCD 16/11 Q1013 YTEF 260230Z AUTO 16017KT //// // ////// 39/00 Q1013 YSNF 260230Z 10007KT 9999 FEW031 19/10 Q1020 OIBV 260200Z 34008KT CAVOK 25/21 Q1010 SVSA 260200Z /////KT 9999 OVC020 23/22 Q1014 OICS 260150Z 00000KT CAVOK 03/02 Q1020 YTEM 260230Z AUTO 24013KT 230V300 //// // ////// 32/03 Q1011 SVSE 251900Z 00000KT 9999 BKN045 ///// Q//// CPBT 260100Z AUTO 28007KT 03/01 RMK AO1 T00320009 UDSG 260230Z 00000MPS 9999 -SHRA BKN050CB OVC100 07/05 Q1020 R02/CLRD70 NOSIG YSNW 260230Z AUTO 13010KT 9999 // NCD 24/16 Q1009 SVSO 260100Z 00000KT 9999 SCT023 23/22 Q1008 SVSP 251300Z 00000KT CAVOK XX/XX Q1014 SVSR 260200Z /////KT CAVOK 27/00 Q1009 SVST 252000Z 12006KT 9999 SCT060 BKN120 ///// Q1011 CPEH 260100Z AUTO 09006KT 05/M01 RMK AO1 T00501009 YTGM 260200Z AUTO 31009G19KT //// // ////// 41/// Q1011 OIFK 260200Z 00000KT CAVOK 10/03 Q1018 OIFM 260230Z 36004KT 8000 SKC 04/M06 Q1020 A3014 SVSZ 252000Z 00000KT 9999 SCT012 XX/XX Q1006 OIGG 260200Z 00000KT 4000 RA FEW015CB SCT020 OVC070 12/12 Q1026 SVVA 260200Z 23002KT 9999 SCT016 BKN100 24/22 Q1013 OIFS 260200Z 00000KT CAVOK M02/M06 Q1023 CPFI 260200Z AUTO 16005KT 06/01 RMK AO1 T00640007 OIGK 260150Z 07010KT 9999 SCT035 03/02 Q1023 K9V9 260235Z AUTO 13004KT 10SM CLR 09/01 A3001 RMK AO2 T00930013 SVVG 260200Z 0000KT 9999 FEW020 BKN100 25/24 Q1009 YSRI 260230Z AUTO 27012KT 9999 // NCD 36/06 Q1007 OIHH 260150Z AUTO 10002KT //// // ////// 03/00 Q1021 DFOO 260200Z 00000KT CAVOK 26/23 Q1012 SVVL 260000Z 02000KT 9999 FEW020 BKN300 25/21 Q1014 OIHM 260200Z 10006KT CAVOK 06/M00 Q1022 OIIE 260200Z 32024KT CAVOK 13/06 Q1017 OIHR 251230Z 35010KT CAVOK 20/03 Q1019 OIII 260230Z 30004KT CAVOK 11/06 Q1017 A3005 NOSIG OIIK 260200Z 00000KT CAVOK 07/06 Q1020 PAAD 260235Z AUTO 14004KT 10SM FEW050 OVC075 M09/M10 A2976 RMK AO2 YSTH 260230Z AUTO 18004KT //// // ////// 13/13 Q1013 OIIP 251800Z 30006KT CAVOK 17/M06 Q1016 OJAI 260100Z 00000KT 7000 NSC 10/01 Q1018 NOSIG OIIS 260200Z 36006KT CAVOK 16/01 Q1017 PABA 260201Z AUTO 15006KT 10SM CLR M10/M11 A2980 RMK AO2 SLP090 T11001111 FZRANO OIKB 260200Z 34004KT 8000 SKC 23/21 Q1011 A2988 PAAK 260236Z 28012KT 6SM CLR 08/04 A2997 RMK AO1 OJAM 260200Z 00000KT 5000 HZ NSC 16/05 Q1018 NOSIG ZJSY 260200Z 10005MPS 9999 FEW020 SCT043 BKN066 28/24 Q1015 NOSIG YSSY 260230Z 16017KT CAVOK 22/19 Q1008 RMK HZ NOSIG PABE 260244Z 30013KT 2 1/2SM -SN BR SCT004 OVC014 00/00 A2976 RMK AO2 UPE04SNB04 P0001 T00000000 OJAQ 260000Z 00000KT CAVOK 20/08 Q1012 NOSIG PAAQ 260240Z AUTO 00000KT 8SM SCT008 SCT015 OVC023 M02/M02 A2982 RMK AO2 T10171022 TSNO PABI 260234Z 00000KT 1 3/4SM BR FEW002 M09/M11 A2987 RMK AO2 VIS HIR SE-W I1000 T10941111 CPIR 260100Z AUTO 05002KT 07/01 RMK AO1 T00710008 OIKK 260200Z 09006KT CAVOK 09/M04 Q1021 A3018 YSTW 260230Z AUTO 28011KT 9999 // NCD 37/03 Q1011 PABL 260236Z AUTO 16013KT 10SM FEW070 OVC100 02/M02 A2959 RMK AO1 PACD 260216Z AUTO 27008KT 10SM SCT026 OVC033 07/03 A2991 RMK AO2 T00670028 TSNO OIKO 251350Z 00000KT CAVOK 32/18 Q1010 OIKQ 260200Z 00000KT CAVOK 23/19 Q1010 OIKR 250700Z 04008KT CAVOK 24/M07 Q1021 A3017 PABR 260153Z 11008KT 1/2SM R07/2800V5500FT FZFG OVC003 M10/M10 A2968 RMK AO2 SLP053 VIS 1/4V3 I1001 T11001100 OIMB 260200Z 11004KT CAVOK 08/M08 Q1019 PABT 260153Z 01007KT 4SM -SN BR FEW008 BKN012 OVC017 M07/M09 A2982 RMK AO2 SLP117 PCPN VRY LGT T10671089 $ OIMC 260200Z 30014KT CAVOK 15/09 Q1018 YTMO 260230Z AUTO 04014KT 350V050 //// // ////// 39/04 Q1014 OIMD 260200Z 00000KT CAVOK 12/M02 Q1013 PABV 260236Z AUTO 00000KT 10SM OVC008 01/00 A2984 RMK AO1 PACM 260156Z AUTO 27013KT 10SM CLR 02/M04 A2976 RMK AO2 FZRANO TSNO T00161038 SLP073 $ YTNG 260230Z AUTO 30007KT 9999 // NCD 31/15 Q1015 YSWG 260230Z AUTO 26011KT 9999 // NCD 31/M02 Q1010 PADE 260153Z AUTO 18009KT 10SM FEW027 BKN100 02/M01 A2953 RMK SLP999 T00221011 TSNO $ VIA AUTODIAL YSWH 260230Z AUTO 26013KT //// // ////// 24/07 Q1013 PADG 252255Z 10020G29KT 1/2SM SN BLSN VV000 M04/M04 A2946 UDYZ 260230Z VRB01MPS 9999 SCT050 OVC100 12/10 Q1018 R09/19//65 NOSIG YTNK 260230Z AUTO 02008KT 9999 // NCD 36/01 Q1015 OINB 260200Z 06006KT 7000 -DZ SCT015 OVC080 14/13 Q1022 PADK 260236Z AUTO 26006KT 5SM SCT016 BKN028 OVC036 09/03 A3004 RMK AO1 PAEC 260046Z 00000KT 40SM SKC M02/M10 A2973 RMK NOSPECI PADL 260148Z 16005KT 14SM BKN060 OVC070 02/00 A2986 OIMM 260230Z 16004KT 8000 NSC 10/07 Q1019 A3011 PACV 260153Z 00000KT 10SM BKN060 BKN075 BKN090 06/04 A2973 RMK AO2 SLP068 T00560039 PADM 252310Z AUTO 17016G24KT 1/2SM -SN FG SCT003 OVC012 01/M01 A2971 RMK AO2 TSNO P0000 $ PAED 260158Z AUTO 00000KT 10SM BKN049 01/M03 A2982 RMK AO2 SLP096 T00071035 $ OINE 260200Z 26010KT 8000 SCT030 OVC090 12/11 Q1021 RERA OIMN 260200Z 30008KT 8000 -DZ SCT015 OVC080 11/09 Q1021 OING 260200Z 34008KT 8000 FEW030CB SCT035 OVC080 13/12 Q1024 PAEG 260153Z AUTO 16003KT 10SM OVC019 M08/M11 A2988 RMK AO2 SLP135 T10781106 TSNO OIMQ 260200Z 02004KT CAVOK 15/M01 Q1017 PACZ 260224Z AUTO 22011KT 10SM BKN023 02/M01 A2973 RMK AO2 SLP073 PADQ 260153Z 00000KT 10SM FEW030 06/M02 A2983 RMK AO2 SLP103 T00561022 PAEH 260159Z AUTO 30013KT 10SM -SHRA BKN008 04/03 A2982 RMK AO2 WSHFT 0140 SLP104 PAEI 260158Z 00000KT 10SM FEW020 SCT200 M07/M08 A2989 RMK AO2A SLP134 T10741085 $ NSFA 260200Z 20003KT 9999 BKN020 30/26 Q1009 PAFA 260153Z 36005KT 10SM FEW017 SCT200 M06/M08 A2989 RMK AO2 SLP133 T10611083 OINK 251400Z 21004KT 8000 SCT030 BKN090 22/15 Q1013 PAFB 260156Z AUTO 03003KT 10SM CLR M08/M09 A2989 RMK SLP130 T10831089 $ VIA AUTODIAL PAEL 260050Z 00000KT 20SM FEW100 BKN170 07/05 A2969 RMK NOSPECI LAST PADU 260204Z 10006KT 10SM SCT028 BKN050 07/02 A2995 RMK AO2 CS PAEM 260236Z 25005KT 10SM CLR 01/M05 A2970 RMK AO1 OINN 260200Z 21010KT 3000 RA BKN010 FEW020CB OVC060 15/14 Q1025 PAEN 260153Z 00000KT 10SM CLR 02/M02 A2983 RMK AO2 SLP104 T00221022 PAFE 260236Z AUTO 07006KT 10SM CLR 03/02 A2968 RMK AO1 OINR 260200Z 36008KT 0800 +DZ OVC007 13/13 Q1024 PAGA 260158Z AUTO 13011KT 10SM OVC049 01/M02 A2976 RMK AO2 SLP083 T00061022 FZRANO PAFM 260236Z AUTO 13008G14KT 090V170 1/2SM OVC008 M03/M04 A2970 RMK AO1 OINZ 260200Z 03010KT 3000 -RA SCT008 SCT020CB OVC070 14/13 Q1023 PAGH 260157Z AUTO 11021G30KT 10SM OVC020 M03/M05 A2971 RMK AO2 PK WND 11035/0111 SLP091 T10331050 FZRANO SYCJ 260200Z 27002KT 9999 FEW015 SCT280 24/24 Q1010 NOSIG PAFS 260156Z AUTO 00000KT 10SM CLR M04/M07 A2983 RMK AO2 TSNO T10381066 SLP116 $ PAGK 260213Z AUTO 00000KT 3SM -SN BR OVC036 M03/M04 A2978 RMK AO2 P0000 T10281039 TSNO PAGL 260241Z 24007KT 10SM OVC047 01M/01 A2964 RMK VIA PHONE YTRE 260230Z AUTO 09011KT //// // ////// 33/20 Q1007 PAHC 260234Z AUTO VRB03KT 1/2SM -SN FZFG BKN003 OVC010 M01/M02 A2971 RMK AO2 TSNO P0000 $ PAGM 260236Z AUTO 31029G35KT 5SM CLR M01/M03 A2944 RMK AO1 PAGN 260156Z AUTO VRB03KT 10SM CLR 07/04 A2966 RMK AO2 TSNO T00660038 SLP046 $ PAGS 260149Z AUTO 00000KT 10SM CLR 06/ A2968 RMK VIA PHONE PAHL 260236Z AUTO 14007KT 10SM OVC027 M01/M03 A2973 RMK AO1 PAHN 260154Z AUTO 31011KT 10SM OVC095 07/01 A2970 RMK AO2 SLP060 T00670011 TSNO PAHO 260153Z 07004KT 10SM CLR 04/M04 A2983 RMK AO2 SLP101 T00441044 PAGY 260153Z AUTO VRB05KT 10SM OVC090 08/00 A2972 RMK AO2 SLP065 T00830000 TSNO $ PAHP 260236Z AUTO 26011KT 10SM FEW027 03/M02 A2976 RMK AO1 PAIG 260156Z AUTO 00000KT 10SM BKN120 00/M04 A2987 RMK AO2 TSNO T00001044 BKN V SCT SLP119 $ PAII 260236Z AUTO 00000KT 10SM BKN036 BKN042 OVC110 02/M03 A2987 RMK AO1 OISA 260155Z 32006KT CAVOK 05/M06 Q1022 NTAA 260230Z 20009KT 9999 SCT023 SCT040 28/23 Q1011 NOSIG PAIK 260201Z AUTO 10005KT 10SM OVC014 00/M01 A2962 RMK AO2 SLP072 T00001006 FZRANO PAIL 260153Z 34004KT 10SM SCT035 BKN120 BKN130 M01/M05 A2987 RMK AO2 SLP119 T10111050 PAJC 260236Z AUTO 28006KT 10SM FEW032 BKN044 07/01 A2988 RMK AO1 PAIM 260229Z AUTO 00000KT 10SM OVC008 M03/M04 A2976 RMK AO2 SLP103 PAIN 260236Z AUTO 22005KT 10SM CLR M09/M11 A2979 RMK AO1 OISF 260150Z 00000KT CAVOK 08/M04 Q1016 PAHX 260232Z AUTO 15007KT 3SM -SN BR SCT013 BKN020 OVC046 M01/M02 A2971 RMK AO2 P0000 FZRANO YTTI 260200Z AUTO 30008KT //// // ////// 31/26 Q1014 PAHY 260236Z AUTO 00000KT 9SM CLR 08/03 A2960 RMK AO1 YTST 260230Z AUTO 36007KT 9999 // SCT029 31/22 Q1013 OISL 260200Z 00000KT CAVOK 15/05 Q1015 PAJN 260153Z 00000KT 10SM MIFG FEW150 04/03 A2968 RMK AO2 SLP052 MIFG W T00390033 $ PAIW 260158Z AUTO 21012KT 10SM CLR 00/M05 A2955 RMK AO2 SLP006 T00001050 FZRANO DIAD 251700Z 20002KT 9999 BKN013 FEW020CB 27/24 Q1009 NOSIG PAKF 260201Z AUTO 10SM BKN040 07/01 A2991 RMK AO2 SLP224 T00670006 $ CPRO 260200Z AUTO 06008KT 01/M03 RMK AO1 T00071033 PAKH 260156Z AUTO 26007KT 05/M04 RMK AO2 PWINO TSNO T00501038 SLPNO $ OISR 251100Z 00000KT CAVOK 35/09 Q1011 PAKI 260236Z AUTO 26008KT 10SM BKN004 01/M01 A2982 RMK AO2 TSNO BKN V SCT $ ZLLL 260200Z VRB01MPS 7000 NSC 10/04 Q1026 NOSIG OISS 260230Z 00000KT CAVOK 07/M00 Q1020 A3014 OITK 251100Z 15002KT 9999 FEW035 SCT200 21/05 Q1015 OKBK 260200Z 35006KT CAVOK 24/11 Q1014 NOSIG PAKK 260236Z AUTO 18009KT 1/4SM OVC003 M01/M02 A2959 RMK AO1 OITL 260150Z 08019KT 5000 2000E DZ PRFG BKN003 BKN030 02/02 Q1024 OITM 260200Z 08008KT CAVOK 08/04 Q1019 SYGO 251800Z 05010KT 9999 SCT018 FEW019CB SCT039 BKN100 29/24 Q1009 CB AQ PAKN 260154Z 09003KT 10SM BKN075 03/M03 A2983 RMK AO2 SLP102 T00281028 OISY 260200Z 00000KT CAVOK 06/02 Q1023 PAKP 260236Z AUTO 23018KT 5SM SCT021 BKN030 OVC090 M10/M14 A2965 RMK AO1 PALG 260239Z AUTO 20005KT 3SM BR OVC007 01/M01 A2972 RMK AO2 TSNO CIG 004V010 SNB00E27 P0004 $ PALH 260153Z 00000KT 10SM CLR 01/M04 A2985 RMK AO2 SLP107 T00111039 PAJZ 260156Z AUTO 10005KT 10SM SCT100 M03/M05 A2989 RMK AO2 TSNO T10271050 SLP113 YTWB 260230Z AUTO 32009KT 9999 // NCD 32/10 Q1017 CPRY 260200Z AUTO 28006KT 06/03 RMK AO1 T00630026 OITR 260200Z 25004KT CAVOK 04/03 Q1018 DIAP 260230Z 34003KT 6000 -TSRA BKN011 FEW020CB OVC040 23/23 Q1011 TEMPO NSW SCT011 OVC040 PALJ 252250Z 00000KT 40SM FEW020 01/M02 A2987 RMK EST PASS OPEN NOSPECI OITT 260200Z 11006KT 9999 FEW035 07/04 Q1020 A3014 PAKT 260153Z 30007KT 10SM CLR 09/04 A2957 RMK AO2 SLP014 T00940039 PAMB 260156Z AUTO 16005KT 10SM OVC043 02/M01 A2981 RMK AO2 TSNO T00221005 OVC V BKN SLP099 $ PAKU 260145Z 14008KT 10SM R06/P6000FT BKN095 M14/M16 A2973 OITU 260156Z 26004KT 9999 SCT035 12/04 Q1018 PAMC 260153Z AUTO 00000KT 9SM OVC003 M04/M06 A2984 RMK SLP112 I1001 T10441061 TSNO VIA AUTODIAL CPST 260200Z AUTO 14013KT 05/M02 RMK AO1 T00531022 PAKV 260153Z AUTO 00000KT 10SM OVC021 01/M02 A2976 RMK AO2 SLP082 T00061017 TSNO PAMD 260236Z 34012G15KT 10SM SCT017 BKN024 OVC030 07/04 A2972 RMK AO1 PAKW 260153Z AUTO 05008KT 10SM CLR 09/02 A2959 RMK AO2 SLP020 T00940017 TSNO CPSV 260200Z AUTO 16006KT 12/04 RMK AO1 T01160036 PALP 260146Z 10006KTS 10 BKN060 BKN090 BKN120 M11/M14 A2972 OITZ 251500Z 00000KT CAVOK 16/04 Q1017 PAMH 260236Z AUTO 00000KT 10SM M06/M08 A2981 RMK AO1 PANA 260156Z AUTO 28009KT 10SM UP OVC005 01/01 A2973 RMK AO2 UPE02B52RAB02E52 SLP069 P0001 T00110011 FZRANO PAMK 260240Z AUTO 23011KT 1/2SM -SN FG OVC005 00/M01 A2966 RMK AO2 TSNO CIG 003V008 P0000 $ PALU 260228Z AUTO 13005KT 2SM -SN OVC018 M04/M05 A2946 RMK AO2 SLP975 PANC 260153Z 00000KT 10SM FEW015 SCT040 SCT055 SCT200 01/M04 A2983 RMK AO2 SLP103 T00111044 PAMM 260236Z AUTO 35008KT 10SM CLR 11/04 A2958 RMK AO1 DIBU 251700Z 00000KT 8000 TS OVC016CB 26/22 Q1008 BECMG TSRA PAMO 260156Z AUTO 29010KT 10SM CLR 00/M01 A2972 RMK AO2 TSNO T00001005 SLP952 $ PAMR 260153Z 00000KT 10SM CLR 01/M04 A2983 RMK AO2 SLP103 T00111044 PANI 260236Z AUTO 12007KT 1 1/4SM SCT006 OVC017 M02/M03 A2974 RMK AO1 UHBB 260230Z 36012G17MPS //// SHSN VV002 M02/M02 Q1010 NOSIG RMK QBB060 QFE740/0987 36691030 DIDK 251700Z ///// 9999 FEW015TCU FEW023CB SCT266 32/26 Q//// NOSIG DIDL 251700Z ///// 9999 SCT015 SCT260 32/22 Q1010 NOSIG PANN 260153Z AUTO 07006KT 10SM OVC011 M03/M06 A2987 RMK AO2 SLP126 T10331061 TSNO PAMY 260236Z AUTO 27006KT 10SM SCT028 02/M04 A2980 RMK AO1 PAOH 260156Z AUTO 00000KT 10SM CLR 04/04 A2970 RMK AO2 TSNO T00380038 SLP060 $ PANT 260153Z AUTO 33007KT 10SM CLR 09/04 A2956 RMK AO2 SLP009 T00890044 TSNO PAPB 260153Z AUTO 26003KT 10SM FEW036 BKN048 OVC090 06/03 A2987 RMK AO2 SLP104 T00610033 TSNO PAOM 260153Z 26007KT 10SM SCT025 BKN130 OVC220 00/M03 A2960 RMK SLP024 T00001028 VIA AUTODIAL PANV 260236Z AUTO 14008KT 3/4SM BKN005 OVC010 M02/M03 A2967 RMK AO1 PANW 260227Z AUTO 00000KT 10SM SCT022 BKN048 00/M03 A2986 RMK AO2 TSNO $ UGKO 260230Z -759 05007KT CAVOK 13/12 Q1018 R07/29//50 NOSIG PAOO 260156Z AUTO 28010KT 10SM CLR 02/M01 A2980 RMK AO2 TSNO T00161011 SLP092 $ PAPG 260236Z 13003KT 10SM FEW018 05/02 A2964 RMK AO1 WEA PAPH 260236Z AUTO 25011KT 10SM SCT014 BKN020 BKN029 06/01 A2989 RMK AO1 PAOR 260153Z 00000KT 3SM -SN SCT022 OVC041 M05/M07 A2980 RMK AO2 SLP129 T10501067 OIZB 260200Z 06004KT CAVOK 13/M02 Q1013 PAOT 260153Z 19010KT 10SM SCT020 BKN024 OVC031 02/00 A2953 RMK AO2 SLP000 T00170000 DIGA 251700Z 12004KT 9999 BKN013 FEW023CB SCT260 29/24 Q1008 NOSIG PAOU 260156Z AUTO 00000KT 9SM CLR 06/04 A2991 RMK AO2 TSNO T00610038 SLP133 $ PAPM 260228Z AUTO 6SM -RA BR SCT025 BKN041 BKN055 03/02 A2982 RMK AO2 TSNO P0002 $ CPXL 260200Z AUTO 15010KT 12/04 RMK AO1 T01190039 PAPN 260205Z AUTO 00000KT 10SM FEW014 BKN029 OVC033 03/M01 A2986 RMK AO2 PWINO TSNO $ PAPO 260121Z 05015KT 1SM -SN BLSN OVC010 M02/M04 A2940 OIZH 260200Z 19006KT CAVOK 16/00 Q1019 A3010 PAQH 260224Z AUTO 25012KT 10SM BKN005 OVC016 02/01 A2979 RMK AO2 RAE13 CIG 004V008 P0000 FZRANO OIZI 260200Z 35004KT CAVOK 21/04 Q1015 OIZJ 260200Z 00000KT 8000 SKC 26/24 Q1010 OIYY 260200Z 21002KT CAVOK 11/M07 Q1019 PASA 260236Z AUTO 23025G31KT 10SM FEW023 00/M04 A2948 RMK AO1 PAQT 260153Z AUTO 10005KT 10SM OVC070 M11/M13 A2972 RMK SNB19E29 SLP064 P0000 T11061128 TSNO $ VIA AUTODIAL PASC 260153Z 13008KT 10SM BKN080 M14/M17 A2973 RMK AO2 SLP069 T11441172 PASD 260236Z 35006KT 10SM FEW018 SCT025 BKN040 08/06 A2990 RMK AO1 WEA YWCA 260230Z AUTO 21010KT 190V250 //// // ////// 37/03 Q1011 PASH 260236Z AUTO 22008KT 10SM FEW015 M02/M04 A2956 RMK AO1 PASI 260153Z 00000KT 10SM FEW050 08/05 A2966 RMK AO2 SLP043 T00780050 YWBL 260230Z AUTO 03009KT //// // ////// 17/12 Q1011 OLBA 260200Z 10003KT 8000 FEW023 21/08 Q1016 PATA 260200Z 10010KT 10SM SCT010 OVC021 M03/M05 A2987 RMK T10281050 $ VIA AUTODIAL PARS 260212Z AUTO 20004KT 5SM BR BKN008 OVC013 01/00 A2968 RMK AO2 TSNO CIG 005V012 SNE06 P0000 $ PASK 260236Z AUTO 15007KT 10SM OVC027 01/M01 A2961 RMK AO1 P0001 PASL 260236Z AUTO 00000KT 10SM BKN110 A2986 RMK AO1 PATC 260155Z AUTO 24010KT 10SM CLR M01/M05 A2952 RMK AO2 SLP001 T10131050 PASM 260236Z AUTO 29006KT 10SM SCT006 M01/M03 A2972 RMK AO1 PASN 260153Z AUTO 13005KT 10SM FEW019 06/02 A2986 RMK AO2 SLP113 T00560017 TSNO PATE 260158Z AUTO 23008KT 10SM SCT016 M02/M03 A2956 RMK AO2 SLP021 T10171028 FZRANO PASO 260153Z AUTO 00000KT 10SM CLR 02/M02 A2982 RMK AO2 SLP098 T00171017 TSNO YWBR 260230Z AUTO 21008KT //// // ////// 36/01 Q1014 PARY 260156Z AUTO 09009KT M1/4SM FZFG OVC001 M02/M03 A2978 RMK AO2 TSNO T10221027 SLP095 $ PATG 260236Z AUTO 35003KT 10SM BKN016 OVC022 01/00 A2982 RMK AO1 MSV 260230Z AUTO 26015KT 9999 // NCD 27/10 Q1012 PATK 260153Z AUTO 00000KT 10SM CLR M01/M05 A2982 RMK AO2 SLP107 T10111050 TSNO PATL 260219Z AUTO 00000KT 6SM OVC002 M06/M06 A2982 RMK AO2 SLP121 $ PASV 260155Z AUTO 00000KT 10SM BKN110 M03/M05 A2976 RMK AO2 SLP112 T10341052 PASW 260047Z 00000KT 30SM SKC M00/M07 A2984 RMK MAX TEMP 01 LAST NOSPECI PATO 260153Z AUTO 29006KT 10SM FEW026 OVC042 01/M01 A2982 RMK AO2 SLP098 T00061006 TSNO PASX 260236Z AUTO 00000KT 10SM CLR M02/M07 A2982 RMK AO1 UHHH 260230Z 04008MPS 3200 -SHRA BR BKN004 OVC022CB 01/01 Q1002 NOSIG RMK QBB130 QFE746/0994 55290045 PASY 260156Z AUTO 23026G37KT 10SM FEW027 OVC035 07/02 A2979 RMK AO2 PK WND 22038/0146 SLPNO T00720017 TSNO $ PAVA 260157Z AUTO 27010KT 10SM CLR 02/M02 A2979 RMK AO2 SLP091 T00221017 FZRANO PNO $ NSTU 260234Z 31005KT 12SM SHRAB20 BKN014TCU TCU W-NW BKN030 27/25 A2981 PAVC 260156Z AUTO 31012G19KT 10SM 08/M01 A2990 RMK AO2 TSNO T00771011 SLP127 $ PAVD 260236Z 00000KT 10SM FEW030 BKN045 OVC060 03/M01 A2976 RMK AO1 0147Z WEA PAUN 260236Z AUTO 14008KT 2SM SCT010 OVC015 00/M02 A2967 RMK AO1 UIAA 260230Z VRB02MPS 9999 FEW200 M08/M17 Q1034 NOSIG RMK QFE716 29CLRD70 UGSB 260230Z 12005KT 9999 SCT023CB 16/13 Q1019 R13/29//55 NOSIG PAUT 260235Z AUTO 30013KT 10SM CLR 06/02 A2994 RMK AO2 T00590018 PAVL 260238Z AUTO 23022KT 5SM BR OVC010 01/M01 A2944 RMK AO2 PK WND 20026/0158 RAE00 CIG 008V012 P0000 T00061006 TSNO PAWD 260153Z AUTO 01010G17KT 10SM CLR 04/M04 A2978 RMK AO2 SLP085 T00391044 TSNO PAWG 260236Z 34010G17KT 10SM FEW040 07/02 A2964 RMK AO1 WEA PAWI 260233Z AUTO 06014KT 6SM BR SCT001 M15/M17 A2958 RMK AO2 TSNO UIBB 260230Z 17005MPS 9999 BKN100 M02/M09 Q1016 NOSIG RMK QFE719/0958 30850540 UGTB 260230Z 14008KT 9000 FEW004 SCT007 OVC017 07/06 Q1028 R13R/290064 NOSIG PAWM 260158Z AUTO 23006KT 9SM SCT005 BKN050 OVC090 01/00 A2961 RMK AO2 RAE05UPB47E49SNB05E47 SLP033 P0000 T00060000 FZRANO PAWN 260236Z AUTO 17010KT 10SM OVC018 01/M02 A2951 RMK AO1 P0001 YWHA 260230Z AUTO 04007KT 9999 // NCD 25/14 Q1010 PAWS 260236Z AUTO 00000KT 10SM BKN007 OVC045 00/M04 A2981 RMK AO1 PAYA 260153Z 00000KT 10SM BKN100 04/03 A2972 RMK SLP066 T00390033 VIA AUTODIAL ZLXY 260200Z VRB01MPS 3500 HZ NSC 18/12 Q1021 NOSIG UHMA 260200Z 02003MPS 9999 OVC080 M10/M11 Q0998 NOSIG RMK QFE745/0993 YWGT 260230Z AUTO 27010KT 240V310 //// // ////// 28/04 Q1010 YVRD 260230Z AUTO 04008KT //// // ////// 36/13 Q1013 PAZK 260236Z AUTO 00000KT 10SM OVC009 M06/M07 A2967 RMK AO1 UHMM 260230Z 33001MPS 9999 FEW100 SCT200 M03/M12 Q1014 NOSIG RMK QFE746 88810560 YWIS 260230Z AUTO 03007KT 340V060 //// // ////// 29/16 Q1016 OMAA 260200Z 08002KT CAVOK 25/21 Q1011 A2987 NOSIG OMAD 260200Z VRB01KT CAVOK 26/22 Q1012 A2988 BECMG 15008KT ZMUB 260230Z VRB01MPS 9999 SCT100 M02/M17 Q1029 NOSIG RMK QFE663.3 28 MOP OMAL 260200Z 11009KT CAVOK 25/18 Q1013 A2993 NOSIG YWLG 260230Z AUTO 28015KT 9999 // NCD 40/03 Q1010 TQPF 252100Z 11009KT 9999 SCT019TCU 29/// Q1011 YWLM 260230Z 29011KT CAVOK 36/10 Q1007 DITB 251700Z 22006KT 9999 BKN013 27/23 Q1009 NOSIG UHPP 260230Z 28010G15MPS 9999 NSC 06/M10 Q1010 NOSIG RMK MT OBSC QFE754/1005 SC070 EBBE 260225Z AUTO 21006KT 9999 BKN036/// OVC041/// 11/09 Q1024 BLU DISP 251900Z 16004KT 9999 BKN013 26/24 Q1010 NOSIG OMDB 260200Z 09004KT 050V140 CAVOK 27/22 Q1012 NOSIG DISS 251700Z VRB02KT 9999 SCT015CB 27/24 Q1009 NOSIG EBBL 260225Z AUTO 21004KT 9999 BKN040/// 11/10 Q1024 BLU EBAW 260220Z AUTO 22005KT 9999 FEW031/// OVC035/// 12/09 Q1023 UIII 260230Z 15006MPS CAVOK 03/M06 Q1019 NOSIG RMK QFE722/0963 12920260 EBCI 260220Z 20005KT 9999 BKN035 11/09 Q1024 NOSIG EBBR 260220Z 20007KT 9999 BKN038 11/09 Q1023 NOSIG VAAH 260140Z 07003KT 2000 BR SCT080 22/19 Q1014 NOSIG YWOL 260230Z AUTO 09008KT 9999 // NCD 24/18 Q1009 VABB 260140Z 12005KT 3500 FU SCT018 FEW025TCU BKN090 26/18 Q1012 NOSIG OMDW 260200Z 12004KT CAVOK 22/19 Q1013 BECMG 18010KT EBCV 260225Z AUTO 20006KT 9999 OVC036/// 12/10 Q1024 BLU UHSS 260230Z 34003MPS 5000 -SHRA BR BKN020CB 06/06 Q1014 WS RWY01 NOSIG RMK MT OBSC QFE760/1013 01250350 OMFJ 260200Z 24003KT 6000 NSC 25/19 Q1011 A2988 EBDT 260225Z AUTO 21004KT 9999 OVC042/// 12/09 Q1024 BLU EBFN 260225Z 21004KT 8000 FEW025 BKN036 12/11 Q1023 BLU EBFS 260225Z VRB02KT 9999 FEW018 BKN035 10/09 Q1024 BLU DIYO 252000Z 32006KT 9999 FEW013 FEW020CB BKN266 26/24 Q1012 NOSIG YWUD 260230Z AUTO 01018KT //// // ////// 31/12 Q1007 YWTN 260230Z AUTO 03005KT 350V050 //// // ////// 38/05 Q1013 UHWW 260230Z 05003MPS 1600 BR OVC005 12/12 Q1009 BECMG 2000 BR BKN003 RMK QBB150 MT OBSC QFE755/1007 2529//60 TRPG 252200Z 12009KT 9999 BKN021 27/23 Q1012 EBLB 260225Z AUTO VRB01KT 4700 FEW001/// SCT003/// BKN027/// 06/05 Q1025 YLO EBLG 260220Z 20008KT 9999 BKN038 10/08 Q1024 NOSIG YWWL 260230Z AUTO 24016KT 220V280 //// // ////// 33/M01 Q1011 UKBB 260230Z 12002MPS CAVOK M07/M10 Q1036 88CLRD95 NOSIG YWYM 260230Z AUTO 06007KT 020V130 //// // ////// 36/17 Q1012 CTNK 260200Z AUTO 30005G15KT 07/04 RMK AO1 SLP995 T00720039 53011 UKDD 260230Z 09006MPS CAVOK M06/M11 Q1035 08090070 NOSIG UKDE 260200Z 06005MPS 010V090 CAVOK M05/M12 Q1034 02210370 NOSIG YWYY 260230Z AUTO 05007KT 9999 // NCD 16/12 Q1011 TTCP 260200Z 00000KT 9999 FEW018 26/23 Q1011 NOSIG UIUU 260230Z 11004MPS 080V140 9999 FEW043 BKN100 M09/M13 Q1031 WS RWY26 NOSIG RMK QFE728/0971 26CLRD60 EBOS 260220Z 21006KT 9999 FEW025 BKN032 12/09 Q1023 NOSIG UKDR 260230Z 07004MPS 030V100 CAVOK M04/M11 Q1034 3609//65 NOSIG OMRK 260200Z 22002KT CAVOK 21/18 Q1012 A2990 CTRA 260200Z AUTO 29002KT 06/M02 RMK AO1 SLP137 T00581021 51002 VANP 260140Z 05002KT 4000 HZ FEW020 BKN100 19/16 Q1017 BECMG 5000 HZ OMSJ 260200Z 08004KT 030V100 CAVOK 23/20 Q1012 EDAC 251650Z 21007KT CAVOK 10/08 Q1022 EDAH 251550Z 17012KT 6000 BKN008 06/04 Q1020 EDBC 251550Z 18002KT 9999 BKN025 13/10 Q1020 UKHH 260230Z 10004MPS CAVOK M07/M11 Q1038 070///65 NOSIG PFCL 260156Z AUTO 15005KT 10SM OVC048 02/M01 A2986 RMK AO2 RAB07E16 SLP113 P0000 T00221011 FZRANO YYNG 260230Z AUTO 23010KT //// // ////// 31/05 Q1011 ULAA 260230Z 18003G07MPS 090V240 2800 -SN OVC008 M05/M05 Q1022 NOSIG RMK QFE765/1020 SC050 EDDB 260220Z 18007KT 9999 SCT014 BKN072 09/08 Q1024 NOSIG EDDC 260220Z VRB03KT 9999 BKN021 08/06 Q1025 EDDE 260220Z 22007KT 9999 SCT023 SCT060 09/08 Q1024 EDDF 260220Z 00000KT 9999 BKN016 12/11 Q1024 TEMPO BKN012 EDDG 260220Z 18004KT 9999 FEW037 09/08 Q1023 NOSIG EDDH 260220Z 23005KT 6000 BKN004 SCT028 BKN038 11/11 Q1021 TEMPO 4500 BCFG KAAA 260235Z AUTO 30003KT 10SM CLR 16/05 A3000 RMK AO2 T01560050 KC09 260235Z AUTO 30006KT 10SM CLR 08/03 A2999 RMK AO2 T00830031 PFEL 260158Z AUTO 19010KT 8SM -RA OVC003 01/00 A2962 RMK AO2 UPB19E24B44E52 SLP035 P0002 T00110000 FZRANO EDDK 260220Z 12004KT 9999 BKN042 10/09 Q1024 TEMPO 3000 BCFG EDDL 260220Z 16007KT 9999 BKN042 11/10 Q1023 NOSIG EDDM 260220Z 08003KT 3500 BR OVC003 07/07 Q1026 NOSIG EDDN 260220Z 10003KT 9000 FEW020 BKN080 07/07 Q1025 KAAF 260153Z AUTO 00000KT 10SM CLR 17/10 A3003 RMK AO2 SLP168 T01670100 TSNO VCBI 260210Z 07002KT 9999 FEW018TCU 27/23 Q1013 NOSIG EDDP 260220Z 18006KT CAVOK 10/09 Q1024 NOSIG UKKK 260230Z 10002MPS 080V140 CAVOK M06/M09 Q1036 08CLRD70 NOSIG EDDR 260220Z 00000KT 9000 BKN014 11/10 Q1024 UKKM 260200Z AUTO 12001MPS 6000 NCD M05/M09 Q1035 EDDS 260220Z VRB01KT CAVOK 10/09 Q1025 EDDT 260220Z 19002KT 9999 FEW040 BKN070 09/09 Q1023 ZPPP 260200Z 22005MPS CAVOK 15/12 Q1029 NOSIG KABE 260151Z 22007KT 10SM CLR 14/07 A2962 RMK AO2 SLP030 T01390072 EDDV 260220Z 24005KT 9999 SCT035 BKN042 11/09 Q1023 EDDW 260220Z 22005KT 9999 FEW040 09/08 Q1022 KAAO 260154Z AUTO 16007KT CLR 21/15 A2997 RMK AO2 SLP142 T02060150 $ UKLI 251900Z 12007MPS 080V140 9999 BKN040 M04/M07 Q1031 NOSIG KABI 260152Z 15006KT 10SM CLR 22/10 A3008 RMK AO2 SLP166 T02220100 $ EDFH 260220Z VRB02KT 0700 R21/0550VP2000U FG VV/// 10/10 Q1024 UKLL 260230Z 14004MPS CAVOK M04/M06 Q1030 13CLRD80 NOSIG KACB 260239Z AUTO 30006KT 10SM CLR 12/00 A2980 RMK AO2 T01170004 KAAT 260216Z AUTO 23008KT 9SM -RA OVC032 06/04 A3001 RMK AO2 P0010 T00610044 $ KC29 260235Z AUTO 00000KT 10SM CLR 07/M01 A3000 RMK AO1 T00671008 UKLN 251500Z 08004MPS CAVOK M01/M06 Q1032 15290260 NOSIG EDFM 251950Z 14003KT 9999 FEW029 BKN039 OVC084 13/10 Q1023 UKLR 251500Z 13004MPS 100V170 CAVOK 02/M14 Q1032 NOSIG KC35 260235Z AUTO 28004KT 10SM CLR 11/M01 A2999 RMK AO2 T01051010 KABQ 260152Z 15004KT 10SM CLR 21/02 A3018 RMK AO2 SLP166 T02060017 KABR 260153Z AUTO 11005KT 10SM CLR 05/M01 A3004 RMK AO2 SLP183 T00501006 UKLU 251900Z 08001MPS 3000 BR SKC 04/03 Q1026 NOSIG KACJ 260235Z AUTO 30003KT 10SM CLR 11/10 A3006 RMK AO2 KACK 260153Z AUTO 24010KT 10SM CLR 14/11 A2961 RMK AO2 SLP026 T01440106 KADC 260235Z AUTO 23004KT 10SM CLR 03/M03 A3004 RMK AO2 KADF 260244Z AUTO 00000KT 6SM BR CLR 18/18 A3006 RMK AO2 KADG 260153Z AUTO 29004KT 10SM CLR 12/00 A2985 RMK AO2 SLP110 T01170000 KABY 260153Z 00000KT 10SM CLR 14/11 A3005 RMK AO2 SLP175 T01440106 KACP 260235Z AUTO 00000KT 10SM CLR 13/12 A3011 RMK AO2 T01250116 KACQ 260234Z AUTO 31005KT 10SM CLR 05/M04 A3008 RMK AO2 KADH 260235Z AUTO 20006KT 10SM CLR 23/17 A3004 RMK AO2 EDHI 251250Z 24007KT 3500 BR BKN005 12/12 Q1017 EDGS 251850Z 20006KT 170V240 0100 R31/0325N FG VV/// 09/09 Q1022 KACT 260151Z 15008KT 10SM CLR 24/16 A3007 RMK AO2 SLP177 T02440156 EDHK 251450Z 22007KT 8000 FEW007 SCT011 BKN044 13/11 Q1017 KACV 260153Z AUTO 16006KT 6SM BR FEW050 BKN080 OVC110 13/12 A3004 RMK AO2 RAB24E42 SLP176 P0000 T01330122 EDHL 251950Z 21006KT 5000 SCT006 BKN052 12/11 Q1020 RMK ATIS ECH KADM 252155Z 22005KT 10SM SKC 32/16 A3003 KAEG 260149Z 19008KT 10SM SKC 14/01 A3021 KACY 260154Z 23008KT 10SM CLR 14/09 A2970 RMK AO2 SLP056 T01390089 KADS 260147Z 16005KT 13SM SKC 26/14 A3005 KAEJ 260235Z AUTO 27005KT 10SM CLR 08/M08 A3025 RMK AO2 T00751078 EDJA 251950Z 00000KT 9999 FEW027 OVC064 08/07 Q1023 UKON 251700Z 05008MPS 020V080 CAVOK 01/M04 Q1030 NOSIG KAEL 260234Z AUTO 33003KT 10SM CLR 09/M01 A3006 RMK AO2 KADU 260235Z AUTO 00000KT 10SM CLR 07/03 A3008 RMK AO2 UKOO 260230Z 07006G12MPS 360V110 9999 SCT020 01/M03 Q1030 16090060 NOSIG KADW 260158Z AUTO 25008KT 10SM CLR 15/06 A2973 RMK AO2 SLP074 T01490061 $ CWAE 260100Z 00000KT 15SM -SHRA SCT006 OVC029 04/03 A2936 RMK SC3SC5 LAST OBS/NEXT 261300UTC SLP953 KAFF 260158Z AUTO 05003KT 10SM CLR 15/M05 A3013 RMK AO2 SLP152 T01521049 CWAF 260200Z AUTO 03013KT 04/03 RMK AO1 T00390027 KAFJ 260235Z AUTO 26005KT 10SM CLR 15/11 A2981 RMK AO1 CWAJ 260200Z AUTO 28009G15KT 14/03 RMK AO1 PK WND 27018/0100 SLP075 T01410027 53017 CWBA 260200Z AUTO 33004KT 08/06 RMK AO1 T00810056 KAFK 260235Z AUTO 08007KT 10SM CLR 16/04 A3002 RMK AO2 T01620041 KAGC 260153Z AUTO 25012KT 9SM CLR 16/09 A2976 RMK AO2 SLP080 T01560094 TSNO TTPP 260200Z 00000KT 9999 FEW016 27/24 Q1010 NOSIG KAFN 260152Z AUTO 00000KT 10SM OVC070 10/07 A2953 RMK AO2 SLP008 T01000067 CWBE 260200Z AUTO 29019G27KT 11/02 RMK AO1 PK WND 29032/0136 SLP018 T01070024 50001 KAEX 260153Z AUTO 00000KT 10SM CLR 17/13 A3008 RMK AO2 SLP190 T01670133 $ KAFO 260235Z AUTO 19004KT 10SM CLR 10/00 A2996 RMK AO2 KAFP 260235Z AUTO 00000KT 10SM CLR 13/06 A2993 RMK AO2 T01270058 KC75 260235Z AUTO 33003KT 10SM CLR 13/02 A3001 RMK AO2 T01320021 CWAQ 260200Z AUTO 11010KT 10/01 RMK AO1 SLP103 T00980007 56028 PFKT 260158Z AUTO 24007KT 10SM CLR 01/M03 A2958 RMK AO2 SLP017 T00061033 FZRANO CWAR 260200Z AUTO 04011KT 09/08 RMK AO1 PK WND 04018/0145 SLP947 T00860078 51002 CWCA 260200Z 09003KT 15SM OVC030 01/M03 A2989 RMK SC8 SLP122 CWBK 260200Z AUTO 25007KT 09/08 RMK AO1 SLP978 T00880075 56002 PFKW 260208Z AUTO 21012KT 9SM -SN OVC004 01/00 A2972 RMK AO2 CIG 003V009 P0000 FZRANO CWAV 260200Z AUTO 10004KT 06/M01 RMK AO1 SOG 41 6032 SLP015 T00551006 KAFW 260153Z 17006KT 10SM CLR 23/16 A3004 RMK AO2 SLP165 T02280156 $ CWCF 260200Z AUTO 31009G15KT 05/M00 RMK AO1 PK WND 30018/0100 SLP142 T00471004 58005 CWBO 260200Z AUTO 13005KT 05/M01 RMK AO1 SLP038 T00471012 56025 CWCI 260200Z AUTO 32021G27KT 08/04 RMK AO1 PK WND 32030/0107 SLP062 T00800035 51015 KAGS 260153Z 00000KT 10SM CLR 10/06 A2999 RMK AO2 SLP155 T01000061 KAIA 260153Z AUTO 15007KT 10SM CLR 10/02 A2998 RMK AO2 SLP155 T01000017 CWDA 260200Z AUTO 06013G22KT 03/02 RMK AO1 PK WND 06026/0120 SLP062 T00290023 58004 CWCJ 251500Z AUTO 26005KT 08/05 RMK AO1 SLP015 T00760051 52013 CWBS 260200Z AUTO 28004KT 10/09 RMK AO1 T01020090 KAIB 260235Z AUTO 09007KT 10SM SCT095 15/00 A3021 RMK AO2 EDMA 251850Z 08002KT 6000 OVC043 08/08 Q1023 RMK ATIS CHA CWBT 260100Z AUTO 05005KT 03/02 RMK AO1 9PAST HR 8002 SLP046 P0007 T00270015 50019 KAID 251947Z 28015G21KT 10SM CLR 24/07 A2992 CWBU 260200Z AUTO 08005KT M03/M05 RMK AO1 SLP158 T10301051 56009 CWDC 260200Z AUTO 28002KT M02/M02 RMK AO1 SLP144 T10161018 58001 CWCL 260200Z AUTO 22003KT 6SM 05/04 A2933 RMK SLP957 CWBV 260200Z AUTO 31010KT 10/09 RMK AO1 SLP986 T00990094 KAHN 260151Z AUTO 29006KT 10SM CLR 17/09 A3000 RMK AO2 SLP157 T01670094 EDLN 251750Z 23004KT 180V290 8000 BKN026 13/13 Q1021 RMK ATIS Z CWCO 260100Z AUTO 32013G19KT 11/06 RMK AO1 PK WND 32022/0049 SLP031 T01130056 51012 KAIG 260235Z AUTO 31008KT 10SM CLR 08/M04 A2993 RMK AO2 T00801044 CWBY 260200Z AUTO 05011G17KT 02/02 RMK AO1 2PAST HR 7013 PK WND 06021/0114 SLP021 P0001 T00180018 50004 EDLP 252320Z 25005KT 220V300 9999 -DZRA SCT014 BKN022 10/10 Q1024 RMK ATIS LIM KAHQ 260235Z AUTO 06005KT 10SM CLR 14/05 A3003 RMK AO2 T01360051 CWBZ 260200Z AUTO 23009G15KT 11/10 RMK AO1 SLP967 T01090098 58008 UMBB 260200Z 13002MPS 9000 NSC M03/M08 Q1030 NOSIG KD07 260156Z AUTO 13015KT 10/M01 A2994 RMK AO1 SLP148 T01001006 OOMS 260150Z 15002KT CAVOK 25/18 Q1012 NOSIG CWDJ 252200Z AUTO 09004KT 13/M02 RMK AO1 SLP158 T01301015 58024 KAIK 260255Z AUTO 00000KT 10SM CLR 12/08 A3002 RMK AO2 PNO KBAB 260158Z AUTO 18011KT 10SM BKN070 17/13 A3002 RMK AO2 RAB0110E0116 SLP241 P0001 T01710132 $ CWCT 260200Z AUTO 11013G18KT 04/M03 RMK AO1 PK WND 12018/0100 SLP059 T00441028 58036 CWEB 260200Z AUTO 33012KT 08/07 RMK AO1 PK WND 31023/0124 SLP964 T00760072 53037 CWDK 260200Z AUTO 10004KT 03/M00 RMK AO1 SLP036 T00311004 58029 KBAC 260235Z AUTO 20003KT 10SM CLR 04/M02 A3003 RMK AO2 KBAD 260158Z AUTO 15002KT 10SM CLR 20/18 A3007 RMK AO2 SLP185 T01950180 CWDM 260200Z AUTO 06018G28KT 04/02 RMK AO1 PK WND 05028/0139 SLP048 T00430018 58006 EDLV 252150Z VRB03KT CAVOK 09/08 Q1022 PFNO 260206Z AUTO 18008KT 10SM SCT028 OVC042 01/00 A2959 RMK AO2 FZRANO KAIO 250355Z AUTO 00000KT 4SM BR CLR 10/10 A2999 RMK AO2 CWEE 260200Z AUTO 07/06 RMK AO1 SLP929 T00660063 58016 EDLW 252050Z 24007KT 9999 OVC020 12/10 Q1022 RMK ATIS J KBAF 260153Z 20006KT 10SM -RA OVC070 12/07 A2955 RMK AO2 RAB46 SLP007 P0000 T01170072 EDMO 251020Z VRB02KT CAVOK 09/05 Q1021 RMK ATIS P CWEF 260200Z AUTO 10018KT 09/08 RMK AO1 PK WND 12023/0146 SLP977 T00850080 53004 CWDO 260200Z AUTO 06030G42KT 04/04 RMK AO1 PK WND 06042/0155 SLP021 T00350035 57003 KAJG 260235Z AUTO 00000KT 10SM CLR 17/12 A2999 RMK AO2 CWDQ 260200Z AUTO 17004KT 07/07 RMK AO1 6019 SLP952 T00710070 50030 CWEH 260200Z AUTO 11012KT 08/02 RMK AO1 PK WND 12017/0140 SLP061 T00840020 56028 EEEI 251650Z 16010KT 9999 BKN120 OVC150 03/M03 Q1022 NOSIG KBAK 260155Z 27008KTS 10SM SKC 17/09 A2995 KAIT 260234Z AUTO 00000KT 10SM CLR 07/M03 A3000 RMK AO2 KBBB 260233Z AUTO 00000KT 10SM CLR 06/M01 A3006 RMK AO2 CWDT 260200Z AUTO 12008KT 04/M00 RMK AO1 SLP985 T00431003 58008 CWEK 260200Z AUTO 04020KT 11/ RMK AO1 PK WND 04025/0106 SLP988 T0106 53007 CWEL 260200Z AUTO 32025KT 09/07 RMK AO1 8PAST HR 5009 PK WND 32030/0149 SLP919 P0003 T00860069 50022 NWWW 260230Z AUTO 15015G26KT 120V180 9999 FEW044 BKN058 26/14 Q1014 KBBD 260235Z AUTO 14005KT 10SM CLR 22/12 A3011 RMK CWDV 260200Z AUTO 30008KT 06/M02 RMK AO1 PK WND 30017/0117 SLP121 T00551020 51014 CWFD 260200Z AUTO 32014KT 3/4SM BKN040 M13/ A2977 RMK SLP160 KBAN 260152Z AUTO 00000KT OVC048 06/02 A3011 RMK AO2 RAE29 SLP157 P0001 T00560022 $ KAJO 260233Z AUTO 26009G15KT 10SM BKN001 22/14 A2999 RMK AO2 $ KBBF 260235Z AUTO VRB05KT 10SM CLR 25/15 A3010 RMK A01 CWFF 260200Z AUTO 10005KT 01/M02 RMK AO1 SLP152 T00121015 56014 ULLI 260230Z 19004MPS CAVOK M00/M08 Q1025 28////// 78190060 NOSIG KD25 260235Z AUTO 31006KT 10SM CLR 07/M03 A2993 RMK AO2 T00711031 KBBG 260235Z AUTO 21003KT 10SM CLR 20/17 A3006 RMK AO2 CWEP 260200Z AUTO 24004KT 09/09 RMK AO1 8003 SLP967 T00940088 50002 KAIZ 260235Z AUTO 00000KT 10SM CLR 17/14 A3002 RMK AO1 KAKH 260154Z AUTO 00000KT 10SM CLR 11/07 A2995 RMK AO2 SLP143 T01110067 CWEQ 260200Z AUTO 06004KT 02/M02 RMK AO1 SLP159 T00151015 50001 CWDZ 260200Z AUTO 15011KT 06/M03 RMK AO1 SLP028 T00571032 58034 CWER 260200Z AUTO 05025KT RMK AO1 PK WND 04032/0126 CWFJ 260200Z AUTO 28004KT 05/02 RMK AO1 T00540017 KALB 260151Z 26009KT 10SM FEW049 FEW060 SCT075 13/09 A2956 RMK AO2 RAB00E22 SLP009 P0001 T01280089 $ KBCB 260235Z AUTO 27004KT 10SM CLR 14/11 A2993 RMK AO2 CWGB 260200Z AUTO 28018KT 09/08 RMK AO1 5004 PK WND 27021/0151 SLP926 T00910080 50008 CWEU 260200Z 00000KT 10SM -SN OVC100 M26/M30 A3023 RMK AC8 SLP238 CWGD 260200Z AUTO 31012G19KT 12/06 RMK AO1 PK WND 30020/0129 SLP059 T01150055 51016 KBCE 260153Z AUTO 19009KT 10SM CLR 12/02 A3022 RMK AO2 SLP179 T01220022 TSNO CWEW 260200Z AUTO 22005KT 10/09 RMK AO1 SLP966 T00980088 56009 KAKO 260153Z AUTO 09007KT 10SM CLR 14/02 A3002 RMK AO2 SLP143 T01440017 KBAX 260239Z AUTO 31005KT 10SM CLR 09/03 A2977 RMK AO2 T00860025 KBBP 260235Z AUTO 00000KT 10SM CLR 10/10 A2994 RMK AO2 KBAZ 260151Z AUTO 14005KT 10SM CLR 22/12 A3008 RMK AO2 SLP181 T02220122 KAKQ 260154Z AUTO 20005KT 10SM CLR 14/08 A2982 RMK AO2 SLP097 T01390078 TSNO $ EDNY 260220Z AUTO 07004KT 9999 FEW052 BKN064 BKN079 08/06 Q1025 KAJZ 260235Z AUTO 28006KT 10SM CLR 20/00 A3012 RMK AO2 T01951002 CWFQ 260200Z AUTO 22005KT 10/ RMK AO1 T0103 CWEZ 260200Z AUTO 32003KT 10/09 RMK AO1 4PAST HR 5019 SLP903 P0041 T01010093 50138 KALI 260153Z AUTO 18005KT 10SM CLR 21/17 A3010 RMK AO2 SLP192 T02060167 KAKR 260154Z AUTO 29014G26KT 10SM CLR 16/02 A2979 RMK AO2 PK WND 29026/0147 SLP086 T01610017 KAMA 260153Z 16011KT 10SM CLR 20/10 A3007 RMK AO2 SLP150 T02000100 ULMM 260230Z 17004MPS 9999 -SHSN BKN014CB 00/M01 Q1008 NOSIG RMK QFE748 31590342 KD39 260233Z AUTO 00000KT 10SM CLR 04/M02 A3006 RMK AO2 T00361025 KALK 260156Z AUTO 21008KT 10SM CLR 22/08 A3020 RMK AO2 SLP147 T02170083 TSNO KBCK 260235Z AUTO 00000KT 10SM CLR 01/M01 A3000 RMK AO2 T00071007 CWGL 260200Z AUTO 29018G25KT 11/03 RMK AO1 PK WND 30033/0124 SLP014 T01090029 51004 CWGM 260200Z AUTO 29007KT 07/02 RMK AO1 T00700015 KBBW 260153Z AUTO 10006KT 10SM CLR 14/06 A3001 RMK AO2 SLP161 T01390056 KBDE 260153Z AUTO 00000KT 10SM CLR 05/M03 A2996 RMK AO2 SLP158 T00501033 TSNO KALN 260150Z 00000KT 10SM SKC 15/11 A3002 KALO 260154Z 00000KT 10SM CLR 08/02 A3005 RMK AO2 SLP181 T00830017 KAMG 260229Z AUTO 00000KT 2 1/2SM BR CLR 11/10 A3001 RMK AO2 T01110100 KBDG 260235Z AUTO 06003KT 10SM SCT095 14/00 A3023 RMK AO1 T01431005 KBDH 260235Z AUTO 00000KT 10SM CLR 06/M01 A3008 RMK AO2 NZAA 260230Z AUTO 26015KT 9999 SCT036/// OVC048/// 15/09 Q1018 NOSIG OOSA 260150Z VRB01KT CAVOK 25/11 Q1010 NOSIG RMK00 RH42 CWHI 260100Z AUTO 12011KT 06/M04 RMK AO1 PK WND 12019/0051 T00631040 CWGR 260200Z AUTO 09014G19KT 08/08 RMK AO1 PK WND 10019/0144 SLP969 T00840081 58007 ZSAM 260200Z VRB02MPS 7000 BKN060 25/20 Q1019 NOSIG KALS 260152Z AUTO 24008KT 10SM CLR 12/M04 A3025 RMK AO2 SLP220 T01171044 KBEA 260235Z AUTO 15004KT 10SM CLR 21/17 A3011 RMK AO2 T02080171 KBCT 260150Z 36007KT 10SM CLR 23/18 A2995 KANB 260153Z AUTO 00000KT 10SM CLR 14/12 A3006 RMK AO2 SLP183 T01390122 KD50 260235Z AUTO 14010KT 10SM CLR 09/00 A2987 RMK AO2 CWGT 260200Z AUTO 31023KT 08/07 RMK AO1 PK WND 31025/0159 SLP933 T00840071 55003 KBDL 260151Z 20007KT 10SM FEW040 OVC085 14/06 A2955 RMK AO2 SLP004 T01440061 CWHL 260200Z AUTO 13003KT 09/07 RMK AO1 SLP983 T00850067 53005 KAND 260156Z AUTO 00000KT 10SM CLR 13/10 A2998 RMK AO2 SLP150 T01280100 KBED 260156Z 21005KT 10SM SCT100 12/07 A2953 RMK AO2 SLP012 T01170067 EDQM 251650Z 19004KT 4200 -RA BR BKN040 07/05 Q1022 CWID 260200Z AUTO 04003KT M04/M06 RMK AO1 SLP149 T10351062 58001 CWHM 260200Z AUTO 23006KT 11/10 RMK AO1 T01080099 KALW 260153Z AUTO 19014KT 10SM FEW065 BKN095 BKN110 17/08 A2955 RMK AO2 PK WND 24034/0133 RAE46 SLP005 P0001 T01720078 $ KANE 260234Z AUTO 00000KT 10SM CLR 08/M02 A3005 RMK AO2 KBDN 260235Z AUTO 22015KT 10SM SCT037 BKN044 09/03 A2978 RMK AO2 KAMN 260231Z AUTO 27007KT 10SM CLR 11/00 A2982 RMK AO2 T01060000 CWGW 260200Z AUTO 00000KT 06/03 RMK AO1 SLP041 T00610033 58020 CWHN 260200Z AUTO 09007KT 9SM OVC091 04/M02 A2977 RMK SLP108 KALX 260235Z AUTO 00000KT 10SM CLR 13/12 A3007 RMK AO2 T01330118 CWGX 260200Z AUTO 29016KT 04/01 RMK AO1 PK WND 30022/0157 SLP064 T00360010 53010 CWHO 260200Z AUTO 19014KT 02/M03 RMK AO1 PK WND 22018/0137 SLP124 T00181030 58007 KD55 260235Z AUTO 18003KT 10SM CLR 00/M08 A2999 RMK AO2 PFSH 260158Z AUTO 16020KT 3SM -SN BR OVC004 01/00 A2965 RMK AO2 PK WND 16027/0103 SLP056 P0000 T00110000 FZRANO CWHP 260200Z AUTO 07028G34KT 05/04 RMK AO1 PK WND 07034/0157 SLP000 T00500038 58008 CWIG 260200Z AUTO 04014G19KT RMK AO1 PK WND 05020/0129 CWGY 260200Z AUTO 08013KT 06/M02 RMK AO1 PK WND 09017/0138 SLP078 T00561021 57036 KBEH 260153Z AUTO 30012G18KT 10SM CLR 14/05 A2991 RMK AO2 SLP128 T01440050 CWGZ 252000Z 07005KT 15SM FEW030 M17/M22 A3013 RMK SC1 -13.8/-18.0/0 WIND SPEED EST SNW CVR/MED PCK LAST OB/NEXT 281200 SLP211 CWHQ 260200Z AUTO 10006KT 07/07 RMK AO1 4PAST HR M P0013 T00740070 50034 KD57 260235Z AUTO 13009KT 10SM CLR 11/M03 A2991 RMK AO2 TSNO KBDR 260152Z AUTO 22013KT 10SM CLR 17/10 A2958 RMK AO2 SLP017 T01670100 CWII 260200Z AUTO 05004KT 06/03 RMK AO1 T00640032 KANJ 260155Z AUTO 30017G25KT 10SM CLR 09/02 A2966 RMK AO2 PK WND 31028/0102 SLP044 T00940017 CWIJ 260200Z AUTO 29007KT M17/M19 RMK AO1 SLP152 T11671187 51004 OPKC 260225Z 10005KT 4000 FU NSC 22/05 Q1013 NOSIG KANK 260215Z AUTO 26011G14KT 10SM CLR 15/M07 A3029 RMK AO1 T01501070 KD60 260235Z AUTO 12009KT 10SM CLR 08/M01 A2990 RMK AO2 CWJB 260200Z AUTO 07010G16KT 05/05 RMK AO1 4PAST HR M PK WND 07019/0139 P0005 T00530049 50014 CWHT 260200Z AUTO 00000KT M02/M03 RMK AO1 SOG 01 7010 SLP098 T10171029 CWIK 260200Z AUTO 11004KT 03/M03 RMK AO1 SLP154 T00311030 56017 EDSB 260050Z 20003KT 9999 BKN030 BKN082 12/10 Q1025 KBDU 260236Z AUTO 00000KT 10SM CLR 15/M02 A3003 RMK AO2 ULOO 252330Z 17003MPS P6000 NSC M03/M08 Q1028 19090070 NOSIG RMK QFE767 CWIL 260200Z AUTO 17012KT M06/ A2983 RMK SLP109 KBFD 260153Z AUTO 28006KT 9SM FEW022 SCT030 BKN060 12/07 A2968 RMK AO2 SLP049 T01170072 UMGG 260200Z 13003MPS CAVOK M07/M10 Q1037 R10/CLRD// NOSIG CWJD 260200Z AUTO 32004KT M01/M03 RMK AO1 SLP153 T10081028 51001 CWHV 260200Z AUTO 11001KT 08/07 RMK AO1 SLP964 T00790072 56025 KAMW 260153Z AUTO 00000KT 9SM CLR 09/04 A3006 RMK AO2 SLP180 T00890044 NZAP 260200Z 26016KT 20KM BKN041 13/06 Q1016 RMK ALT VATSIM USE ONLY KBFF 260153Z AUTO 09007KT 10SM CLR 12/03 A2998 RMK AO2 SLP146 T01220033 CXAF 260200Z AUTO 10012KT 04/M04 RMK AO1 PK WND 12018/0142 T00391041 TUPJ 260100Z 14005KT 9999 FEW020 28/24 Q1012 RMK A2991 CXAG 260200Z AUTO 09012KT 05/M04 RMK AO1 PK WND 09017/0133 T00471035 CWIP 260000Z AUTO 09008KT 04/ RMK AO1 T0038 KAOH 260153Z AUTO 26006KT 10SM CLR 13/07 A2988 RMK AO2 SLP116 T01280067 KANQ 260255Z AUTO VRB05KT 10SM CLR 12/02 A2989 RMK OPLA 260230Z 00000KT 2000 BR NSC 20/17 CWJH 260200Z AUTO 30004KT 02/M02 RMK AO1 SLP151 T00221016 52002 KBFI 260153Z 17012G20KT 6SM -RA FEW040 BKN049 OVC075 16/11 A2931 RMK AO2 SLP925 P0015 T01560111 CWJI 260200Z AUTO 11011KT 08/01 RMK AO1 SLP105 T00790005 57029 KAPA 260153Z 20013KT 10SM CLR 18/M05 A3006 RMK AO2 SLP142 T01781050 PHBK 260156Z AUTO 35006KT 10SM -RA FEW047 OVC060 27/23 A2996 RMK AO2 RAB0057E21B46 SLP146 P0000 T02720233 CXBA 260200Z AUTO 11013KT 05/M02 RMK AO1 PK WND 12020/0109 T00451019 CXAJ 260200Z AUTO 10008KT 04/M02 RMK AO1 T00371021 CWIS 260200Z AUTO 01002KT 01/M00 RMK AO1 7PAST HR 8018 SLP970 P0003 T00061001 50013 EEKA 250750Z 18012KT 150V220 9999 BKN015 03/M02 Q1024 CXAK 260200Z AUTO 12013KT 05/M03 RMK AO1 PK WND 13023/0106 T00521029 KAPC 260154Z AUTO 25007KT 10SM SCT050 16/13 A3006 RMK AO2 SLP169 T01560128 KBFL 260245Z 32014KT 3SM HZ BKN012 BKN065 21/11 A3003 RMK AO2 WSHFT 0216 T02060111 KBGD 260151Z AUTO 17012G20KT 10SM CLR 24/09 A3002 RMK AO2 SLP137 T02440089 KBFM 260153Z AUTO 00000KT 10SM CLR 14/13 A3009 RMK AO2 SLP187 T01440133 CWKD 260200Z AUTO 12010KT 04/01 RMK AO1 SLP985 T00430008 56007 KANW 260235Z AUTO 12006KT 10SM CLR 08/02 A3001 RMK AO2 T00840020 KBGE 260235Z AUTO 30003KT 10SM CLR 15/11 A3005 RMK AO2 CWIW 260200Z AUTO 08004KT M00/M02 RMK AO1 SLP141 T10041022 56021 KAOO 260153Z AUTO 28015G25KT 10SM FEW034 16/11 A2970 RMK AO2 SLP054 T01610106 EEKE 260150Z AUTO 21015KT 9999NDV OVC014 06/03 Q1021 KAPF 260153Z 00000KT 10SM CLR 22/17 A2996 RMK AO2 SLP144 T02170172 KBGF 260235Z AUTO 00000KT 10SM CLR 14/13 A3006 RMK CWIX 260200Z AUTO 12026KT 05/02 RMK AO1 22 T00480015 CWJO 260200Z AUTO 11011G19KT 05/01 RMK AO1 PK WND 11022/0108 SLP975 T00470011 58013 NZCH 260235Z 16015KT 50KM NSC 18/08 Q1006 RMK VATSIM USE ONLY NZCI 260200Z 24010KT 40KM NSC 20/05 Q1011 RMK NZNR VATSIM USE ONLY CWIY 260200Z AUTO 11001KT 05/04 RMK AO1 SLP993 T00470043 58016 CWKG 260200Z AUTO 24002KT 06/06 RMK AO1 SLP008 T00620057 50000 EDRZ 260220Z VRB02KT 9999 BKN014 11/10 Q1024 CWIZ 260200Z AUTO 23006KT 11/10 RMK AO1 T01080102 CWKH 260200Z AUTO 08/08 RMK AO1 8PAST HR 5005 SLP902 P0011 T00840077 50076 CXBI 260200Z AUTO 30022G32KT 10/02 RMK AO1 PK WND 31032/0157 SLP026 T00970015 51003 CWJR 260200Z AUTO 06007KT 09/08 RMK AO1 5PAST HR SOG 00 6026 SLP016 P0002 T00930076 50005 CXCA 260200Z AUTO 33008G17KT 08/M01 RMK AO1 PK WND 31021/0144 SLP083 T00791007 51020 KBHB 260235Z AUTO 00000KT 10SM CLR 07/06 A2949 RMK AO1 NZCM 252355Z 11008G18KT 9999 FEW030 SCT080 BKN100 M10/M16 A2932 RMK PK WND 14029/00 ACLS SW-W SLP933 SN DSNT W CXAT 260200Z AUTO 08004KT M15/M19 RMK AO1 T11511188 CWKK 260200Z AUTO 32025G30KT 07/03 RMK AO1 3PAST HR 1020 PK WND 33032/0143 SLP084 P0001 T00700029 50005 CWLB 260200Z AUTO 12007KT 04/M02 RMK AO1 SLP093 T00411020 56033 CXBK 260200Z AUTO 11011KT 08/M02 RMK AO1 SLP114 T00841021 56029 CWJT 260200Z AUTO 24003KT 08/08 RMK AO1 0PAST HR 5006 SLP965 P0012 T00800077 50030 KBHC 260235Z AUTO 00000KT 10SM CLR 13/10 A3001 RMK AO2 EDTL 251550Z 04003KT CAVOK 14/09 Q1021 CWJU 260200Z AUTO 34015KT 10/07 RMK AO1 PK WND 34018/0146 SLP019 T00970066 53005 CWLC 260200Z AUTO 01012KT 11/05 RMK AO1 T01120049 KBGM 260153Z 29010KT 10SM FEW065 12/06 A2962 RMK AO2 SLP033 T01170056 CXCD 260200Z AUTO 03004KT 02/01 RMK AO1 T00180005 CWJV 260200Z AUTO 00000KT 07/06 RMK AO1 SLP971 T00690062 56019 CWKM 260200Z AUTO 12005KT M15/ A2980 RMK SLP097 KAPN 260154Z AUTO 30011G18KT 10SM CLR 11/M01 A2972 RMK AO2 SLP064 T01061011 KBFW 260234Z AUTO 27004KT 10SM CLR 09/M03 A2992 RMK AO2 DNKN 251300Z 07015KT CAVOK 35/06 Q1012 NOSIG CWLE 260200Z AUTO 10010KT 05/01 RMK AO1 PK WND 10017/0124 SLP105 T00530010 56029 CWJW 260200Z AUTO 00000KT M01/M01 RMK AO1 8PAST HR 8020 SLP021 P0003 T10081010 50015 VCRI 260210Z 32004KT 280V340 9999 FEW016 27/23 Q1013 NOSIG CXBO 260200Z AUTO 05010G15KT RMK AO1 PK WND 06017/0108 CWJX 260200Z AUTO 10016KT 07/M01 RMK AO1 PK WND 11020/0156 SLP064 T00671008 56036 CWKO 260200Z AUTO 13013G19KT 09/M00 RMK AO1 PK WND 12019/0157 SLP104 T00931003 57029 UMII 251700Z 16004MPS CAVOK M02/M09 Q1034 NOSIG UNAA 260230Z VRB02MPS 5000 BR SCT026CB OVC066 04/03 Q1015 NOSIG RMK QFE738 52290055 CWKP 260200Z AUTO 19014KT M10/ A2980 RMK SLP129 CXCH 260200Z AUTO 10/08 RMK AO1 T01020077 KBGR 260153Z 13005KT 10SM SCT080 OVC250 08/06 A2948 RMK AO2 SLP984 T00780061 CXBR 260200Z AUTO 21008KT 03/00 RMK AO1 T00280000 CWLI 260200Z AUTO 26013KT M06/ A2985 RMK SLP124 KARA 260153Z AUTO 00000KT 10SM CLR 17/13 A3011 RMK AO2 SLP196 T01720133 $ KBHK 260151Z AUTO 14015G21KT 10SM CLR 12/00 A2983 RMK AO2 SLP109 T01220000 KARB 260153Z AUTO 29008KT 10SM CLR 12/M01 A2982 RMK AO2 SLP097 T01221006 CXDB 260200Z AUTO 19006KT 05/03 RMK AO1 T00540030 CXCK 260200Z AUTO 31003KT M01/M04 RMK AO1 SLP111 T10101039 57008 NZDN 260221Z 23018KT 20KM SCT028 BKN040 11/06 Q1008 RMK VATSIM USE ONLY KBHM 260153Z 12003KT 10SM CLR 17/14 A3008 RMK AO2 SLP182 T01670144 KBID 260235Z AUTO 23013G18KT 10SM CLR 16/11 A2959 RMK AO1 CWLM 260200Z AUTO 34012G18KT 10/10 RMK AO1 4PAST HR 5002 PK WND 34021/0146 SLP907 P0009 T01020098 50066 KBIE 260235Z AUTO 07004KT 10SM CLR 16/08 A3000 RMK AO2 T01580075 EDVE 251420Z 25008KT 9999 OVC015 13/11 Q1019 CXBW 260100Z AUTO 16005KT 09/02 RMK AO1 T00850015 CWME 260200Z AUTO 03017KT 09/04 RMK AO1 PK WND 03020/0107 SLP962 T00940041 53011 CXDE 260200Z AUTO 30003KT M08/M08 RMK AO1 SLP152 T10771075 57003 KBIF 260158Z AUTO 25003KT 10SM CLR 23/08 A3014 RMK AO2 SLP159 T02340078 $ CWKW 260200Z AUTO ///// M05/ A2977 RMK SLP120 KAPY 252155Z AUTO 16008KT 10SM CLR 32/11 A3005 RMK AO2 T03210111 CWKX 260200Z AUTO 02006KT 03/M03 RMK AO1 SLP076 T00331030 56006 KAQP 260235Z AUTO 00000KT 10SM CLR 05/01 A3006 RMK AO2 KD95 260234Z AUTO 28009KT 10SM CLR 12/00 A2978 RMK AO2 T01151002 KARG 260235Z AUTO 15003KT 5SM CLR 19/16 A3001 RMK AO1 OPNH 260155Z 31502KT 3000 BR NSC 20/17 Q1012 CXCP 260200Z AUTO 10004KT 02/M02 RMK AO1 T00201020 CWLP 260200Z AUTO 31006KT 10/07 RMK AO1 SLP966 T00990073 53010 KBIH 260156Z AUTO 29004KT 10SM CLR 21/M16 A2994 RMK AO2 SLP099 T02061156 UNBB 260230Z 25003MPS 9999 FEW020 OVC100 M06/M10 Q1016 NOSIG RMK QFE740/0987 24CLRD66 KAQR 260235Z AUTO 00000KT 10SM CLR 18/18 A3004 RMK AO2 CXDI 252300Z AUTO 24004KT 14/08 RMK AO1 SLP036 T01440075 50003 KBIJ 260235Z AUTO 00000KT 10SM CLR 13/11 RMK AO2 OPMT 260155Z 27008KT 4000 FU FEW120 24/16 Q1014 TEMPO 2500 CXCS 260200Z AUTO 11016KT 03/M02 RMK AO1 PK WND 11019/0148 T00281024 CXEA 260200Z AUTO 28003KT 04/M01 RMK AO1 SLP137 T00381009 51008 CWMJ 260200Z AUTO 25002KT 08/06 RMK AO1 SLP969 T00760055 56003 CWLS 260200Z AUTO 31007KT 09/05 RMK AO1 SLP053 T00890047 52010 CWNB 260200Z AUTO RMK AO1 KBJC 260148Z 32003KT 30SM SKC 20/M06 A3007 CXDK 260200Z AUTO 15001KT M03/M05 RMK AO1 SLP132 T10321052 52004 KBIL 260153Z 34007KT 10SM SCT250 13/02 A2971 RMK AO2 SLP064 T01330017 EDVK 251950Z 18004KT 140V210 7000 FEW011 SCT032 BKN082 11/10 Q1022 RMK ATIS G KE11 260235Z AUTO 17005KT 10SM CLR 21/10 A3011 RMK AO2 T02060098 CXEC 260200Z AUTO 06/ RMK AO1 T0055 CWNC 260200Z AUTO 31011G22KT 13/03 RMK AO1 PK WND 33022/0151 SLP007 T01260032 51001 KASD 260153Z AUTO 00000KT 10SM CLR 17/14 A3008 RMK AO2 SLP186 T01670144 KCAD 260234Z AUTO 31011G14KT 10SM CLR 08/01 A2982 RMK AO2 T00900008 KAQV 260156Z AUTO 00000KT 3SM BR CLR 16/14 A3009 RMK AO2 SLP188 T01560139 KARM 260235Z AUTO 13003KT 10SM CLR 18/15 A3012 RMK AO2 T01780152 CWND 260933Z M01/M01 RMK 0003 T10101014 CWMM 260200Z AUTO 04007KT 12/11 RMK AO1 0PAST HR 6024 SLP908 P0031 T01190111 50112 KAQW 260152Z AUTO 31010G21KT 270V340 5SM RA SCT035 OVC044 12/08 A2955 RMK AO2 RAB45 SLP010 P0001 T01220083 KASE 260153Z AUTO 19008KT 10SM CLR 08/M02 A3024 RMK AO2 SLP185 T00831022 KCAE 260156Z 26003KT 10SM CLR 12/09 A2997 RMK AO2 SLP147 T01220089 CWNE 260200Z AUTO 34011KT 08/08 RMK AO1 6012 SLP976 T00810075 50006 KASG 260148Z 00000KT 10SM SKC 19/17 A3008 CWLX 260200Z AUTO 05008KT M22/ A3008 RMK SLP212 KCAG 260153Z AUTO 00000KT 10SM CLR 09/01 A3011 RMK AO2 SLP201 T00890011 CXDP 260200Z AUTO 09013KT 04/M01 RMK AO1 PK WND 10022/0114 T00371012 CXEG 260200Z AUTO 06/M02 RMK AO1 T00641016 CWLY 260240Z AUTO 00000KT 6SM -RA BR SCT004 OVC055 08/07 A2936 RMK SLP945 KASH 260151Z AUTO 00000KT 10SM SCT090 12/08 A2953 RMK AO2 T01160077 SLP247 $ KE16 260235Z AUTO 00000KT 10SM CLR 16/13 A3011 RMK AO2 CWMQ 260200Z AUTO 16021G31KT 14/01 RMK AO1 PRESFR PK WND 16031/0159 SLP023 T01440013 58051 UMKK 260230Z 21003MPS 9999 OVC016 06/01 Q1025 R24/70D NOSIG RMK QFE768/1024 CWNH 260200Z AUTO 01005KT 03/02 RMK AO1 SLP983 T00290024 58019 ZSHC 260230Z 24002MPS 4000 HZ NSC 25/13 Q1019 NOSIG KARR 260152Z 29004KT 10SM CLR 09/01 A2999 RMK AO2 SLP156 T00940006 KBJI 260233Z AUTO 25004KT 10SM CLR 03/M04 A3001 RMK AO2 T00331043 PFWS 260156Z AUTO 15003KT 10SM OVC075 02/M03 A2986 RMK AO2 SLP118 T00171028 FZRANO KBIS 260152Z 12005KT 10SM CLR 07/M01 A2998 RMK AO2 SLP166 T00721011 VECC 260220Z 31004KT 2500 BR FEW020 SCT100 26/23 Q1014 BECMG 3000 HZ KBJJ 260156Z AUTO 30015G22KT 10SM -RA CLR 16/02 A2983 RMK AO2 RAB52 SLP100 P0000 T01560017 TSNO KASJ 260235Z AUTO 00000KT 10SM CLR 11/08 A2985 RMK AO2 T01060081 KCAK 260151Z 29012KT 10SM CLR 16/03 A2980 RMK AO2 SLP090 T01560033 KBKB 260154Z AUTO 00000KT 10SM CLR 17/13 A3009 RMK AO2 SLP216 T01670128 KART 260156Z AUTO 26010G16KT 10SM SCT050 BKN065 OVC090 14/09 A2954 RMK AO2 SLP001 T01390089 CWNK 260200Z AUTO 26004KT 02/M05 RMK AO1 T00231047 CWMT 260200Z AUTO 07002KT M05/M06 RMK AO1 SLP155 T10521059 53001 CWOB 260226Z AUTO 02014KT -SN M08/ A2994 KASL 260235Z AUTO 00000KT 5SM CLR 20/19 A3010 RMK AO1 T02020187 CWNL 260200Z AUTO 30019G26KT 11/05 RMK AO1 PK WND 30026/0153 SLP038 T01090047 56001 CWOC 260100Z AUTO 36002KT 04/03 RMK AO1 SLP004 T00390030 58013 KBIV 260153Z AUTO 30015G21KT 10SM CLR 16/03 A2989 RMK AO2 SLP121 T01560033 KARV 260235Z AUTO 32008G15KT 10SM CLR 10/M03 A2993 RMK AO2 T00961032 KBKD 260235Z AUTO 15008KT 7SM CLR 23/12 A3005 RMK AO2 T02300121 CWOD 260200Z AUTO 11009KT 06/06 RMK AO1 4PAST HR 8012 SLP934 P0005 T00620055 50026 CWNM 260200Z AUTO 11004KT 10/08 RMK AO1 2PAST HR 6017 SLP003 P0001 T00960078 50002 ZSFZ 260200Z VRB01MPS 9999 FEW033 26/16 Q1019 NOSIG KARW 260235Z AUTO 00000KT 10SM CLR 13/13 A2998 RMK AO2 KBKE 260153Z AUTO 16022G37KT 10SM -RA CLR 16/M01 A2967 RMK AO2 PK WND 16037/0151 SLP039 P0000 T01561006 $ KASN 260235Z AUTO 00000KT 10SM CLR 16/14 A3006 RMK AO2 T01550138 KCBE 260241Z AUTO 28012G21KT 10SM CLR 19/10 A2975 RMK AO1 CWOE 260200Z AUTO 09010KT 08/02 RMK AO1 SLP050 T00750024 56022 CXDW 260200Z AUTO 26008KT 07/M03 RMK AO1 T00711031 KCAO 260155Z AUTO 20012KT 10SM CLR 19/02 A3008 RMK AO2 SLP135 T01890022 KBIX 260158Z AUTO 27001KT 10SM CLR 19/17 A3007 RMK AO2 SLP186 T01920166 KCBF 260235Z AUTO 08010KT 10SM CLR 15/05 A3003 RMK AO2 KBKF 260158Z 12007KT 10SM CLR 15/M04 A3006 RMK AO2A SLP137 T01491040 KCBG 260236Z AUTO 26003KT 10SM CLR 09/M01 A3003 RMK AO2 CWNP 260200Z AUTO 33001KT 06/05 RMK AO1 2PAST HR 8018 SLP004 P0001 T00620052 50002 CWMZ 260200Z AUTO 30033G38KT 11/04 RMK AO1 PK WND 31040/0100 SLP022 T01110035 51002 CWNQ 260200Z AUTO 13001KT 09/09 RMK AO1 9PAST HR 6017 SLP953 P0015 T00920089 50159 KCAR 260237Z AUTO 10004KT 10SM OVC006 06/04 A2947 RMK AO2 T00560044 KAST 260155Z AUTO 26018G36KT 10SM FEW034 SCT070 13/08 A2962 RMK AO2 PK WND 27036/0150 RAE32 PRESRR SLP030 P0007 T01330078 KCBK 260235Z AUTO 00000KT 10SM CLR 16/07 A2996 RMK AO2 CXET 260200Z AUTO 32010G17KT 10/04 RMK AO1 PK WND 31020/0143 SLP033 T00950035 51009 KBKL 260153Z 28021G31KT 10SM CLR 16/06 A2978 RMK AO2 PK WND 29031/0150 SLP083 T01560056 KATL 260152Z 30006KT 10SM CLR 17/10 A3004 RMK AO2 SLP171 T01720100 EFET 260220Z AUTO 16004KT 130V200 0600 FG VV004 01/01 Q1001 CWPC 260200Z AUTO 33024G32KT 14/06 RMK AO1 PRESRR PK WND 33032/0157 SLP050 T01390062 53008 KCBM 260158Z AUTO 00000KT 6SM BR CLR 16/16 A3006 RMK AO2 SLP182 T01640163 $ KCAV 260235Z AUTO 03003KT 10SM CLR 07/03 A3007 RMK AO2 CXFM 260200Z AUTO 13015KT 10/03 RMK AO1 PK WND 13020/0110 T01020031 CWPD 260200Z AUTO 19003KT 04/04 RMK AO1 0PAST HR 8020 SLP939 P0008 T00410041 50020 UMMG 251400Z 14007G10MPS CAVOK 03/M07 Q1030 NOSIG KBKN 260235Z AUTO 15006KT 10SM CLR 22/16 A2996 RMK AO2 KASW 260235Z AUTO 29007KT 10SM CLR 10/02 A2992 RMK AO2 CWPE 260200Z AUTO 02003KT 06/05 RMK AO1 SLP006 T00600054 58006 KBLF 260152Z AUTO 27011KT 10SM BKN020 14/08 A2998 RMK AO2 SLP136 T01440083 KASX 260153Z AUTO 26008KT 10SM CLR 09/M02 A2996 RMK AO2 SLP152 T00891022 CWPF 260245Z AUTO 26008KT 12/10 RMK AO1 T01170099 KAUG 260153Z AUTO 16004KT 10SM OVC085 09/05 A2947 RMK AO2 SLP982 T00940050 KATP 260235Z AUTO 01012KT 8SM 24/14 A3009 RMK A01 PHHI 260208Z AUTO 08011KT 10SM SCT028 27/21 A2998 RMK AO2 $ KBLH 260152Z AUTO 00000KT 10SM CLR 32/09 A2985 RMK AO2 SLP102 T03170094 $ KAUH 260235Z AUTO 09007KT 10SM CLR 14/06 A3000 RMK AO2 T01380057 NZGS 260219Z 12012KT 50KM NSC 16/07 Q1011 RMK VATSIM USE ONLY CWNZ 260200Z AUTO 36012G22KT 03/02 RMK AO1 5PAST HR 3021 PK WND 00022/0152 SLP012 P0010 T00300024 50038 CXGH 260200Z AUTO 31004KT 07/M01 RMK AO1 T00741011 KBLI 260214Z 36007KT 5SM -RA BR FEW012 BKN029 OVC036 11/10 A2922 RMK AO2 P0006 OPPS 260200Z 00000KT 2500 BR FEW100 SCT200 17/14 Q1018.5 NZHK 260200Z 09010KT 8000 SHRA BKN016 10/09 Q1014 RMK ALT VATSIM USE ONLY CXFR 260200Z AUTO 07012KT 02/M00 RMK AO1 T00211001 ULWC 251830Z 15001MPS CAVOK M05/M09 Q1032 NOSIG RMK QFE764/1019 SC047 KE38 260235Z AUTO 22004KT 10SM CLR 17/08 A3026 RMK AO2 T01730083 KCDA 260235Z AUTO 00000KT 3SM RA SCT001 BKN039 OVC046 09/07 A2948 RMK AO2 T00860073 KBKS 260235Z AUTO 10004KT 10SM CLR 19/16 A3011 RMK AO1 T01930161 CXHA 260200Z AUTO 29008KT 14/01 RMK AO1 PK WND 31020/0130 SLP087 T01390005 UMMM 251730Z 17005MPS CAVOK M01/M08 Q1032 R12/CLRD60 NOSIG RMK QFE754 EFHA 260220Z AUTO 17007KT 130V210 2600 BR OVC003 04/04 Q1015 KATT 260151Z AUTO 00000KT 10SM CLR 24/16 A3010 RMK AO2 SLP184 T02390156 PFYU 260236Z 00000KT 10SM OVC021 M06/M08 A2991 RMK AO1 KBKT 260235Z AUTO 24007KT 10SM CLR 14/07 A2981 RMK AO1 T01350069 UNEE 260230Z 24002MPS 9999 BKN024 OVC066 M06/M12 Q1015 NOSIG RMK QFE738 23491045 CWPK 260200Z AUTO 15001KT 05/05 RMK AO1 SLP943 T00510046 56006 KCDC 260153Z AUTO 18009KT 10SM CLR 17/03 A3007 RMK AO2 SLP141 T01720028 TSNO KAVC 260235Z AUTO 22003KT 10SM SCT090 12/08 A2988 RMK AO2 KBMC 260235Z AUTO 18011KT 10SM CLR 21/00 A2986 RMK AO1 T02061005 NZHN 260144Z 24015KT 30KM SCT035 BKN045 16/06 Q1017 RMK VATSIM USE ONLY KBKV 260153Z 00000KT 10SM CLR 13/12 A3002 RMK AO2 SLP164 T01330117 KAUM 260235Z AUTO 32003KT 10SM CLR 09/M01 A3006 RMK AO2 KBLM 260235Z AUTO 23010G14KT 10SM CLR 16/05 A2963 RMK AO1 KCDD 260233Z AUTO 27003KT 10SM CLR 07/M03 A2996 RMK AO2 CXHD 260200Z AUTO 11015KT 06/M03 RMK AO1 PK WND 10023/0103 T00581028 KBKW 260151Z AUTO 25005KT 10SM CLR 12/08 A2994 RMK AO2 SLP134 T01220083 TSNO KATW 260145Z 26006KT 10SM SKC 09/M02 A2993 KAUN 260235Z AUTO 16005KT 8SM SCT023 BKN031 13/12 A3009 RMK AO1 EDXW 251920Z 23012KT 9999 -DZ SCT024 BKN037 13/09 Q1017 RMK ATIS DEL KAUO 260235Z AUTO 32003KT 10SM CLR 14/09 A3009 RMK AO1 KCCO 260235Z AUTO 30004KT 10SM CLR 17/12 A3005 RMK AO2 T01680117 DNPO 251800Z 00000KT 9999 SCT009 FEW020CB 26/24 Q1009 NOSIG CWPO 260200Z AUTO 22003KT 05/M06 RMK AO1 SLP177 T00511056 56009 KBMG 260153Z 26006KT 9SM CLR 18/09 A2996 RMK AO2 SLP143 T01830089 EFHF 260220Z AUTO 18010KT 150V220 9999 OVC019 05/01 Q1019 KATY 260153Z AUTO 00000KT 10SM CLR 09/M01 A3006 RMK AO2 SLP186 T00891011 $ CWOY 260200Z AUTO 15005KT 01/M03 RMK AO1 SLP150 T00111026 56016 UMMS 260230Z 17004MPS CAVOK M05/M10 Q1033 R13/CLRD// NOSIG KCDH 260235Z AUTO 00000KT 3/4SM BR VV005 18/17 A3006 RMK AO2 NZHS 260200Z 24010KT 40KM NSC 20/05 Q1011 RMK NZNR VATSIM USE ONLY CWQH 260200Z AUTO 30002KT 10/09 RMK AO1 T00950089 50036 KCCR 260153Z 21006KT 10SM SCT020 BKN030 17/13 A3007 RMK AO2 SLP167 T01720128 KBMI 260156Z 30005KT 10SM CLR 15/04 A3002 RMK AO2 T01500038 SLP162 NZHT 260200Z 16005KT 20KM SCT003 09/09 Q1011 RMK ALT VATSIM USE ONLY CWPR 260200Z AUTO 31002KT 07/06 RMK AO1 SOG 00 6026 SLP935 T00710058 KBNA 260153Z 00000KT 10SM CLR 18/16 A3003 RMK AO2 SLP165 T01780161 KAUS 260153Z 00000KT 10SM CLR 19/15 A3009 RMK AO2 SLP184 T01890150 KCDJ 260152Z AUTO 04003KT 16/09 A3004 RMK AO1 SLP173 T01610089 CWPS 260200Z AUTO 15/05 RMK AO1 SLP047 T01460051 53003 CWRA 260200Z AUTO 06004KT 10/ RMK AO1 SLP937 T0098 58002 KAVK 260230Z AUTO 16009KT 10SM CLR 20/12 A2997 RMK AO2 CXIB 260200Z AUTO 11003KT 10/09 RMK AO1 6PAST HR 1002 SLP981 P0002 T00980087 50008 CWQK 260200Z AUTO 30007KT 12/11 RMK AO1 PK WND 34021/0100 SLP913 T01200108 53007 KBML 260223Z AUTO 35005KT 4SM RA BR SCT023 BKN033 OVC042 08/08 A2948 RMK AO2 P0005 T00830078 KBLU 260231Z AUTO 15008KT 10SM -RA BKN012 OVC019 06/04 A3013 RMK AO2 RAB24 P0000 T00610039 EFHK 260220Z 18012KT 9999 OVC018 05/01 Q1019 NOSIG KAVL 260154Z 34007KT 10SM CLR 14/07 A3005 RMK AO2 SLP163 T01390072 KCCU 252153Z AUTO 24004G20KT 10SM CLR 13/M18 A3054 RMK AO2 KCEC 260156Z AUTO 19005KT 4SM BR SCT038 OVC070 13/12 A3001 RMK AO2 SLP160 T01330122 EEPU 251250Z 18012G26KT 140V240 CAVOK 04/M05 Q1026 OPRN 260200Z 05004KT 6000 FEW100 17/14 Q1019.7/30.11 KBLV 260158Z AUTO 00000KT 10SM CLR 15/14 A3001 RMK AO2 SLP164 T01510137 $ CXHM 260200Z AUTO 29003KT 11/04 RMK AO1 SLP041 T01110041 53018 KCDN 260235Z AUTO 00000KT 10SM CLR 11/08 A2997 RMK AO2 TSNO PGRO 260150Z 14005KT 7SM -RA SCT035 BKN120 25/24 A2989 KAUW 260154Z AUTO 29008KT 10SM CLR 09/M02 A2993 RMK AO2 SLP142 T00941022 KCEF 260214Z AUTO 20005KT 10SM FEW011 SCT065 SCT080 BKN110 13/07 A2953 RMK AO2 PHJH 260145Z 06014KT 15SM FEW025 SCT040 28/20 A2995 CWQO 260200Z AUTO 08004KT 04/03 RMK AO1 T00360032 CWRF 260200Z AUTO ///// M13/ A2995 RMK SLP186 CWPX 260200Z AUTO 27023KT M11/ A2969 RMK SLP076 KAVP 260154Z 24010KT 10SM BKN055 BKN080 OVC100 17/08 A2960 RMK AO2 SLP021 T01670083 KAWG 260235Z AUTO 31004KT 10SM CLR 11/05 A3005 RMK AO2 KCCY 260235Z AUTO 29005KT 10SM CLR 08/01 A3006 RMK AO2 CXHP 260200Z AUTO 08015KT 02/01 RMK AO1 5PAST HR M PK WND 08023/0150 P0006 T00210011 50015 CWQP 260200Z AUTO 30017G27KT 13/06 RMK AO1 PK WND 30027/0159 SLP005 T01270061 55002 KBMQ 260153Z AUTO 00000KT 10SM CLR 23/14 A3013 RMK AO2 SLP189 T02330139 CWPZ 260200Z AUTO 31004KT 03/M01 RMK AO1 SLP009 T00311006 56008 CWRH 260200Z AUTO ///// M05/ A2992 RMK SLP170 KCDR 260153Z AUTO 18004KT 10SM CLR 16/03 A2991 RMK AO2 SLP140 T01560033 OPSK 251100Z OOOOOKT 4000 HZ NSC 36/21 Q1008 RH.43 PC CXHR 260200Z AUTO 11016KT 04/M03 RMK AO1 PK WND 11020/0158 T00441026 CWQR 260200Z AUTO 05017KT 02/ RMK AO1 PK WND 05021/0152 T0020 KCDS 260153Z AUTO 18008KT 10SM CLR 22/11 A3004 RMK AO2 SLP156 T02170106 $ KAXA 260235Z AUTO 00000KT 10SM CLR 08/02 A3008 RMK AO2 CWRJ 260200Z AUTO 10014KT 06/01 RMK AO1 PK WND 09018/0148 SLP097 T00610005 58034 CWQS 260200Z AUTO 04006KT 11/05 RMK AO1 SLP012 T01070048 53012 CWSA 260232Z AUTO 27010G15KT 2 1/2SM -RA BR SCT008 BKN012 OVC021 13/12 A2949 RMK SLP984 DENSITY ALT 200FT EGAA 260220Z 21011KT 9999 SCT019 SCT025 BKN033 11/09 Q1009 KBMT 260235Z AUTO 19003KT 7SM CLR 15/14 A3012 RMK AO2 T01520141 CYAB 252200Z 00000KT 15SM FEW080 SCT220 M16/M19 A3019 RMK AC1CS3 -15.4/-16.6/0.0/6 MEDIUM PACK LAST STFD OBS/NXT 271100Z SLP226 CWRK 260200Z AUTO 28004KT 09/02 RMK AO1 SLP995 T00890015 53006 KBNL 260255Z AUTO 00000KT 10SM CLR 11/08 A3000 RMK AO2 EGAC 252020Z 21015KT 9999 SCT045 12/07 Q1009 UMOO 251300Z 14003MPS CAVOK 02/M01 Q1037 NOSIG KAWM 260153Z AUTO 14004KT 10SM CLR 18/17 A3002 RMK AO2 SLP164 T01830167 $ PGSN 260154Z 11012KT 10SM -RA FEW013 SCT026 BKN070 26/24 A2988 RMK AO2 RAB37 SLP139 P0005 T02610244 $ KCFD 260235Z AUTO 16003KT 10SM CLR 20/17 A3011 RMK AO2 T02000166 CWSD 260200Z AUTO 28005KT 08/ RMK AO1 SLP985 T0077 56006 CWQV 260200Z AUTO 09012KT 06/03 RMK AO1 PK WND 09017/0140 T00560026 CWRM 260200Z AUTO 13013G18KT 05/M03 RMK AO1 PK WND 13018/0153 SLP012 T00481030 58028 KCDW 260153Z 24005KT 10SM CLR 16/06 A2961 RMK AO2 SLP032 T01610056 KCFE 260235Z AUTO 00000KT 10SM CLR 07/M01 A3006 RMK AO2 T00651013 CWRN 260200Z AUTO 27007KT 11/ RMK AO1 T0106 EGAE 251520Z 24027KT 9999 SCT020 SCT030 13/08 Q1004 KAVX 260216Z AUTO 25015KT 1 3/4SM BR OVC002 16/15 A3005 RMK AO2 T01610150 KBNO 260153Z AUTO 23021G35KT 10SM -RA OVC050 08/03 A2987 RMK AO2 PK WND 22043/0128 WSHFT 0124 RAB51 SLP113 P0000 T00780033 KAWO 260235Z AUTO 16020G26KT 10SM SCT042 BKN049 OVC080 14/10 A2930 RMK AO1 CWRO 260200Z AUTO 34014KT 10/07 RMK AO1 PK WND 34020/0103 SLP001 T00980066 53006 CWSF 260200Z AUTO 09010KT 02/02 RMK AO1 4PAST HR 8014 SLP025 P0005 T00200015 50023 NZKI 260200Z 03007KT 20KM BKN085 16/07 Q1007 RMK ALT VATSIM USE ONLY CWSG 260200Z AUTO 07013KT 03/02 RMK AO1 0PAST HR 8009 PK WND 07019/0140 SLP010 P0004 T00310015 50010 PHJR 260153Z 12007KT 10SM FEW037 28/22 A2996 RMK AO2 SLP153 T02830217 KAXH 260235Z AUTO 00000KT 10SM CLR 15/14 A3012 RMK AO2 T01490137 ORBI 260230Z 33003KT CAVOK 15/07 Q1016 CYAH 260200Z AUTO 12009KT 9SM SCT110 BKN130 OVC160 05/M03 A2940 RMK SLP968 KBOI 260153Z 19007KT 10SM CLR 18/02 A2977 RMK AO2 SLP074 T01830017 PGUA 260241Z AUTO 10004KT 10SM SCT013 SCT021 26/24 A2987 RMK AO2 LTG DSNT S RAB0216E0237 $ NZKK 260000Z 24015KT 30KM FEW020 SCT033 BKN050 17/09 Q1019 RMK NZWP VATSIM USE O CXKA 260200Z AUTO 29014G19KT 03/02 RMK AO1 2013 PK WND 29021/0142 SLP973 T00320021 50003 EFKA 260220Z AUTO 16010KT 9999 FEW006 BKN019 07/07 Q1010 KBOK 260156Z AUTO 00000KT 4SM BR SCT033 BKN050 13/13 A2999 RMK AO2 T01330127 BKN V SCT SLP157 CYBB 260000Z 08007KT 12SM -SN OVC012 M11/M12 A3011 RMK ST7 -11.0/-17.2/0.0/8/HARD PACK/LAST OBS/NXT261700 SLP199 CWSK 260200Z AUTO 35004KT 07/06 RMK AO1 0PAST HR 6018 SLP930 P0012 T00670062 50059 CWRT 260200Z AUTO 23001KT 03/02 RMK AO1 T00260023 EGBB 260220Z AUTO 20007KT 170V240 9999 FEW029/// 11/09 Q1018 KCGC 260235Z AUTO 00000KT 10SM CLR 13/12 A3002 RMK AO2 PWINO KCEU 260154Z AUTO 33006KT 10SM CLR 16/11 A3000 RMK AO2 SLP153 T01560106 KBPC 260235Z AUTO 17011KT 10SM CLR 22/08 A3000 RMK AO2 CWRU 260200Z AUTO 32028KT 11/07 RMK AO1 PK WND 32033/0103 SLP966 T01070070 53018 CWSL 260200Z AUTO 16002KT 08/07 RMK AO1 SLP974 T00800070 58022 CYBC 260231Z AUTO 08019G25KT 3SM -RA BR OVC004 04/03 A2954 RMK SLP003 CYBD 260100Z 09003KT 020V150 12SM VCSH SCT040 OVC070 07/05 A2946 RMK SC4AC4 LAST OBS/NEXT 261300 UTC SLP977 CYAM 260200Z 31030G40KT 15SM BKN067 10/03 A2967 RMK AC5 SLP051 VDPP 260230Z VRB01KT 9999 SCT017 29/25 Q1012 PHKO 260153Z 23008KT 10SM SCT050 SCT070 29/21 A2991 RMK AO2 SLP130 T02890206 EFIV 260220Z AUTO 15001KT 9999 OVC008 02/01 Q1004 KAXN 260153Z AUTO 26003KT 10SM CLR 09/M03 A3007 RMK AO2 SLP191 T00891033 KCEW 260153Z AUTO 00000KT 10SM CLR 12/11 A3007 RMK AO2 SLP181 T01170106 KBNW 260235Z AUTO 02003KT 10SM CLR 13/02 A3007 RMK AO2 KCGE 260239Z AUTO 00000KT 10SM CLR 15/07 A2972 RMK AO1 KCGF 260245Z 31010G20KT 10SM SKC 15/06 A2980 KAXO 251630Z 04011KT 7SM SKC 22/20 A3017 EGBE 251750Z 22010KT 9999 FEW016 SCT046 12/10 Q1017 CXKE 252300Z AUTO 24004KT 11/09 RMK AO1 6007 SLP979 T01070092 50026 EFKE 260220Z AUTO 17012KT 1800 -DZ BR OVC002 05/05 Q1006 CWRX 260200Z AUTO 06003KT M16/ A3013 EFJO 260220Z AUTO 17007KT 130V220 4500 -PL OVC008 01/01 Q1017 KCEY 260235Z AUTO 24004KT 10SM BKN022 17/15 A3003 RMK AO1 KBPG 260235Z AUTO 14011KT 10SM CLR 23/08 A3012 RMK AO2 T02330079 CWTG 260200Z AUTO 08020KT 04/03 RMK AO1 PK WND 08025/0105 SLP016 T00370029 57008 CWSP 260200Z AUTO 26015KT 13/12 RMK AO1 6PAST HR PRESRR 3015 PK WND 26018/0159 SLP924 P0002 T01270120 50038 CWRY 260200Z AUTO 19010KT 09/04 RMK AO1 SLP036 T00860037 56021 ZSNB 260200Z VRB01MPS 7000 NSC 25/17 Q1019 NOSIG CYBG 260224Z 09010G15KT 15SM -SHRA BKN045 OVC070 RMK SC5AC3 PHLI 260153Z 03008KT 10SM BKN050 28/22 A2998 RMK AO2 SLP150 T02780222 KCEZ 260153Z AUTO 10003KT 10SM OVC090 11/03 A3019 RMK AO2 SLP204 T01110033 CWRZ 260200Z AUTO 04019KT 05/05 RMK AO1 4PAST HR 8017 PK WND 04024/0106 SLP994 P0009 T00520052 50035 KBPI 260153Z AUTO VRB05KT 10SM CLR 09/M06 A3001 RMK AO2 SLP145 T00891056 KCGI 260153Z AUTO 00000KT 9SM CLR 16/14 A3001 RMK AO2 SLP160 T01610144 TSNO CXKI 260200Z AUTO 05/03 RMK AO1 3PAST HR 8003 SLP970 P0001 T00490032 50003 CWSR 260200Z AUTO 11006KT 03/M02 RMK AO1 SLP112 T00281015 58024 EFKI 260220Z AUTO 19009KT 130V260 8000 OVC003 03/03 Q1012 KCHA 260153Z 00000KT 10SM SCT043 18/14 A3004 RMK AO2 SLP168 T01780139 KCFS 260235Z AUTO 27004KT 10SM CLR 09/02 A2978 RMK AO2 T00900015 KBOS 260154Z 21007KT 10SM FEW080 BKN110 OVC300 13/07 A2955 RMK AO2 SLP004 T01330072 KAXS 260235Z AUTO 16007KT 10SM CLR 25/10 A3003 RMK AO2 T02520098 NZMC 260200Z 16005KT 20KM SCT003 09/09 Q1011 RMK ALT NZHT VATSIM USE ONLY CYAS 252100Z 09015G20KT 15SM -SN BKN015 OVC020 M00/M03 A2976 RMK ST5SC3 LAST OBS/NEXT 261200UTC SLP089 KE80 260035Z AUTO 18007KT 10SM CLR 20/02 A3016 RMK AO2 T02040022 EGBJ 251750Z 21010KT 9999 FEW012 SCT025 13/10 Q1018 CWSS 260200Z AUTO 00000KT 04/04 RMK AO1 SLP001 T00360035 58011 KBPK 260153Z AUTO 00000KT 9SM CLR 21/17 A3003 RMK AO2 SLP160 T02060167 CXLB 260200Z AUTO 30008KT 10/08 RMK AO1 SLP001 T00960081 54000 CWST 260200Z AUTO 05007KT 04/03 RMK AO1 SLP976 T00420032 58018 CYBK 260200Z 03005KT 15SM -SN OVC015 M06/M08 A2985 RMK SC8 SLP111 CYCB 260200Z 22015KT 12SM -SN DRSN OVC012 M07/M08 A2975 RMK SC8 -SN INTMT CIG RAG SLP080 PGUM 260154Z 09009KT 10SM FEW019 SCT027 29/25 A2989 RMK AO2 SLP113 T02890250 $ EFKK 260220Z AUTO 18011KT 150V210 9999 FEW008 SCT012 BKN018 BKN025 08/07 Q1008 KAZC 260235Z AUTO 00000KT 10SM CLR 13/03 A3013 RMK AO2 T01290029 CYBL 260200Z 30011KT 5SM -RA BR FEW006 OVC030 06/05 A2938 RMK CF2SC6 SLP952 KCHD 260147Z 28006KT 15SM SKC 30/11 A2991 KCFV 260152Z AUTO 14004KT 10SM CLR 20/18 A2999 RMK AO2 SLP151 T02000178 EGCC 260220Z 19009KT 130V200 9999 FEW022 BKN030 12/09 Q1016 KAXV 260234Z AUTO 27005KT 10SM CLR 12/10 A2990 RMK AO2 NZMF 260219Z 16015KT 50KM FEW060 13/07 Q1006 RMK NZQN VATSIM USE ONLY CYCD 260223Z 36005KT 4SM -RA BR FEW003 SCT006 OVC025 08/08 A2931 RMK SF1SF2SC5 RA VRY LGT SLP927 CXKM 260200Z AUTO 11014KT 06/M03 RMK AO1 PK WND 11019/0119 T00561029 KBOW 260235Z AUTO 00000KT 10SM CLR 18/09 A3001 RMK AO2 KAZE 260235Z AUTO 00000KT 10SM CLR 14/12 A3001 RMK AO2 T01430116 CWSW 260100Z VRB02KT 20SM SCT060 BKN120 07/03 A2962 RMK SC4AC1 LAST OBS/NEXT 261300Z PRESFR SLP049 DENSITY ALT 4100FT CWTN 260200Z AUTO 08004KT 06/03 RMK AO1 SLP973 T00590031 58015 CYBN 260200Z AUTO 30014G24KT 280V340 9SM OVC061 11/03 A2964 RMK SLP038 EETN 260220Z 18008KT 150V210 9999 OVC019 02/M03 Q1021 KAXX 260235Z AUTO 12004KT 10SM CLR 03/M04 A3033 RMK AO2 T00341045 ZSNJ 260200Z VRB01MPS 5000 HZ NSC 24/16 Q1019 NOSIG CYCG 260200Z VRB03KT 15SM -SHRA FEW025 BKN065 OVC100 08/07 A2956 RMK SC1SC6AC1 PRESRR SLP016 CYAY 260240Z AUTO 04014G19KT 9SM BKN021 OVC027 03/01 A2975 RMK SLP076 EFJY 260220Z AUTO 18007KT 9000 -SHRA OVC004 04/04 Q1015 CYAZ 260100Z 30009KT 4SM -RA BR FEW004 BKN008 BKN020 BKN025 09/09 A2931 RMK SF1SF5SC2SC1 SF TR SC TR CLRG W VIS SW-NW 15 LAST OBS/NEXT 261300UTC SLP927 DENSITY ALT 100FT TVSC 252100Z 10015KT 9999 SCT015 30/24 Q1011 CYBR 260200Z 33004KT 240V340 15SM BKN250 03/M05 A2997 RMK CI6 SLP171 PHMK 260154Z 05015G21KT 10SM CLR 28/22 A2996 RMK AO2 SLP146 T02780222 $ KAYS 260235Z AUTO 00000KT 10SM CLR 15/13 A3002 RMK AO2 T01450128 KCGS 260240Z AUTO 00000KT 10SM CLR 12/07 A2973 RMK AO1 CYDA 252300Z 00000KT 20SM OVC035 M03/M06 A2988 RMK SC8 CLIMAT -3.2/-4.8/TR CM/TR MWE LAST OBS/NXT 261400 UTC SLP146 VEIM 260200Z 26002KT 3500 BR FEW020 SCT090 19/15 Q1019 NOSIG KBPT 260153Z 23003KT 10SM CLR 16/13 A3010 RMK AO2 SLP194 T01610133 EFMA 260220Z AUTO 20012KT 170V230 9999 OVC005 10/10 Q1014 EFKS 260220Z AUTO 18007KT 4100 BR OVC003 01/01 Q1009 KBQK 260235Z AUTO 00000KT 10SM CLR 13/12 A3002 RMK AO1 CWTT 260100Z AUTO 18005KT 10/09 RMK AO1 T00990087 ZSOF 260200Z 18002MPS 150V220 CAVOK 24/14 Q1018 NOSIG CXKT 260200Z AUTO 25003KT 08/07 RMK AO1 SLP998 T00780070 50001 CYCK 260200Z AUTO 30013G18KT 9SM CLR 13/03 A2976 RMK SLP080 CYDB 260200Z AUTO 30006KT 9SM OVC024 M05/M06 A2973 RMK SLP118 EFKT 251950Z AUTO 14005KT 100V180 2600 BR OVC003 01/01 Q1004 KCIC 260235Z AUTO 15012KT 10SM BKN070 OVC080 17/13 A3002 RMK AO1 CYDC 260100Z 26002KT 25SM SCT045 BKN120 OVC140 08/07 A2935 RMK SC3AC3AS2 LAST OBS/NEXT 261300 UTC SLP947 DENSITY ALT 2600FT CXLL 260200Z AUTO 00000KT M04/M04 RMK AO1 SLP140 T10371044 50000 CYBU 260200Z AUTO 05005KT 9SM CLR M03/M04 A2994 RMK SLP161 CWTU 260200Z AUTO 11024G29KT M05/ A2974 RMK SLP111 EETU 260150Z AUTO 20008KT 170V240 9999 OVC019/// 01/M08 Q1025 KCID 260152Z 31006KT 10SM CLR 12/02 A3004 RMK AO2 SLP176 T01170022 EFKU 260220Z AUTO 17009KT 7000 OVC004 03/02 Q1015 KBRD 260153Z AUTO 28003KT 10SM CLR 06/M03 A3003 RMK AO2 SLP180 T00611028 CXMD 260200Z AUTO 27005KT 08/M03 RMK AO1 SLP155 T00781031 58008 CWVD 260200Z AUTO ///// M12/ A2993 RMK SLP198 CYBW 260200Z AUTO 14014KT 9SM CLR 05/00 A2950 RMK PRESFR SLP024 DENSITY ALT 4100FT KAZO 260153Z 30011KT 10SM CLR 14/00 A2988 RMK AO2 SLP118 T01390000 $ KCHO 260153Z 21005KT 10SM CLR 18/07 A2977 RMK AO2 SLP076 T01830072 EGCN 260220Z 19015KT 9999 FEW032 BKN043 12/09 Q1017 PHNG 260216Z 07007G15KT 10SM SCT023 28/22 A2997 RMK AO2 T02830217 $ CYBX 260200Z 06016G22KT 15SM OVC030 02/M01 A2975 RMK SC8 SLP077 CWVF 260200Z AUTO 32024KT 10/09 RMK AO1 PK WND 32027/0154 T00950094 CYCO 260200Z 26014KT 4SM -SN DRSN OVC020 M08/M10 A2990 RMK SC8 /S01/ SLP128 CYDF 260200Z 04014KT 8SM -DZ FEW007 OVC013 04/03 A2960 RMK SF2SC6 SLP024 KBQP 260235Z AUTO 00000KT 5SM BR CLR 16/16 A3009 RMK AO2 T01630158 KF05 260236Z AUTO 17007KT 10SM CLR 21/11 A3002 RMK AO2 CYCP 260100Z 03005KT 2 1/2SM -RA BR SCT008 BKN015 OVC040 02/01 A2951 RMK FG2SF2SC2NS2 LAST OB/NEXT 261300 UTC SLP019 CXMG 260200Z AUTO 01006KT M00/M01 RMK AO1 T10031010 CWTY 260200Z AUTO 19002KT 09/09 RMK AO1 3PAST HR 6019 SLP954 P0013 T00930092 50058 CWUP 260200Z AUTO ///// M11/ A2999 RMK SLP199 EFLP 260220Z AUTO 19006KT 140V240 9999 SCT022 BKN055 OVC090 03/M02 Q1020 KCGZ 260235Z AUTO 00000KT 10SM CLR 28/10 A2994 RMK AO1 CYCQ 260100Z VRB02KT 4SM -SN SCT013 OVC018 00/M01 A2965 RMK SN2SC1SC5 LAST OBS/NEXT 261300Z SLP072 CWVH 260200Z AUTO 17013KT M10/ A2984 RMK SLP132 CXMI 260200Z AUTO 30004KT 10/08 RMK AO1 SLP995 T00970084 55002 CWVI 260200Z AUTO 11012G17KT 07/M03 RMK AO1 PK WND 11020/0148 SLP065 T00661034 56038 ZSPD 260230Z VRB01MPS 8000 NSC 25/18 Q1019 NOSIG EFMI 260220Z AUTO 20007KT 130V250 9999 OVC015 03/00 Q1018 KCHS 260156Z 00000KT 10SM CLR 16/11 A2997 RMK AO2 SLP149 T01610106 KDAA 260158Z AUTO 33001KT 10SM CLR 11/08 A2975 RMK AO2 SLP078 T01070082 CWWA 260200Z AUTO 30001KT 11/10 RMK AO1 0PAST HR 6019 SLP906 P0020 T01090096 50072 CWUS 260200Z AUTO 30002KT 08/06 RMK AO1 SLP964 T00800062 56025 PHNL 260153Z 04012G17KT 10SM SCT033 SCT045 BKN060 29/21 A2995 RMK AO2 SLP142 TCU DSNT W VCSH NE-E T02940211 KDAB 260153Z 35003KT 10SM CLR 19/12 A3001 RMK AO2 SLP160 T01890122 CWWB 260200Z AUTO 27006KT 13/04 RMK AO1 PK WND 32019/0110 SLP046 T01270043 53019 KBRL 260153Z AUTO 34005KT 10SM CLR 15/04 A3004 RMK AO2 SLP172 T01500039 CYDL 260200Z AUTO 02006KT 340V050 9SM FEW060 03/M03 A2965 RMK SLP062 CXMM 260200Z AUTO 10006KT 02/M00 RMK AO1 SLP109 T00161002 56021 EGDM 260150Z AUTO 21007KT 9999 OVC028/// 12/09 Q1021 CYED 260200Z AUTO 10015KT 9SM OVC054 06/M04 A2959 RMK SLP047 KCIN 260235Z AUTO 29003KT 10SM CLR 06/05 A3007 RMK AO2 NZNP 260155Z 25015KT 30KM FEW030 BKN050 16/09 Q1017 RMK VATSIM USE ONLY CWWE 260200Z AUTO 26006KT 07/06 RMK AO1 SLP010 T00680060 53002 CWVN 260200Z AUTO 12010KT 10/01 RMK AO1 SLP078 T01030013 58030 CYDN 260200Z AUTO 26006KT 9SM CLR 04/M03 A2995 RMK SLP156 KBRO 260153Z 08005KT 10SM CLR 22/19 A3011 RMK AO2 SLP193 T02220189 $ CWUW 260200Z AUTO 08011KT 9SM FEW066 FEW080 M16/ A2996 RMK SLP215 PHOG 260154Z 06014G23KT 10SM FEW045 29/20 A2994 RMK AO2 SLP142 T02940200 $ NZOH 260212Z 26015KT 25KM VCSH BKN030 14/06 Q1015 RMK VATSIM USE ONLY CWUX 260200Z AUTO 09008KT 05/02 RMK AO1 SLP969 T00450016 58013 CXMO 260200Z AUTO 14014KT 06/M03 RMK AO1 PK WND 13018/0146 T00611029 VDSR 260230Z 10004KT 9999 SCT017 SCT120 29/24 Q1013 CWWF 260200Z AUTO 14011KT 08/M01 RMK AO1 SLP134 T00841012 56028 KDAG 260150Z AUTO 24013KT 10SM CLR 26/06 A2997 RMK AO2 SLP128 T02560061 CYCX 260200Z 08002KT 10SM BKN039 05/05 A2954 RMK SC3 DA-437FT SLP005 NZNR 260200Z 24010KT 40KM NSC 20/05 Q1011 RMK VATSIM USE ONLY VEJS 260100Z 00000KT 1500 -RA SCT015 SCT025 BKN100 23/21 Q1015 CYDP 252300Z 15010KT 15SM OVC020 01/M03 A2993 RMK SC8 LAST STAFFED OB/ NEXT 250800 SLP134 ORER 260200Z 00000KT CAVOK 13/13 Q1014 CWVP 260200Z AUTO 13010G16KT 08/01 RMK AO1 PK WND 14017/0120 SLP060 T00790006 56021 CYCY 260200Z AUTO 29016KT 9SM CLR M15/M18 A3013 RMK SLP206 CYEG 260200Z 11019G26KT 15SM BKN053 BKN150 06/M03 A2957 RMK SC7AC1 AC TR SLP041 NZNS 260155Z 25007KT 40KM FEW060 FEW100 16/06 Q1012 RMK VATSIM USE ONLY CWVQ 260200Z AUTO 24008KT 11/10 RMK AO1 SLP963 T01120098 58008 CYDQ 260203Z AUTO 03007KT 1 3/4SM -SN BKN012 OVC024 01/00 A2962 RMK VIS VRB 1-3 SLP065 KCIR 260235Z AUTO 00000KT 1/2SM FG VV005 16/14 A3002 RMK AO2 T01560136 UNKL 260230Z 30002MPS 9999 SCT011 BKN020CB M00/M03 Q1014 NOSIG RMK QFE735 29////50 ZSQD 260200Z 28002MPS 250V330 6000 NSC 22/15 Q1018 NOSIG PGWT 260154Z 07016KT 7SM VCSH SCT015 SCT040 BKN100 27/24 A2987 VCSH N-NE EGDR 260150Z 22010KT 9999 FEW018 OVC024 13/09 Q1021 WHT KBTA 260235Z AUTO 06007KT 10SM CLR 15/05 A3004 RMK AO2 T01470045 TVSV 260200Z 09009KT 9999 SCT017 28/24 Q1012 CWXA 260200Z AUTO 25007G17KT 07/01 RMK AO1 PK WND 26017/0158 SLP992 T00700014 58042 KCKB 260153Z 21008KT 10SM BKN036 14/10 A2984 RMK AO2 SLP098 T01390100 NZNV 260116Z 22015KT 30KM VCSH FEW015 SCT035 12/04 Q1009 RMK VATSIM USE ONLY CWWK 260200Z AUTO 04005KT 11/10 RMK AO1 6PAST HR 6024 SLP902 P0018 T01130095 50074 CWVT 260200Z AUTO 13004KT 03/M01 RMK AO1 SLP143 T00261014 56018 CYEK 260200Z AUTO 35014KT 9SM OVC005 00/M00 A2966 RMK SLP044 CYFB 260200Z 05004KT 15SM SKC M14/M21 A3007 RMK SLP188 KDAL 260153Z 16009KT 10SM CLR 27/16 A3005 RMK AO2 SLP169 T02670156 KCIU 260235Z AUTO 31018G27KT 10SM CLR 09/02 A2967 RMK AO1 KCKC 260234Z AUTO 29008G18KT 229V309 10SM CLR 06/M03 A2987 RMK AO2 CWXC 260200Z AUTO 08003KT 06/M01 RMK AO1 SLP957 T00601009 58011 CWWL 260200Z AUTO 35019KT 11/07 RMK AO1 PK WND 35021/0151 SLP980 T01140074 53005 CWVU 260200Z AUTO 15003KT 08/06 RMK AO1 2PAST HR 8003 SLP028 P0001 T00790057 50002 CYFC 260247Z AUTO 06006KT 9SM BKN013 OVC060 05/05 A2952 RMK SLP997 CXNM 260200Z AUTO 11006KT 06/06 RMK AO1 T00630062 50008 KDAN 260153Z AUTO 22003KT 10SM CLR 12/07 A2988 RMK AO2 SLP110 T01170072 CYEN 260200Z 10008KT 15SM OVC160 07/M01 A2990 RMK AC7 SLP148 KCKF 260235Z AUTO 00000KT 10SM CLR 13/10 A3004 RMK AO2 T01270102 PHNY 260156Z AUTO RMK AO2 PWINO PNO TSNO SLPNO $ EGEO 251320Z 22014KT 8000 -RA SCT012 BKN020TCU 12/09 Q1003 RESHRA EGDX 260150Z AUTO 24017KT 9999 BKN033/// SCT040/// 14/09 Q1019 EGFF 260220Z AUTO 22011KT 9999 OVC028 13/09 Q1020 CXMY 260200Z AUTO 08/07 RMK AO1 T00840074 CXNP 260200Z AUTO 28008KT 06/06 RMK AO1 SLP002 T00640064 53001 EGDY 260150Z AUTO 22006KT 9999 OVC032/// 13/07 Q1021 KCKI 260235Z AUTO 00000KT 10SM CLR 10/10 A2996 RMK AO2 KCJR 260235Z AUTO 00000KT 10SM CLR 13/07 A2976 RMK AO2 CWXI 260200Z AUTO 06020G25KT 03/01 RMK AO1 PK WND 06028/0120 SLP053 T00290009 58004 CYER 260246Z AUTO 29009G18KT 9SM -RA SCT019 OVC036 04/03 A2954 RMK SLP003 KDCA 260152Z 23003KT 10SM CLR 17/06 A2975 RMK AO2 SLP072 T01670061 $ CWWS 260200Z AUTO 32019KT 06/01 RMK AO1 PK WND 31024/0115 SLP136 T00600012 57003 CXPA 260200Z AUTO 08012KT 02/01 RMK AO1 5PAST HR M PK WND 09021/0134 P0006 T00180012 50015 NZPM 260200Z 29017KT 40KM BKN046 13/07 Q1015 RMK ALT VATSIM USE ONLY CYET 260200Z AUTO 06008KT 9SM SCT100 OVC150 04/M03 A2949 RMK SLP025 KBTL 260153Z 29010KT 10SM CLR 13/01 A2987 RMK AO2 SLP115 T01280006 CWWU 251200Z 02009KT 10SM -RA OVC007 10/10 A2943 RMK SF8 SLP967 CXOL 260200Z AUTO 11010KT 02/M04 RMK AO1 PK WND 11018/0121 T00231035 CXPC 260200Z AUTO 11/05 RMK AO1 SLP011 T01070047 53005 CWXL 252300Z AUTO 14013KT 14/02 RMK AO1 PK WND 15021/2211 T01380015 KBTM 260153Z AUTO 19006KT 10SM CLR 09/01 A2978 RMK AO2 SLP084 T00940006 KCKM 260235Z AUTO 19003KT 10SM CLR 19/18 A3005 RMK AO1 CYEV 260200Z 06005KT 15SM SCT100 BKN240 M11/M13 A2988 RMK AC4CI2 SLP126 EGGD 260220Z 21012KT 9999 BKN032 12/08 Q1020 KCLE 260151Z 28015KT 10SM CLR 15/02 A2981 RMK AO2 SLP095 T01500022 KDAW 260151Z AUTO 00000KT 10SM OVC060 13/06 A2952 RMK AO2 SLP993 T01280061 KCKN 260234Z AUTO 23003KT 10SM CLR 05/M04 A3002 RMK AO2 KDBN 260235Z AUTO 00000KT 10SM CLR 09/09 A3003 RMK AO2 NZPP 260200Z 32011KT 30KM BKN036 14/06 Q1015 RMK ALT VATSIM USE ONLY CYGE 260000Z 32006KT 280V350 20SM -SHRA VCFG FEW004 BKN065 OVC090 03/02 A2960 RMK ST1SC5AS2 LAST OBS/NEXT 261200Z SLP049 KBUF 260227Z 32018G28KT 10SM FEW048 BKN065 12/04 A2964 RMK AO2 PK WND 31032/0205 WSHFT 0149 RAB0158E12 OCNL LTGICCG DSNT E AND SE CB E AND SE MOV SE P0000 T01220044 CYFO 252300Z 31008KT 15SM OVC025 04/M03 A2993 RMK SC8 LAST OBS/NEXT 261100UTC SLP151 CWWX 260200Z AUTO 33025G30KT 11/05 RMK AO1 PK WND 33035/0105 SLP029 T01140052 50005 KBTP 260235Z AUTO 26010G16KT 10SM CLR 15/04 A2977 RMK AO1 KDAY 260156Z 27008KT 10SM CLR 16/08 A2990 RMK AO2 SLP124 T01560078 KCKP 260235Z AUTO 00000KT 10SM CLR 08/04 A3008 RMK AO2 T00770041 KDBQ 260153Z AUTO 33007KT 10SM CLR 11/00 A3003 RMK AO2 SLP171 T01060000 CYGH 252300Z 16004KT 15SM SCT030 BKN055 M06/M08 A2993 RMK SC2SC3 -6.0/-10.8/0/16 MUCH LOOSE LAST OBS/NXT 261300Z SLP145 CWWZ 260200Z AUTO 31018KT 12/06 RMK AO1 PK WND 30026/0106 SLP042 T01170055 53013 KBTR 260153Z 00000KT 9SM CLR 16/13 A3010 RMK AO2 SLP192 T01610133 KCLI 260235Z AUTO 27005KT 10SM CLR 08/M01 A2993 RMK AO2 CWXR 260200Z AUTO 28013KT M06/ A2988 RMK SLP130 KCMA 260155Z 17003KT 10SM CLR 19/16 A2999 RMK AO2 SLP165 T01940161 NZRC 260116Z 22015KT 30KM VCSH FEW015 SCT035 12/04 Q1009 RMK NZNV VATSIM USE ONL CYHA 252100Z 09025G33KT 15SM SCT012 BKN030 BKN120 OVC260 M02/M04 A2985 RMK SF2SC1AC1CI0 SN COV/NIL LAST OBS/NEXT 261200 UTC SLP111 CWZA 260200Z AUTO 06003KT 11/09 RMK AO1 5PAST HR 8019 SLP922 P0002 T01080091 50008 CWYJ 260200Z AUTO 30007KT 10/09 RMK AO1 0PAST HR 5006 SLP905 P0012 T01020092 50072 CYFS 260200Z 34004KT 15SM OVC010 M06/M07 A2994 RMK SC8 SLP153 KCLK 260235Z AUTO 16009KT 10SM CLR 20/10 A3002 RMK AO2 CYGK 260200Z 27009G16KT 15SM SCT055 11/06 A2953 RMK SC4 SLP000 CYFT 252000Z 10009KT 15SM OVC030 01/M03 A2991 RMK SC8 LAST OB/NEXT 260900 UTC SLP132 CWYK 260200Z AUTO 15017G24KT M06/ A2968 RMK SLP106 KCLL 260153Z 00000KT 10SM CLR 22/17 A3009 RMK AO2 SLP187 T02220167 KDDC 260152Z AUTO 17011KT 10SM CLR 22/08 A2996 RMK AO2 SLP126 T02220083 NZQN 260219Z 16015KT 50KM FEW060 13/07 Q1006 RMK VATSIM USE ONLY CXPL 260200Z AUTO 10012KT 05/M01 RMK AO1 PK WND 09017/0136 T00501010 CWYL 260200Z AUTO 07001KT M00/M00 RMK AO1 2PAST HR SOG 00 6015 SLP029 P0001 T10021001 50002 CYGL 260200Z 08004KT 8SM FEW006 BKN010 OVC022 06/06 A2932 RMK SF1SC5SC2 SLP937 KCKV 260240Z AUTO 00000KT 1 3/4SM BR CLR 16/15 A3002 RMK AO2 T01560150 EFOU 260220Z AUTO 16010KT 9999 OVC006/// 05/05 Q1008 R12/29//95 KCLM 260201Z AUTO 28009KT 10SM -RA SCT009 SCT013 OVC060 12/10 A2929 RMK AO2 PRESRR P0000 T01170100 TSNO $ KBTV 260154Z 21007KT 10SM FEW050 SCT065 12/09 A2948 RMK AO2 RAE14 SLP983 P0000 T01170089 KCMD 260235Z AUTO 00000KT 7SM CLR 16/15 A3009 RMK AO2 T01560148 CWYM 260200Z AUTO 08007KT M11/ A2990 RMK SLP185 CYHD 260200Z AUTO 26006KT 9SM CLR 04/M02 A2989 RMK SLP139 KBVE 260151Z AUTO 24005KT 10SM CLR 18/15 A3009 RMK AO2 SLP189 T01830150 EGHE 251650Z 24013KT 9999 BKN039 14/10 Q1020 CYHE 260200Z AUTO 09008KT 9SM -RA OVC095 10/09 A2932 RMK SLP928 DENSITY ALT 200FT KF44 260235Z AUTO 00000KT 10SM CLR 18/17 A3007 RMK AO2 CXOX 260200Z AUTO 00000KT M01/M03 RMK AO1 SLP146 T10061032 58014 EFPO 260220Z AUTO 19011KT 4500 DZ BR OVC004/// 09/08 Q1013 CXOY 260200Z AUTO 11013KT 04/M01 RMK AO1 PK WND 11017/0159 T00441007 CWZG 260200Z AUTO 28002KT 03/01 RMK AO1 SLP029 T00290011 57019 CYGP 260200Z 26007KT 3SM RA BR OVC012 01/00 A2957 RMK SC8 SLP014 KCMH 260151Z 29009KT 10SM CLR 16/05 A2985 RMK AO2 SLP109 T01560050 EGGP 260220Z 19009KT 9999 FEW026 BKN035 13/10 Q1015 KDDH 260154Z AUTO 21005KT 10SM SCT055 BKN075 BKN090 12/08 A2954 RMK AO2 RAB15E33 SLP005 P0003 T01170083 KF46 260235Z AUTO 18009G14KT 10SM CLR 24/17 A3005 RMK AO2 T02350168 KBVI 260047Z 27008G14KT 10SM CLR 16/10 A2975 RMK LAST CYGQ 260200Z 31015G24KT 10SM OVC040 06/M01 A2970 RMK SC8 SLP068 KCMI 260153Z 27006KT 10SM CLR 12/08 A2999 RMK AO2 SLP156 T01220078 $ EGHH 252220Z 22006KT 9999 BKN034 13/08 Q1022 KBUR 260153Z 10007KT 10SM CLR 23/09 A2998 RMK AO2 SLP142 T02280094 CYGR 260200Z 10016KT 4SM -DZ BR OVC005 09/08 A2945 RMK SF8 -DZ INTMT LAST OBS/NEXT 260900 UTC SLP973 KCLS 260235Z AUTO 23010G18KT 190V250 9SM -RA 11/10 A2959 RMK AO2 EGHI 252150Z 23006KT 9999 BKN036 12/07 Q1022 KCLT 260152Z 26003KT 10SM CLR 14/04 A2996 RMK AO2 SLP141 T01440044 KCNB 260233Z AUTO 22003KT 10SM CLR 05/00 A3008 RMK AO2 T00470001 CYGT 251900Z 00000KT 15SM SCT007 OVC011 M15/M17 A3019 RMK SC3SC5 -14.5/-15.5/0.0/18/MEDIUM PACK/LAST OBS/NEXT261600 SLP230 CXRB 260200Z AUTO 09011G17KT M15/M17 RMK AO1 2PAST HR 6015 PK WND 10017/0156 SLP190 P0001 T11521168 50002 CYHK 260200Z AUTO /////KT RMK CLD MISG WX MISG VIS MISG PCPN MISG ICG MISG KDCU 260153Z AUTO 27004KT 10SM CLR 20/16 A3005 RMK AO2 SLP172 T02000161 KDEC 260154Z 29006KT 10SM CLR 18/06 A3001 RMK AO2 SLP159 T01830061 KCNC 260235Z AUTO 00000KT 10SM CLR 14/04 A3006 RMK AO2 KBUU 260235Z AUTO 30008KT 10SM CLR 09/M02 A2997 RMK AO2 T00941017 CWZL 260200Z AUTO 31009KT 09/06 RMK AO1 SLP009 T00940055 53011 KDED 260235Z AUTO 00000KT 10SM CLR 15/13 A3003 RMK AO1 KBWD 260235Z AUTO 15005KT 10SM FEW060 22/14 A3009 RMK AO2 NZRO 260125Z 24015KT 30KM SCT028 BKN040 15/07 Q1015 RMK VATSIM USE ONLY CYGV 260235Z AUTO 05010G15KT 3SM -RA BR SCT005 OVC018 01/01 A2963 RMK PCPN 0.5MM PAST HR SLP035 CYHM 260200Z 30009G17KT 15SM FEW060 FEW082 10/04 A2968 RMK SC1AC1 SLP053 PHSF 260236Z AUTO 15013G18KT 7SM SCT030 16/10 A3029 RMK AO2 $ KBVN 260235Z AUTO 00000KT 10SM CLR 12/03 A3002 RMK AO2 T01150030 KCLW 260235Z AUTO 36003KT 10SM CLR 18/13 A3001 RMK AO2 CWZN 260200Z AUTO 07/05 RMK AO1 SLP962 T00720053 51009 CYGW 260200Z AUTO VRB02KT 9SM OVC039 08/04 A2936 RMK SLP942 KBVO 260153Z AUTO 00000KT 9SM CLR 16/16 A3000 RMK AO2 SLP152 T01610161 $ EGGW 260220Z 20005KT 150V240 9999 FEW030 10/08 Q1020 CWZO 260200Z AUTO 33018KT RMK AO1 PK WND 33022/0154 ZSSS 260230Z VRB02MPS 7000 NSC 26/16 Q1018 NOSIG KBWG 260153Z AUTO 00000KT 7SM CLR 16/14 A3001 RMK AO2 SLP161 T01560139 CYGX 260236Z 30015G21KT 3/4SM -DZ BR BKN005 OVC050 03/02 A2973 RMK ST6SC2 SLP077 KBUY 260154Z AUTO 23006KT 10SM CLR 14/04 A2989 RMK AO2 SLP120 T01390039 KDCY 260235Z AUTO 26008KT 10SM CLR 17/12 A2998 RMK AO2 T01740116 CWYY 260200Z AUTO 10001KT 12/08 RMK AO1 6027 PK WND 17018/0111 SLP961 T01160082 50002 KDEH 260235Z AUTO VRB03KT 10SM CLR 10/M01 A3004 RMK AO2 EGHQ 252020Z 22006KT 9999 BKN030 12/09 Q1021 CXRH 260200Z AUTO 08008KT 05/01 RMK AO1 17 0129Z T00480009 CWZQ 260240Z AUTO 16004KT 11/09 RMK AO1 T01080087 UNNT 260230Z 23003MPS 9999 FEW046 SCT130 BKN200 M06/M09 Q1016 25090070 16090070 NOSIG RMK QFE752/1003 KBWI 260154Z 27006KT 10SM CLR 14/06 A2972 RMK AO2 SLP062 T01390056 KCNI 260235Z AUTO 00000KT 10SM CLR 15/09 A3005 RMK AO2 NZTB 252255Z 23027G38KT 9999 SCT020 SCT040 M07/M11 A2920 RMK OVC OVC100 VIS MIN 7000NW GRID03027G38KT WIND THR22 23023KT SDF/HDF SE-NE HDG KBXA 260235Z AUTO 00000KT 10SM 16/15 A3010 RMK AO2 T01640145 KBVS 260235Z AUTO 14012G18KT 5SM FEW001 FEW022 OVC035 A2923 RMK A01 P004 EGJA 251820Z 26008KT 9999 FEW020 BKN035 13/08 Q1022 CWZS 262300Z AUTO 14004KT 05/04 RMK AO1 SLP009 T00480038 58002 EFSA 260220Z AUTO 18006KT 140V230 9999 OVC019 03/M00 Q1019 KCNK 260155Z AUTO 09005KT 10SM CLR 18/14 A2996 RMK AO2 SLP139 T01780144 EGJB 252050Z 25005KT 9999 BKN028 13/09 Q1023 KBVU 260235Z AUTO 18004KT 10SM CLR 25/05 A2996 RMK AO2 CXSC 260200Z AUTO 11014KT 08/M00 RMK AO1 PK WND 11019/0100 T00761001 UNOO 260230Z 23003MPS CAVOK M16/M18 Q1014 25CLRD60 NOSIG RMK QFE752 CXRL 260200Z AUTO 03/M02 RMK AO1 T00281015 CYHU 260247Z AUTO 24011KT 7SM TS BKN013 11/09 A2941 RMK LTNG DIST NW SLP960 DENSITY ALT 200FT KCNM 260153Z AUTO 18005KT 10SM CLR 17/13 A3008 RMK AO2 SLP152 T01720128 $ KCOD 260235Z 00000KT 10SM CLR 15/M06 A2979 RMK AO1 CWZV 260200Z AUTO 34011G17KT 09/04 RMK AO1 PK WND 33017/0153 SLP991 T00890043 53011 KDEN 260153Z 11006KT 10SM CLR 16/M04 A3004 RMK AO2 SLP126 T01611039 KCOE 260235Z AUTO 00000KT 10SM OVC080 13/08 A2954 RMK AO1 NZTG 260208Z 24020KT 40KM BKN047 18/07 Q1015 RMK VATSIM USE ONLY NZSP 252350Z 05013KT 9999 IC DRSN FEW080 M41/ A2920 RMK CLN AIR 04013KT ALL WNDS GRID SDG/HDG CXSE 260200Z AUTO 09014KT M10/M12 RMK AO1 PK WND 08019/0146 SLP127 T10951116 56009 CWZW 260200Z AUTO 33002KT M00/M02 RMK AO1 SLP098 T10031016 57011 CYIN 260230Z AUTO 10005KT 9SM BKN020 BKN027 OVC130 05/04 A2932 RMK SLP948 DENSITY ALT 4000FT KCMX 260153Z AUTO 30022KT 10SM CLR 09/00 A2983 RMK AO2 PK WND 30030/0132 SLP105 T00890000 KCNO 260153Z 27008KT 10SM FEW150 22/10 A2999 RMK AO2 SLP153 T02170100 KBVX 260235Z AUTO 00000KT 10SM CLR 21/17 A3003 RMK AO1 KCOF 260158Z AUTO 34007KT 10SM CLR 22/17 A2998 RMK AO2 SLP156 T02200173 CYIO 260200Z AUTO 16011KT 9SM OVC019 M14/M17 A3016 RMK SLP220 EFRO 260220Z AUTO 16008KT 0400 FG VV001 03/03 Q1005 KBVY 260153Z AUTO 22003KT 10SM OVC110 12/07 A2953 RMK AO2 SLP995 T01220067 $ KBWP 260235Z AUTO 00000KT 10SM CLR 05/M07 A3005 RMK AO1 KCMY 260235Z AUTO 00000KT 10SM CLR 03/M01 A3002 RMK AO2 T00311007 CYHY 260200Z 21002KT 15SM OVC007 M03/M04 A2993 RMK ST8 SLP147 ZUCK 260200Z VRB01MPS CAVOK 22/15 Q1020 NOSIG KDEQ 260153Z AUTO 00000KT 1/4SM FG VV003 18/18 A3004 RMK AO2 SLP169 T01780178 CXSH 260200Z AUTO 10001KT 08/07 RMK AO1 7019 SLP952 T00790072 50016 CWZZ 260200Z AUTO 20008KT M04/ A2980 RMK SLP127 KDFI 260153Z AUTO 27003KT 10SM CLR 14/02 A2987 RMK AO2 SLP114 T01390017 CYHZ 260200Z 29005KT 15SM BKN004 OVC010 08/08 A2951 RMK SF7SC1 SLP996 EFSI 260220Z AUTO 18009KT 140V230 6000 -SHRA BKN006 OVC009 09/08 Q1010 EGKA 251850Z 25007KT 9999 SCT035 14/10 Q1021 CYKA 260247Z 12007KT 40SM -SHRA SCT065 OVC082 09/05 A2937 RMK SC4AC4 KBXK 260235Z AUTO 00000KT 10SM 25/10 A2990 RMK AO1 KDET 260153Z 29010G17KT 10SM CLR 16/00 A2979 RMK AO2 SLP088 T01560000 EGJJ 252050Z 25006KT 9999 BKN027 13/09 Q1023 NOSIG KF70 260235Z AUTO 19003KT 10SM CLR 20/11 A3003 RMK AO1 EGKB 251820Z 22009KT 9999 BKN033 12/07 Q1020 KCNU 260152Z AUTO 15007KT 8SM CLR 20/17 A3000 RMK AO2 SLP152 T02000172 EHAK 260225Z AUTO 21030KT 9999 FEW013/// SCT019/// 13/11 Q1013 KCPC 260235Z AUTO 21003KT 10SM CLR 12/08 A2993 RMK AO2 T01150077 CXSL 260100Z AUTO 10009KT 04/M03 RMK AO1 T00401027 KCOM 260235Z AUTO 18006KT 10SM CLR 23/13 A3009 RMK AO2 T02320131 CYKD 252300Z 13003KT 120V210 15SM SCT025 BKN200 M10/M11 A2992 RMK SC3CI2 -9.5/-12.8/0.0/24 MUCH LOOSE LAST OBS/NEXT 261400Z SLP132 KCNW 260153Z 14003KT 10SM SKC 23/17 A3007 CXTD 260200Z AUTO 23003KT 09/08 RMK AO1 SLP984 T00910084 58002 CYIV 260200Z 28015G21KT 15SM OVC025 03/M02 A2986 RMK SC8 SLP122 KCON 260151Z AUTO 17004KT 10SM BKN070 OVC085 12/07 A2951 RMK AO2 SLP995 T01170072 PHTO 260153Z 04005KT 10SM BKN041 BKN050 29/20 A2997 RMK AO2 SLP147 T02890200 KDEW 260153Z AUTO 07003KT 10SM FEW075 SCT100 SCT120 10/09 A2952 RMK AO2 LTG DSNT NE RAB03E33 SLP999 P0004 T01000089 EHAM 260225Z 20009KT 9999 FEW025 BKN040 11/10 Q1021 NOSIG CYKF 260200Z AUTO 29008KT 9SM FEW070 08/04 A2968 RMK SLP055 CZBF 260200Z 32003KT 290V350 4SM -DZ BR OVC010 04/03 A2955 RMK ST8 SLP009 KCNY 260153Z AUTO 17010KT 10SM CLR 22/00 A3002 RMK AO2 SLP129 T02170000 KBYG 260153Z AUTO 14010KT 10SM CLR 18/M08 A2984 RMK AO2 SLP079 T01831078 $ CXSP 260200Z AUTO 08009KT 03/M03 RMK AO1 T00341030 KCOQ 260236Z AUTO 26004KT 10SM CLR 07/M04 A2998 RMK AO2 CXTH 260200Z AUTO 09014KT 05/M03 RMK AO1 PK WND 10023/0104 T00491033 KBYI 260153Z AUTO 21006KT 10SM FEW120 17/03 A2977 RMK AO2 SLP059 T01670028 VEPT 260150Z 00000KT 1200 BR SCT018 BKN100 24/22 Q1015 NOSIG CXSR 260200Z AUTO 05004KT M01/M01 RMK AO1 7PAST HR 8021 SLP044 P0007 T10091009 50023 KCOS 260154Z 21007KT 10SM CLR 18/M06 A3012 RMK AO2 SLP140 T01781056 NZTU 260200Z 15015KT 25KM BKN080 13/08 Q1008 RMK ALT VATSIM USE ONLY CYLA 252100Z 10015G22KT 15SM OVC020 01/M00 A2973 RMK SC8 LAST OBS/NXT 261200Z SLP069 KCOT 260153Z AUTO 12008KT 10SM CLR 27/12 A3008 RMK AO2 SLP179 T02670122 CYKJ 260200Z AUTO 25004KT 9SM SCT018 BKN200 OVC220 M01/M02 A2988 RMK SLP149 KCPK 260235Z AUTO 21004KT 10SM CLR 14/09 A2983 RMK AO2 KCQB 260235Z AUTO 19005KT 7SM CLR 23/18 A3001 RMK AO2 CYJT 260200Z 06014KT 15SM OVC025 06/03 A2953 RMK SC8 SLP001 KCQC 260153Z AUTO 26010KT 10SM CLR 12/M03 A3027 RMK AO2 SLP194 T01221033 EGKK 260220Z 21005KT 9999 BKN032 12/08 Q1022 KCOU 260154Z AUTO 05006KT 10SM CLR 18/12 A3002 RMK AO2 SLP163 T01780117 $ EHBK 260225Z AUTO 20006KT 9999 OVC038 10/09 Q1024 CYKL 260200Z AUTO /////KT RMK CLD MISG WX MISG VIS MISG PCPN MISG ICG MISG EGLC 260220Z AUTO 21008KT 9999 SCT035/// 13/07 Q1021 CYLD 260100Z 27007KT 15SM -SHRA OVC020 05/04 A2956 RMK SC8 CVCTV CLDS EMBD LAST OBS/NEXT 26 1000Z SLP023 KDFW 260153Z 17008KT 10SM CLR 26/15 A3005 RMK AO2 SLP167 T02610150 KCQF 260235Z AUTO 00000KT 10SM CLR 13/12 A3007 RMK AO2 EGLF 251820Z 21007KT 9999 SCT036 12/08 Q1020 CXTO 260200Z AUTO 12/04 RMK AO1 SLP035 T01180041 51014 CXTP 260200Z AUTO 05005G16KT 05/05 RMK AO1 8PAST HR SOG 13 0000 PK WND 06017/0137 SLP988 P0003 T00470047 50035 OSDI 260200Z 00000KT CAVOK 10/04 Q1019 EFTP 260220Z AUTO 17008KT 3800 BR SCT002 OVC004 06/06 Q1015 CYLH 260217Z AUTO 29013G20KT 270V330 8SM -RA SCT016 OVC023 03/02 A2970 RMK SLP069 KCPR 260153Z 22012G23KT 10SM CLR 19/M04 A2993 RMK AO2 SLP091 T01891039 NZWB 260141Z 30010KT 30KM NSC 21/05 Q1008 RMK VATSIM USE ONLY KCPS 260153Z 00000KT 10SM CLR 16/13 A3001 RMK AO2 SLP161 T01560128 $ KBYS 260155Z AUTO 24016G25KT 10SM CLR 23/03 A2998 RMK AO2 PK WND 25027/0109 SLP123 T02310031 $ CYLJ 260000Z 07006KT 15SM BKN180 OVC250 04/M03 A2989 RMK AC7CI1 SLP144 CYMA 260200Z 01006KT 20SM FEW018 BKN090 OVC120 M03/M06 A2980 RMK SC2AC5AS1 SLP127 EFVA 260220Z AUTO 20012G22KT 180V240 9999 OVC010/// 10/08 Q1009 R16/29//95 KCPT 260235Z AUTO 16006KT 10SM CLR 23/17 A3009 RMK AO2 CYLK 252000Z 31005KT 2 1/2SM -SN OVC010 M01/M03 A2986 RMK SC7 -0.5/-2.0/TR/TR TRACE LOOSE LAST OB/NEXT 261400Z SLP126 CZDB 260200Z AUTO 25005KT 05/04 RMK AO1 SLP995 T00480035 56001 ORMM 260200Z 00000KT CAVOK 16/09 Q1014 NOSIG CYLL 260200Z 10012KT 15SM OVC075 04/M03 A2972 RMK AC8 PRESFR SLP094 EGMC 260220Z 22009KT 9999 BKN034 12/08 Q1021 EFTU 260220Z AUTO 21007KT 180V270 4300 +DZ BR OVC005/// 08/07 Q1016 EGLL 260220Z 21008KT 9999 SCT037 12/08 Q1021 KCQM 260235Z AUTO 27005KT 10SM CLR 02/M04 A2996 RMK AO2 EGMD 251750Z 26008KT 9999 FEW022 13/10 Q1021 CXTV 260200Z AUTO 24004KT M09/M11 RMK AO1 SLP121 T10901114 56006 KCRE 260153Z 29003KT 10SM CLR 12/09 A2995 RMK AO1 SLP141 T01220089 KDGW 260153Z AUTO 21004KT 10SM CLR 18/M06 A2995 RMK AO2 SLP121 T01781061 KDHN 260153Z AUTO 31005KT 10SM CLR 15/11 A3008 RMK AO2 SLP183 T01500106 KBZN 260156Z 12007KT 10SM CLR 11/03 A2975 RMK AO2 SLP080 T01060033 KCPW 260236Z AUTO 23025G32KT 10SM CLR 04/M05 RMK AO2 KCRG 260153Z AUTO 00000KT 10SM CLR 14/12 A3001 RMK AO2 SLP162 T01440117 KBYY 260235Z AUTO 00000KT 10SM 17/16 A3011 RMK AO2 T01760161 CYKY 260200Z 10017G23KT 15SM BKN070 BKN240 06/M01 A2970 RMK AC5CI2 SLP084 CZCP 260200Z AUTO 14004KT 9SM OVC011 M07/ A2987 RMK SLP127 ORNI 260200Z 34010KT 9999 FEW040 19/10 Q1015 NOSIG CYKZ 260200Z 31006KT 15SM FEW030CB 11/04 A2963 RMK CB1 CB TR OCNL LTGIC SE SLP035 CYMH 260200Z AUTO 06013G20KT 9SM OVC033 03/M02 A2983 RMK SLP102 NZWK 260125Z 24015KT 30KM SCT028 BKN040 15/07 Q1015 RMK NZRO VATSIM USE ONLY CZCR 260200Z AUTO 07006KT 04/03 RMK AO1 8012 SLP011 T00410026 50002 KDIJ 260156Z AUTO 15005KT 10SM CLR 12/M01 A2996 RMK AO2 T01161011 SLP093 CYNA 260240Z AUTO 07014G19KT 9SM OVC018 03/01 A2962 RMK SLP030 KDHT 260153Z AUTO 16009KT 10SM CLR 17/06 A3005 RMK AO2 SLP147 T01720056 KCQT 260147Z AUTO 00000KT 10SM CLR 21/14 A2998 RMK AO2 SLP150 T02110144 KDIK 260156Z AUTO 14017KT 10SM CLR 11/M01 A2987 RMK AO2 SLP127 T01061006 CXWB 260200Z AUTO 08021KT M05/M07 RMK AO1 PK WND 09029/0140 T10531073 EFUT 260220Z AUTO 18008KT 9999 -SHRA FEW019 OVC053 03/M01 Q1020 CYLU 252100Z 11005KT 15SM FEW012 BKN020 OVC040 01/M01 A2980 RMK SC1SC5SC2 LAST OBS/NEXT 261200Z SLP095 EGNC 251650Z 23021G31KT 9999 VCSH SCT025 SCT032 12/09 Q1009 NZWN 260230Z AUTO 36021G33KT 9999 NCD 16/08 Q1011 NOSIG TXKF 260155Z 12022KT 9000 -RA SCT006 BKN011 BKN050 OVC065 19/19 Q1008 RMK WSHFT50 WND EST  EHDL 260225Z AUTO 20006KT 9999 OVC039 10/08 Q1022 BLU CYND 260100Z 31007G16KT 270V340 12SM -SHRA OVC030 09/07 A2947 RMK SC8 LAST OBS/NEXT 261100 UTC SLP981 CXVM 260200Z AUTO 11012KT 05/M03 RMK AO1 PK WND 11020/0120 T00521029 CYMM 260200Z AUTO 09006KT 9SM OVC160 02/00 A2982 RMK SLP118 KCQW 260235Z AUTO 24004KT 10SM CLR 11/07 A2994 RMK AO2 NZWP 260000Z 24015KT 30KM FEW020 SCT033 BKN050 17/09 Q1019 RMK VATSIM USE ONLY CYNE 260200Z AUTO 28004KT 9SM SCT036 02/M02 A2991 RMK SLP142 CYLW 260200Z AUTO 34003KT 320V020 9SM OVC065 08/06 A2941 RMK PRESFR SLP967 DENSITY ALT 1500FT KCQX 260152Z AUTO 23005KT 10SM CLR 13/10 A2960 RMK AO2 SLP023 T01280100 CYMO 260239Z AUTO 23009KT 3SM -RA BR OVC014 06/06 A2930 RMK SLP921 KCSG 260151Z AUTO 35006KT 10SM CLR 19/11 A3004 RMK AO2 SLP169 T01940106 KCRP 260151Z 15005KT 10SM CLR 21/18 A3010 RMK AO2 SLP192 T02060178 NZWR 260000Z 24015KT 30KM FEW020 SCT033 BKN050 17/09 Q1019 RMK NZWP VATSIM USE O KCRQ 260153Z AUTO 25005KT 10SM CLR 20/16 A2999 RMK AO2 SLP154 T02000161 TSNO NZWS 260200Z 08009KT 2000 DZ BKN008 11/10 Q1016 RMK ALT VATSIM USE ONLY EHEH 260225Z AUTO 20006KT 9999 OVC043 11/10 Q1023 BLU KCRS 260153Z AUTO 16006KT 10SM CLR 22/17 A3008 RMK AO2 SLP183 T02220167 EFVR 260220Z AUTO 19004KT 130V260 9999 OVC015 02/01 Q1018 NZWU 260212Z 26015KT 25KM VCSH BKN030 14/06 Q1015 RMK NZOH VATSIM USE ONLY CZFA 252200Z 14003KT 090V220 30SM FEW006 FEW015 M03/M05 A2978 RMK ST1SF1 CLIMAT -2.4/-5.2/0.0 LAST STFD OBS/NEXT 261400UTC SLP131 CYOA 252300Z 31003KT 15SM FEW020 BKN100 M12/M14 A2984 RMK SC1AC6 -5.4/-12.7/TR/24 MUCH LOOSE LAST OB/NEXT 261100Z SLP149 EGNJ 260220Z AUTO 21021KT 9999 BKN044/// 12/09 Q1015 KCTB 260156Z AUTO 11006KT 10SM CLR 07/03 A2961 RMK AO2 SLP036 T00720033 KDKB 260235Z AUTO 29007KT 10SM CLR 11/00 A3000 RMK AO2 T01061005 CYMU 252100Z 11012KT 15SM -RA SCT025 OVC040 09/04 A2934 RMK SC3SC4 LAST OBS/ NEXT 261200Z SLP940 CYOC 260200Z 25007KT 20SM -SN BKN016 BKN030 M08/M10 A2987 RMK ST5SC2 LAST OBS/NEXT 26 1300 UTC/MEDEVAC SLP140 CZEL 260200Z AUTO 08/04 RMK AO1 SLP052 T00760039 51019 KCSM 260153Z AUTO 18011KT 10SM CLR 24/11 A3003 RMK AO2 SLP152 T02390106 CXWM 260200Z AUTO 20009KT 08/02 RMK AO1 T00810023 CYNM 260237Z AUTO 30007KT 2 1/2SM BR OVC008 05/04 A2933 RMK ICG MISG SLP941 CYOD 260200Z 09006KT 15SM OVC085 05/M02 A2979 RMK AC8 SH DIST SW SLP114 EGNM 260220Z 24014KT 9999 FEW045 10/08 Q1013 KCRW 260154Z 24008KT 10SM CLR 16/10 A2990 RMK AO2 SLP123 T01560100 $ EHDV 260225Z AUTO 22024KT 9999 BKN046/// 14/10 Q1015 EHFD 260225Z AUTO 24030KT 9999 FEW016/// BKN044/// 14/11 Q1015 CXVW 260200Z AUTO 04008KT 01/M00 RMK AO1 5PAST HR M P0002 T00051002 50026 CXWN 260200Z AUTO 28002KT 10/M02 RMK AO1 SLP148 T01031019 56007 KCRX 260235Z AUTO 00000KT 1/4SM FG VV002 17/16 A3005 RMK AO2 CYMX 260235Z 26009G16KT 210V290 4SM SHRA BR BKN008 BKN015 OVC032 11/10 A2942 RMK FG1SF4SC2SC1 SLP963 DENSITY ALT 300FT KEBG 260235Z AUTO 00000KT 10SM CLR 22/18 A3011 RMK AO2 T02180175 KCSQ 260235Z AUTO 07007KT 10SM CLR 13/05 A3007 RMK AO2 UNTT 260230Z 23004MPS 9999 FEW040 SCT066 OVC230 M07/M10 Q1014 NOSIG RMK QFE746 21420150 KEAR 260235Z 06009KT 10SM CLR 13/07 A2999 RMK AO1 EGNR 251520Z 22012KT 190V250 9000 SCT018 SCT030 14/10 Q1014 KCTJ 260235Z AUTO 00000KT 10SM CLR 13/11 A3007 RMK AO2 CYPA 260200Z 06006KT 15SM BKN250 M01/M03 A2989 RMK CI6 SLP146 CYOJ 260200Z 00000KT 15SM FEW260 M02/M03 A2981 RMK CS2 SLP118 KDKK 260153Z AUTO 25014G24KT 10SM CLR 14/11 A2964 RMK AO2 LTG DSNT NE SLP037 T01390106 EGNS 260150Z 23024G35KT 190V260 9999 FEW023 14/08 Q1011 EGPA 260220Z AUTO 21016KT 9999 FEW032/// BKN035/// 12/07 Q0992 KCUB 260153Z AUTO 00000KT 10SM CLR 12/09 A2998 RMK AO2 SLP151 T01220094 KEAT 260244Z AUTO 07020G27KT 10SM SCT044 BKN055 13/08 A2941 RMK AO2 PK WND 17035/0214 WSHFT 0224 RAE43 P0000 T01280078 EGPB 260220Z AUTO 22034G45KT 5000 -SHRA SCT006/// 10/08 Q0990 EGNT 260220Z 23011KT 9999 BKN046 13/07 Q1009 KEAU 260156Z AUTO 30008KT 10SM CLR 10/M03 A3000 RMK AO2 SLP161 T01001033 CYPC 252300Z 21010KT 15SM FEW040 BKN090 M08/M11 A2992 RMK SC2AC6 -6.8/-8.6/TR 10 MUCH LOOSE KAST OB/NEXT 261300 SLP135 ZUGY 260200Z VRB01MPS CAVOK 20/16 Q1023 NOSIG EGPC 260220Z AUTO 23014KT 9999 NCD 10/06 Q0994 KCSV 260153Z AUTO 00000KT 6SM BR CLR 14/12 A3006 RMK AO2 SLP172 T01390117 CZFM 252300Z 07002KT 35SM BKN100 M09/M11 A2991 RMK AC7 -8.6/-15.0/0.0/32 MUCH LOOSE LAST OBS/NXT 261400Z SLP132 CZEV 260200Z AUTO 09006KT M10/M13 RMK AO1 SOG 15 6007 SLP126 T11041127 EGOM 260150Z AUTO 24023G35KT 9999 SCT019/// BKN041/// 11/08 Q1008 CYPD 260236Z AUTO 24005KT 9SM BKN013 OVC040 09/08 A2946 RMK SLP978 EGNV 252050Z 21016KT 9000 -SHRA FEW026 SCT035 12/08 Q1012 EGPD 260220Z 20017KT 9999 FEW023 11/07 Q1000 CYPE 260200Z 07012KT 15SM BKN050 OVC200 03/M01 A2970 RMK SC5CI3 SLP086 EGPE 260220Z AUTO 21025KT 9999 -RA SCT044/// 11/09 Q0996 RERA KDLF 260158Z AUTO 18005KT 10SM CLR 23/16 A3007 RMK AO2 SLP173 T02310155 $ CYOO 260200Z AUTO 29010G18KT 9SM CLR 11/04 A2960 RMK SLP025 EGPF 260220Z AUTO 22021KT 9999 OVC023 12/09 Q1006 EGNX 260220Z 22015KT 9999 BKN033 11/09 Q1017 KECG 260154Z 22007KT 10SM CLR 14/08 A2986 RMK AO2 SLP110 T01390083 EGOP 260150Z AUTO 22027KT 9999 // BKN034/// 14/10 Q1019 EHGG 260225Z AUTO 20006KT 170V230 9999 NCD 09/08 Q1021 KDLH 260155Z 30011G17KT 10SM CLR 09/M04 A2996 RMK AO2 SLP157 T00891039 KCUH 260235Z AUTO 00000KT 10SM CLR 18/17 A3000 RMK AO2 CXYH 260200Z AUTO 18002KT M04/M05 RMK AO1 SLP130 T10351049 54000 CYPH 260200Z AUTO 10009KT 9SM -RA OVC055 04/03 A2942 RMK SLP965 EGPH 260220Z AUTO 24025KT 9999 FEW032 SCT048 12/06 Q1004 KDKR 260235Z AUTO 00000KT 7SM CLR 19/18 A3013 RMK AO2 KDMA 260158Z AUTO 25007KT 10SM BKN110 28/11 A3002 RMK AO2 SLP129 T02820107 $ KEBS 260235Z AUTO 00000KT 10SM CLR 10/02 A3006 RMK AO2 EGPI 260220Z AUTO 21021G31KT 180V240 9999 FEW021/// SCT029/// 11/09 Q1005 RERA EGQA 251250Z 25025KT 9999 FEW028 SCT045 13/07 Q1003 BLU CZFS 260100Z AUTO 34002KT M06/M07 RMK AO1 SLP152 T10611070 53001 EGOS 260150Z AUTO 17008KT 9999 SCT027/// BKN039/// 12/08 Q1016 CYQA 260200Z AUTO 30011G21KT 250V330 9SM OVC060 10/02 A2956 RMK SLP014 EHFS 260225Z AUTO 20013KT 9999 OVC032/// 13/11 Q1022 KCVB 260235Z AUTO 00000KT 10SM CLR 23/11 A3012 RMK AO2 T02280105 CYQB 260200Z 08009G18KT 8SM FEW006 BKN015 OVC025 05/04 A2944 RMK SF1SC4SC3 SLP972 EGPK 260150Z 20016KT 9999 FEW028 SCT045 12/08 Q1007 KEDC 260235Z AUTO 15003KT 10SM FEW046 22/14 A3010 RMK AO2 KCUL 260235Z AUTO 00000KT 10SM CLR 13/12 A3000 RMK AO2 T01330121 KCVC 260235Z AUTO 30003KT 10SM CLR 15/11 A3003 RMK AO2 KDLL 260235Z AUTO 28003KT 10SM CLR 10/M03 A2999 RMK AO2 T01001030 CYPL 260200Z 29011G16KT 15SM OVC028 04/M02 A2979 RMK SC8 LAST OBS/NEXT 261100Z SLP105 CXZC 260200Z AUTO 23003KT 06/06 RMK AO1 SLP920 T00610060 51006 EGPL 260220Z AUTO 23026KT 8000 SCT041/// 10/09 Q0995 RERA EGOV 260150Z AUTO 22030G40KT 9999 BKN032/// SCT041/// 14/10 Q1014 CYQD 260200Z 23003KT 15SM FEW025 M00/M03 A2994 RMK SC1 TR SC SLP152 KDLN 260153Z AUTO 17012KT 10SM CLR 15/M01 A2976 RMK AO2 SLP060 T01501011 EGPM 260220Z AUTO 22031G41KT 6000 +RA FEW009/// BKN020/// 10/07 Q0987 VGEG 260150Z 00000KT 3500 HZ FEW120 27/23 Q1013 NOSIG KEDE 260235Z AUTO 25006KT 10SM CLR 17/11 A2986 RMK AO2 T01650105 EGOW 251350Z 24015KT 9999 SCT025 15/08 Q1013 BLU EGPN 251520Z 24024G35KT 9999 FEW018 SCT040 12/08 Q1003 CYOW 260200Z 26003KT 250V330 10SM -RA OVC034 08/07 A2949 RMK SC8 SLP988 CYQF 260200Z 14014G20KT 15SM FEW040 BKN200 06/M05 A2954 RMK SC2CI4 SLP038 KCTY 260153Z AUTO 00000KT 14/12 A3001 RMK AO1 SLP163 P0001 T01440122 KCVG 260152Z 25008KT 10SM FEW250 19/10 A2992 RMK AO2 SLP126 T01890100 EGPO 260220Z AUTO 24037G55KT 3500 SHRA SCT024/// 10/07 Q0992 KECP 260153Z 32003KT 10SM CLR 14/11 A3004 RMK AO2 SLP183 T01390111 $ CYOY 260200Z AUTO 00000KT 6SM -RA OVC015 06/04 A2942 RMK PCPN 0.5MM PAST HR SLP967 CYQG 260200Z 28011KT 15SM SKC 14/01 A2980 RMK SLP091 DENSITY ALT 700FT KCVH 260235Z AUTO 27003KT 10SM CLR 16/14 A3011 RMK AO1 KDMH 260154Z AUTO 17/05 A2972 RMK AO1 SLP063 T01670050 KCTZ 260235Z AUTO 00000KT 10SM CLR 10/09 A2992 RMK AO2 T01040087 CYQH 260200Z 00000KT 1 1/2SM BR OVC015 M01/M02 A2976 RMK FG3ST5 SLP115 CYPQ 260200Z AUTO 29012G17KT 9SM FEW043 10/05 A2957 RMK SLP015 EHFZ 260225Z AUTO 22024KT 9999 FEW014/// SCT017/// BKN046/// 14/10 Q1017 CYQI 260200Z 11002KT 15SM SKC 04/04 A2958 RMK SLP018 CYPR 260200Z AUTO 09008KT 9SM SCT070 09/06 A2949 RMK SLP987 EHGR 260225Z AUTO 21005KT 9999 OVC041 12/09 Q1022 BLU KDLS 260153Z AUTO 21005KT 10SM BKN075 OVC090 13/11 A2955 RMK AO2 RAE28 PRESRR SLP005 P0002 T01330111 KEDJ 260230Z AUTO 00000KT 10SM CLR 12/07 A2989 RMK AO1 KECS 260235Z AUTO 11016G22KT 10SM CLR 16/00 A2991 RMK AO2 KCWA 260245Z 3001G15KT 10SM SKC 09/M04 A2996 CYRA 252000Z 02006KT 330V040 15SM BKN010 M04/M07 A2994 RMK SC7 -4.2/-5.1/0/4.0 MEDIUM PACK -SN SE LAST OBS/NEXT 261400Z SLP156 KCUT 260153Z AUTO 00000KT 10SM CLR 08/01 A3003 RMK AO2 SLP159 T00830006 EGQK 260150Z AUTO 22025G35KT 9999 BKN048/// 12/07 Q0996 RERA CYRB 260241Z 09013G19KT 5SM -SN DRSN OVC110 RMK AC8 CYQK 260200Z 30004KT 15SM SKC 07/M02 A2993 RMK SLP149 KCWC 260235Z AUTO 15008KT 10SM CLR 22/14 A3003 RMK AO2 T02210135 KECU 260230Z AUTO 13003KT 10SM CLR 19/11 A3017 RMK AO2 CYQL 260200Z 25004KT 15SM SCT120 06/02 A2959 RMK AC3 SLP044 EGQL 260150Z 24026G38KT 9999 BKN030 11/07 Q1003 BLU KEED 260156Z AUTO 22005KT 10SM CLR 30/07 A2988 RMK AO2 SLP093 T03000072 EGPU 260220Z AUTO 24029G42KT 6000 -SHRA FEW024/// SCT039/// 11/09 Q1000 CYQM 260200Z 26006KT 15SM OVC005 05/04 A2952 RMK SF8 SLP999 KDMN 260153Z AUTO 25005KT 10SM CLR 20/06 A3015 RMK AO2 SLP163 T02000061 KCVN 260235Z AUTO 22008KT 10SM CLR 16/04 A3014 RMK AO1 EGQM 260150Z AUTO 23023G37KT 9999 SCT040/// 12/07 Q1008 KEDN 260235Z AUTO 00000KT 10SM CLR 12/11 A3005 RMK AO2 CYPW 260200Z 28012KT 1SM -RA BR BKN005 OVC020 07/07 A2934 RMK FG1SF5NS2 LAST OBS/NEXT261300UTC SLP939 KDMO 260153Z AUTO 00000KT 8SM CLR 20/13 A3003 RMK AO2 SLP165 T02000133 KCVO 260235Z AUTO 23007KT 10SM FEW033 SCT040 BKN050 12/09 A2986 RMK AO1 P0001 KCWF 260235Z AUTO 00000KT 10SM CLR 16/13 A3012 RMK AO2 T01640130 CYPX 260200Z 11018G23KT 15SM OVC011 02/00 A2954 RMK SC8 VIA ZNB SLP004 CYPY 260247Z AUTO 06007KT 5SM BR BKN002 M02/M02 A2989 RMK SLP137 KDLZ 260236Z AUTO 31003KT 10SM CLR 10/05 A2988 RMK AO2 CYQQ 260200Z 32011G16KT 10SM -RA SCT010 OVC026 07/06 A2936 RMK SF3SC5 SLP943 KCWI 260235Z 34008KT 10SM CLR 09/01 A3005 RMK AO1 CYQR 260200Z 12012KT 15SM BKN210 09/M01 A2985 RMK CI7 SLP133 KCVS 260158Z AUTO 21006KT 10SM CLR 18/04 A3012 RMK AO2 SLP161 T01800044 $ CYRJ 260244Z 12006KT 2SM RA OVC030 06/05 A2937 RMK FG2SC6 SLP950 EGQS 260150Z 25033KT CAVOK 12/06 Q0995 BLU EHJA 260225Z AUTO 22027KT 9999 FEW016/// SCT037/// BKN042/// 14/10 Q1017 CYSB 260230Z 28009G22KT 15SM -SHRA OVC030 07/02 A2951 RMK SC8 CU EMBD SLP002 CYQT 260200Z 30015G23KT 15SM SKC 09/M02 A2981 RMK SLP101 OTBD 260230Z VRB02KT CAVOK 25/20 Q1012 NOSIG KDNL 260153Z AUTO 00000KT 10SM CLR 18/07 A3000 RMK AO2 SLP155 T01830072 $ KEDU 260235Z AUTO 17004KT 10SM 16/13 A3007 RMK AO1 CYRL 260200Z 30009G18KT 15SM FEW021 FEW240 04/M01 A2991 RMK SC1CI1 SC TR CI TR LAST STFD OBS/NEXT 260900UTC SLP142 CXZU 260200Z AUTO 03/M02 RMK AO1 23 0153Z 8023 SLP037 T00311023 CYSC 260248Z AUTO 00000KT 9SM BKN028 OVC034 09/08 A2942 RMK SLP966 CYQU 260200Z 07013G20KT 6SM -RA OVC010 02/01 A2959 RMK SC8 SLP051 EGSC 251650Z 20007KT 160V240 9999 BKN043 13/08 Q1018 KEFD 260150Z 18003KT 10SM CLR 21/13 A3012 EGSD 251750Z 20007KT 9999 FEW020 12/09 Q1018 CXZV 260200Z AUTO 10004KT 02/02 RMK AO1 2PAST HR 8011 SLP034 P0009 T00200017 50041 CYQV 260200Z AUTO 10004KT 9SM CLR 03/M03 A2993 RMK SLP158 KCWN 260156Z AUTO 29007KT 10SM CLR 18/M08 A3014 RMK AO2 SLP131 T01751076 KEEN 260235Z AUTO 00000KT 8SM FEW033 SCT050 BKN055 09/04 A2953 RMK AO1 KCXE 260235Z AUTO 25003KT 10SM CLR 13/09 A2984 RMK AO1 T01290087 KCVW 260235Z AUTO 00000KT 9SM OVC016 21/16 A3014 RMK A01 KDNN 260235Z AUTO 00000KT 10SM CLR 12/12 A3005 RMK AO2 KEDW 260158Z AUTO 21009KT 10SM CLR 22/05 A3000 RMK AO2 SLP147 T02160054 KDMW 260240Z AUTO 23005KT 10SM CLR 14/08 A2970 RMK AO2 CYQW 260200Z AUTO 11012KT 9SM FEW095 05/M03 A2981 RMK PRESFR SLP121 KEEO 260153Z AUTO 00000KT 10SM CLR 12/01 A3013 RMK AO2 SLP175 T01170006 KCVX 260235Z AUTO 29015G23KT 10SM CLR 12/03 A2982 RMK AO2 T01170027 CYQX 260200Z 05016G24KT 3SM -RA BR BKN005 OVC012 04/04 A2954 RMK SF7SC1 SLP008 CYSF 260142Z AUTO /////KT 3SM RMK CLD MISG WX MISG VIS MISG CZHY 260200Z AUTO 23002KT M02/M04 RMK AO1 SLP138 T10231037 58003 CYQY 260200Z 09004KT 1 1/2SM -DZ BR BKN004 OVC023 10/09 A2946 RMK ST7SC1 SLP977 CYRQ 260200Z AUTO 20004KT 9SM BKN012 OVC019 09/08 A2939 RMK PCPN 1.0MM PAST HR SLP955 CYQZ 260248Z AUTO 31002KT 8SM -RA -UP OVC016 01/ A2942 RMK SLP987 EGSH 260220Z AUTO 20008KT 180V240 9999 NCD 11/09 Q1019 KDPA 260152Z 31010KT 10SM CLR 14/M01 A2997 RMK AO2 SLP148 T01391011 KDNS 260235Z AUTO 05003KT 10SM CLR 10/04 A3006 RMK AO2 CYSJ 260200Z 00000KT 15SM SCT006 BKN039 BKN047 05/05 A2956 RMK SF3SC2SC1 SLP013 ORSU 260200Z VRB03KT CAVOK 08/07 Q1019 KEET 260153Z AUTO 00000KT 9SM CLR 17/15 A3007 RMK AO2 SLP179 T01670150 KEFK 260235Z AUTO 21007KT 7SM SCT035 SCT041 BKN085 08/08 A2945 RMK AO2 T00820077 CYRT 260200Z 06015KT 2SM -SN DRSN OVC025 M01/M02 A2969 RMK SC8 SLP056 EGTC 251550Z 23011KT 9999 FEW036 SCT049 13/11 Q1017 KCWV 260235Z AUTO 00000KT 10SM CLR 12/12 A3001 RMK AO2 KDNV 260235Z AUTO 29007KT 10SM CLR 14/05 A2996 RMK AO2 T01420049 CYSM 260235Z 04003KT 8SM -SN OVC010 RMK ST8 CYRV 260202Z AUTO 00000KT 9SM -RA BKN006 OVC031 06/05 A2954 RMK SLP017 EHKD 260225Z AUTO 23011KT 9999 NCD 14/10 Q1020 BLU KEGE 260235Z AUTO 11008KT 10SM CLR 10/M01 A3017 RMK AO1 CYSN 260100Z 27010KT 220V290 15SM BKN052 14/10 A2960 RMK SC5 SLP025 DENSITY ALT 500FT EGTE 260120Z 20006KT 9999 BKN030 13/08 Q1021 CYTE 260200Z AUTO 05017KT 9SM OVC210 M09/M11 A2993 RMK SLP139 KCXO 260153Z 00000KT 10SM CLR 18/16 A3011 RMK AO2 SLP193 T01780161 KCXP 260235Z AUTO 22008G15KT 170V270 10SM BKN050 10/M03 A3008 RMK AO2 CYSP 252100Z 31017G28KT 15SM OVC013 09/01 A2957 RMK SC8 CIG RAG LAST OBS/NEXT 261200UTC SLP023 CYTH 260200Z 30011KT 15SM SCT042 02/M01 A2983 RMK SC3 SLP116 KEGI 260158Z AUTO 00000KT 10SM CLR 13/11 A3005 RMK AO2 SLP178 T01330106 $ EHJR 260225Z AUTO 22027G31KT //// ///////// 14/09 Q1018 W15/H21 OSLK 260200Z 04004KT CAVOK 15/10 Q1015 KEHA 260228Z AUTO 18006KT 18/06 RMK AO1 PK WND 11 000 T01830056 CYUA 260227Z AUTO 21024KT 9SM -SN CLR M08/ A2982 EGSS 260220Z 21008KT 9999 BKN035 11/08 Q1020 KEFT 260235Z AUTO 29009KT 10SM CLR 11/M01 A3000 RMK AO2 EGTK 252120Z 20005KT 9999 BKN025 BKN037 11/10 Q1020 EGUB 260150Z AUTO 17008KT 9999 // NCD 11/07 Q1020 CYUB 260200Z 22005KT 15SM BKN030 M09/M12 A2989 RMK SC6 SLP122 KDPL 260235Z AUTO 00000KT 10SM CLR 09/08 A2992 RMK AO2 T00870077 KEHC 260235Z AUTO 00000KT 10SM CLR 23/13 A3011 RMK A01 CYTL 260200Z AUTO 29009G19KT 9SM FEW013 BKN035 03/00 A2971 RMK SLP071 KDOV 260158Z AUTO 19008KT 9SM R19/5500FT CLR 13/09 A2969 RMK AO2 SLP057 T01320093 KCXY 260156Z AUTO 25004KT 10SM CLR 17/08 A2965 RMK AO2 SLP041 T01670083 CYSY 251800Z 11008KT 8SM -SN BKN012 M09/M11 A2987 RMK SC7 SLP126 KDQH 260235Z AUTO 00000KT 10SM CLR 13/10 A3003 RMK AO2 VGHS 260150Z 00000KT 3500 HZ SCT012 BKN100 26/23 Q1013 NOSIG CYTQ 252100Z 08010KT 12SM OVC012 02/M00 A2968 RMK SC8 LAST OBS/NXT 261200Z SLP054 CYTR 260200Z 29014G20KT 15SM FEW025 FEW220 12/05 A2954 RMK SC1CI1 CB S MOVG E OCNL DIST LTNG S SLP006 KCYS 260153Z 16004KT 10SM CLR 15/M06 A3009 RMK AO2 SLP146 T01501061 KDRA 260152Z AUTO 21017G28KT 10SM CLR 23/03 A2996 RMK AO2 PK WND 21032/0125 SLP109 T02330028 CYTS 260200Z 29013G20KT 10SM -RA SCT015 OVC027 04/03 A2944 RMK SC4SC4 SLP978 EHMA 260225Z AUTO 20020KT 9999 NCD 11/10 Q1019 EGVA 260158Z AUTO 23010KT 9999 OVC034 12/08 A3011 RMK AO2 SLP200 P1455 T01200082 EICK 260230Z 22017KT 9999 SCT008 SCT012 BKN030 11/11 Q1015 NOSIG CYVC 260200Z 00000KT 15SM SCT030 OVC060 M01/M04 A2991 RMK SC3SC5 SLP151 CYUL 260200Z 25012KT 12SM FEW010 SCT075 11/10 A2942 RMK SF2AC1 SLP963 DENSITY ALT 200FT EGUL 260158Z AUTO 21009KT 9999 CLR 12/12 A3010 RMK AO2 SLP196 T01170117 KEGV 260235Z AUTO 30008KT 10SM CLR 08/M05 A2991 RMK AO2 T00801050 CZMD 260200Z AUTO 29011KT 250V320 9SM -RA BKN030 OVC035 02/M01 A2978 RMK SLP099 EHKV 260225Z AUTO 25030KT 9999 FEW026/// BKN035/// BKN040/// 15/08 Q1019 KEHO 260235Z AUTO 00000KT 10SM CLR 13/07 A2996 RMK AO2 T01340073 EGUN 260158Z AUTO 21008KT 9999 CLR 11/11 A3011 RMK AO2 SLP199 T01140114 $ EGUO 251250Z 23012KT 9999 SCT025 13/09 Q1019 BLU EHMG 260225Z AUTO 24027KT 9999 FEW021/// SCT025/// BKN038/// 15/09 Q1018 CYTZ 260200Z AUTO 30011KT 9SM CLR 12/05 A2963 RMK SLP035 KEHR 260235Z AUTO 00000KT 10SM CLR A3000 RMK AO1 KDRI 260235Z AUTO 00000KT 10SM CLR 16/14 A3013 RMK AO2 T01600138 CZMJ 260200Z AUTO 13007KT 07/M01 RMK AO1 SLP125 T00701006 56029 CYWA 260245Z AUTO 28004KT 9SM OVC040 09/05 A2946 CYUS 260200Z AUTO 13014KT 9SM CLR M10/ A2998 RMK SLP160 KEIK 260235Z AUTO 00000KT 10SM CLR 11/M01 A3003 RMK AO2 T01091010 KCZT 260235Z AUTO 19004KT 10SM CLR 23/12 A3007 RMK AO2 CYUT 252000Z 11017KT 20SM -SN OVC020 M06/M09 A3005 RMK ST8 -6.4/-10.3/TR/1.0 TRACE LOOSE LAST OBS/NXT 261400Z SLP177 EIDL 251500Z 24023KT CAVOK 12/08 Q1006 KDRM 260234Z AUTO 31009G22KT 10SM CLR 10/03 A2966 RMK AO2 T00960027 CYVM 260200Z AUTO 18010KT 9SM OVC055 M08/M13 A3011 RMK SLP195 EGUW 260150Z AUTO 21008KT 9999 OVC029/// 11/07 Q1020 CYWE 260200Z AUTO 34003KT 290V360 9SM OVC010 M07/M09 A2990 RMK SLP159 EHLW 260225Z AUTO 19007KT 9999 BKN044 10/09 Q1020 BLU KDRO 260153Z AUTO 01003KT 10SM CLR 12/02 A3024 RMK AO2 SLP226 T01170022 EGVN 260150Z 22006KT 9999 BKN032 12/08 Q1020 NOSIG KFAF 260158Z AUTO 20004KT 10SM CLR 15/08 A2980 RMK AO2 SLP094 T01510077 $ CYUX 260200Z AUTO 33009KT 9SM -SN OVC013 M17/M18 A3017 RMK SLP219 CYVO 260200Z 27007KT 240V300 10SM -RA OVC015 05/05 A2939 RMK SC8 LAST STFD OBS/NEXT 261000 UTC SLP965 EGVO 260150Z 21010KT 9999 BKN027 12/08 Q1021 BLU KEHY 260235Z AUTO 21006KT 10SM CLR 15/M08 A3007 RMK AO2 EGUY 251450Z 22013G23KT 9999 FEW030 14/10 Q1017 BLU EGVP 260150Z AUTO 22006KT 9999 // BKN027/// BKN031/// 12/08 Q1021 CYUY 260200Z 28009KT 10SM -SHRA OVC013 05/04 A2941 RMK SC8 SLP969 CYVP 260200Z 10009KT 15SM BKN028 OVC120 02/M01 A2969 RMK SC6AC2 SLP057 CYWG 260200Z 26006KT 15SM SKC 07/M01 A2997 RMK SLP157 KCZZ 260152Z AUTO 22008KT 18/13 A3002 RMK AO1 SLP146 T01830133 CYWH 260234Z 29009KT 8SM -RA FEW005 SCT014 OVC022 RMK SF2SC2SC4 CYVQ 260200Z 05003KT 15SM BKN050 OVC090 M07/M08 A2994 RMK SC5AC3 SLP147 KEIR 260235Z AUTO 34006KT 10SM 24/14 A3012 RMK A01 CYVR 260237Z 29022G28KT 8SM -RA SCT004 BKN007 OVC019 10/09 A2929 RMK SF3SC4NS1 PRESRR SLP917 KDTA 260235Z AUTO 20017G25KT 10SM CLR 19/03 A2999 RMK AO1 T01920030 CYWJ 252300Z 25002KT 40SM FEW005 BKN090 M07/M08 A2992 RMK SC1AC7 SC TR -6.0/-9.0/0/15 MUCH LOOSE LAST OB/NEXT 261700UTC SLP151 KDRT 260153Z AUTO 14005KT 10SM CLR 24/15 A3007 RMK AO2 SLP168 T02390150 CZMT 260100Z 33009G15KT 15SM SKC 10/06 A2955 RMK LAST OBS/NEXT 261400 UTC SLP008 CYVT 260200Z 13005KT 15SM BKN100 03/M02 A2986 RMK AC7 SLP134 CYWK 260200Z AUTO 12007KT 080V150 9SM FEW014 OVC060 01/M01 A2959 RMK ICG SLP044 KH21 260235Z AUTO 14003KT 10SM CLR 17/15 A3003 RMK AO2 CZMU 260200Z AUTO 10013KT 05/M03 RMK AO1 SOG 00 PK WND 10018/0125 T00531034 CYWL 260200Z 31005KT 2SM -RA BR OVC020 00/00 A2936 RMK SC8 SLP972 CYXC 260233Z 22005KT 15SM -SHRA FEW040 BKN060 OVC080 07/04 A2957 RMK SC1SC5AC2 CVCTV CLD EMBD SLP028 DENSITY ALT 3200FT KFAM 260235Z AUTO 00000KT 10SM CLR 16/14 A3006 RMK AO1 KDSM 260154Z 05003KT 10SM CLR 13/05 A3006 RMK AO2 SLP179 T01280050 EGXC 260150Z 20011KT 9999 SCT042 BKN250 10/09 Q1017 BLU EGXD 260150Z AUTO 20013G23KT 9999 // SCT033/// SCT047/// 12/08 Q1014 CYXD 260200Z AUTO 10012G18KT 9SM OVC053 OVC076 07/M03 A2960 RMK SLP044 CYVV 260200Z 30009G16KT 15SM BKN070 11/04 A2966 RMK AC7 SLP048 EGXE 260150Z AUTO 22012KT 9999 FEW027/// BKN049/// 13/09 Q1013 CYXE 260200Z 10009KT 15SM SCT110 04/M03 A2985 RMK AC3 SLP135 EIDW 260230Z 23019G29KT 9999 SCT018 BKN025 BKN040 12/09 Q1012 NOSIG KFBG 260158Z AUTO 24005KT 10SM CLR 14/07 A2991 RMK AO2 SLP131 T01410066 $ CYXH 260200Z VRB03KT 15SM SCT270 08/02 A2958 RMK CI3 SLP033 DENSITY ALT 2400FT KFAR 260153Z 00000KT 10SM CLR 04/M06 A3003 RMK AO2 SLP177 T00441061 KDUA 260235Z AUTO 00000KT 10SM CLR 22/17 A3005 RMK AO2 KELA 260235Z AUTO 18005KT 10SM CLR 20/16 A3010 RMK AO2 T01960155 CYXJ 260200Z 36010KT 10SM -SN FEW005 OVC042 M00/M01 A2967 RMK ST2SC6 SLP081 KFAT 260153Z 33009KT 10SM FEW060 SCT090 BKN110 19/11 A3005 RMK AO2 SLP173 T01940111 KDUB 260235Z AUTO 28004KT 10SM CLR 10/M06 A2996 RMK AO2 CYYB 260200Z 27009KT 15SM OVC040 08/02 A2949 RMK SC8 LAST STFD OBS/NEXT 261100 UTC SLP994 KFBL 260234Z AUTO 27005KT 10SM CLR 07/M02 A3006 RMK AO2 KDTL 260235Z AUTO 00000KT 10SM CLR 05/01 A3004 RMK AO2 KDUC 260235Z AUTO 00000KT 10SM CLR 21/15 A3003 RMK AO2 KEKM 252050Z 29012G25KT 10SM CLR 20/01 A2990 RMK AO2 LAST CZOL 260200Z AUTO 10006KT 06/M04 RMK AO1 T00571037 EGWU 260150Z AUTO 21007KT 9999 // SCT038/// 12/07 Q1021 CYXL 260200Z 32006KT 15SM FEW040 05/M01 A2988 RMK SC2 SLP133 CZPC 260200Z AUTO 19004KT 170V250 9SM FEW095 02/M00 A2958 RMK PRESFR SLP044 CYYC 260200Z 16016KT 15SM FEW230 06/M01 A2952 RMK CI1 SLP028 DENSITY ALT 3800FT KELD 260227Z AUTO 00000KT 3SM BR CLR 17/17 A3007 RMK AO2 T01720172 KDSV 260154Z AUTO 14003KT 10SM FEW070 11/07 A2962 RMK AO2 SLP039 T01060072 EGYD 260150Z AUTO 22015KT 9999 // SCT037/// BKN230/// 11/08 Q1017 CYYD 260200Z 00000KT 15SM OVC055 03/02 A2954 RMK SC8 SLP022 KDTN 260153Z 00000KT 10SM CLR 21/17 A3007 RMK AO2 SLP182 T02060172 KEKN 260151Z AUTO 26011G21KT 10SM CLR 14/10 A2987 RMK AO2 SLP120 T01440100 TSNO EGYE 250550Z 23010KT CAVOK 06/06 Q1014 BLU CYYE 260200Z 01003KT 15SM FEW080 SCT210 M02/M02 A2979 RMK AC2CI2 SLP114 KDTO 260153Z 16005KT 10SM CLR 22/16 A3004 RMK AO2 SLP167 T02220156 KEKO 260156Z AUTO 28015G26KT 10SM BKN043 BKN100 16/M02 A2991 RMK AO2 PK WND 30033/0126 WSHFT 0052 SLP097 T01611017 CYYF 260200Z 34007KT 15SM -RA BKN060 BKN120 BKN220 09/07 A2941 RMK SC5AC1CI1 SLP964 DENSITY ALT 1300FT OTHH 260200Z AUTO 28003KT 200V350 CAVOK 23/18 Q1012 NOSIG KFAY 260153Z AUTO 24006KT 10SM CLR 12/08 A2992 RMK AO2 SLP125 T01220078 KDUG 260156Z AUTO 09007KT 10SM CLR 22/08 A3013 RMK AO2 SLP155 T02220083 CYXP 251900Z 18003KT 100V220 15SM SKC M12/M18 A3008 RMK SC TR -12.1/-14.1/0.0/6 MUCH LOOSE LAST STFD OBS/NEXT 261600Z SLP190 EGXP 260150Z AUTO 22019KT 9999 // FEW028/// BKN240/// 11/09 Q1016 CYYG 260229Z 25006KT 10SM SCT005 BKN014 OVC061 08/08 A2947 RMK SF3SC4SC1 SLP982 KDUH 260235Z AUTO 30003KT 10SM CLR 12/00 A2985 RMK AO2 KEKQ 260156Z AUTO 00000KT 5SM BR CLR 09/08 A3004 RMK AO2 T00940083 SLP176 EHPG 260225Z AUTO 25024KT 220V290 9000 -DZ FEW030/// BKN034/// 15/09 Q1020 REDZ CYXQ 252200Z 34003KT 10SM SCT010 BKN015 OVC018 M05/M07 A2981 RMK SC4SC2SC2 CLIMAT- 5.0/-6.5/0.0/LAST OBS/NEXT 261600UTC SLP137 CYYH 260200Z 14015KT 15SM OVC021 M10/M13 A3001 RMK SC8 SLP168 KFCI 260155Z AUTO RMK AO1 KFBR 260235Z AUTO 25006KT CLR 14/M04 A3006 RMK AO2 T01421040 PWINO CYXR 260248Z AUTO 27010G15KT 9SM -RA OVC075 05/03 A2945 RMK SLP981 KDUJ 260153Z AUTO 27009KT 10SM FEW065 13/04 A2970 RMK AO2 SLP056 T01280044 $ KDTS 260153Z AUTO 36004KT 10SM CLR 19/13 A3005 RMK AO2 SLP175 T01940128 TSNO EGXS 260150Z AUTO 19016KT 9999 // SCT040/// 11/08 Q1016 CYXS 260242Z AUTO 36008KT 9SM -RA UP SCT004 OVC023 01/01 A2942 RMK PCPN 0.5MM PAST HR SLP988 CYYJ 260200Z 28010KT 10SM -RA FEW012 FEW016 BKN036 OVC064 10/09 A2927 RMK SC1SC2SC4SC2 SC TR SLP911 DENSITY ALT 200FT KELK 260235Z AUTO 18006KT 10SM CLR 21/14 A3006 RMK AO2 EGXT 260150Z AUTO 22014KT 9999 // FEW032/// SCT240/// 11/09 Q1018 CYXT 260200Z 02013KT 20SM BKN070 07/02 A2955 RMK AC7 SLP012 EGXU 260150Z AUTO 20014KT 9999 // BKN050/// 13/08 Q1014 CYXU 260200Z 30008KT 15SM FEW069 10/05 A2973 RMK AC1 SLP069 KELM 260153Z AUTO 26009KT 10SM CLR 14/06 A2962 RMK AO2 SLP031 T01440061 CYYL 260200Z AUTO 30010KT 9SM OVC018 02/M01 A2986 RMK SLP133 KFCM 260153Z 30005KT 10SM CLR 11/M03 A3004 RMK AO2 SLP174 T01111028 EGYM 260150Z AUTO 19010KT 9999 NCD 10/08 Q1019 KDTW 260153Z 27007KT 10SM CLR 13/00 A2982 RMK AO2 SLP096 T01330000 KELN 260153Z AUTO 13009KT 10SM -RA BKN030 BKN047 OVC075 13/08 A2944 RMK AO2 RAB45 SLP971 P0000 T01280078 EGXV 260150Z AUTO 21013KT 9999 FEW049/// BKN240/// 12/09 Q1014 CYYN 260200Z AUTO 11019KT 9SM CLR 08/M00 A2969 RMK SLP075 CYZE 260200Z AUTO 29018G26KT 9SM SCT060 10/04 A2962 RMK SLP034 KELO 260232Z AUTO 28007KT 10SM CLR 07/M03 A2994 RMK AO2 EGXW 260150Z 22016KT 9999 BKN037 12/08 Q1017 BLU EHQE 260225Z AUTO 24025KT 9999 FEW025/// BKN034/// 15/09 Q//// CYXX 260200Z 07004KT 6SM +RA SCT020 OVC035 10/10 A2928 RMK SF3NS5 SLP914 DENSITY ALT 400FT KELP 260151Z 24003KT 10SM CLR 25/07 A3013 RMK AO2 SLP146 T02500072 CYZF 260200Z 02005KT 10SM -FZDZ BKN008 OVC015 M05/M06 A2994 RMK SF6SC2 SLP157 CYXY 260224Z 35003KT 320V020 8SM OVC009 M02/M03 A2972 RMK ST8 SLP107 EGYP 260150Z 29015KT CAVOK 08/M00 Q0993 BLU CYXZ 260000Z 30007G16KT 270V340 15SM BKN020 09/01 A2961 RMK SC7 LAST OBS/NEXT 261100UTC SLP036 EGXZ 260150Z AUTO 17007KT 9999 SCT029/// BKN046/// 12/07 Q1014 CYZH 260223Z AUTO 07009G15KT 030V120 9SM -RA OVC034 04/M02 A2969 RMK SLP073 CYYQ 260200Z 33020G27KT 10SM -RASN OVC009 01/00 A2965 RMK SC8 SLP041 CYYR 260230Z 09006KT 15SM SCT030 OVC070 RMK SC3AC5 /BLUE/ KFCS 260158Z AUTO 25008KT 10SM CLR 18/M04 A3009 RMK AO2 SLP158 T01791044 CZPS 260200Z AUTO 13014KT 05/M04 RMK AO1 PK WND 13021/0110 T00481038 KDVK 260235Z AUTO 24003KT 10SM CLR 15/13 A3000 RMK AO2 KEMK 260235Z AUTO 08005KT 10SM CLR 24/14 A3011 RMK A01 KFDK 260240Z AUTO 20009KT 10SM CLR 18/07 A2973 RMK AO2 CYYT 260230Z 03011G17KT 1/2SM R11/4500VP6000FT/N DZ FG VV002 08/08 A2937 RMK FG8 SLP949 KDVL 260235Z AUTO 00000KT 10SM CLR 03/M04 A2998 RMK AO1 CYYU 260200Z 31015G25KT 7SM -RA OVC010 03/02 A2946 RMK SC8 SLP983 KEND 260158Z AUTO 20007KT 10SM CLR 27/18 A3002 RMK AO2 SLP153 KEMM 260235Z AUTO 21005KT 10SM CLR 10/M07 A3004 RMK AO2 KDVN 260152Z AUTO 29007KT 10SM CLR 09/02 A3004 RMK AO2 SLP173 T00940017 TSNO EHRD 260225Z AUTO 20006KT 160V230 9999 SCT033 OVC037 12/10 Q1021 NOSIG KDUX 260235Z AUTO 17009KT 10SM 18/08 A3005 RMK AO2 T01750075 KDVO 260235Z AUTO 31004KT 10SM CLR 16/13 A3008 RMK AO2 KELY 260153Z AUTO 17013G22KT 10SM FEW070 15/00 A3002 RMK AO2 PK WND 17029/0120 SLP102 T01500000 KEMP 260153Z AUTO 15008KT 10SM CLR 18/16 A2997 RMK AO2 SLP148 T01780156 KDVP 260234Z AUTO 00000KT 10SM CLR 06/00 A3008 RMK AO2 T00590000 CYYY 260200Z 11007KT 6SM -RA BR FEW003 OVC020 05/04 A2951 RMK SF1SC7 SLP994 CYZP 260200Z AUTO 31012G17KT 9SM CLR 09/06 A2956 RMK SLP008 KDWH 260153Z AUTO 00000KT 10SM CLR 18/15 A3010 RMK AO2 SLP192 T01830150 TSNO KELZ 260156Z AUTO 27013KT 10SM CLR 12/07 A2966 RMK AO2 SLP043 T01170067 CYYZ 260200Z 30013KT 15SM FEW030 11/04 A2964 RMK SC2 SLP040 KFDR 260153Z AUTO 15010KT 10SM CLR 23/12 A2998 RMK AO2 SLP142 T02280117 $ CYZR 260200Z AUTO 29010G17KT 9SM CLR 13/01 A2974 RMK SLP073 DENSITY ALT 600FT KFFA 260235Z AUTO 24006KT 10SM CLR 16/10 A2984 RMK AO2 T01550102 KEMT 260053Z 21005KT 10SM CLR 24/09 A3000 CYZS 260200Z 07020G26KT 15SM SCT012 BKN090 OVC210 M06/M09 A2984 RMK SC3AC2CI2 SLP112 EHSA 260225Z AUTO 25020G23KT 9999 ///////// 15/09 Q1021 W15/H13 KDVT 260153Z 33003KT 10SM CLR 29/10 A2991 RMK AO2 SLP109 T02890100 CYZT 260200Z 23004KT 15SM SCT026 BKN080 BKN210 07/06 A2945 RMK SC4AC1CI1 SLP972 KFFC 260153Z AUTO 00000KT 10SM CLR 12/11 A3005 RMK AO2 SLP177 T01220106 KENL 260235Z AUTO 00000KT 10SM CLR 14/11 A3002 RMK AO2 T01360109 CYZU 260200Z 09015G23KT 15SM -SHSN FEW030 BKN080 OVC140 03/M03 A2956 RMK SC2AC5AC1 SLP041 EHSC 260225Z AUTO 25022G24KT 9999 ///////// 15/08 Q1021 W16/H11 KEMV 260235Z AUTO 00000KT 10SM CLR 12/08 A2984 RMK AO2 CYZV 260241Z 05005KT 10SM -RASN OVC010 00/M01 A2961 RMK SF8 SLP031 KFDW 260255Z AUTO 24004KT 10SM CLR 15/08 A2996 RMK AO1 KEOE 260235Z AUTO 22003KT 10SM CLR 11/11 A3000 RMK AO2 CYZW 260000Z 05002KT 20SM OVC030 00/M02 A2973 RMK SC8 CLIMAT 0.2/-2.6/0.0MM/LAST OBS/NEXT OBS 261600 UTC SLP106 CYZX 260245Z 26003KT 2SM BR FEW009 BKN016 OVC034 RMK SF2SC4SC2 WNDY HILL 32006KT KFDY 260153Z AUTO 28007KT 6SM HZ CLR 11/01 A2986 RMK AO2 SLP106 T01110011 KFEP 260235Z AUTO 26003KT 10SM CLR 10/M01 A3003 RMK AO2 T01041008 CZRP 260200Z AUTO 02014KT M16/M17 RMK AO1 PK WND 03017/0144 SLP194 T11581174 56016 CYZY 260200Z AUTO 01010G22KT 9SM BKN039 OVC070 04/M03 A2952 RMK SLP023 KDYA 260235Z AUTO 00000KT 5SM HZ CLR 15/ A3007 RMK AO2 T0146 CZSJ 260200Z AUTO 29008G15KT 9SM OVC031 02/M02 A2984 RMK SLP119 KDYB 260255Z AUTO 00000KT 10SM CLR 11/11 A2999 RMK AO1 KFET 260235Z AUTO 09004KT 10SM CLR 15/04 A3004 RMK AO2 T01500041 KEOK 260235Z AUTO 01005KT 10SM CLR 15/04 A3004 RMK AO2 CZTB 260200Z AUTO 30016KT 10/M01 RMK AO1 PK WND 31021/0142 SLP099 T00951014 51016 KDWU 260235Z AUTO 00000KT 3/4SM BKN002 11/09 A2988 RMK AO1 KFFL 260235Z AUTO 34005KT CLR 12/03 A3005 RMK AO2 KFFM 260234Z AUTO 00000KT 10SM CLR 07/M04 A3006 RMK AO2 KENV 260235Z AUTO 21017KT 10SM CLR 19/M02 A2984 RMK AO1 CZSM 260200Z AUTO 06001KT M03/M04 RMK AO1 SLP136 T10311035 56006 KENW 260153Z 29008KT 10SM CLR 12/M01 A2995 RMK AO2 SLP143 T01171011 KFEW 260156Z AUTO 24001KT 10SM CLR 08/M05 A3005 RMK AO2 SLP167 T00761050 $ KFFO 260158Z AUTO 24003KT 10SM CLR 11/08 A2989 RMK AO2 SLP125 T01090080 KDWX 260235Z AUTO 08003KT 10SM CLR 11/00 A3012 RMK AO2 T01111002 VHHH 260230Z 06008KT 9999 FEW040 27/19 Q1018 NOSIG PLCH 260100Z 14006KT 9999 FEW020 29/23 Q1008 CZSP 260200Z AUTO 25007KT 08/08 RMK AO1 8004 SLP977 T00840079 50003 KEPH 260153Z AUTO 34003KT 10SM BKN100 OVC120 11/10 A2947 RMK AO2 SLP982 T01110100 ZUUU 260200Z 33001MPS 1000 R02L/1000V1100N R02R/1000V1100D BR NSC 19/16 Q1021 BECMG TL0330 1500 KDXR 260153Z 24007KT 10SM FEW095 15/05 A2959 RMK AO2 SLP018 T01500050 KEQA 260235Z AUTO 16006KT 10SM CLR 20/16 A2997 RMK AO2 KFFT 260153Z AUTO 25005KT 10SM CLR 17/13 A2995 RMK AO2 SLP140 T01720133 KFHB 260235Z AUTO 00000KT 10SM CLR 17/13 A3000 RMK AO1 KDZB 260235Z AUTO 16005KT 10SM CLR 21/13 A3011 RMK AO2 T02110130 CZST 260100Z 00000KT 15SM BKN100 08/06 A2958 RMK AC6 LAST OBS/NEXT 261300Z/ SLP019 KDYL 260154Z AUTO 19005KT 10SM CLR 15/07 A2964 RMK AO2 SLP037 T01500067 $ FABL 260000Z AUTO 02014KT //// // ////// 17/09 Q1023 FABM 251426Z 11013KT 9999 TSRA SCT030TCU FEW045CB BKN100 17/09 Q1022 KFGN 260234Z AUTO 26008KT 10SM CLR 08/M01 A2994 RMK AO2 KDXX 260234Z AUTO 00000KT 10SM CLR 07/01 A3007 RMK AO2 KFFX 260231Z AUTO 30010G18KT 10SM CLR 13/M03 A2985 RMK AO2 T01261032 EIKN 251800Z 22013KT 180V250 9999 BKN022 BKN048 09/07 Q1008 NOSIG KFFZ 260147Z 30004KT 40SM SCT180 31/10 A2991 PKMJ 242253Z 14006KT 15SM FEW015 SCT050 BKN120 OVC300 28/25 A2982 KDYR 260235Z 00000KT 9SM CLR 18/12 A3004 RMK AO1 KDYS 260158Z AUTO 18003KT 10SM CLR 21/09 A3007 RMK AO2 SLP150 T02090094 $ KDYT 260234Z AUTO 27010KT 10SM CLR 11/M02 A2999 RMK AO2 CZUM 260200Z AUTO 10011G17KT 9SM OVC015 M01/M03 A2969 RMK SLP077 EIME 260200Z 22021KT 9999 FEW017 BKN025 12/09 Q1012 KFGX 260235Z AUTO 25008KT 10SM CLR 16/13 A2994 RMK AO2 T01560134 KFIG 260154Z AUTO 29010KT 10SM SCT060 15/05 A2970 RMK AO2 PK WND 32028/0112 SLP057 T01500050 EIKY 251830Z 23010KT 9999 FEW023 SCT027 OVC033 12/09 Q1014 PKMR 260154Z 12008KT 15SM SCT015 SCT050 BKN120 OVC300 28/26 A2974 RMK RAE05 SLP073 T02790255 KERI 260151Z 27012G22KT 10SM CLR 16/08 A2970 RMK AO2 SLP058 T01560078 KFHR 260232Z AUTO VRB05KT 10SM BKN006 OVC014 11/10 A2928 RMK AO2 RAE20 PRESRR P0003 T01060100 FACT 260200Z 24010KT CAVOK 16/11 Q1015 NOSIG EHVK 260225Z AUTO 20004KT 9999 FEW040 OVC044 10/09 Q1023 BLU KFHU 260156Z AUTO 22010KT 10SM FEW090 23/08 A3017 RMK AO2 SLP168 T02330083 $ KESC 260235Z AUTO 30012G18KT 10SM CLR 11/M03 A2982 RMK AO1 CZVL 260200Z AUTO 10013G23KT 9SM OVC055 06/M03 A2959 RMK PRESFR SLP046 EHVL 260225Z AUTO 23015KT 9999 FEW030 BKN042 13/10 Q1019 BLU KGAD 260235Z 00000KT 9SM CLR 14/12 A3006 RMK AO1 FACV 250640Z 10015KT CAVOK 20/07 Q1019 KESF 260153Z AUTO 00000KT 10SM CLR 14/14 A3010 RMK AO2 SLP190 T01440139 KGAF 260235Z AUTO 26008KT 8SM CLR 05/M03 A2999 RMK AO2 VIAR 260230Z 09004KT 1500 BR FEW200 19/19 Q1017 KGAG 260153Z AUTO 16009KT 10SM CLR 21/11 A2999 RMK AO2 SLP142 T02110111 KEQY 260153Z AUTO 23006KT 10SM CLR 12/07 A2995 RMK AO2 SLP150 T01220072 KI16 260235Z AUTO 10SM CLR 09/09 A3001 RMK AO2 T00910090 KGAI 260235Z 00000KT 10SM CLR 13/05 A2976 RMK AO1 KFKA 260235Z AUTO 30007KT 10SM CLR 07/M01 A3005 RMK AO2 T00701008 KFIT 260152Z AUTO 00000KT 10SM SCT070 OVC090 10/07 A2955 RMK AO2 SLP008 T01000072 KETB 260235Z AUTO 28010G14KT 10SM CLR 12/M04 A2995 RMK AO2 VIBN 260030Z 00000KT 2500 HZ SCT020 SCT100 21/20 Q1014 KETC 260235Z AUTO 00000KT 10SM CLR 10/09 A2987 RMK AO2 T01030086 KGBD 260235Z AUTO 17010KT 10SM CLR 20/13 A2994 RMK AO1 KERV 260235Z AUTO 00000KT 10SM CLR 19/13 A3014 RMK AO2 T01870127 KESN 260254Z AUTO 25007KT 10SM CLR 17/09 A2976 RMK AO2 T01680085 EINN 260230Z 22014KT 9999 FEW014 SCT020 BKN047 12/10 Q1013 NOSIG FAEO 250853Z 08004KT 9999 FEW020 19/10 Q1024 EHWO 260225Z AUTO 22006KT 9999 OVC036 12/10 Q1022 BLU KERY 260234Z AUTO 29015G22KT 10SM CLR 09/01 A2974 RMK AO2 T00900009 KGBG 260235Z AUTO 31003KT 10SM CLR 10/04 A3004 RMK AO2 T00990035 FADY 250748Z 10017KT CAVOK 23/08 Q1019 KETH 260236Z AUTO 00000KT 10SM CLR 04/M03 A3007 RMK AO2 KEST 260152Z AUTO 01006KT 10SM CLR 08/M01 A3007 RMK AO2 SLP188 T00781011 KGBK 260235Z AUTO 04010KT 10SM CLR 24/15 A3011 RMK A01 KGCC 260153Z AUTO 16012KT 10SM CLR 15/02 A2985 RMK AO2 SLP094 T01500022 KFKL 260235Z 29009G18KT 10SM CLR 13/02 A2975 RMK AO1 KFLD 260153Z AUTO 28011KT 10SM CLR 12/M02 A2994 RMK AO2 SLP140 T01171022 FAGC 251800Z AUTO 10017G33KT //// // ////// 18/06 Q1023 KGCD 260235Z AUTO 23009KT 200V280 10SM BKN033 BKN060 OVC100 11/05 A2982 RMK AO2 T01050046 KFKN 260235Z AUTO 21004KT 10SM CLR 13/08 A2983 RMK AO1 KEUF 260158Z AUTO 00000KT 10SM CLR 14/12 A3004 RMK AO2 SLP171 T01390117 $ KEUG 260154Z 20011KT 10SM FEW034 SCT043 BKN055 12/09 A2985 RMK AO2 RAB02E08 SLP110 P0000 T01220094 $ KFLG 260157Z AUTO 23010KT 10SM CLR 15/06 A3028 RMK AO2 SLP194 T01500056 TSNO KI35 260235Z AUTO 11006KT 10SM BKN025 11/11 A3003 RMK AO1 FAGG 251300Z 11021KT 9999 FEW012 BKN020 18/13 Q1022 KFKR 260235Z AUTO 27007KT 10SM CLR 15/02 A2997 RMK AO2 T01450022 KFKS 260232Z AUTO 32010G17KT 10SM CLR 13/00 A2984 RMK AO2 T01291003 KEVB 252355Z 01005 10SM SKC 21/15 A2999 KGDB 260232Z AUTO 00000KT 7SM CLR 05/00 A3008 RMK AO2 T00521001 KGCK 260154Z AUTO 15008KT 10SM CLR 19/08 A2995 RMK AO2 SLP125 T01890083 KI39 260235Z AUTO 22006KT 10SM CLR 16/13 A2998 RMK AO2 KFLL 260153Z 34006KT 10SM CLR 23/18 A2994 RMK AO2 SLP138 T02280183 KEUL 260235Z AUTO 22009KT 10SM CLR 17/01 A2981 RMK AO1 KGCM 260235Z AUTO 16006KT 10SM CLR 20/17 A3003 RMK AO2 FAGM 250600Z 02013KT CAVOK 18/10 Q1023 VIDP 260230Z 00000KT 1500 R28/P2000 R/29/1800 BR NSC 22/17 Q1016 NOSIG KGCN 260154Z AUTO 23007KT 10SM CLR 14/04 A3024 RMK AO2 SLP206 T01440039 KFME 260242Z AUTO 00000KT 10SM CLR 08/07 A2974 RMK AO1 KFLO 260153Z AUTO 22003KT 10SM CLR 12/07 A2995 RMK AO2 SLP140 T01220072 KFLP 260235Z AUTO 00000KT 10SM CLR 18/15 A3004 RMK AO1 KFMH 260235Z AUTO 21006KT 10SM SCT080 BKN100 14/10 A2958 RMK AO2 KGDJ 260235Z AUTO 15003KT 10SM CLR 23/16 A3007 RMK AO2 T02330160 CZZJ 260200Z AUTO 06004KT 04/M03 RMK AO1 SLP021 T00351033 56020 KFNB 260153Z AUTO 09005KT 10SM CLR 16/08 A2999 RMK AO2 SLP156 T01610083 KEWB 260153Z 24008KT 10SM FEW085 OVC100 14/09 A2957 RMK AO2 SLP013 T01390089 URFF 260230Z 07016G21MPS CAVOK 01/M03 Q1023 01010065 NOSIG KEVM 260231Z AUTO 27004KT 10SM CLR 06/M03 A2998 RMK AO2 KGED 260154Z AUTO 20007KT 10SM CLR 13/08 A2974 RMK AO2 SLP068 T01280078 $ KFMM 260235Z AUTO 07007KT 10SM CLR 13/M01 A3002 RMK AO2 T01311011 KFMN 260153Z 00000KT 10SM CLR 18/01 A3016 RMK AO2 SLP187 T01830011 KGEG 260153Z 22011KT 10SM FEW070 SCT100 OVC160 15/06 A2952 RMK AO2 PK WND 21033/0107 RAE21 SLP996 P0000 T01500061 KFLY 260233Z AUTO 18004KT 10SM CLR 13/M06 A3017 RMK AO2 T01251056 KGDP 260151Z AUTO 26013KT 10SM CLR 21/03 A3025 RMK AO2 SLP181 T02060028 KGFA 260156Z AUTO 36001KT 10SM CLR 10/05 A2965 RMK AO2 SLP059 T01010053 KFOA 260235Z AUTO 26003KT 10SM CLR 14/10 A3001 RMK AO2 T01400101 KEWK 260235Z AUTO 17010KT 10SM CLR 22/13 A2999 RMK AO1 FAJB 260200Z AUTO 00000KT //// // ////// 13/11 Q1024 KFNL 260235Z AUTO 00000KT 10SM CLR 18/M03 A3004 RMK AO1 KEVV 260154Z 24005KT 10SM CLR 14/12 A3000 RMK AO2 SLP157 T01440122 KFOD 260235Z AUTO 00000KT 10SM CLR 07/02 A3008 RMK AO1 KGDV 260235Z AUTO 09007KT 10SM CLR 11/01 A2979 RMK AO1 DRRM 251800Z 00000KT CAVOK 33/14 Q1010 KFOE 260153Z 10006KT 10SM CLR 19/14 A2998 RMK AO2 SLP147 T01940139 KEVW 260153Z AUTO 21018KT 10SM CLR 14/M03 A3002 RMK AO2 SLP096 T01441033 TSNO KEWN 260154Z 25004KT 10SM CLR 14/10 A2991 RMK AO2 SLP129 T01390100 DRRN 260200Z 00000KT CAVOK 26/13 Q1010 NOSIG KFMY 260153Z 02005KT 10SM CLR 21/14 A2996 RMK AO2 SLP147 T02060144 $ EISG 251700Z 23017KT 9999 FEW015 BKN035 OVC041 11/08 Q1008 KEWR 260151Z 22014G20KT 10SM FEW070 SCT250 16/07 A2962 RMK AO2 SLP028 T01610072 EKAH 260220Z AUTO 20006KT 140V270 9999NDV FEW034/// OVC047/// 12/08 Q1017 KI67 260235Z AUTO 00000KT 10SM CLR 18/10 A2992 RMK AO1 FAIR 252300Z 33003KT 9999 SCT040 BKN100 14/12 Q1024 KFOK 260153Z AUTO 24014KT 10SM CLR 16/11 A2961 RMK AO2 SLP027 T01610106 TSNO KFNT 260153Z 28009KT 10SM CLR 11/01 A2980 RMK AO2 SLP092 T01110011 KGFK 260153Z 24005KT 10SM CLR 06/M03 A3000 RMK AO2 SLP168 T00611033 $ KI69 260235Z AUTO 26009KT 10SM CLR 18/11 A2990 RMK AO1 KGEU 260147Z 00000KT 20SM FEW120 FEW200 30/11 A2991 RMK LAST DRRT 251800Z 04004KT CAVOK 34/06 Q1010 KGFL 260153Z AUTO 19006KT 10SM FEW055 11/09 A2952 RMK AO2 SLP999 T01060089 KGEV 260235Z AUTO 28021G29KT 10SM CLR 14/07 A2998 RMK AO2 T01360067 KEYE 260153Z AUTO 28008KT 10SM CLR 17/07 A2994 RMK AO2 SLP135 T01670072 $ KGGE 260235Z AUTO 00000KT 10SM CLR 08/08 A2998 RMK AO2 KEYF 260235Z AUTO 00000KT 10SM CLR 12/08 A2993 RMK AO2 T01180075 KGGG 260153Z 17004KT 10SM CLR 21/18 A3007 RMK AO2 SLP180 T02060178 KGEY 260153Z AUTO 15007KT 10SM CLR 17/M05 A2974 RMK AO2 SLP068 T01721050 KI75 260235Z AUTO 00000KT 10SM CLR 12/05 A3006 RMK AO2 T01170050 KGEZ 260153Z AUTO 26007KT 10SM CLR 17/08 A2993 RMK AO2 SLP133 T01670083 KGGI 260235Z AUTO 32003KT 10SM CLR 12/02 A3007 RMK AO2 T01190018 EKBI 260220Z AUTO 18007KT 9999NDV NCD 10/09 Q1017 FALA 252000Z 15011KT 5000 -TSRA BKN025 FEW045CB 16/15 Q1025 NOSIG KFPK 260234Z AUTO 27006KT 10SM CLR 12/02 A2984 RMK AO2 T01150015 KFOT 260230Z AUTO 13003KT 10SM FEW031 BKN060 OVC070 13/12 A3007 RMK AO1 KGHB 260235Z AUTO 02006KT 10SM CLR 24/14 A3011 RMK A01 KFQD 260235Z AUTO 00000KT 10SM CLR 11/08 A2998 RMK AO2 T01120080 FAKM 260200Z AUTO 06011KT //// // ////// 17/10 Q1020 FALE 260100Z 19007KT 140V220 4500 -RA BKN005 OVC013 17/16 Q1024 NOSIG FAKN 260200Z AUTO 05005KT //// // ////// 15/13 Q1025 KEZF 260235Z AUTO 00000KT 10SM CLR 14/08 A2974 RMK AO2 T01430075 KEXX 260235Z AUTO 00000KT 10SM CLR 11/06 A2992 RMK AO2 T01100055 KGHG 260210Z AUTO 21006KT 10SM FEW110 A2956 RMK AO2 KGGP 260235Z AUTO 31007KT 10SM CLR 15/00 A2995 RMK AO2 WAAA 260230Z VRB04KT 9999 FEW020 36/18 Q1012 NOSIG KFOZ 260233Z AUTO 00000KT 10SM CLR 03/M04 A2999 RMK AO2 PKWA 260240Z AUTO 09012KT 10SM SCT022 SCT029 32/24 A2975 EKCH 260220Z 22008KT 200V280 9000 FEW035 BKN054 11/10 Q1019 NOSIG KFPR 260153Z AUTO 34004KT 10SM SCT048 SCT055 21/17 A2997 RMK AO2 SLP146 T02060167 $ KGIC 260235Z AUTO 20017G26KT 10SM CLR 17/00 A2969 RMK AO1 T01730000 KEZM 260235Z AUTO 00000KT 10SM CLR 11/11 A3004 RMK AO2 T01120112 KGGW 260153Z AUTO 11017KT 10SM CLR 13/M01 A2970 RMK AO2 SLP069 T01281006 $ KEYW 260153Z AUTO 01005KT 10SM CLR 24/19 A2995 RMK AO2 SLP142 T02440194 KGIF 260153Z AUTO 36006KT 10SM CLR 19/12 A3000 RMK AO2 SLP158 T01940117 KFRG 260153Z 23008KT 10SM CLR 16/09 A2961 RMK AO2 SLP025 T01610094 URKA 260200Z 08015G21MPS CAVOK M03/M06 Q1025 RMK QFE764/1019 WABB 260200Z 00000KT 9000 -RA FEW018 SCT020 26/26 Q1013 KFRI 260158Z AUTO VRB02KT 10SM CLR 20/17 A2995 RMK AO2 SLP137 T02020170 KEZS 260235Z AUTO 26003KT 10SM CLR 11/M04 A2992 RMK AO2 T01071040 EKEB 260220Z AUTO 20009KT 9999NDV OVC050/// 13/10 Q1017 KFRM 260235Z AUTO 33004KT 10SM CLR 08/M09 A3007 RMK AO1 KFSD 260156Z 00000KT 10SM CLR 09/03 A3007 RMK AO2 SLP188 T00940033 VIJP 260230Z 09007KT 2000 FU NSC 23/13 Q1017 NOSIG KHAE 260215Z AUTO 36003KT 10SM CLR 18/05 A3005 RMK AO2 FAMM 260200Z AUTO 06016KT //// // ////// 16/10 Q1020 KGHW 260233Z AUTO 00000KT 10SM CLR 07/M02 A3007 RMK AO2 KFSE 260235Z AUTO 00000KT 10SM CLR 02/M06 A3002 RMK AO2 FALW 260200Z AUTO 14006KT //// // ////// 19/09 Q1013 KHAF 260235Z AUTO 00000KT 1 3/4SM BR SCT002 OVC025 16/15 A3010 RMK AO2 PMDY 260156Z AUTO 36007KT 10SM FEW032 OVC048 26/21 A2997 RMK AO2 TSNO T02550205 SLP454 $ EIWF 251930Z 26013G23KT 220V300 9999 SCT038 12/09 Q1015 URKK 260230Z 07009G14MPS CAVOK M03/M07 Q1030 NOSIG RMK QFE769 SC065 KHAI 260235Z AUTO 30007KT 10SM CLR 13/02 A2990 RMK AO2 T01250018 KFRR 260235Z AUTO 28010G20KT 220V290 10SM CLR 18/08 A2974 RMK AO1 KFSI 260158Z AUTO 17007KT 10SM CLR 24/13 A3000 RMK AO2 SLP153 T02360134 USCC 260230Z 28006MPS 9999 FEW026CB BKN070 M13/M17 Q1017 27000060 TEMPO 2000 SHSN RMK QFE743 KFSM 260153Z AUTO 00000KT 10SM CLR 20/18 A3002 RMK AO2 SLP163 T02000178 TSNO WABP 260200Z 23003KT 8000 BKN012 28/25 Q1013 KHAO 260153Z AUTO 26004KT 10SM CLR 17/11 A2991 RMK AO2 SLP127 T01670106 KFSO 260235Z AUTO 19003KT 10SM SCT029 BKN035 OVC070 11/10 A2945 RMK AO2 T01060095 KHBG 260153Z AUTO 00000KT 10SM CLR 17/16 A3009 RMK AO2 SLP188 T01720161 KFTG 260052Z 14006KT 50SM FEW200 15/M02 A3006 VILK 260230Z 00000KT 2000 BR NSC 20/18 Q1016 NOSIG KHBI 260235Z AUTO 20006KT 10SM CLR 15/04 A2994 RMK AO2 T01500035 KGKJ 260153Z AUTO 27009G16KT 10SM CLR 13/05 A2972 RMK AO2 SLP065 T01330050 TSNO WADD 260230Z 11011KT 080V140 9999 FEW013 30/24 Q1014 NOSIG USCM 260230Z 35005MPS 8000 SCT100 M13/M18 Q1019 NOSIG 01090065 RMK QFE726 KFST 260153Z AUTO 16011KT 10SM CLR 23/12 A3011 RMK AO2 SLP156 T02330122 KGJT 260153Z 03006KT 10SM CLR 15/M01 A3007 RMK AO2 SLP150 T01501006 KFTK 260158Z AUTO 24006KT 10SM CLR 15/13 A2998 RMK AO2 SLP154 T01520127 KGLD 260153Z AUTO 21007KT 10SM CLR 19/04 A2998 RMK AO2 SLP131 T01890039 EKGC 260220Z AUTO 23025KT 9999NDV 14/11 Q1014 KHCD 260233Z AUTO 00000KT 10SM CLR 05/00 A3007 RMK AO2 T00501001 KFTN 260330Z AUTO 14005KT 10SM CLR 23/12 A3009 RMK AO1 KFSW 260235Z AUTO 00000KT 10SM CLR 14/04 A3005 RMK AO2 KGLE 260235Z AUTO 17003KT 10SM CLR 22/16 A3007 RMK AO2 T02150161 FAPE 260200Z 08008KT CAVOK 15/12 Q1025 NOSIG EKGF 251950Z 22029KT 9999 FEW017 13/10 Q1014 KGLH 260153Z AUTO 23005KT 10SM CLR 20/17 A3005 RMK AO2 SLP182 T02000172 KHBR 260153Z AUTO 18009KT 10SM CLR 23/11 A3002 RMK AO2 SLP153 T02280106 URML 260200Z 34005MPS 9999 BKN100 M02/M05 Q1034 NOSIG RMK QFE775/1034 WADL 260200Z 14007KT 9999 FEW016 31/22 Q1014 NOSIG FAOR 260230Z 05008KT 7000 DZ BKN005 13/11 Q1025 NOSIG DRZA 251800Z 26004KT CAVOK 31/09 Q1014 URMM 260230Z 10007MPS 9999 OVC018 M06/M07 Q1032 R12/690332 NOSIG RMK MT OBSC QFE745/0994 EKHA 260220Z AUTO 22030KT 9999NDV 14/11 Q1016 KGKT 260235Z AUTO 00000KT 10SM SCT037 13/10 A3003 RMK URMN 260200Z 09001MPS 2000 BR OVC002 M05/M05 Q1031 TEMPO 0500 FZFG OVC002 RMK QBB080 MT OBSC OBST OBSC QFE736 SC055 FBFT 260200Z 07015G26KT 9999 FEW030CB SCT065 20/13 Q1017 KFUL 260153Z 27003KT 10SM CLR 22/11 A2998 RMK AO2 SLP151 T02220111 $ KHDC 260235Z AUTO 00000KT 10SM CLR 17/14 A3011 RMK AO2 KHBV 260235Z AUTO 11006KT 10SM CLR 22/16 A3012 RMK AO2 T02200160 ZWSH 260200Z 31005MPS CAVOK 13/M03 Q1019 NOSIG KFTW 260153Z 17006KT 10SM CLR 25/16 A3004 RMK AO2 SLP166 T02500156 EKHD 260220Z AUTO 23029KT 9999NDV 06/00 Q1011 KFVE 260245Z AUTO 11006KT 10SM BKN003 OVC007 04/03 A2946 RMK AO2 T00390033 KHDE 260235Z AUTO 09009KT 10SM CLR 15/08 A2998 RMK AO2 T01460080 KHCO 260233Z AUTO 22003KT 10SM CLR 04/M06 A2997 RMK AO2 KGKY 260153Z AUTO 16005KT 10SM CLR 24/15 A3005 RMK AO2 SLP170 T02440150 KFTY 260153Z 00000KT 10SM CLR 14/11 A3004 RMK AO2 SLP171 T01440106 FAPP 260200Z AUTO 10004KT //// // ////// 13/09 Q1025 URMT 260230Z 10002MPS 9999 FEW006 M10/M11 Q1030 NOSIG RMK QFE732 SC045 KGLR 260153Z AUTO 30008G16KT 280V340 10SM CLR 09/01 A2976 RMK AO2 SLP082 T00890011 KGLS 260152Z AUTO 15005KT 10SM CLR 21/16 A3012 RMK AO2 SLP200 T02060156 KFWA 260154Z 29008KT 10SM CLR 15/03 A2990 RMK AO2 SLP124 T01500028 KGNA 260156Z AUTO 10/M02 A2986 RMK AO1 SLP113 T01001017 KGMJ 260235Z AUTO 00000KT 7SM CLR 18/18 A3003 RMK AO2 KFWB 260235Z AUTO 00000KT 10SM CLR 19/17 A3006 RMK AO2 KFWC 260235Z AUTO 00000KT 10SM CLR 12/11 A3000 RMK AO1 T01210110 KGNC 260235Z AUTO 00000KT 10SM CLR 19/11 A3012 RMK AO2 T01870106 KHDN 260235Z AUTO 23003KT 10SM CLR 12/M04 A3012 RMK AO1 KGLW 260235Z AUTO 00000KT 1/4SM FG OVC003 13/13 A3001 RMK AO2 T01300130 EKHN 260220Z AUTO VRB08G21KT 9999NDV FEW021/// BKN031/// 15/12 Q1017 KHDO 260151Z AUTO 15006KT 10SM CLR 22/12 A3011 RMK AO2 SLP187 T02220117 KHEF 260235Z 00000KT 10SM CLR 09/08 A2975 RMK AO1 KGNF 260235Z AUTO RMK AO2 TSNO KGLY 260235Z AUTO 07003KT 3SM BR CLR 16/15 A3002 RMK AO2 ZYCC 260200Z 28008G14MPS 250V320 7000 NSC 04/M13 Q1020 NOSIG KHEI 260153Z AUTO 13014KT 10SM CLR 11/00 A2993 RMK AO2 SLP149 T01110000 DRZR 251800Z 04004KT CAVOK 34/07 Q1011 EKHR 260220Z AUTO 22022KT //// FEW030/// BKN040/// BKN050/// 15/12 Q1016 FASB 252229Z 12008KT CAVOK 21/05 Q1018 KGMU 260153Z 29004KT 10SM CLR 16/08 A2999 RMK AO2 SLP150 T01610083 $ KHFD 260153Z AUTO 18007KT 10SM BKN095 13/08 A2955 RMK AO2 SLP007 T01330083 KFWN 260153Z AUTO 22006KT 10SM SCT100 16/07 A2958 RMK AO2 SLP017 T01560067 KFXE 260153Z VRB04KT 10SM CLR 23/18 A2994 RMK AO2 SLP142 T02280178 KHFF 260156Z AUTO 23002KT 10SM CLR 12/07 A2995 RMK AO2 SLP144 T01190073 KFVX 260235Z AUTO 00000KT 10SM CLR 12/07 A2979 RMK AO2 KHEQ 260235Z AUTO 12004KT 7SM CLR 09/02 A2999 RMK AO2 KGNR 260156Z AUTO 12005KT 07/02 A2944 RMK AO1 SLP977 T00720017 FASI 251700Z AUTO /////KT //// // ////// 16/10 Q1022 KFWS 260235Z AUTO 18007KT 10SM CLR 24/15 A3007 RMK AO2 T02380153 KHFJ 260235Z AUTO 15005KT 10SM CLR 18/16 A3003 RMK AO2 DTKA 250800Z 07003KT 050V120 9999 SCT020 21/13 Q1018 NOSIG KGOK 260153Z AUTO 16005KT 10SM CLR 22/14 A2999 RMK AO2 SLP149 T02220144 $ EKKA 260220Z AUTO 19006KT 9999NDV -SHRA FEW023/// BKN030/// 12/11 Q1015 KGNT 260236Z AUTO 25007KT 10SM CLR 14/01 A3028 RMK AO2 FCBB 260200Z 21002KT 8000 NSC 250/22 Q1012 NOSIG KGNV 260153Z 00000KT 10SM CLR 12/11 A3001 RMK AO2 SLP162 T01220111 KGON 260156Z 23008KT 10SM CLR 15/11 A2958 RMK AO2 SLP017 T01500106 USHH 260200Z 32002G05MPS 200V360 9999 -SHSN BKN008CB OVC080 M11/M13 Q1005 TEMPO 0800 +SHSN BKN003 RMK QFE750 24////40 FBKE 251600Z 30005KT 9999 SCT030 36/03 Q1011 KGOO 260240Z AUTO 18003KT 7SM SCT003 BKN008 OVC018 10/10 A3011 RMK AO1 P0019 KFYG 260235Z AUTO 00000KT 8SM CLR 15/14 A3001 RMK AO2 KHEY 260153Z AUTO 29003KT 10SM CLR 13/11 A3006 RMK AO2 SLP163 T01330111 KGOP 260235Z AUTO 00000KT 10SM CLR 22/15 A3011 RMK AO2 KGPH 260255Z AUTO 00000KT 10SM CLR 14/12 A3002 RMK AO2 KHEZ 260235Z AUTO 16003KT 10SM CLR 16/14 A3011 RMK AO1 KFWZ 260235Z AUTO 22011KT 10SM CLR 10/M02 A3001 RMK AO2 KGPI 260155Z 10SM -RA FEW080 SCT095 09/07 A2963 RMK AO2 RAB42 PRESFR SLP043 P0000 T00890067 KFYJ 260235Z AUTO 18003KT 10SM CLR 16/07 A2978 RMK AO2 T01610073 KGOV 260234Z AUTO 29012G16KT 10SM CLR 11/M01 A2978 RMK AO2 T01061007 KFYM 260235Z AUTO 25007G14KT 10SM CLR 16/14 A3005 RMK KGPM 260235Z AUTO 18003KT 10SM CLR 25/17 A3007 RMK AO2 T02450167 KHHF 260235Z AUTO 19013KT 10SM CLR 24/10 A3000 RMK AO2 T02410102 KFZG 260235Z AUTO 00000KT 10SM CLR 13/09 A3005 RMK AO2 T01280092 KHHG 260235Z AUTO 29003KT 10SM CLR A2991 RMK AO2 KFXY 260235Z AUTO 00000KT 10SM CLR 06/03 A3006 RMK AO2 UTAA 260200Z 30008MPS 9999 FEW034CB OVC034 10/01 Q1023 R30/CLRD70 TEMPO 33012G17MPS 1200 DS KHGR 260153Z AUTO 25007KT 10SM CLR 17/08 A2970 RMK AO2 SLP066 T01720083 KGPT 260153Z 00000KT 9SM CLR 17/15 A3007 RMK AO2 SLP182 T01720150 KGRB 260153Z 27008KT 10SM CLR 10/01 A2990 RMK AO2 SLP129 T01000006 KHIB 260153Z AUTO 29006KT 10SM CLR 08/M04 A2997 RMK AO2 SLP160 T00781039 DTMB 250830Z AUTO 27009KT NCD 22/13 Q1018 KFYV 260153Z AUTO 15003KT 10SM CLR 18/17 A3006 RMK AO2 SLP171 T01780172 KGRD 260156Z AUTO 00000KT 10SM CLR 12/09 A3000 RMK AO2 SLP155 T01170094 KHIE 260210Z AUTO VRB03KT 6SM -RA BR FEW014 BKN028 OVC042 08/08 A2948 RMK AO2 P0003 T00830078 KGRF 260208Z AUTO 19016G28KT 10SM +RA BKN010 BKN017 OVC046 13/13 A2941 RMK AO2 CIG 009V013 PRESRR KHIF 260158Z AUTO 18017G22KT 10SM SCT220 20/02 A2990 RMK AO2 SLP083 T02040015 URRR 260230Z 06007G10MPS CAVOK M07/M11 Q1036 04CLRD70 NOSIG FAUP 260200Z 13006KT CAVOK 23/08 Q1015 NOSIG KGPZ 260235Z AUTO 28005KT 10SM CLR 08/M04 A2999 RMK AO1 WAJJ 260200Z 28005KT 9999 SCT016 30/24 Q1009 UTAK 260200Z 01011MPS CAVOK 04/M01 Q1028 NOSIG KGRI 260153Z AUTO 09005KT 10SM CLR 13/07 A3001 RMK AO2 SLP164 T01280067 KHHR 260153Z 25007KT 10SM CLR 21/17 A2999 RMK AO2 SLP153 T02110167 KHII 260235Z AUTO 11005KT 10SM CLR 30/08 A2988 RMK AO2 ZWWW 260230Z VRB01MPS 4000 FU NSC 14/05 Q1017 NOSIG UTAM 260200Z 32001MPS CAVOK 14/09 Q1017 NOSIG RMK SC07 KGSB 260158Z AUTO 00000KT 10SM CLR 13/11 A2989 RMK AO2 SLP125 T01330111 $ KIAB 260158Z AUTO 13007KT 10SM CLR 22/16 A2997 RMK AO2 SLP144 T02220160 KGRK 260158Z AUTO 16005KT 10SM CLR 23/15 A3010 RMK AO2 SLP186 T02270146 FAWB 260200Z AUTO 01001KT //// // ////// 15/12 Q1022 FAUT 250600Z 12005KT 7000 -DZ BKN015 16/14 Q1023 KIAD 260152Z 00000KT 10SM CLR 13/06 A2974 RMK AO2 SLP071 T01330056 KHHV 260235Z AUTO 08009KT 10SM CLR 26/16 A3012 RMK A01 KHHW 260235Z AUTO 18004KT 10SM CLR 23/18 A3004 RMK AO2 T02270175 FBMN 260200Z 13011KT CAVOK 24/04 Q1012 KHIO 260153Z 21009KT 10SM FEW050 SCT070 BKN090 12/09 A2969 RMK AO2 PK WND 22026/0102 RAB11E46 PRESRR SLP052 P0000 T01220089 KIAG 252353Z 22010KT 7SM FEW060 FEW075 13/10 A2962 RMK AO2 SLP035 T01280100 10161 20122 50003 KFZY 260154Z AUTO 15003KT 10SM OVC065 11/08 A2956 RMK AO2 SLP010 T01110078 URSS 260230Z 06004MPS 9999 SKC 10/06 Q1018 NOSIG RMK R02/05004MPS QFE762 06000070 02000070 ZYHB 260200Z 26010G15MPS 9999 -RASN OVC030 02/M07 Q1014 BECMG TL0330 32012G18MPS KGSH 260153Z AUTO 29007KT 10SM CLR 11/03 A2990 RMK AO2 SLP126 T01060033 KIAH 260153Z 18005KT 10SM CLR 22/14 A3010 RMK AO2 SLP194 T02220139 KHJH 260235Z AUTO 08004KT 10SM CLR 15/08 A2999 RMK AO2 T01490080 UTAT 260200Z 34007G12MPS 3500 -SNBR OVC013 M01/M03 Q1023 9919//60 TEMPO 1000 SNBR OVC003 KGRR 260153Z 28010KT 10SM CLR 13/02 A2986 RMK AO2 SLP111 T01280022 KHKA 260153Z AUTO 18003KT 10SM CLR 21/17 A3003 RMK AO2 SLP166 T02060172 UTAV 260200Z 33002PS 5000 BR SCT033CB SCT033 13/11 Q1016 NOSIG KGTB 260158Z AUTO 25009KT 10SM FEW055 BKN080 12/11 A2953 RMK AO2 CIG 065 RWY03 SLP001 T01150108 EKOD 251620Z 23006KT 9999 SCT040 10/10 Q1016 LAST FAVV 260200Z AUTO 07007KT //// // ////// 13/11 Q1024 KGTF 260153Z 00000KT 10SM CLR 08/04 A2965 RMK AO2 SLP056 T00780044 KHJO 260153Z AUTO 34011G19KT 10SM CLR 19/12 A3004 RMK AO2 SLP172 T01890122 KGSO 260154Z 24007KT 10SM CLR 15/04 A2990 RMK AO2 SLP122 T01500039 KGSP 260153Z 29003KT 10SM CLR 14/09 A2997 RMK AO2 SLP142 T01390089 KGRY 260235Z AUTO 05008G15KT 10SM CLR 24/15 A3010 RMK A01 WALL 260230Z 21005KT 9999 FEW018CB SCT018 30/25 Q1012 NOSIG RMK CB TO NE UTDD 260230Z 00000MPS 8000 BKN160 10/07 Q1017 09CLRD70 NOSIG RMK QFE695/0927 KHLC 260153Z AUTO VRB04KT 10SM CLR 18/08 A2993 RMK AO2 SLP128 T01830083 KGUC 260235Z AUTO 10SM CLR 10/M03 A3028 RMK AO1 KIBM 260235Z AUTO 17006KT 10SM CLR 11/00 A3001 RMK AO2 T01130004 KHLG 260153Z AUTO 27007KT 10SM CLR 15/11 A2980 RMK AO2 SLP093 T01500106 URWA 260230Z 34002MPS CAVOK M07/M10 Q1036 NOSIG RMK QFE779/1039 SC070 KGTR 260235Z 00000KT 10SM CLR 19/15 A3006 RMK AO1 UTDL 260230Z 00000MPS 5000 BR OVC200 10/08 Q1015 NOSIG RMK QFE724/0965 88CLRD70 KHKS 260153Z 00000KT 7SM CLR 19/16 A3008 RMK AO2 SLP180 T01890161 KIDA 260153Z 19009KT 10SM CLR 18/01 A2984 RMK AO2 SLP093 T01780011 WAMM 260000Z 15002KT 9999 FEW022 30/21 Q1013 NOSIG KGTU 260152Z 00000KT 10SM SKC 23/14 A3009 KICL 260235Z AUTO 01004KT 10SM CLR 14/07 A3006 RMK AO2 KGUL 260235Z AUTO 10SM CLR 25/15 A3011 RMK A01 KHME 260150Z 13006KT CAVOK 14/06 Q1018 KHLN 260153Z 00000KT 10SM CLR 11/06 A2971 RMK AO2 SLP080 T01060056 KGVE 260235Z AUTO 00000KT 10SM CLR 10/07 A2976 RMK AO1 T01020074 URWI 251600Z 05005MPS 9999 SKC M04/M07 Q1032 NOSIG KGUP 260153Z AUTO 24005KT 10SM CLR 16/02 A3026 RMK AO2 SLP184 T01610017 KHKY 260153Z AUTO 28006KT 10SM CLR 16/09 A2995 RMK AO2 SLP129 T01610089 UTFA 250430Z 00000MPS 9999 NSC 15/11 Q1018 R88/09//70 KICR 260153Z AUTO 14010KT 10SM CLR 11/01 A3001 RMK AO2 SLP170 T01060006 $ KIDI 260235Z AUTO 28009G16KT 10SM FEW032 FEW039 SCT065 15/11 A2977 RMK A01 KHLR 260156Z 13003KT 10SM CLR 24/16 A3009 RMK AO2 SLPNO T02390156 $ KGUR 260235Z AUTO 00000KT 10SM CLR 14/05 A2995 RMK AO2 T01370053 KGUS 260158Z AUTO 29009KT 10SM CLR 13/05 A2993 RMK AO2 SLP138 T01290050 KICT 260153Z 16009KT 10SM CLR 22/16 A2996 RMK AO2 SLP137 T02220156 KHNB 260235Z AUTO 00000KT 10SM CLR 16/11 A2999 RMK AO1 KGWB 260235Z AUTO 29006KT 10SM CLR 11/01 A2990 RMK AO2 USNN 260230Z 20003MPS CAVOK M20/M22 Q1004 NOSIG RMK QFE748 21410362 KGVL 260153Z AUTO 29007KT 10SM CLR 17/11 A3005 RMK AO2 SLP167 T01670106 UTFF 260200Z 15003MPS 9999 10/05 Q1014 R99/CLRD70 KHND 260156Z 22009KT 10SM CLR 26/05 A2996 RMK AO2 T02550050 SLP131 KHMN 260158Z AUTO 11007KT 10SM CLR 21/06 A3013 RMK AO2 SLP157 T02080063 $ KHLX 260235Z AUTO 27011G20KT 10SM CLR 14/09 A2996 RMK AO2 T01410088 KGUY 260153Z AUTO 18010KT 10SM CLR 22/08 A2998 RMK AO2 SLP125 T02170078 $ KIDP 260235Z AUTO 16004KT 7SM CLR 19/17 A2999 RMK AO2 WBGB 260200Z 07003KT 3000 -TSRA FEW002 SCT014 FEW015CB OVC140 24/24 Q1014 KGXA 260155Z AUTO 27007KT 10SM CLR 20/04 A3004 RMK AO2 PK WND 27061/0148 SLP157 T02030044 TSNO $ KIFA 260235Z AUTO 00000KT 10SM CLR 08/02 A3008 RMK AO2 T00760020 KHOB 260235Z AUTO 16005KT 10SM CLR 18/09 A3013 RMK AO2 KGVT 260235Z AUTO 17004KT 10SM CLR 21/16 A3006 RMK AO2 URWW 260230Z 34003MPS CAVOK M11/M13 Q1037 NOSIG RMK SC070 EKRK 260220Z AUTO 20007KT 4500NDV BR OVC049/// 10/10 Q1019 EKSB 251450Z 26004KT 230V290 9999 -SHRA FEW015TCU SCT025 BKN053 14/11 Q1016 WAOO 260230Z 17004KT 9000 SCT019 32/22 Q1012 NOSIG WBGG 260230Z 06001KT 9999 FEW015CB SCT150 BKN300 29/24 Q1013 NOSIG KIEN 260152Z AUTO 08006KT 10SM CLR 15/03 A2994 RMK AO2 SLP146 T01500028 KHOE 260235Z AUTO 00000KT 10SM CLR 13/12 A3003 RMK AO2 KGWO 260153Z AUTO 00000KT 7SM CLR 18/16 A3006 RMK AO2 SLP178 T01780161 TSNO EKRN 260220Z AUTO 24010KT 6000NDV BKN007/// 12/11 Q1021 KGVX 260235Z AUTO 10004KT 10SM CLR 24/16 A3012 RMK A01 KGWR 260235Z AUTO 16004KT 10SM CLR 08/00 A3005 RMK A01 P000 KIER 260235Z AUTO 00000KT 10SM CLR 16/16 A3009 RMK AO2 T01640159 KHNR 260235Z AUTO 06003KT CLR 12/04 A3010 RMK AO2 DTTA 260200Z 19005KT 9999 FEW026 19/14 Q1019 KGYB 260235Z AUTO 00000KT 10SM CLR 19/15 A3013 RMK AO2 T01860150 FDBB 260200Z AUTO 19002KT //// // ////// 20/15 Q1022 FBSK 260200Z 09010KT CAVOK 19/13 Q1020 NOSIG DTTB 260200Z 32002KT 9999 SCT020 18/16 Q1019 DTTD 251800Z 33004KT 290V010 CAVOK 23/03 Q1020 WAPP 260200Z 15009KT 9999 BKN020 30/24 Q1012 NOSIG USPP 260230Z 29004MPS 6000 FEW002 M14/M15 Q1025 21810255 NOSIG RMK QBB060 QFE758/1011 KHON 260155Z AUTO 11004KT 10SM CLR 10/M01 A3004 RMK AO2 SLP179 T01001011 KGWW 260235Z AUTO 22006KT 10SM CLR 11/08 A2989 RMK AO2 T01100083 EKTE 260220Z AUTO 21029KT 9999NDV BKN060 13/10 Q1014 WBGR 260200Z 22003KT 9999 SCT014 BKN150 27/24 Q1014 DTTF 250800Z 04007KT 9999 FEW026 19/08 Q1019 NOSIG KIFP 260235Z AUTO 16008KT 10SM CLR 30/08 A2987 RMK AO2 PWINO KHOP 260158Z AUTO 23003KT 10SM CLR 17/17 A3002 RMK AO2 SLP166 T01700170 WBGS 260200Z 22003KT 9999 FEW010 SCT018 BKN150 27/24 Q1013 FBSP 251700Z 09019KT 9999 TS SCT030 FEW035 SCT075 30/16 Q1013 EKSP 260220Z 20008KT 9999 BKN041 11/09 Q1018 KGYH 260215Z AUTO 00000KT 10SM CLR 12/06 A2999 RMK AO2 KHNZ 260235Z AUTO 22005KT 10SM CLR 12/06 A2986 RMK AO2 T01160060 DTTG 260000Z 25005KT CAVOK 17/09 Q1020 NOSIG KGYI 260235Z AUTO 16009KT 10SM CLR 24/18 A3005 RMK AO2 T02360175 DTTJ 250830Z 01006KT 9999 FEW020 SCT030 24/13 Q1018 NOSIG KHOT 260153Z AUTO 00000KT 10SM CLR 19/17 A3005 RMK AO2 SLP173 T01940172 KHOU 260153Z 18004KT 10SM CLR 20/16 A3011 RMK AO2 SLP199 T02000156 KGYL 260233Z AUTO 28003KT 10SM CLR 06/M01 A3006 RMK AO2 T00591009 DTTK 260000Z 00000KT 9999 FEW023 17/11 Q1020 DTTL 260200Z AUTO VRB01KT NCD 17/15 Q1019 KIGM 260151Z AUTO 17008KT 10SM CLR 19/07 A3005 RMK AO2 SLP121 T01940067 $ WBGY 260200Z 09002KT 7000 RA SCT001 SCT020 OVC160 23/23 Q1014 KHPN 260156Z VRB04G14KT 10SM CLR 16/06 A2959 RMK AO2 SLP018 T01610061 DTTN 260200Z 18002KT 8000 NSC 14/13 Q1021 KGXY 260235Z AUTO 06003KT 10SM CLR 11/M03 A3001 RMK AO1 KGZH 260153Z AUTO 00000KT 10SM CLR 14/12 A3007 RMK AO2 SLP180 T01440122 KIGQ 260235Z AUTO 31007KT 10SM CLR 15/M01 A2996 RMK AO2 T01511006 KGYR 260147Z 00000KT 10SM FEW200 28/12 A2991 KHQI 260235Z AUTO 05004KT 10SM CLR 24/15 A3012 RMK A01 DTTR 251800Z 30002KT CAVOK 23/07 Q1019 KIIB 260235Z AUTO 31004KT 10SM CLR 08/01 A3005 RMK AO2 KGZL 260215Z AUTO 00000KT 10SM CLR 20/17 A3003 RMK AO2 KHQM 260235Z AUTO 25024G33KT 3SM -RA BR SCT029 BKN036 OVC055 12/10 A2955 RMK AO2 PK WND 26038/0222 PRESRR P0007 T01220100 EKVD 251350Z AUTO 26009KT //// ///////// 13/10 Q1015 WARQ 252300Z 23005KT 6000 NLC 25/21 Q1013 NSG KIGX 260156Z AUTO 00000KT 10SM CLR 14/06 A2989 RMK AO2 SLP120 T01390056 WARR 260230Z 09008KT 9999 FEW020 32/19 Q1013 USRR 260230Z 23002MPS 3300 -SN BR SCT022 OVC070 M17/M19 Q1002 TEMPO 2000 SN BR BKN007 RMK OBST OBSC QFE746 25////45 DTTX 250800Z 31006KT 9999 FEW023 22/10 Q1019 NOSIG KGYY 260245Z 29010KT 20SM SKC 16/M01 A2996 WARS 260230Z 09012KT 7000 FEW020 32/20 Q1013 NOSIG EKVG 260220Z AUTO 27005KT 200V360 9999NDV ///////// 04/02 Q0975 DTTZ 250800Z 09005KT CAVOK 21/08 Q1019 NOSIG KHRI 260153Z AUTO 18008KT 10SM CLR 13/09 A2953 RMK AO2 RAE04 SLP998 P0000 T01330094 KHSA 260149Z 00000KT 10SM CLR 16/14 A3008 KHRJ 260235Z AUTO 17003KT 10SM CLR 12/09 A2990 RMK AO2 T01230091 KHSB 260235Z AUTO 00000KT 10SM CLR 13/12 A3002 RMK AO2 T01260120 KHRL 260152Z 11003KT 10SM CLR 21/18 A3010 RMK AO2 SLP192 T02060178 KJAC 260152Z 20012KT 10SM CLR 14/M02 A2996 KHQU 260235Z AUTO 00000KT 10SM CLR 12/12 A3004 RMK AO1 T01230123 KIJD 260152Z AUTO 17003KT 10SM CLR 10/07 A2957 RMK AO2 SLP014 T01000067 KHSE 260151Z AUTO 26006KT 10SM CLR 17/12 A2988 RMK AO2 SLP116 T01720117 TSNO KHRO 260153Z AUTO 24005KT 10SM CLR 19/16 A3006 RMK AO2 SLP167 T01940161 ELLX 260220Z AUTO 31003KT //// 07/07 Q1024 USSS 260230Z 28007MPS 7000 -SN BKN036 OVC067 M13/M15 Q1017 76420340 26990325 NOSIG RMK QFE742 KHQZ 260050Z 14004KT 10SM CLR 24/16 A3006 WBKK 260230Z 26003KT 9999 FEW014 SCT140 BKN270 32/27 Q1012 NOSIG KHSI 260153Z AUTO 09010KT 10SM CLR 16/07 A3000 RMK AO2 SLP156 T01560067 WBKL 260200Z 17001KT 9999 FEW010 FEW013CB SCT140 BKN280 27/25 Q1013 KL18 260235Z AUTO 00000KT 10SM CLR 18/15 A3002 RMK AO2 KHRT 260158Z AUTO 35003KT 10SM CLR 14/10 A3005 RMK AO2 SLP178 T01420104 RVRNO $ UUBP 251400Z 10001MPS CAVOK M01/M11 Q1037 NOSIG RMK QFE760 34CLRD70 KJAN 260154Z 00000KT 10SM CLR 16/14 A3008 RMK AO2 SLP186 T01610144 KHRX 260235Z AUTO 14008KT 10SM CLR 17/11 A3009 RMK AO2 T01700106 USTR 260230Z 26004MPS 9999 -SHSN BKN036CB OVC070 M15/M17 Q1012 TEMPO 2000 SHSN BKN007 RMK QFE749/0999 30490355 03////99 KIIY 260235Z AUTO 26005KT 10SM CLR 16/13 A3000 RMK AO2 KHSP 260235Z AUTO 28020G26KT 10SM CLR 11/08 A2985 RMK AO2 T01060078 WBKS 260200Z 22003KT 9999 -SHRA SCT014 FEW017CB BKN280 30/26 Q1012 WATT 260230Z 32006KT 9999 SCT020 32/23 Q1013 NOSIG WBKT 260200Z 13005KT 9999 FEW016 BKN280 31/25 Q1012 KJAS 260235Z AUTO 00000KT 7SM CLR 15/14 A3013 RMK AO2 T01470142 UUDD 260230Z 19003MPS CAVOK M07/M10 Q1036 14010095 NOSIG KHST 260158Z AUTO 01003KT 10SM CLR 22/17 A2994 RMK AO2 SLP142 T02230167 KIKK 260235Z AUTO 26004KT 10SM CLR 10/04 A2999 RMK AO2 T01020039 UUBW 260230Z VRB02MPS CAVOK M05/M10 Q1036 NOSIG WBKW 260200Z 17003KT 9999 FEW017 BKN300 31/25 Q1012 KHTL 260153Z AUTO 30010KT 10SM CLR 10/00 A2978 RMK AO2 SLP088 T01000000 KHSV 260153Z 00000KT 9SM FEW045 18/15 A3004 RMK AO2 SLP170 T01830150 KILE 260235Z AUTO 15007KT 10SM CLR 23/13 A3008 RMK AO1 KHUF 260153Z 30005KT 10SM CLR 18/07 A2997 RMK AO2 SLP147 T01780072 KJAX 260156Z 00000KT 10SM CLR 13/12 A3001 RMK AO2 SLP162 T01280122 KIJX 260235Z AUTO 00000KT 10SM CLR 14/09 A3003 RMK AO2 T01440085 KILG 260151Z 24007KT 10SM CLR 15/06 A2969 RMK AO2 SLP054 T01500056 KL35 260235Z AUTO 26004KT 10SM CLR 09/03 A3024 RMK AO2 KJBR 260153Z AUTO 00000KT 10SM CLR 18/17 A3002 RMK AO2 SLP162 T01830167 UUDL 251530Z 15001MPS CAVOK M10/M13 Q1037 NOSIG RMK QFE769 23490250 KHTS 260151Z 21005KT 9SM CLR 15/13 A2991 RMK AO2 SLP125 T01500128 KL38 260235Z AUTO 00000KT 10SM CLR 15/15 A3010 RMK AO2 T01470147 KIKT 260235Z AUTO VRB05G12KT 10SM CLR 23/15 A3006 RMK A01 UUEE 260230Z 21004MPS CAVOK M06/M10 Q1035 75000062 25000062 NOSIG KHUL 260220Z AUTO VRB03KT 10SM OVC003 06/05 A2950 RMK AO2 T00560050 KILM 260153Z AUTO 00000KT 10SM CLR 12/10 A2993 RMK AO2 SLP133 T01170100 KHUM 260235Z AUTO 00000KT 10SM CLR 15/14 A3010 RMK AO2 T01520141 KJDD 260235Z AUTO 17003KT 10SM CLR 23/18 A3008 RMK AO2 KIKV 260235Z AUTO 00000KT 10SM CLR 09/06 A3007 RMK AO2 KIKW 260231Z AUTO 27007KT 10SM CLR 11/01 A2979 RMK AO2 T01060009 KILN 260154Z AUTO 26006KT 10SM CLR 17/10 A2989 RMK AO2 SLP125 T01670100 KHVE 260235Z AUTO 14003KT 10SM CLR 20/01 A3004 RMK AO2 FCPP 260200Z 19007KT 140V220 8000 SCT010 OVC023 26/23 Q1011 NOSIG OYAA 260200Z 27003KT CAVOK 25/08 Q1010 KHUT 260152Z 13006KT 10SM CLR 22/14 A2995 RMK AO2 SLP128 T02170144 $ KJCT 260151Z AUTO 20004KT 10SM CLR 23/11 A3012 RMK AO2 SLP169 T02330106 UTNN 260230Z 34006MPS 9999 SCT008CB SCT008 M02/M03 Q1023 R33/290050 NOSIG EKYT 260220Z 20012KT 9999 FEW022 BKN051 12/10 Q1014 KIML 260153Z AUTO 10009KT 10SM CLR 18/08 A2997 RMK AO2 SLP141 T01780078 $ KIMM 260255Z AUTO 00000KT 9SM SCT050 17/ A2998 RMK A01 P000 KHWD 260154Z 19005KT 10SM FEW024 BKN055 15/15 A3008 RMK AO2 SLP194 T01500150 KIND 260154Z 28011KT 10SM CLR 17/07 A2994 RMK AO2 SLP135 T01670067 KJDN 260148Z AUTO 09005KT 10/00 A2970 RMK AO1 SLP077 T01000000 KHVN 260153Z 22008KT 10SM CLR 18/10 A2958 RMK AO2 SLP016 T01780100 KJEF 260153Z 00000KT 10SM CLR 16/13 A3001 RMK AO2 SLP152 T01610133 KINF 260235Z AUTO 00000KT 10SM CLR 13/12 A3003 RMK AO2 ZYTL 260230Z 35010G16MPS CAVOK 12/M11 Q1023 NOSIG KHVR 260153Z AUTO 06006KT 10SM CLR 12/03 A2961 RMK AO2 SLP032 T01220033 $ UTNU 260230Z 32006MPS 9999 -RA OVC010 00/M01 Q1021 R31/19//55 NOSIG KINJ 260235Z AUTO 15008KT 10SM CLR 24/15 A3008 RMK AO2 T02420145 KINK 260153Z AUTO 12005KT 10SM CLR 22/11 A3007 RMK AO2 SLP149 T02220111 KIMT 260154Z AUTO 30014KT 10SM CLR 11/M04 A2984 RMK AO2 SLP110 T01061044 KIOB 260235Z AUTO 27006KT 5SM BR CLR 16/14 A2998 RMK AO2 KINL 260155Z AUTO 28003KT 10SM CLR 05/M02 A2995 RMK AO2 SLP153 T00501022 KHXD 260215Z AUTO 00000KT 13/12 A3000 RMK AO2 P0000 KHWO 260153Z AUTO 35008KT 10SM CLR 22/18 A2996 RMK AO2 SLP144 T02220178 OYAR 251500Z 06004KT 9999 FEW030 18/M03 Q//// KJER 260153Z AUTO 33004KT 10SM FEW070 OVC100 18/02 A2979 RMK AO2 RAB14E43 SLP070 P0000 T01830022 OYAT 251500Z 34010KT CAVOK 27/05 Q1017 KJES 260235Z AUTO 00000KT 10SM CLR 12/11 A3001 RMK AO2 KHYA 260156Z 00000KT 10SM BKN100 12/09 A2958 RMK AO2 SLP016 T01170089 KINS 260158Z AUTO 22012KT 10SM CLR 24/03 A2996 RMK AO2 PK WND 25033/10 SLP115 T02380029 $ KJFK 260151Z 23016KT 10SM FEW070 17/08 A2962 RMK AO2 SLP031 T01670078 KINT 260154Z AUTO 27007KT 10SM CLR 17/04 A2992 RMK AO2 SLP128 T01670039 ZYTX 260230Z 31005MPS 280V350 CAVOK 09/M14 Q1025 NOSIG ENAL 260220Z AUTO 18020G30KT 9999NDV FEW040/// 11/05 Q0991 KHWV 260156Z AUTO 22007KT 10SM CLR 16/10 A2961 RMK AO2 SLP027 T01610100 TSNO KINW 260156Z AUTO 20006KT 10SM CLR 19/07 A3017 RMK AO2 SLP174 T01890067 ENAN 260150Z 14013KT CAVOK 08/03 Q0995 KJGG 260235Z AUTO 21005KT 10SM CLR 17/09 A2979 RMK AO1 KHWY 260235Z AUTO 00000KT 10SM CLR 11/09 A2975 RMK AO2 T01090087 KHYI 260235Z 00000KT 10SM CLR 22/12 A3010 RMK AO1 FDJR 260200Z AUTO 06001KT //// // ////// 09/06 Q1025 KIPJ 260235Z AUTO 00000KT 10SM CLR 10/08 A2995 RMK AO2 T00950075 ENAT 260220Z AUTO 20004KT 9999NDV NCD 01/M01 Q1001 RMK WIND 700FT 17012KT KIPL 260153Z AUTO 00000KT 10SM CLR 32/09 A2982 RMK AO2 SLP099 T03220094 FDLB 260200Z AUTO 04003KT //// // ////// 20/13 Q//// ENBL 251350Z 20014G24KT 9999 SHRA FEW015 BKN022 07/05 Q1000 KIOW 260152Z AUTO 32003KT 10SM CLR 08/04 A3006 RMK AO2 SLP180 T00830044 $ KHZE 260235Z AUTO 12009KT 10SM CLR 08/M02 A2994 RMK AO2 KIPN 260235Z AUTO 03007G13KT 360V060 10SM CLR 24/13 A3007 RMK A01 ENBN 251720Z 14017G27KT CAVOK 11/03 Q0998 KJFX 260235Z AUTO 00000KT 1/2SM FG VV005 15/14 A3007 RMK A02 P-128 ENBO 260150Z 08014KT CAVOK 09/03 Q0995 UTSA 260230Z 23003MPS 4700 BR FEW027 13/10 Q1015 R25/CLRD70 NOSIG KJFZ 260235Z AUTO 26009KT 10SM SCT020 15/M05 A3000 RMK AO2 T01501047 UTSB 260230Z 00000MPS 3500 BR NSC 11/10 Q1015 R01/CLRD70 NOSIG WBSB 260230Z 25004KT 9999 SCT015 FEW016CB BKN140 28/26 Q1013 RETS NOSIG KHYR 260153Z AUTO 28005KT 10SM CLR 10/M05 A2999 RMK AO2 SLP163 T01001050 ENBR 260150Z 19027G38KT 9999 -RA FEW015CB SCT020 BKN040 12/09 Q1000 RMK WIND 1200FT 20030G44KT KHYS 260235Z AUTO 11005KT 10SM CLR 17/09 A2993 RMK AO1 ENBS 251050Z 19016KT 9999 FEW008 BKN012 M01/M06 Q1010 KIPT 260154Z 27011G20KT 10SM FEW046 BKN060 OVC085 17/09 A2962 RMK AO2 SLP030 T01670094 OYDM 252100Z 07006KT CAVOK 12/M01 Q//// KHZL 260235Z AUTO 25007KT 220V280 10SM SCT080 BKN090 16/08 A2964 RMK AO2 ENBV 251150Z 18009KT 150V210 9999 SCT014 BKN023 00/M03 Q1010 KHYW 260235Z AUTO 00000KT 7SM CLR 08/08 A2996 RMK AO2 ENCN 260220Z AUTO 22017KT 9999NDV BKN019/// OVC062/// 12/09 Q1010 KHYX 260234Z AUTO 27010KT 10SM CLR 11/00 A2978 RMK AO2 UTSK 260230Z 08001MPS CAVOK 12/07 Q1015 R16/CLRD70 KHZR 260235Z AUTO 00000KT 10SM CLR 15/13 A3010 RMK AO2 T01510134 KIRK 260155Z AUTO 03007KT 10SM CLR 13/08 A3005 RMK AO2 SLP178 T01330078 KJHW 260235Z AUTO 29020G27KT 10SM CLR 12/06 A2968 RMK AO1 FDND 260200Z AUTO /////KT //// // ////// 18/14 Q//// KHZX 260225Z AUTO 27003KT 10SM CLR 08/M03 A3001 RMK AO2 KHZY 260153Z AUTO 31011G23KT 10SM CLR 15/03 A2975 RMK AO2 SLP073 T01500033 UTSS 260230Z 00000MPS 6000 SCT120 09/07 Q1016 R88/CLRD70 NOSIG UTST 260200Z 35002MPS CAVOK 11/08 Q1015 R88/CLRD70 NOSIG ENDR 260220Z AUTO 19036KT 10/04 Q0989 KIRS 260234Z AUTO 00000KT 10SM CLR 12/02 A2989 RMK AO2 KJKA 260235Z AUTO 00000KT 10SM CLR 15/13 A3006 RMK AO2 T01450126 KM19 260156Z AUTO 21004KT 10SM CLR 21/17 A3003 RMK AO2 T02050172 SLP166 ENFB 260220Z AUTO 20052KT 9999NDV BKN024/// 11/07 Q0987 W///S6 ENEK 260220Z 21034KT CAVOK 12/09 Q1009 W12/S5 KISM 260150Z 05004KT 10SM SKC 21/15 A3000 RMK LAST ENDU 260150Z VRB01KT 9999 FEW050 BKN200 M02/M03 Q0998 KISN 260152Z AUTO 08004KT 10SM CLR 12/M01 A2986 RMK AO2 SLP123 T01171011 FDMV 260200Z AUTO 21003KT //// // ////// 20/14 Q1029 KISO 260235Z AUTO 21004KT 10SM CLR 11/08 A2990 RMK AO2 T01100084 FEFF 260200Z 35008KT 9999 TSRA FEW033CB BKN140 22/21 Q1012 NOSIG KM25 260255Z AUTO 21004KT 10SM CLR 16/15 A3003 RMK AO2 KISP 260156Z 22011G20KT 10SM SCT260 16/10 A2959 RMK AO2 SLP021 T01560100 LBBG 260230Z 01011MPS 9999 -RA FEW015 BKN033 OVC049 04/03 Q1020 R99/291060 NOSIG KISQ 260234Z AUTO 30010G17KT 10SM CLR 10/M01 A2978 RMK AO2 T00961006 KITH 260156Z 28007KT 10SM BKN060 13/08 A2962 RMK AO2 T01270077 SLP032 FDMY 260200Z AUTO 00000KT //// // ////// ///// Q//// UTTT 260230Z 00000MPS 5000 BR FU NSC 13/07 Q1015 R26R/CLRD70 NOSIG KJKJ 260234Z AUTO 19003KT 10SM CLR 07/M07 A3004 RMK AO2 KM30 260235Z AUTO 00000KT 1 1/4SM BR VV007 15/15 A3001 RMK AO2 T01450145 KJKL 260153Z AUTO VRB03KT 10SM CLR 16/12 A2998 RMK AO2 SLP148 T01560117 OYHD 260200Z 11004KT CAVOK 26/20 Q1009 ENGC 260150Z 22050KT 9999 VCSH SCT023 11/08 Q0990 W10/S7 ENFL 251420Z 18033KT 9999 -SHRA FEW015 SCT020CB BKN030 10/07 Q0999 ENEV 260220Z AUTO 15011KT //// NCD 06/01 Q0996 RMK WIND 1400FT 12015KT KISW 260154Z AUTO 26007KT 10SM CLR 11/M03 A2997 RMK AO2 SLP152 T01061028 $ FDNY 260200Z AUTO 17001KT //// // ////// 19/12 Q1033 OYHJ 251500Z 26008KT 9999 SCT020 FEW030CB 19/15 Q//// KITR 260153Z AUTO 19009KT 10SM CLR 16/03 A3000 RMK AO2 SLP132 T01610033 OYIB 251500Z 25008KT 8000 FEW020 SCT180 19/12 Q1020 KM40 260235Z AUTO 00000KT 1 3/4SM HZ CLR 16/08 A3007 RMK AO2 VSBY 1V5 FDOT 260200Z AUTO /////KT //// // ////// 19/12 Q1025 UUMO 252200Z VRB01MPS CAVOK M06/M11 Q1036 NOSIG RMK QFE761/1015 26090060 ENHD 260220Z AUTO 20027KT 9000NDV FEW018/// SCT045/// BKN068/// 12/09 Q1003 ENGM 260220Z 19014KT 9999 SCT019 BKN057 10/07 Q1006 KJLN 260153Z 14004KT 8SM CLR 18/17 A3002 RMK AO2 SLP158 T01830172 ENHE 260220Z 20043KT 9999 BKN020 09/06 Q0986 W///S6 ENHF 260150Z AUTO VRB01KT 9999NDV NCD 01/M01 Q1000 RMK WIND 1254FT 12005KT FDPP 260200Z AUTO 11009KT //// // ////// 10/M08 Q1007 UUOB 260230Z VRB01MPS CAVOK M09/M13 Q1038 29090060 NOSIG KIWA 260147Z 00000KT 20SM FEW200 29/11 A2993 KIWD 260235Z AUTO 26008KT 10SM CLR 09/M02 A2992 RMK AO1